ENHM 221150Z 25006KT 9999 FEW040 BKN180 09/01 Q1012 W11/S5 UUOK 221200Z 36004MPS 9999 OVC026 01/M04 Q1012 NOSIG RMK 30CLRD70 KIWI 221153Z AUTO VRB04KT 10SM -RA FEW046 BKN060 OVC075 09/08 A3015 RMK AO2 RAB19 SLP208 P0001 60010 70123 T00890078 10106 20089 51010 KJMR 221155Z AUTO 15005KT 10SM CLR 03/01 A3020 RMK AO2 PPIT 221156Z AUTO 35009KT 10SM CLR M08/M09 A2963 RMK AO2 SLP034 T10831094 11078 21094 51013 FZRANO KIXA 221155Z AUTO 28004KT 10SM SCT037 BKN048 OVC060 10/08 A2993 RMK AO2 KJMS 221156Z AUTO 18017KT 10SM CLR 14/04 A2977 RMK AO2 SLP081 T01390044 10161 20133 52008 UUOO 221130Z 34006MPS 9999 BKN027 M00/M06 Q1011 NOSIG RMK 30090070 KIXD 221153Z 12008KT 10SM BKN036 BKN050 OVC075 12/08 A3017 RMK AO2 SLP214 T01220078 10133 20122 52015 ENHV 220950Z 17024G39KT 140V210 SCT024 M02/M07 Q1021 KM63 221207Z AUTO 28003KT 10SM FEW022 BKN026 13/12 A3010 RMK AO2 BKN V SCT PPIZ 221156Z AUTO 3SM -SN BR OVC014 M08/M09 A2998 RMK AO2 TSNO 50002 60000 T10771088 11072 21083 P0000 SLP156 $ KIYA 221150Z AUTO 00000KT 7SM CLR 12/12 A3006 RMK AO2 T01170116 ENKB 221150Z 23007KT 190V260 9999 -RA FEW011 SCT018 BKN023 08/06 Q1009 FDSK 221200Z 19005KT 170V240 9999 BKN030 23/15 Q1022 NOSIG KJNX 221155Z AUTO 33003KT 10SM CLR 09/07 A2995 RMK AO2 KIZA 221155Z AUTO 00000KT 10SM CLR 08/05 A2992 RMK AO2 OYMB 221000Z 15004KT CAVOK 32/M02 Q1019 ENLA 221150Z AUTO 31021KT 9999NDV NCD 12/03 Q1014 W///S5 KJOT 221155Z AUTO 00000KT 2 1/2SM BR CLR 00/00 A3033 RMK AO2 T00001002 10054 21006 FDST 221200Z AUTO 13006KT //// // ////// 18/14 Q//// KJQF 221150Z 34005KT 10SM CLR 08/04 A3007 LBGO 221200Z 16006G11MPS 120V200 CAVOK 23/12 Q1001 NOSIG KIZG 221154Z AUTO 02009KT 8SM FEW010 BKN014 OVC024 08/07 A3018 RMK AO2 RAE09B30E46 SLP221 P0000 60027 70130 T00780067 10078 20072 51016 ENKR 221150Z 17011KT CAVOK M07/M10 Q1029 RMK WIND 731FT 18018KT ENLK 221150Z 13020G31KT 110V160 9999 FEW035 SCT040 05/M03 Q1009 KN03 221155Z AUTO 03007KT 7SM OVC005 07/07 A3010 RMK AO2 ENMH 221150Z 18030KT CAVOK M06/M11 Q1022 KLAA 221153Z AUTO 26006KT 10SM CLR 12/09 A2995 RMK AO2 SLP106 T01220089 10161 20122 53013 ENNA 221150Z 17037KT 9999 FEW028 M04/M10 Q1021 RMK WIND 1800FT 16025G37KT ENML 221120Z 29010KT 9999 -RA SCT012 BKN020 08/06 Q1009 ENNE 221150Z 28026KT 7000 -RA OVC012 07/05 Q1003 W07/S6 KLAF 221154Z 34003KT 7SM CLR 01/01 A3031 RMK AO2 SLP268 T00110011 10033 20006 51014 ENOA 221150Z 24006KT 9999 FEW025 SCT045 08/01 Q1011 W///S5 ENMS 221150Z 18008KT 9999 -SN BKN030 02/M03 Q1012 RMK WIND 412FT VRB11KT KLBB 221153Z 18004KT 2 1/2SM RA BR FEW030 BKN041 OVC060 16/14 A3011 RMK AO2 SLP159 P0010 60010 70010 T01560144 10178 20156 53007 ENNK 221150Z 07009KT 360V120 CAVOK 04/M09 Q1013 KJTC 221155Z AUTO 20005KT 10SM SCT055 05/03 A3021 RMK AO2 KLAL 221151Z 00000KT 7SM SCT250 18/17 A2997 KLAM 221155Z AUTO 01003KT 10SM CLR 09/08 A3021 RMK AO2 70002 T00850079 10107 20085 KLBE 221147Z 36010G15KT 15SM OVC015 A3011 ENNM 221150Z 09011KT 9999 -RA SCT020 BKN032 04/02 Q1011 KLAN 221153Z 33003KT 10SM OVC017 04/02 A3034 RMK AO2 SLP280 T00440017 10044 20028 51015 KLBF 221153Z AUTO 14004KT 10SM BKN120 14/09 A2994 RMK AO2 SLP119 T01440094 10172 20144 53012 KJSO 221155Z AUTO 00000KT 4SM BR CLR 16/15 A3013 RMK AO2 T01620155 ENNO 221150Z 10006KT 9999 -RA SCT017 BKN030 OVC040 09/06 Q1013 KLAR 221153Z AUTO 23006KT 10SM CLR 04/00 A3011 RMK AO2 SLP139 60000 70001 T00390000 10078 20033 53007 LATI 221120Z 14013KT 9999 SCT040 BKN065 24/10 Q1002 NOSIG VMMC 221130Z 01012KT 9999 SCT045 28/22 Q1015 NOSIG KLAS 221156Z 21006KT 10SM SCT250 17/M03 A2991 RMK AO2 SLP108 T01721033 10211 20172 53015 KJST 221154Z AUTO 33010KT 10SM OVC007 07/05 A3003 RMK AO2 SLP180 60005 70028 T00670050 10078 20067 53016 KLBL 221155Z AUTO 16009KT 10SM BKN110 15/09 A3004 RMK AO1 10160 20130 54000 ENOL 221150Z 15011KT 9999 -RA FEW014 BKN020 07/06 Q1009 TEMPO 24015KT KJSV 221155Z AUTO 00000KT 10SM CLR 13/11 A3015 RMK AO2 KLAW 221153Z AUTO 00000KT 6SM BR CLR 12/10 A3011 RMK AO2 SLP190 T01170100 10172 20111 53012 KLAX 221153Z 00000KT 10SM FEW012 17/16 A2988 RMK AO2 SLP116 T01670156 10194 20161 50001 $ KLCG 221155Z AUTO 16017KT 10SM CLR 12/07 A3002 RMK AO2 T01200070 10132 20115 KLCH 221153Z 05007KT 8SM CLR 15/14 A3006 RMK AO2 SLP186 T01500139 10161 20150 52010 KLCI 221155Z AUTO 05010G16KT 10SM OVC009 08/06 A3011 RMK AO1 60001 70002 10090 20080 52017 KN38 221155Z AUTO 36012G20KT 3SM BR OVC003 06/06 A3007 RMK AO2 ENQA 221150Z AUTO 25006KT 230V300 9999NDV SCT049/// 08/02 Q1012 W09/S5 KLBT 221154Z AUTO 30006KT 10SM CLR 09/05 A2998 RMK AO2 SLP152 T00940050 10144 20083 53016 KLCK 221155Z AUTO 33012KT 10SM OVC012 07/05 A3023 RMK AO2 T00660046 ENQC 221150Z AUTO 21008KT 140V240 9999NDV BKN033/// 08/02 Q1011 W///S5 ENOV 221150Z VRB02KT 9999 VCSH SCT025 BKN044 07/05 Q1010 RMK WIND 2175FT 21011KT KLBX 221153Z AUTO 02004KT 6SM BR CLR 16/16 A3004 RMK AO2 SLP171 T01560156 10172 20144 53011 KLCQ 221155Z AUTO 00000KT 10SM CLR 12/11 A3001 RMK AO2 VLVT 221130Z 36002KT 5000 BR SCT020 SCT050 31/22 Q1010 NOSIG KLDJ 221155Z AUTO 03008KT 5SM -VCTSRA SCT023 BKN029 OVC070 15/14 A2994 RMK AO2 LTG DSNT SE AND S P0014 60038 70038 T01480136 10162 20148 KKLS 221155Z AUTO 15016G25KT 10SM FEW019 OVC050 13/10 A2976 RMK AO1 70001 10160 20130 57010 ENRA 221150Z 10013G23KT 9999 VCSH SCT030 BKN045 01/M07 Q1015 KLEB 221153Z 02004KT 10SM SCT005 OVC018 09/07 A3012 RMK AO2 SLP199 70007 T00890067 10094 20089 53015 KJVL 221200Z 00000KT 1/2SM FZFG VV002 M02/M03 A3033 OYRN 221200Z 14010KT 9999 FEW020 30/22 Q1013 KLDM 221155Z AUTO 00000KT 10SM CLR M03/M03 A3038 RMK AO2 T10281033 11010 21042 KLEE 221153Z 01006KT 10SM CLR 18/16 A2999 RMK AO2 SLP155 T01780156 10200 20172 53014 OYSH 221200Z 24008KT 9999 SCT025 27/M01 Q//// KJWG 221155Z AUTO 00000KT 10SM CLR 13/13 A3011 RMK AO2 7//// T01340134 10180 20129 ENQR 221150Z AUTO 22015KT 9999NDV BKN036/// 08/00 Q1010 W///S6 KN60 221152Z AUTO 28012KT 11/08 A2974 RMK AO1 SLP068 T01110078 10167 20100 53028 UUWW 221200Z 34005MPS 9999 BKN021 M05/M10 Q1013 01410230 NOSIG ENSB 221150Z 14004KT 110V170 9999 FEW020 BKN035 00/M03 Q1011 NOSIG RMK WIND 1400FT 15005KT OYSN 221200Z 09010KT 9999 FEW030 25/M05 Q1026 NOSIG UWGG 221200Z 31005MPS 5000 -SHSN BKN011CB M06/M09 Q1007 TEMPO 31006G11MPS 1500 SHSN BLSN OVC008CB 36490535 RMK QFE748 KJVW 221155Z AUTO 00000KT 1/4SM FG VV002 08/05 A3012 RMK AO2 ENSD 221150Z VRB03KT 9999 CSH FEW008 SCT018 BKN026 07/05 Q1011 RMK WIND 1138FT 32005KT ENRM 221150Z 14018G28KT 9999 -RA SCT016 BKN033 04/02 Q1010 LCEN 221150Z 12008KT 9999 SCT025 SCT030 BKN200 24/12 Q1016 NOSIG ENSE 221150Z AUTO 21013KT 9999NDV FEW037/// BKN051/// 09/01 Q1010 W///S5 OYSQ 221200Z 03012KT 9999 FEW018 SCT200 31/22 Q1011 ENRO 221150Z 14010KT 110V180 9999 -SHSN SCT016 BKN028 02/M01 Q1012 ENSG 221150Z 00000KT 9999 2000E -RADZ VCFG FEW/// SCT005 BKN019 05/05 Q1010 RMK WIND 3901FT 26006KT ENSH 221050Z 15019KT CAVOK 06/M00 Q1010 KLFI 221158Z 29011KT 3SM R26/1600FT BR FEW006 OVC031 12/12 A2984 RMK AO2A RAB1109E1146 TSE1056 CIG 012 RWY8 SLP112 P0012 60014 70014 T01220122 10133 20122 51011 $ KLGA 221151Z 02014KT 10SM -RA SCT011 OVC015 13/11 A2992 RMK AO2 SLP130 P0004 60035 70035 T01280111 10150 20128 51011 KLFK 221153Z AUTO 00000KT 3SM BR CLR 15/13 A3009 RMK AO2 SLP186 T01500133 10172 20150 53012 ENRS 221120Z 15030G40KT 9999 -SHRA BKN025 04/M00 Q1007 KLGB 221202Z AUTO 00000KT 10SM SCT003 16/14 A2988 RMK AO2 T01610139 TSNO ENSK 221150Z 13019KT CAVOK 06/M06 Q1010 KLGC 221155Z AUTO 00000KT 10SM CLR 09/07 A3010 RMK AO2 T00870073 10131 20087 EPBC 221100Z 09008KT 9999 BKN013 13/11 Q1002= ENTC 221150Z 19029KT CAVOK 02/M07 Q1013 TEMPO 16020G30KT RMK WIND 2600FT 17054G65KT ENSL 221150Z 29009KT 9999 NSC 10/03 Q1014 W10/S5 KLGD 221155Z AUTO 20018G22KT 10SM BKN110 09/M02 A2999 RMK AO1 10090 20010 57003 LBPD 221200Z VRB02MPS CAVOK 20/12 Q1003 NOSIG KLEW 221155Z AUTO 02012G15KT 10SM FEW012 SCT022 OVC045 08/06 A3015 RMK AO1 10080 20070 52014 KJXN 221156Z 34006KT 10SM OVC018 04/02 A3031 RMK AO2 SLP272 70003 T00440022 10044 20017 51015 ENSN 221150Z 07005KT 6000 -DZRA BKN007 07/07 Q1013 KLEX 221154Z 36005KT 10SM OVC033 07/04 A3023 RMK AO2 SLP239 T00720039 10083 20061 53014 $ OYSY 221200Z 04006KT 340V090 CAVOK 34/M01 Q1015 ENSO 221120Z 35006KT 9999 SCT025 BKN050 09/06 Q1012 KJYG 221155Z AUTO 13016G21KT 10SM BKN050 BKN080 08/03 A3013 RMK AO2 KJWY 221155Z AUTO 06003KT 3SM BR CLR 15/15 A3012 RMK AO2 T01510151 10180 20139 ENRY 221150Z 08010KT 9999 -DZ BKN011 07/05 Q1013 NOSIG ENSR 221150Z 15034G44KT CAVOK M00/M10 Q1016 RMK WIND 1119FT 115026G37KT ENSS 221150Z 17017KT CAVOK M03/M08 Q1029 RMK WIND 500FT 190027KT KLFT 221153Z 04003KT 10SM CLR 14/14 A3006 RMK AO2 SLP180 T01440139 10167 20144 53011 KLHB 221155Z AUTO 00000KT 10SM CLR 15/15 A3009 RMK AO2 T01520146 10173 20145 KJYL 221155Z AUTO 00000KT 10SM CLR 11/10 A3005 RMK AO2 T01110102 10156 20100 ENST 221150Z 15015G30KT 100V220 9999 -RADZ FEW006 BKN025 04/00 Q1009 RMK WIND 300FT 11033G50KT TURB WRNG-SEE IPPC KJYM 221155Z AUTO 35003KT 10SM OVC019 05/03 A3030 RMK AO2 T00460033 10052 20036 UUYY 221130Z 02007G10MPS 9999 FEW016 OVC066 M12/M17 Q1011 TEMPO 2000 SN 01CLRD61 RMK QFE749/0998 EPCE 221130Z 08010KT 9000 BKN011 BKN071 12/10 Q1005 RMK 118 089 7/5= KJYO 221155Z AUTO 35010G15KT 10SM -RA OVC025 12/11 A2994 RMK AO2 P0002 OYTZ 221200Z 14008KT 9999 SCT030 27/11 Q1019 ENTO 221150Z 06004KT 360V120 4700 -DZ FEW011 OVC018 07/06 Q1013 KJYR 221155Z AUTO 16012KT 10SM CLR 13/09 A3003 RMK AO2 KJZI 221155Z AUTO 36009KT 10SM CLR 14/07 A3002 RMK A02 P000 EPDA 221130Z 08010KT 6000 BKN013 13/11 Q1004 RMK 127 087 7/7= ENVA 221150Z 16017G27KT 140V200 9999 -DZ FEW030 BKN058 06/03 Q1011 NOSIG RMK WIND 670FT 18027G40KT FGBT 221100Z 23006KT 9999 SCT010 BKN100 27/24 Q1013 NOSIG KLGU 221151Z AUTO 00000KT 10SM CLR M01/M03 A3017 RMK AO2 SLP211 70001 T10061033 10039 21033 53008 TSNO KLIC 221155Z AUTO 27007KT 10SM BKN090 08/06 A3006 RMK AO2 SLP133 T00830056 10100 20061 53016 KLHM 221155Z AUTO 00000KT 10SM CLR 07/06 A3002 RMK AO1 ENVD 221150Z 19012KT 9999 FEW010 M04/M08 Q1029 EPDE 221130Z 08008KT 7000 SCT017 BKN080 BKN200 13/10 Q1002 RMK 130 081 7/3= EPBY 221200Z 07008KT 4500 BR OVC009 12/10 Q1003 KLHQ 221206Z AUTO 32007KT 8SM OVC009 07/05 A3022 RMK AO2 T00720050 ENVH 221150Z AUTO 31020KT 9999NDV NCD 10/04 Q1015 W///S5 UWKD 221200Z 27011G14MPS 5000 -SN BLSN BKN022CB M05/M08 Q0998 R29/7/0045 TEMPO 2000 SN BLSN RMK QFE737/0983 UWKE 221200Z 24010G13MPS 9999 OVC015 M03/M07 Q0996 NOSIG RMK QFE730/0973 21090070 KMAE 221153Z AUTO 23004KT 10SM CLR 08/05 A3002 RMK AO2 SLP166 T00780050 10106 20072 55002 KLHW 221158Z 36003KT 10SM CLR 11/08 A3002 RMK A02A SLP169 T01070080 10148 20106 52022 KLHX 221153Z AUTO 27006KT 10SM CLR 11/07 A3000 RMK AO2 SLP117 T01060067 10178 20106 53024 KLJF 221152Z AUTO 14011G17KT 10SM CLR 07/04 A3011 RMK AO2 KMAF 221153Z 16010KT 8SM OVC040 18/15 A3009 RMK AO2 SLP153 7//// T01830150 10194 20183 53006 LBSF 221200Z VRB01MPS CAVOK 22/09 Q1002 NOSIG DXNG 221200Z VRB04KT 9999 SCT008 30/21 Q1015 NOSIG KLHZ 221155Z AUTO 30006KT 10SM CLR 09/05 A2995 RMK AO2 KMAI 221153Z AUTO 00000KT 10SM CLR 11/11 A3004 RMK AO2 RAE44 SLP172 P0000 6//// 7//// T01060106 10139 20106 51014 $ VOCB 221200Z 05003KT 6000 FEW015 BKN080 28/22 Q1013 NOSIG VOBL 221200Z 13004KT 5000 -DZ SCT012 FEW025CB BKN080 24/24 Q1016 NOSIG RMK CB SW KLIT 221153Z 05006KT 10SM CLR 11/08 A3019 RMK AO2 SLP225 T01060078 10133 20106 53016 KO22 221155Z AUTO 00000KT 10SM CLR 05/02 A3002 RMK AO1 KMAN 221155Z AUTO 14004KT 10SM CLR 04/04 A3008 RMK AO1 KMAO 221155Z AUTO 00000KT 10SM CLR 09/04 A3000 RMK AO2 VOCI 221200Z 00000KT 4000 TS SCT015 FEW025CB BKN080 26/24 Q1010 NOSIG KMBG 221152Z AUTO 00000KT 10SM FEW110 14/11 A2978 RMK AO2 SLP078 T01390111 10189 20133 53019 UWKS 221200Z 32007G12MPS 8000 -SHSN BKN010CB M07/M09 Q0999 TEMPO 1500 SHSN BLSN OVC005CB RMK QFE735 24890232 VNKT 221150Z 28007KT 8000 FEW025 20/14 Q1020 NOSIG VOCL 221200Z 34006KT 7000 SCT015 SCT018 FEW025CB 28/24 Q1009 NOSIG KMCB 221153Z AUTO 03005KT 10SM CLR 14/11 A3009 RMK AO2 SLP185 T01440106 10167 20133 51013 KMBL 221155Z AUTO 12003KT 10SM CLR M03/M04 A3038 RMK AO1 11010 21040 52010 KMCD 221158Z AUTO 07003KT 10SM BKN017 01/00 A3039 RMK AO2 T00100002 10040 20010 EPGD 221200Z 08009KT 4000 BR SCT007 BKN011 11/10 Q1005 KMCE 221153Z AUTO 26006KT 10SM CLR 09/06 A3001 RMK AO2 SLP161 T00890056 10150 20078 57003 KMCF 221158Z AUTO 06004KT 10SM CLR 18/18 A2997 RMK AO2 SLP152 7//// T01840181 10206 20184 52009 $ KLKR 221155Z AUTO 33004KT 10SM CLR 07/05 A3003 RMK AO2 KMCI 221153Z 12010KT 10SM BKN038 BKN085 12/08 A3017 RMK AO2 SLP212 T01220078 10133 20117 51012 KMBS 221153Z 35008KT 10SM OVC021 06/02 A3035 RMK AO2 SLP281 70001 T00610022 10061 20056 53015 KLLJ 221155Z AUTO 00000KT 10SM CLR M01/M02 A3015 RMK AO2 SLP211 70017 T10111017 10017 21017 53007 KMCJ 221155Z AUTO 00000KT 10SM CLR 19/16 A3003 RMK AO1 KMCK 221153Z AUTO 26003KT 10SM CLR 14/09 A2995 RMK AO2 SLP127 T01390094 10172 20139 53007 LCLK 221200Z 08005KT 9999 FEW030 24/14 Q1016 NOSIG UWLW 221200Z 29007G12MPS 8000 -SN OVC028 M04/M10 Q1002 20CLRD60 TEMPO 27013MPS RMK QFE746 KLKU 221155Z AUTO 31006KT 10SM OVC025 11/09 A2991 RMK AO2 KLKV 221155Z AUTO 00000KT 10SM CLR M01/M03 A3010 RMK AO1 11010 21050 52003 KMDD 221155Z AUTO 15008KT 10SM SCT033 BKN046 19/16 A3010 RMK AO2 T01870155 10199 20187 KMCN 221153Z 27003KT 7SM CLR 07/07 A3007 RMK AO2 SLP181 T00670067 10100 20067 53018 KMCO 221153Z 36005KT 9SM FEW002 FEW150 FEW200 BKN300 21/19 A2997 RMK AO2 SLP148 T02060194 10217 20200 51012 KLLQ 221153Z AUTO 05004KT 10SM CLR 10/08 A3015 RMK AO2 SLP207 T01000083 10128 20089 53015 KMDH 221203Z 00000KT 1SM BR SCT002 02/01 A3028 RMK AO2 T00170011 $ KMDJ 221155Z AUTO 04018KT 10SM CLR 24/18 A3004 RMK A01 KMEB 221152Z AUTO 30006KT 10SM CLR 07/04 A3001 RMK AO2 SLP159 T00720044 10139 20056 51019 KLNC 221155Z AUTO 00000KT 5SM BR CLR 14/12 A3012 RMK AO2 T01350121 10156 20130 KLND 221153Z AUTO 29005KT 10SM CLR 02/M06 A3006 RMK AO2 SLP156 T00221056 10067 21006 53009 TSNO KMCW 221153Z AUTO 15010KT 9SM FEW055 03/03 A3024 RMK AO2 SLP243 T00330028 10050 20033 52008 KLMO 221153Z AUTO 00000KT 10SM CLR 09/06 A3004 RMK AO2 T00910060 KMCX 221155Z AUTO 05003KT 10SM CLR 03/02 A3031 RMK AO2 70001 T00250017 10042 20017 KO54 221155Z AUTO 00000KT 10SM BKN048 05/04 A3007 RMK AO1 KMEH 221156Z AUTO 00000KT 10SM -RA SCT060 BKN075 OVC090 07/01 A2996 RMK AO2 RAB51 SLP147 P0000 60000 70002 I6000 T00670011 10067 21017 58003 KMDQ 221155Z AUTO 00000KT 7SM CLR 04/02 A3017 RMK AO2 KMEI 221158Z 00000KT 10SM CLR 08/07 A3012 RMK AO2 SLP197 T00780072 10106 20078 53015 KMDS 221155Z AUTO 16014G25KT 10SM CLR 10/07 A2996 RMK AO2 KLMT 221153Z AUTO 00000KT 10SM R32/5000VP6000FT OVC110 07/03 A3004 RMK AO2 SLP160 T00670028 10067 20039 56003 KLNK 221154Z 16010KT 10SM CLR 12/07 A3008 RMK AO2 SLP184 T01220067 10161 20122 50001 KMDT 221156Z 34009KT 10SM FEW026 BKN031 OVC060 13/08 A2993 RMK AO2 SLP138 T01280083 10128 20117 53011 LDDU 221200Z 24012G33KT 200V280 2500 SHRA FEW010 FEW025TCU BKN035 17/17 Q0999 TEMPO 1500 +SHRA KLNL 221155Z AUTO 00000KT 10SM CLR M04/M04 A3032 RMK AO2 T10371041 11028 21055 UWOO 221200Z 22005MPS 3200 -RA BR OVC006 10/09 Q1000 26290055 TEMPO 2000 RA BR OVC005 RMK QBB200 QFE740/0987 KMFD 221152Z 33010KT 8SM OVC004 07/07 A3022 RMK AO2 SLP238 P0001 60005 70010 T00670067 10067 20067 51020 KMEM 221154Z 06004KT 10SM CLR 11/07 A3021 RMK AO2 SLP227 T01110072 10156 20111 51024 $ KMFE 221153Z 02005KT 9SM CLR 22/21 A2997 RMK AO2 SLP146 70051 T02170206 10233 20217 53009 ENZV 221150Z 35011KT 9999 FEW021 BKN044 10/07 Q1012 NOSIG KMDW 221153Z 00000KT 10SM BKN031 07/03 A3032 RMK AO2 SLP271 T00720033 10111 20061 51012 LBWN 221200Z 21008MPS 9999 SCT040 22/11 Q1004 NOSIG UWOR 221200Z 22010G13MPS 9999 -SHRA OVC015CB 08/08 Q1004 25190060 NOSIG RMK QFE730/0973 KLNP 221155Z AUTO 33004KT 10SM OVC006 05/04 A3015 RMK AO2 KMDZ 221155Z AUTO 13004KT 10SM CLR 00/00 A3031 RMK AO2 T00001004 10009 21010 KMFI 221154Z AUTO 09006KT 7SM CLR M01/M02 A3032 RMK AO2 SLP280 I1001 I6001 T10111022 10022 21011 51011 KLNR 221156Z AUTO 09004KT 1/2SM FZFG VV002 M01/M03 A3035 RMK AO2 SLP278 I1000 I6003 T10061028 10017 21006 51008 KMER 221155Z AUTO 10SM CLR 10/10 A3001 RMK AO1 EPIR 221130Z 05012KT 3500 BR BKN007 OVC012 12/11 Q1002 RMK 115 094 8/6= KLNS 221153Z 36009KT 10SM OVC025 12/09 A2991 RMK AO2 RAB21E40 SLP129 P0001 60001 70001 T01220094 10128 20117 51010 KO69 221155Z AUTO 00000KT 9SM CLR 08/08 A3006 RMK AO1 DXSK 221200Z 14004KT 9999 SCT013 BKN260 29/22 Q//// KLOL 221153Z AUTO 31006KT 10SM CLR 01/M07 A3011 RMK AO2 SLP192 T00061067 10050 21011 51002 KLPC 221155Z AUTO 09005KT 10SM CLR 11/03 A2991 RMK AO1 10170 20110 54000 KMGC 221155Z AUTO 00000KT 5SM BR CLR 00/00 A3034 RMK AO2 KLOM 221155Z AUTO 01003KT 5SM OVC013 13/11 A2988 RMK AO1 P0001 KMEV 221155Z AUTO 00000KT 10SM CLR M01/M08 A3014 RMK AO2 KMGE 221158Z 00000KT 10SM CLR 09/04 A3008 RMK AO2A SLP186 T00860044 10127 20086 52013 $ KMGG 221154Z AUTO 14007KT 10SM CLR 06/04 A3016 RMK AO2 T00580038 10088 20058 KMEZ 221155Z AUTO 00000KT 1/2SM OVC001 10/10 A3017 RMK AO2 LCPH 221200Z 14010KT 9999 FEW025 SCT045 24/14 Q1015 KLOR 221153Z AUTO 00000KT 4SM BR CLR 08/07 A3006 RMK AO2 SLP180 T00830072 10117 20078 53018 TSNO $ KMFR 221153Z AUTO 17003KT 10SM CLR 11/09 A2997 RMK AO2 SLP144 T01110094 10122 20111 58004 KMGJ 221154Z AUTO 04012KT 10SM OVC011 11/09 A2998 RMK AO2 RAE30 SLP151 P0001 60001 70032 T01060089 10111 20100 53013 TSNO KLOT 221155Z AUTO 00000KT 7SM CLR 02/02 A3032 RMK AO2 T00210021 10053 20012 EPLB 221200Z 08010KT 9999 FEW018 14/10 Q1002 KLOU 221153Z 00000KT 10SM SCT034 07/03 A3026 RMK AO2 SLP249 T00670033 10089 20056 53012 EPKK 221200Z 26009KT 9999 -RA FEW013 SCT023 BKN040 08/07 Q1003 KMGM 221153Z 02005KT 10SM CLR 12/08 A3010 RMK AO2 SLP192 7//// T01170083 10128 20094 53020 KMFV 221155Z AUTO 35007KT 300V020 4SM BR SCT008 SCT017 12/11 A2979 RMK AO2 LTG DSNT SW KMHE 221153Z AUTO 15018G24KT 10SM CLR 13/06 A2990 RMK AO2 SLP121 7//// T01280061 10161 20128 56001 $ KMGN 221154Z AUTO 00000KT 10SM SCT020 00/M02 A3039 RMK AO2 T10071020 FHAW 221150Z 13018KT 9999 FEW028 BKN035 26/16 Q1017 BLU VOHS 220610Z 07010KT 5000 HZ SCT020 SCT200 28/16 Q1018 NOSIG KLOZ 221153Z AUTO 36003KT 10SM FEW031 06/03 A3022 RMK AO2 SLP233 T00560028 10094 20050 53019 KO86 221155Z AUTO 00000KT 10SM BKN005 05/04 A3009 RMK AO1 KLPR 221153Z AUTO 01008KT 10SM OVC015 08/06 A3023 RMK AO2 SLP241 70022 T00830061 10089 20083 51021 TSNO KMGR 221155Z AUTO 36003KT 10SM CLR 12/11 A3005 RMK AO2 KMIA 221153Z 00000KT 10SM FEW025 BKN095 BKN120 BKN200 24/22 A2995 RMK AO2 SLP140 CB DSNT E MOV E 70004 T02440217 10244 20233 51010 LCRA 221150Z 10009KT 9999 FEW040 BKN200 24/14 Q1015 NOSIG EPKS 221130Z 28006KT 4000 -RA BR SCT007 BKN010 OVC020 09/08 Q1003 RMK 088 095 KMHK 221152Z 15007KT 10SM CLR 14/10 A3010 RMK AO2 SLP189 T01440100 10167 20133 53009 KLQK 221155Z AUTO 10SM CLR 02/02 A3005 RMK AO2 T00180019 10261 20017 KMIB 221158Z AUTO 26013KT 10SM CLR 11/08 A2968 RMK AO2 SLP058 60000 T01090083 10168 20103 53018 $ EPMB 221130Z 09014KT 9999 SCT040 BKN100 13/10 Q1004 RMK 127 081 7/3= EPLK 221130Z 29009KT 4000 -RA BR SCT004 BKN006 OVC010 08/07 Q1002 RMK 078 097 EPKT 221200Z 29011KT 9999 -RA FEW011 BKN030 07/06 Q1003 KMIC 221153Z 15011KT 10SM CLR 06/02 A3019 RMK AO2 SLP227 T00610022 10089 20056 51004 EPLL 221200Z 31004KT 7000 -RA BKN005 OVC009 09/08 Q1002 KLRD 221156Z 07006KT 10SM OVC070 21/20 A3004 RMK AO2 53010 60000 70014 T02050200 10222 20205 SLP163 VOHY 221140Z 11006KT 6000 FEW020 30/12 Q1015 NOSIG KMIE 221153Z 01006KT 10SM OVC026 06/03 A3029 RMK AO2 SLP256 T00560028 10067 20039 51014 KMGW 221153Z 34008G14KT 10SM OVC011 09/06 A3010 RMK AO2 SLP195 60011 70045 T00940061 10100 20089 51014 KLRF 221158Z AUTO 07006KT 10SM CLR 10/08 A3019 RMK AO2 VIS 2 RWY07 SLP226 T01000083 10104 20073 52016 KMGY 221153Z AUTO 36005KT 10SM BKN030 06/03 A3025 RMK AO2 SLP246 T00560033 10072 20044 53017 KMHR 221146Z 00000KT 10SM SCT180 09/05 A3003 EPMI 221130Z 00000KT 2000 BR BKN002 OVC010 09/09 Q1003 RMK 092 098 8/7= KLRJ 221155Z AUTO 16013KT 10SM SCT075 12/07 A3006 RMK AO2 KMHS 221156Z AUTO 00000KT 10SM BKN110 06/04 A3006 RMK AO2 SLP192 T00610039 10067 20050 57002 LEAB 221200Z 32009KT 300V360 CAVOK 23/M02 Q1026 NOSIG KMHT 221153Z 02011G18KT 5SM BR OVC008 10/08 A3006 RMK AO2 RAE28 CIG 007V011 SLP193 P0000 60001 70005 T01000078 10106 20100 53015 KLSB 221155Z AUTO 10SM CLR 12/10 A3008 RMK AO2 KMHV 221155Z AUTO 32005KT 10SM CLR 10/02 A2997 RMK AO1 EPMM 221130Z 08012KT 7000 FEW010 SCT033 OVC070 13/09 Q1003 RMK 129 079 8/2= KLSE 221153Z 12005KT 10SM CLR 02/01 A3031 RMK AO2 SLP272 T00220006 10050 20022 53013 KLSF 221158Z AUTO 34006KT 10SM CLR 09/09 A3008 RMK AO2 SLP189 70001 T00890087 10098 20068 52020 KLRO 221155Z AUTO 35004KT 10SM CLR 12/07 A3002 RMK AO2 PWINO PNO EPMO 221200Z 08013KT 9999 SCT013 BKN035 12/10 Q1003 LEAG 221200Z AUTO 15005KT CAVOK 28/10 Q1021 EPLY 221130Z 21004KT 1000 -DZ BR BKN003 OVC010 10/10 Q1002 RMK 095 100 8/7= UWSS 221200Z 30007G10MPS 9999 OVC023 01/M06 Q1007 300///60 NOSIG RMK QFE741 LEBA 221200Z 07009KT CAVOK 27/14 Q1024 KMIS 221155Z AUTO 10016KT 10SM CLR 25/14 A3002 RMK A01 KNAK 221202Z AUTO 35010KT 4SM -RA BR OVC014 13/11 A2988 RMK AO2 P0001 T01280111 $ LEBB 221200Z 29003KT 230V340 9999 FEW030 SCT048 20/09 Q1031 NOSIG LEAL 221200Z 09015KT CAVOK 25/14 Q1022 NOSIG KMKC 221154Z 10005KT 10SM FEW060 13/07 A3018 RMK AO2 SLP217 T01330072 10150 20133 53014 KNBC 221156Z AUTO 36008KT 10SM CLR 12/07 A3003 RMK AO2 SLP169 7//// T01220072 10172 20122 51022 $ KLRU 221155Z AUTO 00000KT 10SM CLR 11/10 A3011 RMK AO2 T01070098 10147 20107 PWINO LEAM 221200Z 20004KT 150V230 CAVOK 22/20 Q1021 KMIV 221154Z AUTO 36006KT 10SM BKN011 OVC050 13/12 A2984 RMK AO2 SLP104 6//// 7//// T01280117 10139 20128 53017 PNO $ KMKE 221152Z 00000KT 10SM FEW026 02/00 A3034 RMK AO2 SLP279 T00170000 10044 20017 53010 KMIW 221153Z AUTO 13010KT 10SM CLR 04/03 A3025 RMK AO2 SLP248 T00440028 10061 20033 53008 LEAO 221200Z 10003KT 030V150 CAVOK 23/09 Q1028 LEBG 221200Z 04005KT 350V070 CAVOK 14/07 Q1032 KNBG 221155Z 04005KT 7SM CLR 16/13 A3004 RMK AO2 SLP173 T01610133 10167 20133 53011 $ KMKG 221155Z 00000KT 10SM CLR M01/M03 A3036 RMK AO2 SLP289 T10111033 10028 21017 51015 KMJQ 221154Z AUTO 16014G19KT 10SM SCT036 08/03 A3011 RMK AO2 KNCA 221156Z AUTO 31010KT 10SM CLR 11/06 A2993 RMK AO2 SLP138 T01060061 10156 20100 53018 KLUA 221155Z AUTO 34014G20KT 10SM SCT023 OVC030 12/09 A2997 RMK AO2 KP28 221156Z AUTO 12005KT 13/12 A3008 RMK AO1 SLP176 T01330117 10172 20133 52012 KMKJ 221155Z AUTO 29007KT 10SM OVC025 07/02 A3013 RMK AO2 70002 T00650022 10073 20061 LEAS 221200Z 14006KT 080V170 9999 FEW021 19/14 Q1030 NOSIG KMLB 221200Z 33004KT 1SM BR OVC002 21/21 A2996 RMK AO2 T02110206 EPOK 221130Z 09010KT 060V130 9999 OVC008 12/10 Q1005 RMK 116 092 8/8= KMKL 221153Z 00000KT 8SM CLR 06/04 A3022 RMK AO2 SLP233 T00610044 10117 20050 53019 KMLC 221204Z AUTO 00000KT 3SM BR BKN033 OVC060 15/14 A3015 RMK AO2 T01500139 LEBL 221200Z 18008KT 140V210 CAVOK 22/13 Q1022 NOSIG KLSV 221158Z AUTO 06002KT 10SM CLR 15/M03 A2993 RMK AO2 SLP119 T01471030 10209 20135 53014 $ KLUD 221155Z AUTO 16004KT 10SM CLR 16/14 A3011 RMK AO2 T01630143 10188 20143 KMKN 221155Z AUTO 00000KT 10SM CLR 15/14 A3010 RMK AO2 T01530137 10160 20145 KMLE 221155Z AUTO 13009G15KT 10SM CLR 12/07 A3010 RMK AO2 7//// T01210074 10147 20112 KMLF 221152Z AUTO 00000KT 10SM CLR 04/M03 A3013 RMK AO2 SLP169 T00391028 10100 20028 53010 TSNO KMKO 221153Z AUTO 17005KT 8SM CLR 13/13 A3015 RMK AO2 SLP206 T01330128 10161 20133 53016 KMJX 221155Z AUTO 01006KT 10SM FEW028 BKN065 OVC080 12/11 A2986 RMK AO1 LTG DSNT NE 10140 20120 52007 KLUF 221158Z AUTO 00000KT 10SM CLR 18/11 A2988 RMK AO2 SLP108 T01760105 10207 20171 52010 $ KMLI 221152Z 09003KT 9SM CLR 01/M01 A3032 RMK AO2 SLP271 T00111006 10028 21006 53010 $ UWUU 221200Z 27005MPS 4000 -RA BR SCT013 OVC020 08/07 Q0995 64250248 TEMPO 1500 RA BKN005 RMK QFE736/0982 KLTS 221158Z AUTO 09007KT 10SM CLR 11/10 A3009 RMK AO2 SLP183 T01070102 10157 20103 52008 $ KMKS 221215Z AUTO 36009KT 330V040 7SM CLR 14/08 A3002 RMK AO2 KMLJ 221155Z AUTO 00000KT 5SM BR CLR 08/08 A3007 RMK AO2 VOMM 221140Z 05010KT 7000 SCT020 FEW025TCU 29/24 Q1010 NOSIG LEBT 221200Z AUTO 11008KT 070V140 CAVOK 25/07 Q1022 KNBT 221156Z AUTO 31014KT 6SM HZ CLR 14/09 A2989 RMK AO2 SLP124 6//// 7//// T01440089 10178 20144 53014 PNO KLUK 221153Z 35004KT 10SM OVC020 07/04 A3028 RMK AO2 SLP254 T00720039 10089 20072 53020 KMKT 221155Z AUTO 15014G18KT 10SM FEW055 06/01 A3017 RMK AO1 10080 20060 52007 KLUM 221135Z AUTO 11007KT 10SM CLR 01/00 A3028 RMK AO2 T00130002 LECO 221200Z 00000KT CAVOK 23/14 Q1028 NOSIG DXXX 221200Z 20011KT 9999 FEW014 31/24 Q1013 NOSIG EPPO 221200Z 31008KT 3000 -RA BR BKN004 08/08 Q1003 KMLP 221206Z AUTO 18009KT 3/4SM BR VV001 00/00 A2999 RMK AO2 T00000000 LEBZ 221200Z 35008KT 320V020 CAVOK 29/12 Q1026 KMMH 221155Z AUTO 00000KT 10SM CLR M01/M09 A3020 RMK AO1 KMMI 221155Z AUTO 04003KT 10SM CLR 03/03 A3017 RMK EPPR 221130Z 07006KT 9999 SCT013 BKN060 13/11 Q1005 RMK 128 088 7/4= KLVJ 221153Z AUTO 04003KT 6SM BR CLR 19/17 A3006 RMK AO2 SLP179 T01890167 10194 20178 53013 KMLS 221153Z AUTO 26008KT 10SM CLR 06/02 A2993 RMK AO2 SLP130 60000 T00610017 10122 20061 53015 PWINO $ KLWA 221154Z AUTO 08003KT 10SM CLR 00/00 A3035 RMK AO2 T00001004 EPRA 221130Z 17008KT 6000 BKN009 OVC020 12/10 Q1002 RMK 118 088 8/6= KLVK 221153Z AUTO 00000KT 10SM CLR 10/07 A3005 RMK AO2 SLP172 70001 T01000072 10133 20094 58001 KMLT 221153Z AUTO 03008KT 10SM SCT041 SCT055 OVC110 07/02 A3031 RMK AO2 SLP271 60000 T00670017 10067 20061 53015 KMMK 221153Z AUTO 01011KT 10SM OVC014 12/08 A2996 RMK AO2 SLP146 70002 T01170083 10128 20117 53010 TSNO KLWB 221155Z AUTO 30003KT 10SM OVC025 07/03 A3007 RMK AO2 70001 T00720033 10076 20065 LEEC 221200Z 04006KT CAVOK 30/12 Q1023 KLWC 221152Z AUTO 10007KT 10SM SCT080 11/08 A3016 RMK AO2 SLP212 T01060078 10133 20089 51014 KMLU 221153Z 05004KT 10SM CLR 11/10 A3013 RMK AO2 SLP202 70001 T01110100 10172 20111 53014 KMML 221155Z AUTO 16020G24KT 10SM BKN090 12/04 A3000 RMK AO1 10120 20110 57010 KLVL 221155Z AUTO 29004KT 10SM SCT029 BKN043 OVC049 10/09 A2992 RMK AO1 P0001 60001 70001 T00970091 10115 20097 LECV 221200Z VRB02KT CAVOK 21/05 Q1029 KLVM 221153Z AUTO 26016G22KT 10SM CLR 06/M03 A3003 RMK AO2 SLP168 T00611028 10078 20033 50002 KLWD 221153Z AUTO 14008KT 10SM BKN055 BKN080 08/04 A3022 RMK AO2 SLP235 T00780044 10094 20078 51014 KLVN 221149Z AUTO 16004KT 10SM CLR 03/02 A3021 RMK AO2 KP53 221156Z AUTO 22003KT M01/M03 A3037 RMK AO1 SLP294 T10061028 10006 21022 51012 $ KMNE 221155Z AUTO 07003KT 10SM CLR 15/12 A3013 RMK AO2 EPPW 221130Z 29010KT 2000 RADZ BR BKN004 BKN007 OVC010 08/08 Q1002 RMK 082 099 KLUX 221155Z AUTO 01005KT 10SM CLR 05/ A3006 RMK AO2 KMNH 221152Z AUTO 26006KT 10SM CLR 03/02 A3013 RMK AO2 KMNI 221155Z AUTO 00000KT 10SM CLR 09/06 A3003 RMK AO2 KP58 221151Z AUTO 01007KT 08/04 A3031 RMK AO1 SLP271 T00780039 10078 20072 51019 KLVS 221153Z AUTO 36005KT 9SM CLR 06/05 A3017 RMK AO2 SLP152 70004 T00610050 10094 20061 53004 KP59 221151Z AUTO 23008G15KT 04/00 A3032 RMK AO1 SLP276 T00390000 10050 20039 53006 KP60 221156Z AUTO 00000KT M03/M04 A3016 RMK AO1 SLP216 70010 T10281039 11017 21044 53006 KMOB 221156Z 01004KT 10SM CLR 12/11 A3007 RMK AO2 SLP180 T01220111 10150 20117 53011 $ KMMT 221158Z 23002KT 10SM CLR 06/04 A3004 RMK AO2A SLP175 T00590043 10118 20057 52020 UWWW 221200Z 29006G09MPS 9999 SCT020 OVC100 M00/M05 Q1000 23////55 15//99// NOSIG RMK QFE739/0986 KMMU 221145Z 03009G14KT 2 1/2SM -RA BR OVC008 13/13 A2993 EPSC 221200Z 08003KT 7000 SCT003 BKN006 11/10 Q1003 KMOD 221153Z AUTO 31006KT 10SM CLR 11/09 A3002 RMK AO2 SLP164 T01110089 10150 20106 58003 KMMV 221153Z AUTO 19021G34KT 10SM OVC041 14/11 A2979 RMK AO2 PK WND 18034/1148 RAB1055E08 SLP086 P0000 60002 70010 T01440106 10144 20133 55006 $ KLWM 221154Z 04017G31KT 7SM -RA OVC007 12/11 A3005 RMK AO2 PK WND 05031/1151 SLP174 P0008 60017 70021 T01170106 10117 20094 51007 KMNM 221155Z AUTO 00000KT 10SM CLR M02/M03 A3036 RMK AO1 10010 21020 52010 KMNN 221153Z AUTO 32009KT 6SM BR FEW011 BKN017 OVC028 06/04 A3024 RMK AO2 SLP247 70001 T00610044 10067 20061 51011 TSNO KNFE 221156Z AUTO 30008KT 10SM OVC012 14/11 A2983 RMK AO2 SLP103 60003 70004 T01390106 10167 20139 53005 KNFG 221154Z AUTO 05004KT 5SM BR OVC005 13/11 A2989 RMK AO2 CIG 005V008 SLP122 T01280111 10172 20128 53007 KNDZ 221156Z AUTO 02005KT 10SM CLR 14/11 A3005 RMK AO2 SLP162 T01440106 10167 20122 51012 $ LEGA 221200Z 00000KT CAVOK 26/08 Q1026 KP68 221153Z AUTO 20006KT M01/M10 A3016 RMK AO1 SLP187 T10061100 10011 21022 53006 KLWS 221156Z AUTO 12006KT 10SM CLR 07/05 A2998 RMK AO2 SLP153 T00670050 10083 20061 56006 KP69 221152Z AUTO 00000KT 07/06 A3009 RMK AO1 SLP195 70039 T00670056 10083 20067 56002 KLWT 221154Z AUTO 24005KT 10SM FEW080 03/M01 A2996 RMK AO2 SLP149 70018 T00331006 10072 20033 51007 KLXL 221157Z AUTO 13008KT 10SM CLR 04/02 A3010 RMK AO2 KNFL 221156Z AUTO 21004KT 10SM CLR 04/M07 A3011 RMK AO2 SLP161 T00441067 10061 20028 53001 KLWV 221153Z AUTO 03006KT 7SM CLR 05/04 A3029 RMK AO2 SLP259 T00500039 10078 20050 53016 FGSL 221200Z 07003KT 030V100 9999 TS SCT010 FEW018CB BKN080 26/24 Q1013 NOSIG KNEW 221153Z AUTO 06016KT 10SM CLR 20/15 A3005 RMK AO2 RAB21E53 SLP170 P0000 60000 T02000150 10222 20200 51010 TSNO KLXN 221155Z AUTO 17009KT 10SM CLR 15/11 A2995 RMK AO2 70001 T01480113 10170 20145 LEGE 221200Z 06003KT 350V140 CAVOK 20/07 Q1022 EPSN 221130Z 05006KT 6000 OVC013 12/10 Q1003 RMK 118 091 8/8= KMOP 221158Z AUTO 00000KT 10SM OVC018 05/02 A3035 RMK AO2 T00450017 10045 20007 KLYH 221154Z VRB04KT 10SM FEW070 SCT100 10/04 A2999 RMK AO2 SLP154 60000 70003 T01000044 10100 20050 53015 KMNZ 221155Z AUTO 00000KT 10SM CLR 15/14 A3011 RMK AO2 T01540142 10171 20147 EPRZ 221200Z 27009KT 4000 -RA BR SCT004 BKN009 OVC020 10/09 Q1001 KMOR 221155Z AUTO 00000KT 10SM CLR 06/05 A3017 RMK LDOS 221200Z 25014KT 6000 -RA FEW010 BKN023 OVC030 07/06 Q1006 KLXT 221153Z AUTO 12005KT 10SM SCT060 BKN080 11/07 A3020 RMK AO2 SLP223 T01110072 10133 20111 53017 KMOT 221154Z 24010G15KT 10SM CLR 12/07 A2969 RMK AO2 SLP056 T01170067 10194 20117 53019 KMQB 221155Z AUTO 00000KT 3/4SM BR BKN002 M01/M01 A3033 RMK AO2 VIS 1/4V5 T10081008 10031 21008 LEHC 221200Z 28018KT CAVOK 20/00 Q1024 NOSIG LDPL 221200Z 07011KT 030V100 CAVOK 15/04 Q1007 NOSIG KLXV 221205Z AUTO 06004KT 3SM -SN BR BKN022 OVC029 00/M01 A3027 RMK AO2 P0000 T00001006 EPTM 221130Z 04006KT 4000 BR BKN005 OVC013 11/10 Q1001 RMK 108 094 8/6= KMQE 221154Z AUTO 06017G31KT 12/12 A2996 RMK AO1 PK WND 04031/1152 SLP156 P0002 60007 70022 T01220122 10122 20089 50001 KNFW 221152Z 00000KT 10SM CLR 17/13 A3014 RMK AO2 SLP189 T01720133 10211 20172 53010 CHINO N VISNO N $ KMPO 221202Z AUTO 03010KT 8SM -RA BKN006 OVC010 09/08 A2996 RMK AO2 CIG 005V010 T00940078 TSNO PNO $ KMOX 221145Z AUTO 14018G23KT 10SM CLR 09/04 A2997 RMK AO2 KNGP 221156Z 09007KT 10SM FEW030 SCT200 23/21 A2999 RMK AO2 SLP154 T02330206 10239 20233 53010 KLXY 221155Z AUTO 00000KT 5SM BR CLR 16/15 A3009 RMK AO2 7//// T01570152 10180 20150 KMQI 221155Z AUTO 29010G15KT 10SM SCT012 BKN022 13/11 A2984 RMK AO2 T01320105 10165 20131 LEGR 221200Z 00000KT CAVOK 27/09 Q1025 KMQJ 221155Z AUTO 02004KT 10SM BKN024 02/02 A3029 RMK AO1 LEGT 221200Z 00000KT CAVOK 22/09 Q1028 LEIB 221200Z 03010KT 9999 FEW038 24/15 Q1022 NOSIG KNHK 221152Z 34008KT 7SM -RA SCT009 BKN013 OVC023 13/11 A2983 RMK AO2 RAE08B44 SLP102 P0002 60002 70019 T01280111 10139 20128 51005 KMRB 221153Z 34010KT 10SM OVC034 12/07 A2997 RMK AO2 SLP149 60000 70004 T01220072 10122 20111 53015 KMRC 221155Z AUTO 00000KT 9SM CLR 04/04 A3018 RMK KNGU 221159Z 30012G22KT 5SM -TSRA BR OVC013CB 14/11 A2984 RMK AO2 RAB31 TSB10 SLP106 OCNL LTGIC VC N AND SE TS VC N AND SE MOV SW AND E T1 SET P0000 60004 70004 T01390106 10156 20139 53009 $ KP92 221153Z AUTO 00000KT 17/15 A3004 RMK AO1 SLP171 T01670150 10183 20167 53008 KMPV 221201Z AUTO 33003KT 10SM BKN031 OVC035 07/07 A3018 RMK AO2 RAE1158 P0000 T00670067 KLYV 221155Z AUTO 17016G19KT 10SM SCT080 12/06 A3004 RMK AO2 KNID 221156Z AUTO 20003KT 10SM CLR 09/M01 A2996 RMK AO2 SLP134 T00941006 10156 20089 53011 $ KMRF 221155Z AUTO 14003KT 10SM SCT010 OVC015 14/14 A3016 RMK AO1 70049 10140 20140 52007 KMPZ 221155Z AUTO 10004KT 5SM BR CLR 01/01 A3030 RMK AO2 T00130013 10053 20010 KMRH 221158Z AUTO 31010KT 10SM CLR 13/09 A2991 RMK AO2 SLP127 T01280089 10156 20128 53016 TSNO LDRI 221200Z 07011KT 020V100 9999 FEW040 13/08 Q1008 KMQS 221155Z AUTO 01011G15KT 9SM -RA OVC008 12/11 A2989 RMK AO2 P0001 KMRJ 221155Z AUTO 11003KT 5SM BR CLR 02/01 A3032 RMK AO2 LDSB 211400Z 17006KT 9999 SCT030 17/14 Q1014 EPWA 221200Z 08012KT 050V110 9999 FEW016 BKN042 13/10 Q1002 NOSIG KLZU 221145Z 00000KT 10SM CLR 06/01 A3006 RMK ATIS Q; RWY 25 ; OO KMRN 221155Z AUTO 00000KT 10SM CLR 01/01 A3010 RMK AO2 T00070007 10044 20005 KNIP 221153Z 34008KT 10SM FEW250 19/12 A3000 RMK AO2 SLP154 T01890117 10228 20189 53017 KMQY 221156Z 02004KT 10SM CLR 04/03 A3023 RMK AO2 53018 T00440033 10077 20044 SLP248 KLZZ 221155Z AUTO 00000KT 10SM CLR 15/13 A3009 RMK AO2 T01460130 10172 20145 KOAJ 221155Z AUTO 24003KT 10SM CLR 10/06 A2995 RMK AO1 10140 20090 52020 LFBA 221200Z AUTO 32009KT 9999 FEW047 16/05 Q1030 KOAK 221153Z 04003KT 10SM CLR 11/08 A3004 RMK AO2 SLP172 T01060078 10156 20094 58002 KNJK 221156Z AUTO 19004KT 10SM CLR 18/06 A2979 RMK AO2 SLP104 T01830056 10250 20183 51004 KMRT 221153Z AUTO 01010G14KT 7SM BKN006 OVC029 06/04 A3024 RMK AO2 T00550036 10057 20052 KMSL 221153Z AUTO 06003KT 10SM CLR 09/05 A3019 RMK AO2 SLP220 6//// 7//// T00940050 10144 20094 51014 $ KMTC 221155Z 01011KT 12SM OVC019 07/04 A3026 RMK SLP261 T00740040 10079 20074 51019 LFBC 221200Z AUTO 03004KT 320V070 9999 BKN040 16/06 Q1031 KNJM 221157Z COR 32006KT 10SM FEW085 11/07 A2992 RMK SLP134 T01060072 10150 20106 53004 LFBD 221200Z AUTO 34006KT 310V020 9999 BKN044 16/07 Q1031 KMSN 221153Z 00000KT 1/2SM R36/4000VP6000FT FZFG BKN001 M02/M03 A3035 RMK AO2 TWR VIS 1 SLP286 I1000 I6002 T10171028 11006 21028 51004 KOBE 221155Z AUTO 18/18 RMK AO2 PWINO LFBE 221200Z AUTO 32006KT 280V360 9999 SCT042 15/06 Q1030 KMSO 221153Z 23003KT 1/4SM FG VV001 02/02 A3008 RMK AO2 SLP200 70053 T00170017 10072 20011 53007 VOTR 221110Z VRB02KT 5000 HZ SCT016 FEW025TCU BKN080 27/24 Q1010 TEMPO 3000 RA KMSP 221153Z 13008KT 10SM FEW300 04/02 A3021 RMK AO2 SLP236 T00390017 10072 20039 51006 KMRY 221154Z AUTO 06003KT 10SM CLR 11/07 A3003 RMK AO2 SLP180 T01110072 10156 20106 56004 LDSP 221200Z 01020G30KT 340V050 CAVOK 12/05 Q1004 TEMPO 35018G28KT LFBG 221200Z AUTO 35008KT 320V020 9999 FEW037 16/06 Q1031 KMTH 221153Z AUTO 06003KT 10SM OVC120 25/23 A2994 RMK AO2 SLP137 70047 T02500233 10256 20239 53012 LFBH 221200Z AUTO 31009KT 9999 NSC 15/05 Q1031 LFAQ 221200Z AUTO 32015KT 9999 SCT034 BKN042 13/06 Q1024 LEJR 221200Z 01008KT 330V050 CAVOK 31/13 Q1022 LFBI 221200Z AUTO 33011KT 9999 FEW037 BKN045 15/07 Q1030 KMTJ 221204Z AUTO 13010KT 10SM FEW070 OVC100 09/05 A3015 RMK AO2 LTG DSNT NE TSE1158 T00890050 KMSS 221153Z AUTO 04011G19KT 10SM OVC023 07/02 A3024 RMK AO2 SLP242 T00720017 10072 20067 53019 EPWR 221200Z 28009KT 9999 -RA BKN008 BKN013 08/07 Q1004 LFAT 221200Z AUTO 31015KT 9999 NSC 13/07 Q1025 VOTV 221010Z 13004KT 5000 HZ SCT015 FEW025CB BKN090 30/24 Q1009 NOSIG LELC 221200Z 09009KT 050V140 CAVOK 25/15 Q1023 NOSIG KNLC 221156Z AUTO 00000KT 10SM CLR 08/ A3003 RMK AO2 SLP167 T0078 10144 20072 53001 $ LFBL 221200Z AUTO 35008KT 300V030 9999 BKN036 OVC042 11/03 Q1029 KMSV 221155Z 03005KT 10SM BKN023 BKN060 OVC075 09/08 A3000 RMK AO1 70050 60003 70005 10090 20090 52014 LFBM 221200Z AUTO VRB04KT 9999 SCT044 BKN140 17/06 Q1031 KMTN 221155Z 33003KT 4SM RA BKN011 OVC017 13/12 A2989 KMTO 221153Z AUTO 03003KT 10SM CLR 02/01 A3030 RMK AO2 SLP263 T00220011 10056 20017 53016 KOCF 221150Z 00000KT 5SM BR CLR 13/11 A2999 LFBO 221200Z AUTO 31014KT 270V340 9999 FEW049 16/03 Q1030 KMSY 221153Z 04010KT 10SM FEW250 19/16 A3004 RMK AO2 SLP176 T01940156 10206 20161 52007 KMTP 221154Z AUTO 02011G19KT 14/12 A2993 RMK AO1 SLP136 T01390117 10156 20133 53005 LFBP 221200Z 29004KT 230V340 9999 SCT045 16/07 Q1031 NOSIG KOCH 221155Z AUTO 30003KT 2SM SCT002 12/11 A3011 RMK AO1 10140 20120 52014 KMUI 221208Z AUTO 01009G19KT 10SM FEW022 SCT080 13/11 A2994 RMK AO2 KNKT 221154Z 30008KT 10SM CLR 11/07 A2992 RMK AO2 SLP129 T01110072 10167 20111 53018 $ LFBT 221200Z AUTO VRB03KT 9999 SCT038 15/06 Q1031 LFCK 221200Z AUTO 31022G32KT 9999 BKN043 BKN049 15/04 Q1029 LELL 221130Z 25008KT 230V290 CAVOK 23/07 Q1022 LFBU 221200Z AUTO 33006KT 290V010 9999 BKN041 BKN048 14/05 Q1030 KMTV 221155Z AUTO 33007KT 10SM CLR 09/03 A3004 RMK AO2 T00910033 10097 20069 LEMD 221200Z 03004KT 350V100 CAVOK 23/03 Q1028 NOSIG LELN 221200Z 00000KT CAVOK 16/10 Q1031 KMVE 221154Z AUTO 18012G21KT 10SM SCT090 09/05 A3001 RMK AO2 LTG DSNT N AND SE KMTW 221156Z AUTO 00000KT 10SM CLR M02/M02 A3036 RMK AO2 SLP307 T10171022 10000 21017 53010 FZRANO LELO 221200Z 29011KT 260V320 9999 FEW038 19/07 Q1030 KNKX 221155Z 03003KT 8SM FEW011 14/13 A2989 RMK AO2 SLP117 T01440128 10161 20139 55001 KMUO 221158Z AUTO 10008KT 10SM CLR 04/04 A3009 RMK AO2 SLP189 70004 T00420042 10049 20036 55001 LEMG 221200Z 26010KT CAVOK 32/10 Q1021 NOSIG LFBY 221200Z 03004KT 310V080 9999 SCT043 SCT230 17/06 Q1031 EPZG 221200Z 25006KT 210V280 9999 -RA BKN007 OVC010 09/08 Q1004 KMVH 221155Z AUTO 27010G16KT 10SM CLR 08/M03 A2995 RMK A01 KOCQ 221155Z AUTO 00000KT 5SM CLR M02/M02 A3037 RMK AO1 T10251025 10000 21040 LFBZ 221200Z VRB03KT 9999 FEW043 18/07 Q1031 NOSIG LEMH 221200Z 01031G43KT 9999 FEW025 20/04 Q1022 LFCR 221200Z AUTO 32017KT 9999 BKN037 11/03 Q1028 KMWA 221158Z 00000KT 10SM SKC 03/02 A3028 RMK PTCHY GF KOEB 221154Z AUTO 33004KT 10SM OVC019 04/03 A3032 RMK AO2 T00370025 10037 20023 KMUT 221155Z AUTO 00000KT 8SM CLR 01/00 A3033 RMK AO2 KMVL 221154Z AUTO 00000KT 10SM OVC010 08/07 A3019 RMK AO2 RAE54 SLP227 P0002 60003 70034 T00780067 10083 20072 53012 KMWC 221145Z AUTO 00000KT 10SM SKC M01/M02 A3034 KNMM 221156Z 00000KT 10SM CLR 09/08 A3012 RMK AO2 SLP210 T00890078 10117 20083 51015 $ KMVN 221155Z AUTO 03003KT 10SM CLR 04/02 A3029 RMK AO1 10070 20040 52017 KOCW 221155Z AUTO 00000KT 10SM CLR 10/08 A2991 RMK AO2 T00980080 10135 20093 KODO 221153Z AUTO 16005KT 7SM BKN033 OVC042 17/15 A3010 RMK AO2 RAB03E13 SLP156 P0000 60001 70004 T01720150 10183 20172 53005 LEMO 221200Z 07008KT 040V100 CAVOK 29/12 Q1023 NOSIG KMWH 221152Z AUTO 11008KT 10SM OVC075 10/05 A2985 RMK AO2 SLP108 60000 T01000050 10100 20072 58016 TSNO KMWK 221155Z AUTO 31006KT 10SM CLR 10/03 A3006 RMK AO2 T00960032 10108 20096 KMWL 221153Z AUTO 29003KT 4SM BR CLR 13/12 A3009 RMK AO2 SLP181 T01280117 10167 20122 53010 KMWM 221154Z AUTO 15013G17KT 10SM SCT085 08/04 A3010 RMK AO2 KMWN 221153Z 10048G57KT 0SM -PLFZRA FZFG VV000 M01/M01 RMK LGT GICG 60013 70051 4/002 931009 11002 21019 KODX 221153Z AUTO 14005KT 7SM CLR 12/11 A2995 RMK AO2 SLP140 T01220111 10139 20117 53004 KMWO 221155Z AUTO 00000KT 10SM CLR 05/02 A3028 RMK AO2 T00470020 10096 20047 KOEO 221155Z AUTO 14007KT 10SM CLR 04/03 A3025 RMK AO2 T00420025 10063 20041 KMXF 221158Z AUTO 02006KT 10SM CLR 11/09 A3010 RMK AO2 SLP195 T01090091 10119 20098 52020 KOFF 221158Z AUTO 11011KT 10SM CLR 11/09 A3011 RMK AO2 SLP201 T01140093 10141 20113 52005 KMVY 221153Z 04011KT 10SM BKN009 OVC016 15/14 A2991 RMK AO2 CIG 007V014 SLP128 T01500139 10150 20106 53001 KNOG 221156Z AUTO 05006KT 10SM CLR 18/17 A3003 RMK AO2 SLP148 T01830167 10211 20183 53010 KMWS 221145Z 23500G00KT MM/M08 RMK SNOW DEPTH 3.00 PTKK 221150Z VRB04KT 15SM FEW014 BKN300 27/25 A2984 RMK SLP108 60001 70001 8/101 T02680251 10322 20261 50007 KNPA 221156Z 01005KT 10SM CLR 13/12 A3004 RMK AO2 SLP173 T01330117 10156 20133 53010 KOGA 221155Z AUTO 00000KT 10SM BKN080 OVC110 11/08 A2995 RMK AO2 T01090082 10163 20100 LFGA 221200Z AUTO 28009KT 240V300 9999 FEW028 SCT054 BKN150 10/03 Q1022 LEPA 221200Z 07014KT 9999 FEW032 23/14 Q1022 NOSIG KOGB 221153Z AUTO 34004KT 10SM CLR 09/06 A3004 RMK AO2 SLP172 T00890056 10144 20089 51021 KMWT 221153Z AUTO 29003KT 1/4SM FG VV002 10/09 A3015 RMK AO2 SLP209 T01000094 10117 20100 53012 KOFK 221156Z AUTO 15016KT 10SM CLR 13/07 A3001 RMK AO2 SLP157 T01280067 10150 20128 51002 KOGD 221153Z 17005KT 10SM CLR 02/M02 A3014 RMK AO2 SLP192 T00221017 10056 20022 52010 KMYF 221153Z AUTO 00000KT 5SM BR CLR 16/14 A2989 RMK AO2 SLP119 T01610144 10183 20150 55000 TSNO KMXO 221155Z AUTO 00000KT 8SM CLR 00/00 A3031 RMK AO2 KOFP 221154Z AUTO 31010KT 4SM RA BR FEW010 OVC016 11/10 A2991 RMK AO2 RAB22 SLP127 P0003 60022 70022 T01060100 10117 20106 53006 PTKR 221150Z 00000KT 15SM FEW017TCU FEW120 BKN320 27/25 A2983 RMK TCU DSNT NE SLP102 60001 70024 8/271 T02720250 10306 20261 52014 KNQA 221050Z 06004KT 10SM SKC 11/08 A3019 LDZA 221200Z 25011KT 180V260 9999 FEW010 07/05 Q1008 NOSIG LFGJ 221200Z AUTO 35008KT 320V030 9999 -RA SCT042 SCT048 BKN058 10/05 Q1026 KMYL 221151Z AUTO 00000KT 3/4SM BR VV003 01/01 A3009 RMK AO2 SLP198 70016 T00110011 10022 20011 52001 LDZD 221200Z 02011KT 300V100 9999 FEW035 14/02 Q1005 TEMPO 02015G28KT KMYP 221145Z AUTO M1/4SM +SN OVC001 00/M01 A3043 RMK AO2 LTG DSNT W LEPP 221200Z 35017KT 320V020 9999 FEW032 16/07 Q1030 ESCF 221150Z 08014KT 9999 BKN013 BKN020 05/04 Q1015 KMZG 221155Z AUTO 08010G18KT 050V110 9SM SCT029 BKN038 26/19 A2998 RMK A01 KMZH 221153Z AUTO 17006KT 10SM CLR 04/01 A3017 RMK AO2 KMYR 221145Z 34010KT 10SM CLR 12/04 A2998 KNQI 221156Z 36006KT 10SM FEW020 FEW050 SCT200 19/18 A3000 RMK AO2 SLP154 T01890183 10211 20189 53012 GABS 221130Z VRB02KT 9999 FEW026 SCT230 35/17 Q1015 NOSIG KNRB 221152Z 32003KT 10SM FEW250 17/13 A2998 RMK AO2 SLP152 T01670133 10206 20167 53014 KMYV 221153Z AUTO 00000KT 10SM CLR 11/07 A3003 RMK AO2 SLP173 7//// T01060072 10117 20089 58002 ESDF 221150Z 05014KT 3000 DZ BR BKN006 09/09 Q1008 FJDG 221155Z 18003KT 9999 FEW020 FEW250 30/26 A2983 RMK SLP098 8/101 T02920260 10306 20295 56007 KMYZ 221155Z AUTO 15008KT 10SM CLR 12/07 A3009 RMK AO2 WIBB 220800Z 00000KT 7000 SCT016 32/23 Q1008 NOSIG LERI 221200Z 35008KT 300V030 CAVOK 30/01 Q1022 NOSIG KOJA 221155Z AUTO 18003KT 10SM CLR 13/11 A3011 RMK AO2 LESA 221200Z 05003KT 310V100 CAVOK 21/08 Q1030 KOJC 221153Z 14007KT 10SM BKN047 12/08 A3017 RMK AO2 SLP211 T01170083 10133 20117 53014 LGAD 221150Z 24004KT 9999 -RA SCT020 BKN070 20/15 Q1007 KPAE 221153Z AUTO 15011G19KT 8SM -RA FEW031 BKN048 OVC070 12/09 A2966 RMK AO2 SLP041 P0005 60021 70026 T01170094 10139 20117 55009 KNSE 221156Z 01005KT 10SM CLR 13/10 A3005 RMK AO2 SLP163 T01280100 10150 20128 51012 $ KNQX 221153Z 06004KT 10SM FEW040 BKN060 OVC090 25/24 A2993 RMK AO2 SLP135 70182 T02500239 53009 $ KPAH 221153Z 04003KT 9SM CLR 06/04 A3025 RMK AO2 SLP242 T00560044 10078 20050 52019 FIMP 221200Z 08010KT 9999 BKN017 27/21 Q1017 KMZZ 221155Z AUTO 03003KT 10SM BKN025 03/01 A3031 RMK AO2 T00290012 10324 20005 KNSI 221157Z AUTO 30004KT 10SM CLR A2988 RMK AO2 SLPNO 52003 $ KNRS 221156Z AUTO 06003KT CLR 16/14 A2989 RMK AO2 SLP119 T01560144 10161 20133 55001 $ FIMR 221200Z 10012KT 9999 FEW018 27/21 Q1017 LERS 221200Z 26013KT CAVOK 24/06 Q1022 LERT 221200Z 03010KT 360V060 CAVOK 31/11 Q1022 NOSIG KOKB 221152Z AUTO 02003KT 1/4SM FG VV002 14/14 A2989 RMK AO2 SLP121 T01440139 10167 20139 53007 LFKB 221200Z 34018KT 9999 FEW040 BKN100 21/M06 Q1011 NOSIG KOKC 221152Z 00000KT 5SM BR CLR 13/12 A3012 RMK AO2 SLP190 T01330117 10161 20128 53013 LGAL 221150Z /////KT 9999 BKN018 21/15 Q1007 LFKC 221200Z 03012KT 360V060 9999 FEW030 21/M02 Q1012 NOSIG LFJL 221200Z AUTO 29015KT 9999 BKN030 BKN038 OVC047 10/03 Q1022 KNTD 221156Z AUTO 02005KT 10SM -RA CLR 15/11 A2988 RMK AO2 SLP120 P0000 60000 T01500106 10178 20133 53004 $ KPAM 221158Z AUTO 04006KT 10SM CLR 16/12 A3003 RMK AO2 SLP172 T01620122 10168 20145 53013 $ KPAN 221155Z AUTO 00000KT 10SM CLR 10/07 A3013 RMK AO2 KPAO 220353Z 30006KT 10SM SKC 16/11 A3004 RMK LAST KPBF 221153Z AUTO 36003KT 10SM CLR 09/08 A3017 RMK AO2 SLP216 T00940078 10128 20089 53019 LFKF 221200Z AUTO 23006KT 150V310 9999 OVC056/// 23/09 Q1009 LESO 221200Z 02008KT 350V050 9999 FEW040 SCT045 17/09 Q1031 KPBG 221153Z AUTO 35014KT 10SM BKN011 OVC027 07/05 A3019 RMK AO2 SLP223 70013 T00670050 10067 20061 53017 KPBH 221155Z AUTO 00000KT 10SM CLR M01/M01 A3029 RMK AO2 T10061012 10007 21025 KPBI 221153Z 34003KT 10SM FEW020 SCT110 BKN200 21/21 A2994 RMK AO2 SLP139 CB DSNT E-SE 70264 T02110211 10217 20206 51013 LFJR 221200Z AUTO 28006KT 240V340 9999 BKN041 OVC052 14/07 Q1030 LFKJ 221200Z 23006KT 180V290 9999 FEW053 24/07 Q1009 NOSIG WIDD 221130Z 18006KT 9999 FEW014 27/24 Q1011 KOKK 221155Z AUTO 36003KT 10SM CLR 02/00 A3032 RMK AO1 10040 20010 52017 LFLB 221200Z 34011KT 9999 SCT036 SCT080 11/03 Q1026 TEMPO SHRA LEST 221200Z VRB01KT CAVOK 21/14 Q1029 NOSIG KNUC 220156Z 28008KT 10SM FEW010 FEW250 20/16 A2987 RMK SLP115 T02000161 LETL 221200Z AUTO 35015KT CAVOK 16/01 Q1029 LGBL 221150Z 11009KT 9999 FEW030 23/09 Q1005 LFLC 221200Z 35010KT 310V030 9999 SCT043 12/00 Q1028 NOSIG PTPN 220350Z 27003KT 10SM -RA BKN016CB OVC130 26/24 A2975 RMK CB ALQDS MOV W LAST LGAV 221150Z 20014KT 9999 FEW035 23/09 Q1008 NOSIG KOKM 221155Z AUTO 00000KT 1/4SM FG OVC002 13/13 A3013 RMK AO2 T01250125 10157 20122 KOLE 221155Z AUTO 36004KT 1/2SM FG OVC003 04/04 A3012 RMK AO2 LETO 221200Z 03007KT CAVOK 23/05 Q1028 NOSIG KOLF 221153Z AUTO 25010KT 10SM FEW044 BKN060 10/06 A2981 RMK AO2 SLP094 60000 T01000056 10128 20078 53013 KOLG 221155Z AUTO 14006KT 10SM CLR 02/01 A3024 RMK AO1 ESGG 221150Z 09014KT 9999 BKN013 08/05 Q1010 KNUI 221153Z AUTO 34007KT 310V010 4SM -RA SCT017 BKN037 OVC065 13/10 A2982 RMK AO2 SLP099 P0002 60002 70002 T01280100 10133 20128 50002 KOMA 221152Z 15014KT 10SM FEW070 13/07 A3011 RMK AO2 SLP193 T01280067 10139 20122 51002 LFKS 221200Z AUTO 01022KT 9999 NSC 22/M03 Q1009 ESGJ 221150Z 08012KT 9999 BKN009 06/04 Q1012 LEVC 221200Z 13010KT CAVOK 26/07 Q1022 NOSIG KNTU 221156Z 29011G19KT 3SM -RA BKN006 BKN010 OVC023 13/11 A2981 RMK AO2 SLP097 T2 SET P0005 60010 70014 T01330106 10161 20133 53009 KPDC 221155Z AUTO 10003KT 7SM CLR 01/00 A3033 RMK AO2 T00130002 10045 20010 LFMC 221200Z 33025G39KT 290V020 9999 FEW033 18/M03 Q1013 LFLL 221200Z 35015KT 9999 -SHRA BKN043 11/01 Q1027 NOSIG KOLM 221205Z AUTO 20013G19KT 5SM -RA BR BKN014 BKN023 OVC035 13/11 A2967 RMK AO2 P0001 T01280111 KPCM 221155Z AUTO 00000KT 5SM HZ CLR 19/ A2999 RMK AO2 KOKV 221155Z AUTO 33008KT 10SM OVC032 12/07 A2997 RMK AO2 LFMD 221200Z AUTO 12006KT 070V170 9999 NSC 22/04 Q1010 LEVD 221200Z 04005KT 350V080 CAVOK 17/09 Q1031 LFLN 221200Z AUTO 32010KT 9999 FEW038 11/03 Q1027 KPBX 221155Z AUTO 34004KT 10SM OVC008 06/05 A3018 RMK AO2 T00580045 10066 20052 LFLP 221200Z AUTO 32009KT 9999 FEW043 BKN049 BKN058 07/02 Q1026 ESGP 221150Z 07008KT 9999 BKN017 10/06 Q1010 KNUQ 221156Z AUTO 00000KT 10SM CLR 12/09 A3005 RMK AO2 SLP177 T01170089 10150 20111 58004 TSNO KOKZ 221155Z AUTO 00000KT 5SM BR CLR 06/06 A3008 RMK AO2 T00600060 10100 20058 KOMH 221155Z AUTO 31005KT 10SM -RA OVC026 11/09 A2995 RMK AO2 P0001 LFMH 221200Z 34012G22KT 290V010 9999 BKN043 11/M00 Q1027 NOSIG PTSA 220050Z 23005KT 10SM SCT017 SCT130 BKN300 29/25 A2980 LAST LFMI 221200Z AUTO 35031G46KT 9999 NSC 15/01 Q1021 ESGR 221150Z AUTO 09010KT 060V120 9999 BKN010/// OVC014/// 05/04 Q1013 KONA 221155Z AUTO 00000KT 10SM CLR 03/03 A3030 RMK AO2 KOLS 221154Z AUTO 10SM CLR 09/07 A3002 RMK AO2 SLP117 7//// T00940072 10144 20094 53004 KPEA 221155Z AUTO 13006KT 10SM CLR 04/03 A3027 RMK AO2 T00410032 10070 20041 LFLS 221200Z AUTO 36011KT 340V040 9999 FEW017 SCT040 BKN056 09/03 Q1026 KOMK 221153Z AUTO 20009KT 10SM -RA OVC055 08/07 A2984 RMK AO2 SLP105 P0002 60002 70002 T00830067 10111 20083 58014 KPDK 221153Z 34003KT 10SM CLR 07/03 A3008 RMK AO2 SLP185 T00720028 10117 20072 53014 KNY0 221155Z AUTO 03008KT 10SM BKN017 OVC023 09/06 A3008 RMK AO2 70001 T00850061 10087 20085 LFMK 221200Z AUTO 29021KT 9999 FEW054 16/02 Q1028 LFLU 221200Z AUTO 02016KT 9999 FEW049 BKN062 OVC074 12/03 Q1025 ESIB 221150Z 09012KT 9999 -RA SCT012 BKN015 07/05 Q1012 ESGT 221150Z 06008KT 020V110 9000 -RA BKN015 07/06 Q1012 KOLU 221155Z AUTO 15011G16KT 10SM CLR 13/06 A3004 RMK AO1 10150 20130 54000 LFML 221200Z 33035KT CAVOK 16/02 Q1019 NOSIG KOLV 221150Z 04006KT 10SM SKC 08/08 A3020 KOMN 221150Z 29005KT 10SM SKC 16/15 A2997 LFLW 221200Z AUTO 36008KT 330V040 9999 BKN034 BKN047 10/02 Q1028 LFMN 221200Z 17011KT 9999 FEW033 21/06 Q1010 NOSIG PTRO 221152Z 00000KT 15SM SCT016 BKN300 27/25 A2983 KPCW 221153Z AUTO 04008KT 10SM OVC019 07/04 A3025 RMK AO2 51020 T00720044 KNUW 221156Z 13023G31KT 10SM SCT020 BKN035 BKN070 14/10 A2962 RMK AO2 PK WND 14033/1146 RAB09E32 SLP033 P0000 60000 70001 T01440100 10161 20139 56001 $ LFMO 221200Z AUTO 35033KT 9999 FEW056 14/02 Q1023 LFLX 221200Z 31011KT 250V340 9999 FEW033 BKN053 14/06 Q1029 NOSIG KOLY 221155Z AUTO 00000KT 10SM CLR 03/03 A3030 RMK AO2 LFMP 221200Z 32027G38KT 9999 FEW043 17/04 Q1025 TEMPO 31025G45KT LFLY 221200Z AUTO 35014KT 320V020 9999 BKN047 BKN054 BKN068 12/00 Q1027 KPCZ 221155Z AUTO 00000KT 5SM BR CLR M01/M02 A3036 RMK AO2 T10111017 10003 21016 KOLZ 221155Z AUTO 14008KT 10SM CLR 02/02 A3030 RMK AO2 KOOA 221155Z AUTO 12005KT 7SM CLR 02/02 A3027 RMK AO2 T00220016 10062 20022 LFOA 221200Z AUTO 30012KT 270V330 9999 FEW031 BKN039 BKN056 12/05 Q1028 LEVS 221200Z 00000KT CAVOK 26/05 Q1028 KPDT 221153Z AUTO 12004KT 10SM BKN075 OVC090 12/03 A2988 RMK AO2 RAB41E51 SLP109 P0000 60000 T01170033 10122 20056 58009 LFMT 221200Z 34018KT CAVOK 18/M00 Q1023 NOSIG LFOB 221200Z AUTO 31014KT 9999 BKN035 BKN048 OVC058 13/06 Q1025 LEVT 221200Z VRB02KT 9999 SCT030 16/07 Q1031 LGEL 221150Z 18010KT 9999 FEW025 24/12 Q1007 KONL 221155Z AUTO 16011G17KT 10SM CLR 14/12 A2993 RMK AO2 T01400120 10153 20133 LFOC 221200Z AUTO 32009KT 280V340 9999 NSC 13/06 Q1028 LFMU 221200Z AUTO 31024G37KT 9999 NSC 17/01 Q1025 KONM 221155Z AUTO 19004KT 10SM CLR 10/09 A3013 RMK AO2 T01020093 10122 20102 LFMV 221200Z AUTO 34024G38KT 320V020 9999 FEW056 15/02 Q1022 ETAD 221158Z AUTO 28011G18KT 9999 BKN022 OVC027 08/04 A3010 RMK AO2 BKN V OVC SLP192 60001 70026 T00810042 10081 20046 50006 $ LFOE 221200Z AUTO 31012KT 9999 SCT046 BKN054 OVC220 13/05 Q1027 LEVX 221200Z 20003KT 090V240 CAVOK 24/18 Q1028 NOSIG KONO 221153Z AUTO 00000KT 10SM CLR 02/M01 A3010 RMK AO2 SLP197 T00171006 10067 20006 53003 KPDX 221153Z 15009KT 10SM OVC035 15/12 A2979 RMK AO2 SLP086 60005 70006 T01500117 10150 20122 58008 KPEO 221153Z AUTO VRB04KT 4SM BR OVC003 08/07 A3012 RMK AO2 SLP204 60000 70024 T00780067 10078 20078 51019 KNXF 221156Z AUTO 04005KT 2SM BR FEW008 A2989 RMK AO2 SLPNO 53007 $ RCKH 221130Z 04005KT 360V080 6000 FEW015 SCT050 BKN090 28/22 Q1014 NOSIG RMK A2996 KONP 221155Z AUTO 19021G35KT 7SM DZ SCT007 BKN016 BKN020 15/13 A2980 RMK AO2 LFMY 221200Z AUTO 34023G38KT 300V360 9999 NSC 15/01 Q1021 KPEQ 221155Z AUTO 00000KT 7SM BKN050 OVC065 16/15 A3007 RMK AO2 70009 T01550146 10160 20150 LFOH 221200Z AUTO 32017KT 9999 FEW036 BKN048 13/05 Q1027 LEXJ 221200Z 04006KT 340V080 9999 FEW037 18/10 Q1031 KPGA 221153Z AUTO 29003KT 10SM CLR 14/04 A3005 RMK AO2 SLP126 T01390039 10200 20139 52010 LFOJ 221200Z AUTO 31011KT 9999 FEW033 OVC056 13/06 Q1028 KONT 221153Z 00000KT 10SM FEW250 14/11 A2989 RMK AO2 SLP112 T01440106 10189 20139 51002 LFOK 221200Z AUTO 30016KT 9999 SCT035 BKN042 BKN054 12/05 Q1025 LFPB 221200Z AUTO 31009KT 270V350 9999 FEW034 BKN050 OVC060 13/05 Q1026 KNYC 221151Z AUTO 04009G15KT 360V090 7SM -RA OVC014 12/11 A2994 RMK AO2 SLP130 P0005 60050 70061 T01220106 10144 20122 51006 $ LFPC 221200Z AUTO 28009KT 250V350 9999 BKN035 BKN047 OVC068 12/07 Q1025 KPGD 221201Z 00000KT 3SM BR BKN003 BKN013 22/21 A2998 RMK AO2 T02170206 WIHH 221100Z 05006KT 5000 HZ SCT017 29/24 Q1011 NOSIG PTTP 221155Z 15001KT 15SM FEW017 OVC300 24/24 A2989 RMK SLP120 70050 8/101 T02440235 10266 20244 50008 KOPF 221153Z 00000KT 10SM BKN120 23/22 A2995 RMK AO2 SLP142 70003 T02330217 10239 20228 53009 KPEX 221153Z AUTO 10015G24KT 10SM CLR 06/02 A3008 RMK AO2 T00550024 10075 20055 KONX 221155Z AUTO 27009KT 10SM OVC011 12/11 A2984 RMK AO2 60002 7//// T01200105 10145 20120 VQPR 221020Z 15016KT 9999 FEW040 19/01 Q1022 NOSIG KNYG 221156Z 35012G22KT 9SM -RA BKN040 OVC060 12/10 A2991 RMK AO2 SLP130 P0004 60011 70041 T01220100 10122 20117 53011 $ KNXP 221156Z AUTO 29007KT 10SM CLR 16/01 A3000 RMK AO2 SLP129 T01560006 10200 20156 53005 LFPG 221200Z 29008KT 9999 -SHRA SCT030 BKN050 BKN260 11/06 Q1026 NOSIG LFOP 221200Z AUTO 30012KT 270V350 9999 BKN041 BKN050 BKN210 13/05 Q1026 KONZ 221154Z AUTO 02009KT 10SM OVC019 08/04 A3027 RMK AO2 KPEZ 221155Z AUTO 00000KT 10SM CLR 16/12 A3005 RMK AO2 T01560120 10195 20155 ETAR 221158Z AUTO 27015KT 9999 BKN035 OVC044 09/02 A3010 RMK AO2 SLP200 60000 70021 T00900024 10090 20065 50003 $ LFQA 221200Z AUTO 32012KT 9999 SCT035 BKN044 BKN052 12/06 Q1024 LFOT 221200Z AUTO 31008KT 280V340 9999 SCT043 BKN054 14/04 Q1029 LFQB 221200Z AUTO 30012KT 9999 SCT034 SCT066 BKN076 12/06 Q1026 KNYL 221157Z 06004KT 10SM FEW200 23/16 A2981 RMK AO2 SLP092 T02280156 10261 20222 53005 KOPL 221155Z AUTO 02003KT 10SM CLR 13/13 A3007 RMK AO2 T01310129 10141 20111 KPHD 221153Z AUTO 35006KT 10SM OVC010 09/07 A3018 RMK AO2 SLP224 60000 70010 T00890067 10089 20089 53013 KOPM 221155Z AUTO 05018KT 10SM FEW031 26/19 A2996 RMK A01 LFOV 221200Z AUTO 26007KT 230V300 9999 FEW027 SCT035 BKN047 14/09 Q1029 LFPM 221200Z AUTO 28011KT 9999 NSC 12/06 Q1026 KOPN 221155Z AUTO 00000KT 10SM CLR 08/07 A3009 RMK AO2 LFPN 221200Z AUTO 30011KT 260V320 9999 NSC 12/06 Q1026 KQA4 220055Z 05004KT 9999 CLR 18/01 A3001 RMK SLP128 WND DATA ESTMD ALSTG/SLP ESTMD Q1016 ESKN 221150Z 07012KT 9999 FEW015 SCT030 BKN036 04/01 Q1017 KPHF 221154Z 30011G18KT 4SM +RA OVC012 13/11 A2984 RMK AO2 RAB42 SLP104 P0002 60002 70002 T01330106 10144 20133 53007 LFPO 221200Z 30011KT 270V330 9999 FEW030 BKN063 13/06 Q1026 NOSIG LFQG 221200Z AUTO 30012KT 270V330 9999 BKN041 BKN050 BKN062 12/03 Q1028 WIII 221200Z 27005KT 5000 HZ SCT020 28/22 Q1012 NOSIG LEZG 221200Z 31029G42KT CAVOK 19/05 Q1026 LGHI 221150Z 18010KT 9999 FEW020 BKN030 OVC080 21/17 Q1009 KPIA 221154Z 05004KT 6SM BR CLR 04/02 A3032 RMK AO2 SLP272 T00390017 10061 20033 51015 KORB 221153Z AUTO 16011G16KT 10SM CLR 05/01 A3009 RMK AO2 KPIB 221155Z AUTO 36005KT 10SM CLR 12/09 A3010 RMK AO1 10150 20120 52010 LFRB 221200Z 27007KT 250V320 9999 BKN033 15/07 Q1030 NOSIG LFPT 221200Z AUTO 28010KT 9999 FEW047 12/06 Q1026 GAMB 220900Z 08004KT CAVOK 33/12 Q1014 KPHL 221154Z 03015G24KT 10SM -RA BKN015 BKN045 OVC080 14/11 A2987 RMK AO2 PK WND 04028/1140 RAB10 SLP113 P0000 60003 70003 T01390111 10144 20133 53009 $ KORC 221155Z AUTO 15009KT 10SM SCT080 12/07 A3006 RMK AO2 LFRC 221200Z AUTO 29013KT 9999 FEW027 SCT035 BKN074 14/07 Q1028 LEZL 221200Z VRB02KT CAVOK 29/12 Q1023 NOSIG KORD 221151Z 33004KT 10SM SCT032 05/03 A3032 RMK AO2 SLP271 T00500033 10094 20050 51013 LFPV 221200Z AUTO 30013KT 9999 FEW048 OVC058 12/05 Q1026 KPGV 221150Z AUTO 33005KT 10SM CLR 11/08 A2994 RMK AO2 LFRD 221200Z AUTO 29010KT 9999 BKN031 BKN038 BKN044 15/08 Q1029 KORE 221152Z AUTO 02010KT 8SM -RA OVC016 09/08 A3004 RMK AO2 RAB33 SLP174 P0001 60001 70001 T00940083 10106 20094 51006 KPIE 221153Z 03009KT 10SM CLR 22/17 A2997 RMK AO2 SLP148 T02170172 10233 20217 51009 KPHN 221156Z AUTO 36004KT 10SM OVC019 07/04 A3029 RMK AO2 KORF 221151Z AUTO VRB04KT 10SM -RA OVC014 13/11 A2983 RMK AO2 SLP099 P0022 60029 70029 T01280106 10150 20122 51010 TSNO $ RCMQ 221130Z 02015G26KT 9999 FEW012 SCT050 BKN100 21/16 Q1015 NOSIG RMK A2999 KPHP 221155Z AUTO 31012G18KT 10SM -RA OVC090 13/06 A2990 RMK AO2 RAB21 SLP111 P0000 60000 T01330061 10211 20133 53039 KORG 221155Z AUTO 00000KT 5SM HZ CLR A3007 RMK AO2 LFRG 221200Z AUTO 34009G22KT 300V010 9999 BKN035 BKN045 13/06 Q1027 GAKY 220900Z 14004KT 8000 NSC 29/23 Q1013 KORH 221154Z 03012G20KT 2SM -RA BR OVC002 08/08 A2999 RMK AO2 SLP160 P0001 60003 70003 T00830083 10089 20083 55000 KPIH 221153Z 03003KT 10SM CLR M02/M03 A3015 RMK AO2 SLP215 T10171028 10056 21022 53007 LFQQ 221200Z 33013KT 300V010 9999 SCT030 BKN050 11/07 Q1023 NOSIG LFRH 221200Z AUTO 27006KT 240V350 9999 BKN032 OVC038 14/08 Q1031 LFRI 221200Z AUTO 33006KT 280V020 9999 BKN037 15/07 Q1031 KOSA 221155Z AUTO 00000KT 7SM CLR 15/14 A3015 RMK AO1 T01460143 10165 20126 LFRJ 221200Z AUTO 28007KT 250V310 9999 BKN030 OVC036 14/07 Q1030 KOQT 221153Z AUTO 00000KT 10SM CLR 05/03 A3019 RMK AO2 SLP227 T00500033 10078 20050 53018 KPHT 221155Z AUTO 04004KT 10SM CLR 03/02 A3023 RMK LFRK 221200Z AUTO 31010KT 9999 FEW034 BKN043 OVC054 14/07 Q1028 LFSB 221200Z 27011KT 220V300 9999 FEW015 BKN051 09/03 Q1023 TEMPO 28015G25KT FEW025TCU KOQU 221150Z 03018KT 8SM SCT006 BKN008 OVC018 12/11 A2999 ESMK 221150Z 05011KT 8000 DZ BKN008 OVC010 11/10 Q1007 KORL 221153Z 35003KT 10SM CLR 21/19 A2997 RMK AO2 SLP153 T02110189 10228 20211 51013 KOSC 221153Z AUTO 35005KT 10SM OVC019 05/02 A3034 RMK AO2 T00550026 KPIL 221153Z AUTO 05009KT 8SM SCT046 BKN075 OVC090 26/22 A2994 RMK AO2 SLP139 7//// T02560217 10256 20250 53007 ETEB 221204Z AUTO 28018G28KT 9999 BKN014 OVC021 05/04 A2995 RMK AO2 BKN V OVC LFRL 221200Z AUTO 27007KT 240V340 9999 BKN035 16/08 Q1031 LFRM 221200Z AUTO 29008KT 250V350 9999 BKN038 OVC047 15/06 Q1029 LFSD 221200Z AUTO 30011KT 270V340 9999 SCT041 BKN047 BKN056 12/03 Q1026 LFRN 221200Z AUTO 28009KT 250V310 9999 BKN033 BKN039 OVC045 15/07 Q1030 KPHX 221151Z 09003KT 10SM CLR 21/12 A2988 RMK AO2 SLP102 T02060117 10244 20206 53009 LGIO 221120Z 15008KT 9999 -RA SCT025 OVC070 16/13 Q1008 LFRO 221200Z AUTO 25010KT 220V280 9999 FEW030 OVC038 15/08 Q1030 KNZY 221152Z 00000KT 7SM BKN012 17/16 A2988 RMK AO2 SLP117 T01720156 10200 20167 55001 $ LFSG 221200Z AUTO 28013KT 9999 SCT029 BKN038 BKN046 09/04 Q1024 ESNG 221150Z AUTO 15012KT 9999 SG OVC021/// M04/M08 Q1023 KOSH 221153Z 00000KT 8SM CLR 00/M02 A3034 RMK AO2 SLP285 I1000 I6001 T00001022 10022 21011 53009 LFRQ 221200Z AUTO 29005KT 250V330 9999 BKN033 15/08 Q1031 ESMQ 221150Z 04011KT 9999 -RA FEW008 OVC009 08/08 Q1010 LGIR 221150Z 17020KT 9999 SCT025 SCT080 24/16 Q1010 NOSIG KPIR 221153Z AUTO 32007KT 10SM CLR 13/11 A2979 RMK AO2 SLP080 T01330111 10172 20128 53013 PTYA 221152Z 00000KT 12SM FEW018TCU SCT130 OVC300 26/24 A2983 RMK TCU N SLP101 60002 70011 8/271 T02550242 10291 20255 52014 LFSI 221200Z AUTO 29016KT 9999 BKN030 BKN041 BKN052 12/05 Q1024 KORS 221155Z AUTO 18008G17KT 030V040 9SM -RA FEW001 SCT019 BKN060 13/11 A2956 RMK AO2 P0011 LFRS 221200Z 30007KT 270V350 9999 SCT040 16/06 Q1030 NOSIG KQAJ 220955Z VRB06KT 9999 CLR 29/07 A3013 RMK AO2A SLP196 T02860068 KPIT 221151Z 36008KT 10SM OVC015 08/06 A3012 RMK AO2 SLP210 60000 70007 T00830061 10089 20083 51020 ESMS 221150Z 06012KT 9999 -RADZ SCT009 BKN017 BKN049 12/11 Q1006 KPKB 221153Z 32004KT 10SM BKN014 OVC020 09/07 A3018 RMK AO2 SLP221 60001 70023 T00890067 10089 20072 53018 LFRT 221200Z AUTO 32007KT 290V350 9999 BKN029 OVC035 14/08 Q1030 LGKC 221150Z 22014KT 9999 SCT016 SCT180 23/14 Q1011 ESNK 221150Z AUTO 12009KT 5000 -SN FEW006/// SCT019/// BKN024/// 01/M01 Q1022 REUP ESMT 221150Z 08013KT 050V110 9999 BKN017 11/07 Q1009 LHBC 221145Z 28013KT 3500 BR SCT003 OVC083 09/08 Q1001 RESHRA LFSL 221200Z AUTO 35010KT 9999 BKN032 BKN039 OVC045 13/05 Q1029 ESNL 221150Z AUTO 13010KT 9999 OVC020/// M03/M08 Q1023 KPKD 221153Z AUTO 15018KT 10SM BKN060 07/03 A3002 RMK AO2 SLP176 T00720033 10083 20067 55002 TSNO LFRV 221200Z AUTO 28006KT 9999 SCT033 SCT039 13/06 Q1030 LFSN 221200Z AUTO VRB07KT 9999 BKN035 OVC045 10/04 Q1023 ESNN 221150Z 11010KT 9999 SCT019 BKN029 OVC044 03/00 Q1021 R16/19//95 ESOE 221150Z 10015KT 9999 FEW022 SCT042 06/01 Q1016 LGKF 221150Z 10009KT 9999 SCT018 BKN080 23/18 Q1007 KQBF 221155Z AUTO 12009G20KT 9999 FEW200 36/03 A2994 RMK AO2 SLP121 T03580034 10282 20204 58020 TSNO $ LFSO 221200Z AUTO 28010KT 250V310 9999 BKN028 BKN034 OVC240 09/04 Q1023 ESNO 221150Z 08006KT 050V110 9999 BKN017 M01/M04 Q1023 ESMX 221150Z 06010KT 020V110 9999 BKN010 07/05 Q1010 KOTG 221155Z AUTO 16015G23KT 10SM FEW080 BKN095 09/04 A3007 RMK AO1 10100 20080 57003 KOTH 221155Z 15010KT 10SM BKN023 OVC030 13/13 A2985 RMK AO1 P0011 60021 70024 10140 20130 57007 LFRZ 221200Z AUTO 31007KT 270V010 9999 BKN040 16/07 Q1030 LFTH 221200Z AUTO 32020KT 290V350 9999 NSC 19/M02 Q1014 ESNQ 221150Z 18016KT 9999 -SN OVC017 M05/M08 Q1020 GANR 220900Z 08002KT CAVOK 30/13 Q//// ESNS 221150Z 14007KT 9999 FEW020 M01/M07 Q1026 ESPA 221150Z 15013KT 9999 FEW025 BKN026 M01/M06 Q1027 LFST 221200Z AUTO 28010KT 250V310 9999 BKN036 BKN046 BKN140 10/03 Q1022 ESOK 221150Z 08014KT 9999 SCT019 BKN030 05/02 Q1015 LGKL 221150Z 13005KT 9999 FEW025 SCT035 23/12 Q1008 KOSU 221153Z 33012KT 8SM OVC008 06/04 A3023 RMK AO2 SLP241 T00610044 10067 20061 53011 KQBL 221156Z AUTO 36003KT 10SM FEW240 15/11 A3005 RMK AO2 SLP182 T01500110 10155 20136 52011 KOTM 211653Z AUTO 10009KT 10SM CLR 15/07 A3017 RMK AO2 SLP218 T01500067 ESNU 221150Z 15006KT 9999 SCT024 M01/M07 Q1025 R14/09//95 ESPE 221150Z 14008KT 9999 FEW018 BKN022 M03/M06 Q1024 LGKO 221150Z 16020KT 9999 FEW020 SCT080 23/14 Q1012 LFSX 221200Z AUTO 27009KT 9999 SCT036 BKN044 BKN050 10/03 Q1024 ESNX 221150Z AUTO 14012KT 9999NDV BKN017/// M05/M08 Q1022 LGKP 221150Z AUTO 12014KT //// // ////// 23/16 Q1013 RE// KQAY 221155Z AUTO 03005G10KT 9999 CLR 27/07 A3008 RMK AO2 SLP182 T02730074 10266 20209 56012 $ LHBP 221200Z 31021KT 9999 SCT024 BKN044 10/05 Q1001 NOSIG ETGG 221120Z 33010KT 9999 FEW018 SCT230 14/10 Q1007 BLU+ KQAZ 221200Z AUTO 06001KT 9999 CLR 37/M01 A2991 RMK CDP03565 CLR KQBR 211400Z AUTO RMK AO2 SLPNO PWINO PNO TSNO $ ESNZ 221150Z 13016KT 7000 SG FEW010 OVC028 01/M00 Q1016 RESG LGKR 221150Z 14015KT 9999 -RA FEW016 BKN025 BKN080 21/17 Q1005 NOSIG ETHA 221120Z 27019KT 9999 -RA FEW008 BKN015 03/01 Q1016 WHT BLU TEMPO GRN VRMM 221100Z 18008KT 9000 -SHRA SCT017 FEW018CB BKN110 28/26 Q1009 CB N S TEMPO 4000 SHRA WIMM 221130Z 33004KT 4500 HZ FEW016CB FEW017 28/25 Q1009 NOSIG KS39 221155Z 16011G19KT 10SM FEW055 OVC110 10/03 A2993 RMK AO2 CRANE OPERATIONS 1 MILE NE OF AIRPORT OPERATING AT APP. 150 FT AGL. KQCL 221155Z AUTO 16006KT 9999 CLR 23/08 A3018 RMK AO2 SLP172 T02340075 10251 20147 57007 ETHB 221120Z 30021KT 8000 RADZ FEW016 BKN022 09/06 Q1009 WHT BLU TEMPO GRN LHDC 221147Z 22010KT 7000 -RA BKN011 11/10 Q0999 LGLM 221150Z 19017G27KT 9999 SCT018 SCT030 22/17 Q1007 ETHC 221120Z 29009KT 9999 FEW005 BKN007 BKN020 10/10 Q1006 GRN GRN LGKV 221150Z 21007KT 9999 SCT018 22/16 Q1005 KPMD 221153Z 00000KT 10SM CLR 09/01 A2997 RMK AO2 SLP130 T00940006 10161 20089 58001 KPKV 221155Z AUTO 05008KT 10SM CLR 19/17 A3002 RMK AO2 T01880170 10195 20177 KOVE 221153Z AUTO 00000KT 10SM CLR 10/08 A3004 RMK AO2 SLP174 T01000078 10128 20100 58003 $ KPLN 221154Z AUTO 00000KT 10SM BKN022 M03/M04 A3039 RMK AO2 SLP302 I6000 T10281039 11017 21056 51012 KOUN 221155Z AUTO 17003KT 7SM CLR 13/13 A3013 RMK AO2 LFTW 221200Z AUTO 36022G36KT 9999 // NSC 15/00 Q1023 ETHE 221120Z 28015KT 9999 FEW030 BKN060 11/06 Q1014 BLU ESOW 221150Z 09008KT 9999 BKN037 04/M00 Q1018 ETHF 221120Z AUTO 29010KT 9999 // ////// 08/05 Q1012 /// LGKZ 221150Z 10005KT 9999 FEW025 SCT170 20/06 Q1006 ETGQ 220420Z AUTO 27006KT //// // ////// 07/04 Q1014 /// LGLR 221150Z 00000KT 9999 FEW025 24/09 Q1005 RMK FEW180 BLU KOWA 221155Z AUTO 15014G19KT 10SM CLR 05/02 A3021 RMK AO2 KPNA 221155Z AUTO 31004KT 10SM CLR M06/M06 A3018 RMK AO2 LGMK 221150Z 19010G22KT 9999 SCT018 BKN030 OVC090 21/15 Q1010 KOWB 221156Z 00000KT 10SM CLR 06/04 A3027 RMK AO2 53021 60000 T00550044 10094 20050 SLP251 KQEB 221155Z AUTO 12SM FEW055 BKN085 24/11 Q1021 RMK AO2 SLP152 70003 T02440105 10178 20150 57030 KOVL 221154Z AUTO 15016G21KT 10SM BKN046 BKN060 08/03 A3006 RMK AO2 LTG DSNT S AND NW KPNC 221153Z AUTO 15004KT 8SM CLR 16/14 A3011 RMK AO2 SLP188 T01610139 10194 20156 53018 ETHL 221120Z 25016KT 9999 -RA BKN015 BKN022 05/03 Q1018 WHT BLU TEMPO GRN ETIC 221203Z AUTO 27011G21KT 9999 BKN016 OVC021 06/05 A2984 RMK AO2 KOWD 221153Z 03007KT 4SM -RA BR OVC004 12/12 A2997 RMK AO2 SLP147 P0004 60006 70009 T01220117 10122 20106 58001 KPNE 221154Z 02014KT 6SM -RA SCT011 BKN032 OVC075 14/11 A2989 RMK AO2 RAB03 SLP121 P0003 60005 70005 T01390111 10139 20133 $ ETHN 221120Z 25015G26KT 9999 -RA BKN010 OVC032 05/03 Q1015 GRN WHT TEMPO GRN LFVP 221200Z 07005KT CAVOK 08/06 Q1030 NOSIG KPMP 221153Z 33004KT 9SM SCT110 OVC200 23/22 A2995 RMK AO2 SLP143 70006 T02330217 10239 20228 53014 KQEI 221200Z AUTO 00000KT 9999 BKN041 08/04 A3023 RMK A02 TSNO ETIH 221158Z AUTO 28015G25KT 9999 OVC018 06/03 A2989 RMK AO2 SLP133 58002 KQEJ 220820Z AUTO 06001KT 9999 OVC043 11/03 A3015 RMK A02 TSNO KOVS 221153Z AUTO 00000KT 1/4SM FG VV002 01/00 A3034 RMK AO2 SLP282 I6002 T00060000 10017 21011 53010 PWAK 221158Z AUTO 22007KT 9999 CLR 28/25 A2987 RMK AO2 LTG DSNT NE SLP121 70164 T02800250 10283 20272 402910241 55000 ETHS 221120Z 34012KT 9999 SCT015 BKN025 BKN090 12/09 Q1006 BLU BLU TEMPO GRN ESSA 221150Z 10012KT 9999 BKN032 05/M02 Q1019 NOSIG LGMT 221150Z 15021G32KT 130V210 9999 SCT020 BKN025 23/15 Q1010 KOXB 221204Z AUTO 35008KT 3SM BR BKN006 OVC034 13/13 A2980 RMK AO2 CIG 004V009 T01330128 TSNO KPOB 221158Z AUTO 34007KT 10SM CLR 10/04 A2998 RMK AO2 SLP155 T00990043 10134 20097 52015 KPOC 220347Z 00000KT 10SM CLR 18/13 A2991 RMK LAST ESSB 221150Z 08009KT 9999 BKN038 05/M01 Q1018 KQEL 221200Z AUTO 05001KT 8000 CLR 07/05 A3025 RMK A02 TSNO KOXC 221050Z 05010G20KT 10SM OVC006 11/07 A2994 ETIK 221158Z AUTO 26016G27KT 9999 BKN017 OVC023 06/05 A2996 RMK AO2 PK WND 27027/42 SLP155 60000 70031 T00630051 10070 20059 WIOO 220800Z 26005KT 8000 TS FEW011CB BKN012 28/24 Q1009 NOSIG KPNM 221154Z AUTO 13006KT 10SM CLR 06/03 A3017 RMK AO2 KPMV 221155Z AUTO 14011G14KT 10SM CLR 12/06 A3010 RMK AO2 T01150060 10136 20115 ESSD 221150Z 10007KT 9999 SCT017 BKN025 03/M00 Q1018 KQEN 221200Z AUTO 9999 OVC019 / / RMK A02 TSNO KPOE 221158Z AUTO 03003KT 10SM FEW042 16/15 A3008 RMK AO2 SLP186 T01640148 10176 20156 52010 KPOF 221153Z AUTO 04006KT 10SM CLR 07/04 A3024 RMK AO2 SLP241 7//// T00720044 10106 20072 51018 KQEP 221200Z AUTO 00000KT 8000 HZ CLR 10/07 A3015 RMK A02 TSNO KQFG 221155Z AUTO 14004KT 9999 FEW210 28/06 A3008 RMK AO2 SLP160 T02770060 10263 20154 56013 KOWP 221155Z AUTO 14005KT 4SM BR CLR 17/16 A3013 RMK AO2 T01650155 10189 20165 KQEQ 221200Z AUTO 05002KT 9999 CLR 11/05 A3006 RMK A02 TSNO RCSS 221130Z 10012KT 9999 -RA FEW012 BKN025 BKN040 21/18 Q1020 NOSIG RMK A3012 KQER 221200Z AUTO 18001KT / /CLR 07/04 A3018 RMK A02 TSNO KOXI 221155Z AUTO 00000KT 4SM CLR M01/M02 A3033 RMK AO1 T10131019 10273 21013 KQGA 221059Z AUTO 11008G12KT 9000 HZ CLR 38/04 A2992 RMK CDP03659 CLR KQES 221200Z AUTO 01001KT 9999 FEW036 14/09 A3021 RMK A02 TSNO KPNS 221153Z 36006KT 10SM CLR 16/11 A3004 RMK AO2 SLP174 T01560111 10172 20150 51012 LGPA 221150Z 15013KT 9999 SCT035 SCT080 22/16 Q1010 KPPA 221155Z AUTO 18007KT 10SM -RA BKN060 OVC080 14/10 A3010 RMK AO2 6//// 7//// T01420099 10155 20115 PNO ESTA 221150Z 07014KT 9999 BKN014 12/09 Q1008 KPNT 221155Z AUTO 00000KT 3/4SM BR VV005 00/00 A3034 RMK AO2 7//// T00010001 10034 21002 ESSL 221150Z 08012KT 9999 FEW013 SCT017 OVC020 05/03 Q1015 KQEV 221200Z AUTO 25001KT 9000 CLR 11/08 A3018 RMK A02 TSNO WIPP 221130Z 33006KT 6000 FEW015 25/23 Q1012 KQEW 221200Z AUTO 00000KT 9999 BKN048 11/08 A3019 RMK A02 TSNO FKKD 221200Z 00000KT 9999 TS SCT006 BKN013 SCT016CB OVC100 28/25 Q1012 NOSIG LGNX 221150Z 16017KT 9999 FEW020 SCT030 BKN080 23/15 Q1010 RCTP 221130Z 08015G25KT 9000 -RA FEW016 BKN026 BKN040 22/18 Q1019 NOSIG RMK A3010 KPPF 221152Z AUTO 00000KT 10SM BKN038 BKN070 16/12 A3015 RMK AO2 SLP205 T01560122 10172 20144 53017 KQEX 221200Z AUTO 02002KT 9999 CLR 13/08 A3023 RMK A02 TSNO KQEY 221200Z AUTO 26001KT 9999 CLR 10/08 A3019 RMK A02 TSNO KQFQ 221055Z AUTO VRB05KT 10SM CLR 08/08 A3016 RMK AO2 SLP213 T00810079 $ ESSP 221150Z 09014KT 9999 -DZ BKN017 05/03 Q1016 WIPT 221130Z VRB01KT 7000 SCT020 28/23 Q1011 KOXR 221151Z AUTO 05005KT 10SM CLR 15/07 A2987 RMK AO2 SLP115 T01500067 10178 20144 53003 KQFS 221156Z AUTO 00000KT 9999 BKN050 12/10 A3018 RMK AO2 SLPNO T01190103 10147 20119 KOZA 221155Z AUTO 00000KT 10SM -DZ SCT019 SCT041 17/13 A3012 RMK AO2 KQFT 221200Z AUTO 01002KT 9999 CLR 10/07 A3019 RMK A02 TSNO KQFU 221200Z AUTO 09001KT 6000 // CLR 09/06 A3020 RMK A02 TSNO KPOU 221153Z AUTO 36007KT 10SM OVC010 11/09 A2999 RMK AO2 SLP153 70020 T01110089 10117 20111 53014 TSNO KQFV 221200Z AUTO 35001KT 9999 CLR 06/04 A3020 RMK A02 TSNO ESTL 221150Z 07011KT 9999 OVC011 11/10 Q1008 KPOV 221157Z AUTO 36007KT 330V040 10SM OVC007 07/ A3019 RMK AO2 T0071 KOXV 221155Z AUTO 13006KT 10SM CLR 05/03 A3024 RMK AO2 ESUD 221150Z AUTO 13010KT 9999 OVC015/// M03/M07 Q1021 ESSV 221150Z 09013KT 9999 BKN012 04/03 Q1014 FKKN 221200Z 02004KT 9999 BKN020 29/19 Q1017 KQFX 221200Z AUTO 13002KT 9000 CLR 08/06 A3020 RMK A02 TSNO KPPO 221155Z AUTO 00000KT 10SM SCT110 00/00 A3034 RMK AO2 70004 T00000000 10031 20000 KPOY 221155Z AUTO 03009KT 10SM CLR 03/M04 A3003 RMK AO2 KPPQ 221155Z AUTO 05003KT 4SM BR CLR 03/03 A3030 RMK AO2 T00320026 10072 20032 KPQI 221155Z AUTO 02006KT 10SM FEW060 02/M02 A3037 RMK AO1 10040 20020 52020 LFYR 221200Z AUTO 33006KT 280V020 9999 SCT034 BKN041 BKN058 14/05 Q1028 FKKR 221200Z 24006KT 9999 FEW020 BKN300 34/18 Q1010 NOSIG KPRB 221153Z AUTO 04003KT 10SM CLR 07/03 A3002 RMK AO2 SLP161 T00670033 10144 20061 58003 TSNO KPQL 221153Z 00000KT 10SM CLR 11/10 A3006 RMK AO2 SLP181 T01110100 10122 20094 53012 KPRC 221153Z AUTO 00000KT 10SM CLR 08/04 A3010 RMK AO2 SLP134 T00780044 10128 20078 53005 KQGV 221155Z 32006G12KT 9999 CLR 29/04 A3007 RMK SLPNO QNH1019 PA +327 KPQN 221154Z AUTO 17012KT 10SM SCT085 11/06 A3001 RMK AO2 KQGX 221058Z AUTO 34013KT 9999 CLR 38/12 A2993 RMK AO2 SLPNO T03750116 $ KPRG 221155Z AUTO 00000KT 7SM CLR 03/03 A3031 RMK AO2 T00300026 10056 20030 LGPZ 221150Z 16010KT 9999 FEW020 SCT030 BKN080 22/15 Q1007 KOZR 221158Z AUTO 36005KT 10SM CLR 12/10 A3007 RMK AO2 SLP184 T01230100 10156 20104 52017 LGSA 221150Z 26006KT 9999 FEW025 SCT030 BKN080 25/13 Q1010 VTBD 221200Z 30003KT 9999 FEW020 SCT120 BKN300 30/24 Q1011 NOSIG ESUT 221150Z AUTO 13019KT 4000 SG OVC021/// M03/M07 Q1016 RESG KPSC 221153Z AUTO 00000KT 10SM OVC095 11/07 A2987 RMK AO2 SLP113 T01110072 10111 20078 58012 KRAC 221153Z AUTO 00000KT 10SM BKN026 03/01 A3035 RMK AO2 SLP281 T00280011 10050 20017 51011 ETML 221120Z AUTO 34018KT //// // ////// 13/11 Q1005 /// ETND 221120Z 30016G28KT 9999 BKN033 11/05 Q1011 BLU KOZW 221155Z AUTO 33004KT 10SM OVC016 05/03 A3030 RMK AO2 T00510030 10055 20045 KPRN 221156Z AUTO 36004KT 9SM CLR 11/09 A3009 RMK AO2 SLP187 60001 70001 T01060089 10122 20089 53021 ETMN 221120Z 34021G32KT 8000 BKN014 BKN020 12/10 Q1009 GRN GRN TEMPO YLO KPSF 221154Z AUTO 07008KT 10SM OVC010 09/07 A3002 RMK AO2 SLP159 60001 70013 T00890072 10100 20089 53012 KPRO 221155Z AUTO 14007KT 10SM SCT050 07/04 A3020 RMK AO2 T00660044 10075 20065 LGRP 221150Z 15007G17KT 030V190 9999 SCT018 SCT080 24/15 Q1013 TEMPO 14010G20KT KQHY 221156Z AUTO 04004KT 10SM CLR 15/11 A3006 RMK AO2 SLP186 T01490109 10154 20136 52011 KQL5 221055Z VRB02KT 9999 CLR 30/09 A3004 RMK SLP152 T02980087 ETNG 221150Z 28013G23KT 9999 FEW021 SCT045 12/10 Q1019 TEMPO -SHRA ETNH 221120Z 32009KT 9999 FEW020 SCT230 13/09 Q1007 BLU+BLU TEMPO WHT KQIR 221158Z 01016KT 9999 CLR 34/13 A2996 RMK AO2A SLP146 T03350129 10348 20314 55008 $ VTCC 221130Z 06003KT 9999 BKN035 25/21 Q1016 A3000 NOSIG LIBA 221155Z 36021G33KT 7000 -RA FEW025TCU BKN040 16/09 Q1003 RMK OVC VIS MIN 7000 WIND THR29 32023G34KT WHT KPRS 221155Z AUTO 08003KT 10SM OVC038 18/16 A3005 RMK AO2 70005 T01830159 10188 20178 LGSK 211550Z 00000KT CAVOK 19/15 Q1011 KPTB 221155Z AUTO 29006KT 7SM -RA SCT009 BKN013 OVC021 11/10 A2991 RMK AO2 7//// T01050095 10125 20105 KPSK 221155Z AUTO 32006KT 10SM OVC019 08/04 A3009 RMK AO2 T00750043 10080 20072 KT20 221155Z AUTO 00000KT 10SM CLR 16/14 A3005 RMK AO2 T01580136 10184 20145 LIBC 221050Z 23014KT 9999 FEW030 25/12 Q1004 RMK VIS MIN 9999 KRAL 221153Z AUTO 13003KT 10SM CLR 15/12 A2990 RMK AO2 SLP111 T01500122 10183 20144 53003 VTBO 221100Z 00000KT 9999 SCT025 BKN250 27/24 Q1010 LIBD 221150Z 36017G28KT 7000 FEW015 BKN030 16/12 Q1003 RERA ETNL 221120Z 34009KT 9999 FEW009 SCT017 BKN030 13/11 Q1004 BLU BLU TEMPO GRN LGSM 221020Z 16014KT 9999 FEW020 BKN090 23/15 Q1013 KRBD 221153Z AUTO 00000KT 4SM BR CLR 16/14 A3010 RMK AO2 SLP189 T01560139 10189 20156 53013 KPSM 221158Z 03013G21KT 4SM -DZ BR OVC005 11/09 A3005 RMK AO2A PK WND 02028/20 SLP180 P0001 60022 70028 T01080094 10115 20094 52010 LHKE 221145Z 31019KT 9999 BKN027 OVC050 10/06 Q1001 NOSIG RMK BLU KPSN 221155Z AUTO 06003KT 7SM CLR 17/16 A3011 RMK AO2 T01700160 LIBF 221050Z 33016G40KT 8000 -RA SCT025 SCT040 15/11 Q1004 VTCH 221100Z VRB02KT 7000 RA FEW015 SCT025 23/21 Q1014 A2995 ETNN 221120Z 25012KT 9999 -SHRA FEW012 BKN025 BKN070 09/07 Q1018 BLU BLU TEMPO WHT LGRX 221150Z VRB03KT 9999 FEW025 BKN045 OVC080 17/17 Q1008 LGSO 221150Z 17012KT 9999 FEW018 BKN025 22/17 Q1009 KPRX 221155Z 07004KT 6SM FEW055 15/11 A3015 RMK AO1 10170 20150 52020 KPSO 221155Z AUTO 00000KT 10SM VCTS SCT046 05/05 A3022 RMK AO2 LTG DSNT N T00450045 10075 20040 LIBG 221050Z 17007KT 9999 FEW012 FEW035TCU 23/20 Q1001 KRAP 221152Z AUTO 34013G23KT 10SM CLR 13/01 A2991 RMK AO2 SLP114 T01280006 10194 20128 53013 KPSP 221153Z AUTO 00000KT 10SM CLR 19/08 A2985 RMK AO2 SLP105 T01890083 10267 20189 53004 TSNO $ KRBG 221153Z AUTO 18005KT 10SM BKN060 OVC075 16/08 A2989 RMK AO2 SLP120 60000 70003 T01610083 10161 20144 58006 LGTG 221150Z 24014KT 9999 FEW030 25/08 Q1007 BLU LIBH 221155Z 29013KT 9999 BKN023 24/16 Q1002 RMK OVC SCT080 QUK / QUL / VIS MAR 15 KM VIS MIN 9999 VTBS 221200Z 15003KT 050V170 9000 FEW020 SCT120 BKN300 28/22 Q1011 NOSIG LGSR 221150Z 14015KT 9999 FEW025 BKN080 24/14 Q1010 VTCL 221100Z 00000KT 9999 SCT025 BKN120 OVC300 24/24 Q1014 NOSIG INFO VTBU 221200Z 32004KT 6000 FEW020 SCT120 BKN300 27/25 Q1011 A2986 LICA 221150Z 27018KT 9999 SCT025 25/15 Q1004 KRCA 221158Z AUTO 35015G21KT 10SM CLR 13/01 A2991 RMK AO2 SLP118 T01270009 10190 20127 52013 $ KRAS 221155Z AUTO 08013KT 10SM SCT029 24/19 A2999 RMK AO2 7//// T02430190 10243 20240 LICB 221150Z 26022KT 9999 FEW030 25/16 Q1006 KPUB 221153Z 00000KT 10SM CLR 09/05 A3004 RMK AO2 SLP129 T00940050 10128 20083 53021 ETNS 221120Z 33010KT 9999 SCT017 SCT220 14/10 Q1007 BLU+BLU TEMPO WHT KPTK 221153Z 02012G17KT 10SM OVC014 06/03 A3029 RMK AO2 SLP263 T00610028 10061 20061 52015 VTCN 221200Z 20002KT 6000 TSRA SCT018CB BKN020 OVC100 23/23 Q1014 A2996 RWY/02 INFO/I ETNT 221120Z 32020G32KT 9999 BKN028 12/06 Q1012 BLU BLU TEMPO WHT LICC 221150Z 35007KT 280V070 9999 FEW040 27/13 Q1003 KPUC 221153Z AUTO 34007KT 10SM CLR 07/M01 A3011 RMK AO2 SLP169 70012 T00671011 10117 20056 53009 TSNO KRBL 221154Z AUTO 35005KT 10SM CLR 10/07 A3004 RMK AO2 SLP171 T01000072 10133 20100 58001 LICD 221050Z 30020G31KT 9999 SCT025 26/18 Q1012 VTCP 220900Z 23003KT 8000 BKN022 OVC120 29/23 Q1011 A2987 RWY01 INFO I LIBN 221155Z 18006KT 9999 SCT015 23/22 Q1002 RMK BKN BKN060 VIS MIN 9999 WIND THR14 18006KT BLU KPTN 221155Z AUTO 00000KT 9SM CLR 15/14 A3007 RMK AO1 10150 20140 52007 KRCE 221155Z AUTO 19006KT 13/13 A3013 RMK AO2 KRBO 212350Z AUTO 08011KT 10SM -RA CLR 26/20 A2996 RMK AO2 T02550200 10291 20255 ETNW 221200Z 30018KT 3500 DZRA BR SCT005 BKN007 09/09 Q1009 YLO BLU TEMPO YLO LICF 221155Z 33010KT 9999 SCT025 25/17 Q1004 RMK BKN BKN200 QUK 2 QUL 0 VIS MAR 14 KM MON E CIME INC NC MON W LIB NC VIS MIN 9999 KPSX 221153Z AUTO 04006KT 5SM BR CLR 17/16 A3002 RMK AO2 SLP166 T01670156 10178 20161 53011 LICG 221155Z 29027G42KT 9999 SCT023 22/19 Q1011 RMK BKN SCT200 VIS MIN 9999 WIND THR08 29021KT WIND THR21 28026G40KT BLU LIBP 221150Z 34015G25KT 9999 SCT025 BKN070 17/06 Q1007 LGSY 221150Z 18015G25KT 9999 FEW020 24/12 Q1005 BLU KT35 221155Z AUTO 00000KT 10SM CLR 16/15 A3009 RMK AO2 T01570149 10181 20155 LIBQ 221155Z 27012KT 0000 FG VV/// 08/08 Q1005 RMK MON INVIS VAL INVIS VIS MIN 0000 VTCT 221200Z 00000KT 9999 -RA SCT035 BKN080 24/22 Q1015 A2998 RMK/RWY03 INFO M LIBR 221145Z 19018KT 9999 FEW018 BKN025 23/17 Q1002 NOSIG LICJ 221150Z 32021KT 8000 BKN018 23/17 Q1007 LGTS 221150Z 31005KT 9999 FEW016 21/12 Q1005 NOSIG KPTS 221155Z AUTO 14004KT 10SM SCT033 BKN065 13/11 A3016 RMK AO2 T01330106 KPUJ 221155Z AUTO 35010G18KT 10SM CLR 08/06 A3009 RMK AO2 KPTT 221155Z AUTO 19006KT 10SM CLR 11/10 A3008 RMK AO2 KPVB 221155Z AUTO 09007KT 7SM CLR 01/00 A3033 RMK AO1 T00090002 10025 20007 LICL 221155Z 28026G41KT 9999 SCT030 26/20 Q1005 RMK BKN BKN200 QUK 4 QUL 3 W VIS MAR 14 KM VIS MIN 9999 KPVC 221155Z 04016G22KT 3SM OVC005 14/12 A2995 RMK AO1 10140 20140 54000 KRCM 221135Z AUTO 10003KT 5SM HZ SCT070 08/06 A3021 RMK AO2 ETOU 221155Z 27013G22KT 9999 BKN025 OVC032 09/05 A3002 RMK AO2A RAE1055 CIG 023V028 SLP169 P0000 60002 70028 T00930055 10094 20069 58002 LIBV 221155Z 32019G30KT 9000 FEW025TCU SCT035 18/14 Q1001 RMK OVC BKN070 VIS MIN 6000SE WIND THR32 31013G28KT WIND THR14 31020G30KT WHT KPVD 221151Z 01012KT 7SM -DZ OVC007 12/10 A2996 RMK AO2 DZE17B44 SLP144 P0000 60000 70006 T01170100 10128 20111 51001 KRDD 221153Z AUTO 00000KT 10SM CLR 10/09 A3004 RMK AO2 SLP169 T01000089 10128 20094 51001 KPTV 221155Z 00000KT 9SM CLR 09/06 A3004 RMK AO1 10160 20090 52003 GCGM 221200Z 22005KT 190V280 9999 FEW035 31/12 Q1020 RMK CAB09 VRB02KT KPTW 221154Z AUTO 01012G17KT 10SM SCT017 BKN024 OVC033 13/10 A2992 RMK AO2 RAB06E50 SLP128 P0000 60000 T01280100 10128 20111 53011 KPVE 221155Z AUTO 05004KT 4SM CLR 04/03 A3019 RMK KRBW 221155Z AUTO 00000KT 10SM CLR 08/ A3004 RMK AO2 GCFV 221200Z 01008KT 340V050 CAVOK 28/17 Q1020 KPVF 221155Z AUTO 00000KT 10SM CLR 13/M02 A3006 RMK AO1 LIBY 221155Z ///11KT 9999 SCT012 22/18 Q1002 RMK OVC SCT080 QUK 3 QUL 1 SW VIS MAR 15 KM VIS MIN 9999 KPVG 221155Z AUTO 28008G16KT 10SM BKN014 OVC024 11/09 A2987 RMK AO1 60002 70004 10130 20110 52010 KRDG 221154Z 01010KT 10SM -RA FEW017 BKN027 OVC065 13/09 A2991 RMK AO2 RAB06 SLP134 P0001 60001 70001 T01280094 10133 20117 53009 KQLP 221155Z AUTO VRB04KT 18/14 Q1022 RMK AO2 SLP165 P0006 60006 70006 T01780139 10189 20158 56019 PWINO TSNO $ LICR 221150Z 33012KT 9999 SCT020 28/15 Q1004 KRCR 221155Z AUTO 34003KT 10SM CLR 02/02 A3032 RMK AO2 GCHI 221200Z 01004KT 310V040 CAVOK 30/16 Q1020 LIEA 221150Z 32016G28KT 9999 SCT038 19/09 Q1013 KPWA 221153Z AUTO 18006KT 5SM BR CLR 14/13 A3011 RMK AO2 SLP189 T01390128 10183 20139 53012 KPVJ 221155Z AUTO 00000KT 1 3/4SM BR VV007 14/14 A3011 RMK AO2 T01350135 10160 20127 LIEB 221155Z 32022G32KT CAVOK 21/06 Q1008 RMK FEW FEW070 QUK 3 QUL 0 VIS MAR 30 KM MON LIB VIS MIN 9999 LICT 221155Z 30021KT 9999 SCT020 24/15 Q1008 RMK BKN BKN200 VIS MIN 9999 WIND THR13 ///// KT BLU KRDK 221155Z AUTO 15007KT 10SM FEW034 BKN060 BKN075 12/07 A3015 RMK AO2 LIEC 221055Z 28026G37KT 9999 FEW015 21/12 Q1010 RMK FEW QUK 5 QUL 0 VIS MAR 15 KM VIS MIN 9999 KPWC 221154Z AUTO 15013KT 10SM CLR 06/03 A3010 RMK AO2 LIED 221155Z 32027G39KT 7000 FEW004 SCT030 19/09 Q1012 RMK BKN VIS MIN 7000 WIND THR35 31020G34KT WIND THR17 32025G35KT WHT KRCV 221150Z AUTO 25010KT 10SM CLR 04/00 A3022 RMK AO2 T00420001 10080 20026 KRDM 221156Z 16010KT 10SM BKN070 BKN110 10/03 A2991 RMK AO2 SLP123 T01000028 10100 20072 55008 LIEE 221150Z 33025G36KT 9999 FEW025 20/09 Q1012 KPUW 221153Z AUTO 09010KT 10SM CLR 06/04 A2998 RMK AO2 SLP155 T00610039 10072 20039 56008 KRCX 221155Z AUTO 12004KT 10SM CLR 00/M01 A3031 RMK AO2 T00001007 10025 21001 FLHN 221200Z 07016KT CAVOK 36/M01 Q1017 NOSIG KPWG 221155Z AUTO 00000KT 10SM CLR 15/11 A3010 RMK AO1 10170 20140 52007 LICZ 221155Z 28010KT 9999 FEW020 SCT100 28/10 Q1004 RMK BKN VIS MIN 9999 WIND THR28 27013KT A2966 BLU KRCZ 221155Z AUTO 32004KT 10SM CLR 09/04 A3001 RMK AO2 T00880043 10129 20067 KRDR 221158Z AUTO 19021G29KT 10SM CLR 13/06 A2979 RMK AO2 PK WND 19031/43 SLP094 T01270059 10130 20123 55002 ETSA 221120Z 25021KT 9999 -RA BKN012 OVC050 04/02 Q1016 GRN WHT TEMPO GRN KPWK 221152Z 32004KT 10SM OVC032 06/03 A3034 RMK AO2 SLP277 T00610033 10100 20061 51013 ETSB 221120Z 31012G23KT 9999 SCT017 BKN024 07/04 Q1017 WHT WHT TEMPO GRN KRDU 221151Z VRB03KT 10SM FEW050 10/03 A2997 RMK AO2 SLP146 T01000033 10111 20094 53010 KPVU 221155Z AUTO 12006KT 10SM CLR 03/M02 A3016 RMK AO1 10090 20030 52014 KPWM 221201Z 03012G19KT 2 1/2SM -RA BR OVC013 09/08 A3011 RMK AO2 P0000 T00940078 KRFD 221154Z 00000KT 8SM BCFG CLR 01/M01 A3035 RMK AO2 SLP283 VIS W-N 2 T00061011 10028 20000 53014 KPXE 221155Z AUTO 36004KT 10SM CLR 11/09 A3007 RMK AO2 T01100085 10132 20105 KPVW 221155Z AUTO 21004KT 10SM SCT023 BKN080 OVC090 15/12 A3011 RMK AO2 T01450115 10145 20127 ETSE 221120Z 27015KT 9999 -RA FEW010 BKN014 06/04 Q1014 GRN LIEO 221150Z 27016KT 9999 SCT035 21/10 Q1011 KREO 221152Z AUTO 15009KT 05/M02 A3007 RMK AO1 SLP179 70011 T00501017 10067 20011 53001 KT65 220650Z AUTO 04004KT 7SM BKN085 23/21 A2994 RMK AO2 T02250207 ETSH 221144Z 26010KT 4000 RADZ BR FEW004 SCT006 BKN009 08/08 Q1005 GRN WHT TEMPO YLO KRFI 221155Z AUTO 00000KT 2SM BR CLR 13/13 A3012 RMK AO2 VIS 3/4V4 T01290129 10160 20126 ETSI 221120Z 28016G26KT 9999 FEW015 BKN024 BKN045 07/04 Q1014 WHT BLU TEMPO WHT LHPA 221145Z 32007G12MPS 9999 -RA BKN033 OVC083 09/05 Q1006 NOSIG RMK BLU KPWT 221155Z AUTO 17014G23KT 9SM SCT011 BKN019 OVC035 12/11 A2967 RMK AO1 P0010 60033 70048 10130 20120 57010 ETSL 221120Z 24015G26KT 9999 -RA BKN012 OVC023 04/02 Q1016 GRN WHT TEMPO GRN ETSN 221120Z 27017KT 9999 -RA FEW015 BKN020 07/04 Q1014 BLACKWHT LGZA 221150Z 17006G16KT 9999 FEW012 FEW018TCU SCT020 23/20 Q1007 GCLA 221200Z 36007KT 300V060 CAVOK 34/09 Q1021 KRGK 221155Z AUTO 15009KT 10SM CLR 05/02 A3025 RMK AO2 FLKK 221100Z 07011KT CAVOK 30/12 Q1021 KPYM 221152Z AUTO 05012G21KT 8SM OVC006 14/13 A2995 RMK AO2 SLP141 60000 70002 T01390128 10139 20117 51002 KT82 221155Z AUTO 00000KT 10SM CLR 13/11 A3009 RMK AO2 T01260110 10170 20126 LHPP 221145Z 29011KT 9999 -RA FEW008 BKN011 OVC083 08/05 Q1006 FMCH 221200Z 21016KT 9999 FEW022 BKN030 39/22 Q1014 NOSIG KRHI 221153Z AUTO 12003KT 9SM CLR M04/M04 A3033 RMK AO2 SLP290 I1001 I6001 T10391044 10000 21039 53010 LHPR 221145Z 30023G35KT 9999 -RA BKN033 OVC083 09/05 Q1005 FLLI 220600Z 07010KT CAVOK 26/05 Q1022 AGGH 221200Z 00000KT 9999 FEW016 FEW017CB SCT030 OVC100 24/24 Q1010 KQRB 221155Z AUTO 19007KT 9999 FEW019 SCT180 30/24 A2994 RMK AO2 SLP136 70001 T02960237 10244 20227 58012 KRIC 221154Z 32012KT 5SM -RA BR FEW009 BKN015 OVC025 12/10 A2989 RMK AO2 SLP124 P0005 60008 70012 T01170100 10128 20111 51008 KPYX 221155Z AUTO 19007KT 10SM SCT065 SCT100 14/10 A3006 RMK AO2 T01380101 10138 20109 KRHP 221150Z AUTO 04003KT 10SM OVC036 03/03 A3012 RMK AO2 T00310025 10085 20028 KPZQ 221045Z AUTO 05003KT 10SM OVC022 04/01 A3038 RMK AO2 KQRH 221155Z AUTO 08008G15KT 9999 CLR 32/20 A2990 RMK AO2 SLP124 T03170198 10329 20272 57024 GCLP 221200Z 01012KT 330V040 CAVOK 35/02 Q1020 NOSIG KQSA 221158Z 32006KT 9999 SCT240 22/07 A3014 RMK AO2A VIS 2400 RWY21 SLP136 T02230068 10240 20193 56014 KSAA 221155Z AUTO 26007KT 10SM CLR 02/00 A3015 RMK AO2 KRIL 221153Z AUTO 00000KT 10SM FEW120 07/06 A3014 RMK AO2 SLP171 60023 70026 T00720061 10100 20067 53002 KSAC 221153Z AUTO 00000KT 10SM CLR 09/07 A3003 RMK AO2 SLP169 T00940072 10133 20089 58001 KSAD 221151Z AUTO 11007KT 10SM CLR 16/11 A3000 RMK AO2 SLP119 T01560111 10172 20150 53004 KRHV 220447Z VRB04KT 10SM SKC 17/12 A3007 FMEE 221200Z 09008KT 9999 FEW023 28/20 Q1016 NOSIG KSAF 221153Z AUTO 16004KT 8SM OVC004 09/08 A3017 RMK AO2 SLP151 T00890078 10111 20078 53004 $ KQQY 212355Z AUTO VRB01KT 9999 OVC150 27/23 A2993 RMK AO2 SLP113 T02650227 10314 20260 403140222 53019 $ KU16 221058Z AUTO 00000KT 10SM CLR 01/M03 A3012 RMK AO2 SLP821 T00061033 $ FMCZ 221200Z 19012KT 9999 FEW023 BKN120 29/22 Q1013 NOSIG KSBA 221153Z AUTO 00000KT 10SM CLR 12/09 A2987 RMK AO2 SLP113 T01220094 10167 20111 53002 KQTC 221155Z AUTO 31007KT 10SM CLR 36/16 A2994 RMK AO2 SLP101 T03560159 10274 20227 58031 KSBD 220250Z 23005KT 10SM SCT150 20/13 A2988 KRKD 221155Z AUTO 03015G23KT 10SM BKN012 BKN019 09/08 A3012 RMK AO1 60011 70052 10110 20090 52010 KRIV 221158Z AUTO 00000KT 8SM CLR 11/11 A2992 RMK AO2 SLP123 T01130110 10147 20112 53000 LHSM 221145Z 28007KT 9999 FEW013 BKN083 08/06 Q1006 RERA NOSIG ETWM 221120Z 30011KT 9999 FEW028 BKN049 11/04 Q1013 BLU LHSN 221145Z 30008MPS 9999 FEW007 BKN020 BKN025 10/06 Q1000 NOSIG RMK WHT KSAN 221151Z 35003KT 6SM BR SCT011 18/15 A2990 RMK AO2 SLP124 T01830150 10200 20178 55001 KRIW 221153Z AUTO 26010KT 10SM CLR 04/M06 A3007 RMK AO2 SLP155 T00441056 10072 20006 53007 FMEP 221200Z AUTO 14009KT 9999 FEW041/// OVC050/// 27/20 Q1016 KQTH 221155Z VRB03KT 9999 CLR 34/01 A3001 RMK AO2A SLP140 T03370013 56016 KSAR 221155Z AUTO 00000KT 10SM CLR 04/04 A3030 RMK AO2 T00370035 10075 20035 KSAT 221151Z 03003KT 10SM BKN210 18/11 A3006 RMK AO2 SLP165 T01830111 10206 20172 53006 KQTM 221059Z AUTO 15007KT 9999 CLR 36/03 A2967 RMK CDP03569 CLR KSAV 221153Z 01007KT 10SM CLR 12/07 A3003 RMK AO2 SLP169 7//// T01170072 10156 20111 51022 KSBM 221153Z AUTO 34004KT 10SM CLR M02/M03 A3035 RMK AO2 SLP287 I1000 I6001 T10221033 10006 21028 53010 KSCD 221155Z AUTO 00000KT 10SM CLR 09/09 A3013 RMK AO2 T00900090 10121 20090 KQUD 221155Z AUTO VRB03KT 10SM CLR 27/19 A3013 RMK AO2 SLP151 T02680193 10253 20195 58031 LHUD 221145Z 29014KT 9999 -RA SCT010 OVC020 09/07 Q1003 GBYD 221200Z 34006KT 9999 FEW012 SCT220 32/24 Q1012 KSBN 221154Z 00000KT 8SM CLR 00/M02 A3034 RMK AO2 SLP280 T00001017 10033 21011 51014 KSAW 221150Z 00000KT 1/4SM FZFG OVC001 M04/M05 A3034 LJCE 221200Z 24009KT 210V280 9999 SCT023 10/04 Q1008 RMK BLU KSBO 221155Z AUTO 7SM CLR 10/09 A3006 RMK AO2 KSCF 221155Z AUTO 05017KT 10SM CLR 23/16 A3002 RMK A01 KRKP 221153Z AUTO 03006KT 8SM CLR 19/18 A3000 RMK AO2 SLP161 T01940183 10239 20194 53008 $ KSBP 221156Z AUTO 22003KT 10SM CLR 17/04 A2993 RMK AO2 SLP134 T01720039 10206 20156 58007 KSCH 221154Z 04010G14KT 10SM OVC028 10/08 A3007 KSAZ 221153Z AUTO 14012G17KT 10SM CLR 06/03 A3005 RMK AO2 KRKR 221155Z AUTO 00000KT 1/4SM FG OVC002 11/10 A3015 RMK AO2 T01060099 10142 20101 LIMA 221050Z 26023KT CAVOK 16/M06 Q1015 KRKS 221154Z AUTO 24009KT 10SM CLR 00/M03 A3017 RMK AO2 SLP201 70012 T00001028 10050 20000 53009 KSBS 221154Z AUTO 00000KT 10SM BKN044 OVC050 04/03 A3016 RMK AO1 T00360026 KSDA 221155Z AUTO 13008KT 10SM OVC065 12/07 A3015 RMK AO2 KSDB 221148Z AUTO 33016KT 10SM CLR 10/03 A3004 RMK AO2 SLP137 T01000033 10117 20094 50000 KSCK 221155Z AUTO 32004KT 10SM CLR 11/09 A3003 RMK AO2 SLP167 T01060089 10144 20094 55002 LIMC 221150Z 33023KT CAVOK 16/M04 Q1014 NOSIG LIME 221150Z 33016G31KT 280V360 CAVOK 16/M08 Q1011 KRME 221153Z 02006KT 10SM OVC027 09/06 A3012 RMK AO2 SLP199 T00890061 10094 20078 51020 LIMF 221150Z 32021G36KT 9999 FEW025 17/M09 Q1015 KQVF 221155Z AUTO 15003KT 9999 BKN029 29/22 A2995 RMK AO2 SLP139 T02930216 10293 20251 56021 KSDF 221156Z 01004KT 10SM BKN032 07/03 A3026 RMK AO2 SLP248 T00720033 10100 20067 53014 LIMG 221150Z 34015G26KT 320V040 CAVOK 20/M10 Q1012 KSBY 221201Z 35008KT 4SM BR OVC005 14/12 A2981 RMK AO2 KRMG 221153Z AUTO 35004KT 10SM CLR 07/04 A3013 RMK AO2 SLP198 T00720044 10117 20072 51015 KQTZ 220955Z VRB02KT 9999 CLR 26/07 A3013 RMK SLP200 WND DATA ESTMD ALSTG/SLP ESTMD LIMH 221155Z /////KT 0100 -SN FZFG VV/// M10/M14 Q1009 RMK MON INVIS VAL INVIS VIS MIN 0100 LIMJ 221150Z 36013KT 320V040 CAVOK 18/M03 Q1012 KSEA 221153Z 17014G21KT 9SM -RA SCT042 BKN049 OVC070 13/11 A2966 RMK AO2 SLP050 P0006 60010 70011 T01330106 10156 20133 56010 LIMK 211655Z 22003KT CAVOK 17/15 Q1009 RMK FEW FEW200 VAL FOSCHIA VIS MIN 9999 FKYS 221200Z 08003KT 030V130 9999 BKN016 FEW023TCU 29/21 Q1016 NOSIG LIML 221120Z 33014KT 290V010 9999 FEW030 17/M06 Q1013 NOSIG KSDL 221153Z 00000KT 10SM CLR 19/11 A2991 RMK AO2 SLP106 T01890111 10239 20189 53008 KRNC 221155Z AUTO 00000KT 2SM CLR 03/03 A3019 RMK KSDM 221153Z AUTO 15004KT 2 1/2SM BR CLR 16/14 A2988 RMK AO2 SLP114 T01560144 10172 20133 55004 TSNO $ KRND 221158Z AUTO 35005KT 10SM FEW180 OVC210 16/11 A3006 RMK AO2 SLP174 T01550108 10184 20146 53007 LIMN 221155Z 35026G38KT CAVOK 16/M07 Q1013 RMK SKC VIS MIN 9999 BLU KRMN 221155Z AUTO 33009KT 10SM -RA BKN016 OVC022 11/11 A2995 RMK AO2 P0001 60006 70025 T01110111 10111 20106 KSEE 221155Z AUTO 00000KT 7SM CLR 13/13 A2991 RMK AO2 LIMP 221050Z 29025G38KT CAVOK 17/M02 Q1010 KSEG 221153Z AUTO 34011KT 10SM BKN019 OVC039 12/08 A2999 RMK AO2 SLP155 T01220083 10122 20117 53013 KRNH 221155Z AUTO 14006KT 10SM CLR 03/02 A3024 RMK AO2 T00320016 10051 20030 KQWJ 221155Z AUTO 15006KT 10SM FEW024 33/18 A2980 RMK AO2 RAB1135E1139SHRAB1139E1151 SLP072 T03320175 10280 20275 57037 LIMS 221155Z 33021KT 290V360 CAVOK 17/M15 Q1011 RMK SKC VIS MIN 9999 WIND THR30 32021KT BLU KROA 221154Z 34007G14KT 10SM FEW045 FEW065 09/03 A3004 RMK AO2 SLP171 T00940028 10106 20089 51012 LIMT 211555Z 21020KT 0000 FG VV/// 14/12 Q1011 RMK MON INVIS VAL INVIS VIS MIN 0000 KSFB 221053Z 00000KT 7SM CLR 19/19 A2996 RMK AO2 SLP145 T01940189 LIMU 221155Z 35025G40KT CAVOK 20/M13 Q1011 RMK SKC QUK 4 QUL 1 E VIS MAR 30 KM VIS MIN 9999 KROC 221154Z 04013G19KT 10SM BKN016 OVC028 09/06 A3017 RMK AO2 SLP223 70015 T00890056 10089 20089 53019 KRNM 221153Z AUTO 00000KT 8SM CLR 08/06 A2991 RMK AO2 SLP119 T00780061 10117 20067 55002 TSNO KQWM 221155Z 34004KT 9999 CLR 28/02 A3009 RMK SLP186 QNH1019 KSEM 221155Z AUTO 00000KT 10SM CLR 07/06 A3010 RMK AO2 VTPH 221100Z 06005KT 030V090 9999 FEW030 30/24 Q1009 NOSIG KSFF 221153Z 04004KT 10SM CLR 07/04 A2994 RMK AO2 SLP139 T00670039 10083 20061 58014 KRNO 221155Z 29003KT 10SM CLR 06/M01 A3012 RMK AO2 SLP177 T00561011 10089 20050 51003 LIMY 211755Z 32004KT 8000 NSC 18/16 Q1010 RMK SKC VAL FOSCHIA VIS MIN 8000 KRMY 221154Z AUTO 00000KT 10SM OVC019 03/01 A3032 RMK AO2 T00250014 KSDY 221155Z AUTO 23012G18KT 10SM CLR 09/06 A2983 RMK AO1 10160 20090 52037 KRNP 221154Z AUTO 31004KT 10SM OVC019 05/03 A3033 RMK AO2 T00470026 KSEP 221155Z AUTO 00000KT 10SM CLR 15/12 A3013 RMK AO2 T01520123 10173 20138 KROG 221157Z 09008KT 10SM CLR 12/09 A3018 RMK AO2 SLP214 70001 T01170089 10139 20117 51013 LIMZ 221150Z 34017G29KT CAVOK 17/M08 Q1014 LIPA 221155Z 19008KT 130V250 9999 FEW070 17/02 Q1006 RMK SCT SCT150 VIS MIN 9999 A2974 BLU KU68 221155Z AUTO 00000KT 10SM CLR 00/M06 A3003 RMK AO2 PWINO GCRR 221200Z 08015KT CAVOK 27/20 Q1020 LIPB 221150Z 36012KT 9999 FEW060 16/M05 Q1012 KRNT 221153Z AUTO 10007KT 6SM -RA BR OVC048 12/12 A2965 RMK AO2 SLP046 P0006 60010 70012 T01220117 10139 20122 58010 KSET 221154Z AUTO 00000KT 10SM CLR 05/03 A3030 RMK AO2 SLP260 T00500033 10083 20039 51018 FLSK 220800Z 09009KT CAVOK 27/05 Q1023 LIPC 221155Z 31015KT 9999 FEW025TCU 18/03 Q1008 RMK FEW VIS MIN 9999 WIND THR11 31012KT BLU VTPO 221000Z 11003KT 9999 SCT025 BKN120 BKN300 27/24 Q1011 FNBC 221200Z VRB03KT 9999 OVC016 25/24 Q1014 KSFM 221155Z AUTO 03014KT 10SM OVC006 09/06 A3010 RMK AO1 60010 70042 10090 20080 52010 KRNV 221155Z AUTO 04006KT 10SM CLR 11/10 A3016 RMK AO2 T01070097 10137 20101 KRPD 221155Z AUTO 12009KT 10SM CLR 03/01 A3028 RMK AO2 T00260006 10042 20021 VTPP 221200Z 29002KT 6000 FEW018CB BKN022 OVC110 25/23 Q1012 LIPE 221150Z 30016KT 9999 FEW065 19/00 Q1009 LIPF 221155Z 27004KT 9999 FEW035 21/02 Q1008 RMK FEW VIS MIN 9999 KSGF 221152Z 14012KT 10SM CLR 11/07 A3019 RMK AO2 SLP219 T01060067 10128 20106 53012 KSFO 221156Z 22004KT 10SM CLR 14/11 A3004 RMK AO2 SLP171 T01390106 10172 20139 58002 $ FNBG 221200Z 30011KT 9999 FEW015 BKN100 26/18 Q1014 LIPH 221145Z /////KT CAVOK 18/M03 Q1008 KSGH 221156Z AUTO 34008KT 9SM OVC024 06/04 A3026 RMK AO2 53016 T00610044 10066 20055 SLP252 KSFQ 221155Z AUTO 29009KT 10SM -RA 11/10 A2986 RMK AO2 LTG DSNT NE P0006 60011 70012 T01080097 10126 20108 KSEZ 221155Z AUTO 05010KT 10SM CLR 13/06 A3009 RMK AO2 KRPH 221150Z AUTO 07003KT 10SM CLR 13/12 A3010 RMK AO2 T01250118 10177 20123 LIPI 221155Z 34004KT 9999 FEW050 SCT090 18/00 Q1007 RMK SCT VIS MIN 9999 WIND THR06 04008KT BLK BLU KROS 221155Z AUTO 15006KT 10SM SCT110 04/02 A3021 RMK AO2 T00430021 10061 20042 KRPJ 221155Z AUTO 00000KT 2 1/2SM BR CLR M02/M02 A3034 RMK AO2 T10201021 10006 21020 KSGJ 221158Z 32008KT 10SM CLR 16/14 A2999 RMK AO2 SLP155 T01560139 10200 20156 51015 LIPK 221150Z 30012KT CAVOK 18/00 Q1008 KQXT 221155Z 18010KT 9000 BLDU FEW030 34/M01 A2993 RMK DU FEW030 SLP097 WND DATA ESTMD ALSTG/SLP ESTMD Q1013 57012 KRQB 221154Z AUTO 00000KT 10SM CLR M02/M02 A3035 RMK AO2 T10231023 11008 21028 FNCA 221200Z 22008KT 9999 FEW015 BKN025 28/22 Q1013 LIQC 221055Z ///04KT 9999 FEW020 BKN030 22/18 Q1003 RMK BKN QUK 3 QUL 3 W VIS MAR 20 KM VIS MIN 9999 LIPL 221155Z /////KT CAVOK 18/M17 Q1010 RMK SKC VIS MIN 9999 WIND THR31 31013KT BLU KSHD 221155Z AUTO 34005KT 7SM DZ OVC029 10/07 A3000 RMK AO2 T00970065 10112 20097 KROW 221158Z 20003KT 1/2SM FG VV002 15/14 A3009 RMK AO2 TWR VIS 1 T01500144 KRQE 221153Z AUTO 00000KT 10SM CLR 01/M01 A3019 RMK AO2 SLP165 T00061011 10067 20006 53006 TSNO $ LIPO 221150Z 29016KT CAVOK 18/M10 Q1009 KROX 221154Z AUTO 16013G20KT 10SM CLR 10/05 A2988 RMK AO2 KSFY 221155Z AUTO 05004KT 7SM CLR 01/00 A3033 RMK AO2 T00100002 10023 20000 LIPQ 221150Z 31004KT CAVOK 17/01 Q1007 KSFZ 221155Z 01011KT 3SM OVC002 10/06 A2996 RMK AO1 10110 20090 54000 VTSB 221200Z 03004KT 9999 FEW020 CB SCT120 BKN300 28/26 Q1010 A2984 KSGR 221153Z 02004KT 7SM CLR 17/15 A3005 RMK AO2 SLP177 T01670150 10183 20161 53012 LIPR 221145Z /////KT 9999 TS FEW017CB SCT025 16/12 Q1008 REFC VTSC 220500Z 01007KT 9000 330V060 FEW018TCU SCT020 BKN200 31/25 Q1012 A2990 TCU S W RWY20 INFO D LIPS 221155Z 08003KT 9999 SCT100 18/M10 Q1008 RMK SCT VIS MIN 9999 WIND THR26 06003KT WIND THR08 12003KT BLU LIRA 221145Z 35021G35KT 310V030 9999 FEW070 20/M01 Q1004 KSGS 221150Z AUTO 15008KT 10SM CLR 05/02 A3022 RMK AO2 T00480022 KSGT 221155Z AUTO 04006KT 10SM CLR 11/08 A3019 RMK AO1 10130 20090 52017 GCTS 221200Z 08024G34KT CAVOK 35/05 Q1019 NOSIG LIPU 221150Z 31013KT CAVOK 20/M03 Q1007 KSGU 221155Z AUTO 00000KT 10SM CLR 14/02 A3002 RMK AO1 10190 20130 52014 KSHL 221155Z AUTO 16015G24KT 10SM FEW043 FEW075 10/06 A3006 RMK AO2 VTSF 221200Z 00000KT 9999 FEW017CB BKN300 28/25 Q1010 A2984 INFO M / RWY 19 KSHM 221156Z AUTO 34006KT 10SM CLR 10/03 A3011 RMK AO2 SLP149 T00970034 10147 20094 52022 LIQN 221050Z 34017G28KT CAVOK 17/01 Q1006 LIRE 221155Z 34019G32KT CAVOK 21/M09 Q1004 RMK SKC VIS MIN 9999 WIND THR31 /////KT BLU VTSG 221200Z 05003KT 350V100 5000 TSRA SCT018CB BKN020 OVC050 25/24 Q1011 A2987 TS OVER AD INFO D RWY32 KSHN 221153Z AUTO 13010KT 5SM -RA BR FEW022 BKN055 OVC070 12/11 A2962 RMK AO2 SLP032 P0009 60023 70040 T01170106 10144 20117 58003 TSNO LIQO 212355Z 36014KT 9999 SCT002 18/17 Q1008 RMK BKN SCT200 VAL CLD SCT NC VIS MIN 9999 VTSH 220800Z 04006KT 9000 FEW020CB BKN300 31/25 Q1009 A2980 CB W LIPX 221145Z 30007KT CAVOK 17/M09 Q1009 LIRF 221150Z 36021G31KT CAVOK 21/M03 Q1005 NOSIG KRQO 221155Z AUTO 15006KT 5SM BR CLR 12/12 A3011 RMK AO2 KSIF 221155Z AUTO 00000KT 10SM CLR 08/04 A3002 RMK AO2 T00820035 10095 20046 LIRG 221055Z 34020KT 9999 FEW045 21/04 Q1005 LIPY 221150Z 01009KT 9999 SCT040 16/07 Q1008 WMBA 221200Z 00000KT 6000 TSRA FEW010 FEW017CB SCT028 OVC260 24/24 Q1012 RETSRA LIRH 221155Z 27011G21KT 9999 SCT035 20/11 Q1001 RMK BKN SCT070 MON LIB NC VIS MIN 9999 WIND THR16 /////KT BLU LIPZ 221150Z 34008G19KT CAVOK 19/// Q1007 LIRI 221050Z 29006KT 6000 SCT020 BKN040 23/17 Q1002 KSHR 221153Z AUTO 21006KT 10SM CLR 02/M03 A3001 RMK AO2 SLP154 T00221033 10094 20011 51019 TSNO FMMI 221200Z 03009KT 340V070 9999 BKN020CB 29/15 Q1017 NOSIG VTSM 221200Z 00000KT 7000 FEW020 BKN300 29/26 Q1011 A2986 LIRL 221155Z 33015KT 9999 FEW060 22/06 Q1002 RMK FEW MON LIB NC VIS MIN 9999 WIND THR30 34020KT BLU KSJC 221153Z AUTO 00000KT 10SM CLR 11/08 A3004 RMK AO2 SLP173 T01060078 10144 20106 58003 KRRL 221155Z AUTO 00000KT 10SM CLR M05/M05 A3034 RMK AO2 T10461050 10002 21049 LIRM 221055Z 28009KT 7000 SCT020 BKN040 26/20 Q1001 KTAD 221154Z AUTO 30007KT 10SM CLR 11/06 A3007 RMK AO2 SLP126 T01060056 10144 20106 53014 KSHV 221156Z 00000KT 9SM CLR 15/13 A3011 RMK AO2 SLP195 MIFG SE-S-SW T01500133 10172 20133 53014 LIQW 221155Z 33016G31KT 270V020 CAVOK 19/M08 Q1010 RMK SKC VIS MIN 9999 BLU VTSP 221200Z VRB01KT 7000 FEW018 BKN300 27/25 Q1011 A2987 NOSIG LIRN 221150Z 29009KT 250V330 9999 BKN035 25/16 Q1001 VTSR 221100Z 01005KT 7000 BKN022 BKN110 27/25 Q1010 A2983 VOR DME RWY02 INFO K LIRP 221145Z 32019KT 9999 FEW035 19/M04 Q1009 TEMPO 32020G30KT VTSS 221200Z 15002KT 9999 FEW018CB SCT120 BKN300 26/24 Q1011 A2986 NOSIG LIRQ 221150Z 33014KT 9999 FEW060 19/M01 Q1009 VTST 221100Z 00000KT 7000 FEW020 BKN120 BKN300 25/25 Q1009 RETS RWY08 INFO L WMAU 221200Z 27001KT 9999 FEW010 SCT140 BKN260 24/23 Q//// QFF1011 LIRS 221055Z /////KT CAVOK 22/M09 Q1008 KSKA 221158Z AUTO 13007KT 10SM FEW130 07/03 A2992 RMK AO2 SLP137 60000 T00650031 10069 20045 57015 LIRT 220355Z 25017KT 9999 FEW009 13/10 Q1006 RMK FEW MON INVIS VAL INVIS VIS MIN 9999 VTUD 221100Z 09003KT 9999 FEW035 BKN200 31/21 Q1011 A2986 INFO M RWY30 KRRT 221154Z AUTO 15011G20KT 10SM CLR 09/06 A2991 RMK AO2 LIRU 221150Z 34019G29KT CAVOK 21/M02 Q1004 FMMT 221200Z 04010KT 9999 SCT017 SCT033 28/24 Q1012 NOSIG KRSL 221153Z AUTO 17008KT 10SM CLR 13/11 A3002 RMK AO2 SLP158 T01330111 10167 20133 53007 LIRV 221055Z 01014KT 9999 FEW025 18/M04 Q1006 FMNM 221200Z 34012KT 9999 FEW023 29/20 Q1012 NOSIG KTAN 221201Z AUTO VRB03KT 9SM SCT003 BKN011 OVC042 13/12 A2995 RMK AO2 T01330122 KSJN 221154Z AUTO 00000KT 10SM BKN065 07/06 A3014 RMK AO2 SLP146 T00720061 10139 20067 53005 KRSN 221155Z AUTO 00000KT 4SM BR CLR 11/11 A3016 RMK AO2 T01060106 10145 20105 FMNN 220900Z 16006KT 9999 SCT020 29/22 Q1014 LIRX 221055Z 33022KT CAVOK 16/M02 Q1008 RMK SKC VIS MIN 9999 VIS MAR 30 KM KSKF 221158Z AUTO 04005KT 10SM FEW180 BKN200 18/11 A3004 RMK AO2 SLP167 T01790114 10205 20177 53008 $ VTUI 221200Z 13003KT 9999 SCT040 29/23 Q1012 A2990 RWY05 INFO H KRSP 221154Z AUTO 36008G17KT 330V040 10SM OVC010 09/07 RMK AO2 SLPNO 60001 70012 T00890072 10089 20083 $ KSIY 221153Z AUTO 03004KT 10SM CLR 08/06 A3003 RMK AO2 SLP177 T00780056 10094 20078 55002 LIRZ 221150Z 03016KT 9999 FEW045 SCT055 15/04 Q1008 VTUK 221200Z VRB02KT 9999 FEW030 29/21 Q1012 A2989 RWY03 INFO N VTUL 220900Z 23003KT 6000 SCT025 SCT120 SCT300 29/24 Q1009 A2982 NOSIG KSJS 221155Z AUTO 33004KT 10SM OVC011 07/05 A3019 RMK AO2 T00680050 10075 20067 KSJT 221151Z 00000KT 10SM -RA BKN120 17/12 A3009 RMK AO2 SLP173 P0000 60000 T01720122 10217 20172 53010 KRST 221154Z 16011KT 9SM CLR 03/02 A3025 RMK AO2 SLP253 T00280017 10044 20028 50006 KSLB 221155Z AUTO 14016KT 10SM FEW032 08/05 A3011 RMK AO2 KTCC 221153Z AUTO 22004KT 10SM SCT018 BKN090 16/12 A3008 RMK AO2 SLP146 T01560117 10167 20144 53005 KSLC 221153Z 15005KT 10SM CLR 05/01 A3015 RMK AO2 SLP191 T00500011 10078 20044 53010 KRSV 221155Z AUTO 36003KT 7SM CLR 03/03 A3031 RMK AO2 T00330033 10069 20026 KRTN 221153Z AUTO 32005KT 10SM SCT011 08/07 A3011 RMK AO2 SLP141 T00830072 10106 20078 53006 KRUE 221153Z AUTO 00000KT 10SM CLR 10/09 A3018 RMK AO2 SLP217 T01000089 10122 20094 53014 KRSW 221153Z 07003KT 10SM CLR 21/21 A2995 RMK AO2 SLP141 70009 T02110206 10217 20206 51014 KSLE 221156Z AUTO 18011G19KT 10SM BKN038 OVC050 14/09 A2980 RMK AO2 RAE23 SLP089 P0000 60007 70017 T01440094 10144 20133 55006 KTBN 221158Z AUTO 11005KT 10SM CLR 07/06 A3023 RMK AO2 SLP240 T00690062 10105 20067 52013 KSJX 221155Z AUTO 00000KT 2 1/2SM BR CLR M02/M02 A3038 RMK AO2 T10171018 10030 21024 VVCR 221200Z 03011KT 9999 FEW015 29/25 Q1012 NOSIG KSLG 221155Z AUTO 08003KT 10SM CLR 11/07 A3017 RMK AO1 10140 20110 52014 KRUG 221155Z AUTO 19007KT 10SM CLR 12/07 A2968 RMK AO2 GCXO 221200Z 12012KT 9999 FEW050 28/06 Q1024 NOSIG KSLH 221156Z AUTO 00000KT 10SM OVC023 02/00 A3039 RMK AO2 T00240006 KTAZ 221155Z AUTO 02003KT 3SM BR CLR 01/01 A3031 RMK AO2 VVCT 221100Z VRB02KT 9999 FEW015 BKN040 27/25 Q1011 NOSIG KSLI 221158Z AUTO 10001KT 10SM CLR 14/14 A2988 RMK AO2 SLP121 T01400135 10167 20138 50001 KTBR 221155Z AUTO 00000KT 10SM CLR 08/08 A3005 RMK AO2 T00820082 10141 20082 FNGI 221000Z 32006KT CAVOK 34/10 Q1015 VTUU 221200Z 26002KT 9000 SCT022 BKN300 25/23 Q1011 A2987 NOSIG KRTS 221155Z AUTO 00000KT 10SM CLR 00/M05 A3013 RMK AO2 LJLJ 221200Z 17003KT 080V250 9999 FEW030 SCT080 11/05 Q1007 WS ALL RWY NOSIG VTUV 220400Z 09011KT 9000 FEW020 32/20 Q1014 A2996 INFO E RWY 36 KSLK 221151Z AUTO 03007KT 3SM BR OVC002 04/04 A3013 RMK AO2 SLP214 70014 T00440044 10050 20044 53014 LJMB 221200Z 19007KT 9999 FEW040 SCT120 11/06 Q1006 LIVC 212355Z 24026KT 0000 -DZ FG VV000 08/07 Q1008 RMK MON INVIS VAL INVIS VIS MIN 0000 VTUW 220900Z 07007KT 9999 SCT025 SCT300 33/19 Q1009 A2982 RWY15 INFO J VVDN 221200Z 31003KT 6000 -TSRA SCT012 FEW015CB BKN050 25/24 Q1013 TEMPO 3000 TSRA KTCL 221153Z 00000KT 10SM CLR 10/08 A3014 RMK AO2 SLP203 T01000078 10122 20100 53017 LIVD 221155Z 27003KT 9999 BKN025 06/M05 Q1012 RMK BKN VIS MIN 9999 KTCM 221158Z AUTO 17008KT 8SM -RA OVC055 13/12 A2967 RMK AO2 SLP051 P0010 60012 70015 T01260122 10155 20126 55009 $ LIVE 221155Z 02004KT 8000 -SN SCT010 BKN050 01/M02 Q1013 RMK OVC VIS MIN 8000 KSLN 221153Z 14008KT 7SM CLR 15/13 A3007 RMK AO2 SLP176 T01500128 10183 20144 53009 KSME 221155Z AUTO 34003KT 10SM SCT010 03/03 A3024 RMK AO2 KSMF 221153Z 00000KT 10SM SCT250 09/06 A3002 RMK AO2 SLP165 T00940056 10128 20078 58002 KSKX 221155Z AUTO 00000KT 10SM OVC020 06/04 A3021 RMK AO1 60001 70001 10090 20060 52007 KSLO 221155Z AUTO 06003KT 10SM CLR 06/05 A3030 RMK AO2 T00560046 10085 20055 KTBX 221155Z AUTO 12008KT 10SM CLR 02/M06 A3015 RMK AO2 KTDF 221155Z AUTO 30004KT 10SM SCT047 08/03 A3000 RMK AO2 KRUQ 221155Z AUTO 33006KT 10SM CLR 07/03 A3005 RMK AO2 T00680031 10082 20045 KSLR 221155Z AUTO 00000KT 1 3/4SM BR VV007 15/15 A3015 RMK AO2 T01460146 10167 20137 KTCS 221153Z AUTO 30006KT 10SM CLR 11/09 A3012 RMK AO2 SLP144 T01060089 10133 20106 53004 TSNO KSNA 221153Z AUTO 00000KT 10SM CLR 17/13 A2988 RMK AO2 SLP117 T01720133 10206 20172 53003 TSNO $ EVRA 221150Z 12010KT 9999 BKN026 00/M05 Q1017 R18/090095 NOSIG KTEB 221151Z 36007KT 5SM -RA FEW015 BKN022 OVC037 13/11 A2992 RMK AO2 SLP131 P0005 60027 70045 T01280106 10139 20128 51012 KRUT 221155Z 30004KT 10SM OVC019 08/07 A3010 RMK AO1 10090 20080 52017 KSNC 221135Z AUTO 01008KT 10SM OVC008 11/10 A2995 RMK AO2 LIVM 221155Z 03013G30KT 9999 FEW025 BKN030 18/04 Q1008 RMK BKN QUK 3 QUL 2 N VIS MAR 10 KM VIS MIN 9999 LKCV 221200Z 28013KT 9999 -RA SCT022 OVC030 07/06 Q1007 NOSIG KSMN 221155Z AUTO 10SM FEW001 RMK AO1 70036 LIVO 221155Z 28005KT 9999 SCT035 10/M03 Q1007 RMK SCT VIS MIN 9999 KSMO 221151Z AUTO 00000KT 10SM CLR 16/12 A2988 RMK AO2 SLP116 T01610122 10183 20156 50000 KRWF 221153Z AUTO 15020KT 10SM FEW045 SCT060 BKN075 08/03 A3007 RMK AO2 SLP186 T00830033 10094 20078 58005 KSMQ 221153Z AUTO 03010KT 6SM -RA BR FEW014 SCT060 OVC075 12/11 A2990 RMK AO2 SLP125 P0008 60008 70032 T01220106 10139 20111 53014 KSNH 221155Z AUTO 00000KT 9SM CLR 03/03 A3020 RMK LIVR 221155Z 33028G42KT 9999 SCT040 00/M12 Q1008 RMK SCT MON LIB VIS MIN 9999 KRWI 221153Z AUTO 30008KT 10SM CLR 10/07 A2993 RMK AO2 SLP135 60000 T01000067 10133 20100 53011 KTDR 220556Z AUTO M 10SM CLR 16/14 A2997 RMK AO2 SLP152 T01610144 10187 20147 402700144 57010 $ KRVS 221201Z 00000KT 3SM BR CLR 14/13 A3014 RMK AO2 T01390133 KSMS 221155Z AUTO 34004KT 10SM CLR 08/05 A3004 RMK AO2 KSOA 221155Z AUTO 00000KT 7SM -RA FEW001 SCT030 BKN044 16/14 A3014 RMK AO2 LIVT 221155Z 23003KT 9999 FEW040 18/02 Q1007 RMK FEW QUK 1 QUL 0 VIS MAR 20 KM VIS MIN 9999 KSNK 221155Z AUTO 12004KT 10SM RA SCT025 BKN065 OVC095 16/13 A3011 RMK AO2 T01610128 KRWL 221153Z AUTO 25010KT 10SM CLR 02/M01 A3014 RMK AO2 SLP164 60002 70006 T00221006 10078 20022 53012 KSNL 221155Z AUTO 15003KT 16/16 A3013 RMK AO2 PWINO FNHU 221100Z 00000KT 9999 SCT015 25/16 Q1024 FMSD 221200Z 10012KT 9999 SCT020 26/19 Q1012 KRXE 221153Z AUTO 00000KT 10SM CLR 01/M02 A3015 RMK AO2 SLP212 70001 T00061017 10056 20006 53007 KSMX 221151Z AUTO 04012G18KT 10SM CLR 19/05 A2991 RMK AO2 SLP129 T01940050 10206 20161 58005 KTDZ 221153Z AUTO 34008KT 10SM OVC022 08/03 A3029 RMK AO2 SLP258 T00780033 10083 20078 53017 TSNO KSPA 221215Z AUTO 35003KT 10SM CLR 07/04 A3004 RMK AO2 KSNS 221153Z AUTO 14003KT 10SM CLR 10/07 A3002 RMK AO2 SLP175 T01000072 10156 20094 58004 KSNT 221151Z AUTO 00000KT M02/M02 A3017 RMK AO1 SLP191 70026 T10171022 11006 21028 51006 KSPB 221153Z AUTO VRB05KT 6SM -RA BR BKN022 OVC028 13/11 A2976 RMK AO2 SLP078 P0000 60016 70020 T01330111 10133 20122 58010 KSPD 221156Z AUTO 20012KT 13/11 A3000 RMK AO1 SLP114 T01280111 10133 20117 53001 KRWV 221150Z AUTO 00000KT 10SM CLR 16/16 A3010 RMK AO2 KTEW 221152Z AUTO 34004KT 10SM OVC018 05/03 A3032 RMK AO2 T00450026 KTEX 221135Z AUTO 12004KT 10SM CLR 04/01 A3027 RMK AO2 LTG DSNT N T00420011 KSPF 221155Z AUTO 29014KT 10SM CLR 09/01 A2999 RMK AO2 KSNY 221153Z AUTO 00000KT 10SM -RA BKN065 BKN090 OVC110 11/09 A3000 RMK AO2 SLP125 P0002 60002 70002 T01110094 10150 20111 53014 KSPG 221153Z 04010KT 10SM CLR 23/19 A2995 RMK AO2 SLP142 T02280189 10239 20228 53008 KSOP 221155Z AUTO 33005KT 10SM CLR 09/02 A2999 RMK AO1 10110 20080 52017 KTFP 221155Z AUTO 04007KT 10SM CLR 21/20 A2999 RMK AO2 T02100195 KSPI 221152Z 06004KT 10SM CLR 02/01 A3031 RMK AO2 SLP268 T00170006 10056 20017 51016 KTHA 221155Z AUTO 02004KT 10SM CLR 06/04 A3018 RMK KSPL 221155Z AUTO 06015G21KT FEW023 SCT075 26/22 A2994 RMK AO1 LTG DSNT SE AND S KRYN 220245Z 31004KT 10SM CLR 24/11 A2990 KSOW 221155Z AUTO 18005KT 10SM CLR 05/04 A3019 RMK AO2 KSQE 221155Z AUTO 06020G25KT 10SM BKN030 BKN035 24/18 A2999 RMK A01 KSQI 221155Z AUTO 00000KT 5SM CLR 00/M02 A3033 RMK AO1 10020 21010 52014 KSPR 221155Z AUTO 06020KT 9SM CLR 24/17 A2999 RMK A01 KSPS 221152Z 19006KT 9SM CLR 13/11 A3009 RMK AO2 SLP183 T01280111 10178 20122 53013 MBGT 221100Z 09010KT 9999 SCT015 27/21 Q1014 FNMA 221200Z VRB03KT 9999 FEW007 FEW009CB BKN057 27/24 Q1017 EVVA 221150Z AUTO 10013KT 9999 OVC025 02/M03 Q1015 KSRB 221155Z AUTO 04003KT 10SM CLR 04/04 A3019 RMK KRYT 221207Z AUTO VRB06KT 10SM SCT022 SCT045 OVC085 12/07 A2994 RMK AO2 $ KSQL 221155Z AUTO 00000KT 10SM CLR 12/09 A3005 RMK AO2 KSRC 221156Z AUTO 33004KT 10SM CLR 10/08 A3023 RMK AO2 SLP243 T01000078 10128 20083 53022 TSNO KRZL 221155Z AUTO 03004KT 10SM CLR 02/02 A3033 RMK AO2 FNKU 221200Z 02010KT 9999 SCT015 28/16 Q1021 KRYV 221155Z AUTO 00000KT 7SM CLR M03/M03 A3034 RMK AO2 T10281028 11010 21041 KRYW 211955Z AUTO 08008G16KT 10SM CLR 27/11 A3003 RMK AO2 T02650108 KSPW 221153Z AUTO 15014G21KT 10SM BKN070 BKN085 09/04 A3011 RMK AO2 PK WND 15027/1134 SLP198 T00940044 10100 20083 58001 TSNO LIYW 221158Z AUTO 17007KT 9999 FEW110 17/01 A2975 RMK AO2 SLP075 60001 70055 T01740010 10180 20101 58005 KRZN 221155Z AUTO 15006KT 10SM CLR 04/01 A3023 RMK AO2 T00420011 10065 20042 KTIF 221155Z AUTO 21007KT 10SM CLR 16/11 A2993 RMK AO2 T01560105 10181 20156 KRYY 220247Z 00000KT 10SM SKC 13/07 A3005 WMKA 221200Z 00000KT 9999 FEW017CB SCT140 BKN270 26/25 Q1011 LJPZ 221130Z 08004KT 010V130 CAVOK 17/01 Q1007 WMKB 221200Z 11003KT 6000 -TSRA FEW010 FEW017CB SCT025 BKN260 25/25 Q1011 NOSIG KRZR 221155Z AUTO 04003KT 10SM CLR 04/03 A3016 RMK WMKC 221200Z 28001KT 9999 FEW020 BKN280 25/24 Q1011 WMKD 221200Z 00000KT 9999 FEW010 SCT160 BKN260 25/24 Q1011 NOSIG KRZT 221154Z AUTO 36005KT 10SM BKN010 OVC035 06/05 A3023 RMK AO2 KTIK 221207Z AUTO 16004KT 9SM R36/5500FT CLR 14/13 A3012 RMK AO2 WMKE 221100Z 29003KT 9999 FEW016CB SCT140 BKN260 27/25 Q1010 KSSC 221158Z AUTO 30003KT 10SM CLR 09/05 A3002 RMK AO2 SLP167 T00860053 10138 20085 52020 $ GEML 221200Z VRB01KT CAVOK 28/15 Q1022 KTHV 221153Z AUTO 33007KT 10SM BKN033 BKN043 OVC085 12/09 A2993 RMK AO2 SLP138 60042 70047 T01170089 10117 20106 53010 FNLU 221200Z 27010KT 9999 FEW024 SCT100 29/20 Q1013 NOSIG KW13 221155Z AUTO 31004KT 10SM OVC030 09/05 A2998 RMK AO1 T00910051 10100 20089 KSSF 221153Z 03003KT 10SM CLR 18/11 A3004 RMK AO2 SLP164 7//// T01830111 10200 20183 53008 $ FNMO 221200Z 27010KT 9999 SCT014 24/17 Q1014 WMKI 221200Z 07002KT 5000 -TSRA FEW005 FEW016CB SCT028 BKN260 24/23 Q1012 KTIP 221150Z AUTO 05003KT 10SM CLR 04/01 A3032 RMK AO2 T00420012 10098 20042 WMKJ 221200Z 00000KT 9999 FEW023 BKN280 26/25 Q1012 KSRQ 221153Z 04006KT 10SM CLR 21/18 A2995 RMK AO2 SLP141 T02060183 10222 20206 53010 WMKK 221200Z 04005KT 010V100 9000 FEW017CB BKN140 BKN270 26/24 Q1011 NOSIG KSSI 221153Z AUTO 34008KT 10SM CLR 13/11 A3000 RMK AO2 SLP158 T01280106 10172 20128 52017 KSRR 221255Z AUTO 24004KT 10SM FEW090 07/07 A3022 RMK AO2 WMKL 221200Z 03002KT 9999 -RA FEW008 FEW017CB SCT025 BKN260 26/25 Q1011 WMKM 221200Z 03002KT 8000 FEW028 SCT140 BKN260 27/26 Q1011 LKKB 221200Z 24006KT 5000 -RA SCT022 OVC026 06/05 Q1007 NOSIG WMKN 221200Z 29002KT 9999 FEW022 BKN280 27/24 Q1011 KSTC 221153Z 14011KT 10SM CLR 07/03 A3013 RMK AO2 SLP217 T00670028 10089 20061 50000 KTKC 221153Z AUTO 18019G25KT 10SM BKN080 10/05 A3002 RMK AO2 LTG DSNT E T01040051 10110 20097 KW22 221155Z AUTO 00000KT 1SM -DZ OVC001 07/07 A3009 RMK AO2 WMKP 221130Z 11007KT 070V140 6000 -TSRA FEW010 FEW017CB SCT024 BKN260 26/25 Q1011 TEMPO 5000 -TSRA KTIW 221153Z AUTO 18010KT 7SM RA FEW045 BKN055 OVC075 13/11 A2967 RMK AO2 SLP045 P0006 60010 70013 T01280106 10156 20128 55010 KUBE 221155Z AUTO 14007KT 10SM CLR 02/00 A3025 RMK AO2 KSTE 221155Z AUTO 00000KT 10SM CLR M04/M05 A3035 RMK AO2 P0001 60003 70011 T10451050 11021 21050 KTIX 221147Z 32004KT 1/4SM FG OVC002 20/20 A2997 KUAO 221153Z AUTO 19013G18KT 10SM OVC046 15/10 A2979 RMK AO2 SLP088 60000 70001 T01500100 10150 20139 58006 KSTF 221155Z AUTO 00000KT 10SM CLR 09/08 A3014 RMK AO2 LLBG 221150Z 31008KT CAVOK 25/12 Q1014 NOSIG KTKI 221153Z 00000KT 6SM BR CLR 14/12 A3012 RMK AO2 SLP199 T01390122 10167 20133 53014 KSTJ 221153Z 13010KT 10SM OVC038 13/08 A3017 RMK AO2 SLP214 7//// T01280078 10139 20122 51011 KSUA 221150Z 33003KT 5SM BR FEW030 BKN060 20/20 A2997 KW29 221150Z AUTO 35013G19KT 7SM RA 12/12 A2986 RMK AO1 KSTK 221155Z AUTO 25003KT 10SM SCT120 12/10 A2999 RMK AO2 KSTL 221151Z 00000KT 10SM CLR 06/03 A3030 RMK AO2 SLP259 T00610033 10100 20061 53017 KW31 221155Z AUTO 30004KT 10SM SCT048 BKN060 OVC070 10/09 A2994 RMK AO1 60004 70004 T00950087 10121 20095 KSUE 221155Z AUTO 12004KT 10SM CLR 02/M01 A3036 RMK AO1 10040 20010 52010 KSTP 221153Z 15011KT 10SM CLR 05/03 A3023 RMK AO2 SLP240 T00500028 10078 20050 52007 KTLH 221153Z 00000KT 10SM FEW250 11/09 A3003 RMK AO2 SLP167 7//// T01110089 10150 20111 53016 $ VVNB 221200Z 23004KT 190V260 8000 NSC 26/22 Q1015 NOSIG KSTS 221153Z AUTO 31003KT 10SM CLR 08/08 A3004 RMK AO2 SLP165 T00830078 10122 20083 56002 KTMA 221150Z AUTO 35003KT 10SM CLR 13/10 A3004 RMK AO2 T01250095 10334 20078 KTMB 221153Z 00000KT 10SM BKN090 24/22 A2994 RMK AO2 SLP139 70022 T02440222 10244 20233 51010 LKKU 221100Z 28004KT 220V320 9999 -RA SCT018 BKN026 09/07 Q1005 RMK REG QNH 1002 KSVC 221155Z AUTO 35007KT 10SM CLR 09/08 A3015 RMK AO2 KTKV 221155Z AUTO 00000KT 10SM CLR M03/M04 A3032 RMK AO2 T10351040 11009 21044 LKKV 221200Z 27013KT 6000 -RA SCT010 BKN016 05/03 Q1007 LKLN 221200Z AUTO 27007KT 230V350 //// SCT026 BKN036 OVC043 08/04 Q1009 KSUN 221155Z AUTO 32007KT 10SM CLR 00/M02 A3016 RMK AO2 KW43 221155Z AUTO 22003KT 10SM CLR 07/01 A3001 RMK AO2 KTME 221155Z AUTO 03006KT 5SM HZ CLR 14/ A3007 RMK AO2 KUDG 221155Z AUTO 31004KT 10SM CLR 08/03 A3003 RMK AO1 10140 20080 52020 KUCP 221156Z AUTO 34009KT 10SM 08/07 A3016 RMK AO2 TSNO 51017 70029 T00770066 10083 20077 SLP232 $ KSVH 221155Z AUTO 32005KT 10SM CLR 07/03 A3005 RMK AO2 T00720025 10090 20037 LKNA 221200Z 30016KT 9999 BKN020 OVC040 07/04 Q1005 NOSIG KSUS 221154Z 00000KT 10SM CLR 03/02 A3029 RMK AO2 SLP260 T00280022 10083 20028 51017 KSUT 221155Z AUTO 34008KT 10SM CLR 10/05 A2995 RMK AO2 T01000052 10147 20100 KTMK 221155Z AUTO 18012G19KT 10SM -RA BKN023 BKN029 OVC038 16/14 A2975 RMK AO2 KTNB 221155Z AUTO 30014G26KT 10SM SCT018 04/00 A3005 RMK AO2 T00401005 10056 20040 KSUU 221158Z AUTO 31004KT 10SM SCT240 11/10 A3002 RMK AO2 SLP172 T01080097 10128 20088 52002 $ KSVN 221158Z AUTO 01007KT 10SM CLR 13/07 A3001 RMK AO2 SLP165 T01260072 10162 20126 52024 KSUW 221155Z AUTO 00000KT 10SM CLR M03/M03 A3023 RMK AO2 T10261030 11005 21026 KSWF 221145Z 03010KT 10SM OVC006 10/10 A2999 KSUX 221152Z AUTO 15012KT 10SM CLR 12/07 A3006 RMK AO2 SLP177 T01220067 10128 20100 53000 KUCY 221155Z AUTO 01003KT 10SM CLR 06/04 A3022 RMK VVPB 221200Z 13007KT 4000 -RA BR SCT013 BKN050 26/25 Q1013 NOSIG KTOA 220247Z 29006KT 10SM SKC 19/16 A2986 RMK LAST FNSA 221200Z 00000KT 9999 BKN023 30/19 Q1016 KTOB 221154Z AUTO 16009KT 10SM SCT100 03/02 A3023 RMK AO2 LKMT 221200Z 28003KT 9999 -RA OVC034 07/05 Q1004 NOSIG KTOC 221155Z AUTO 00000KT 10SM CLR 06/04 A3006 RMK AO2 T00570036 10112 20057 KW63 221155Z AUTO 30006KT 10SM OVC042 10/05 A2996 RMK AO1 KSWO 221153Z AUTO 07004KT 6SM BR CLR 14/13 A3011 RMK AO2 SLP189 T01390128 10178 20139 53015 KTOI 221153Z AUTO 00000KT 10SM CLR 07/06 A3010 RMK AO2 SLP189 T00720056 10111 20067 53022 KTPA 221153Z 04004KT 9SM FEW130 SCT250 20/17 A2997 RMK AO2 SLP149 T02000167 10222 20200 51010 KUES 221145Z 00000KT 10SM SKC M01/M01 A3034 LLET 221150Z 17006KT CAVOK 32/08 Q1013 KTOL 221152Z 35007KT 10SM OVC023 07/03 A3028 RMK AO2 SLP259 T00670033 10067 20061 53018 KTNU 221155Z AUTO 14008KT 10SM CLR 04/03 A3026 RMK AO2 LKPD 221200Z 29012KT 9999 -RA BKN020 OVC040 07/05 Q1006 NOSIG KSWW 221155Z AUTO 14005KT 10SM SCT055 BKN080 OVC110 16/12 A3013 RMK AO2 P0001 60001 70001 T01610124 10185 20161 VVPQ 221200Z 08002KT 9999 FEW015 SCT040 26/24 Q1010 NOSIG KSYF 221155Z AUTO 15005KT 10SM CLR 10/07 A2995 RMK AO2 T01030069 10151 20103 FNSO 221200Z 21010KT 9999 SCT019 ///// Q1014 KTOP 221153Z AUTO 09005KT 10SM SCT075 12/08 A3015 RMK AO2 SLP205 T01220083 10144 20117 51012 KW75 221155Z AUTO 33015G20KT 10SM OVC010 13/11 A2982 RMK AO1 70008 T01260106 10130 20122 KTPH 221156Z AUTO 35008KT 10SM CLR 04/M14 A3014 RMK AO2 SLP172 T00391139 10106 20039 53010 KTOR 221153Z AUTO 31010KT 10SM CLR 10/06 A2999 RMK AO2 SLP125 60002 70002 T01000056 10144 20100 53013 KSYI 221155Z AUTO 00000KT 10SM CLR 05/05 A3020 RMK LLHA 221150Z 15006KT 120V180 CAVOK 29/05 Q1014 KSXS 221156Z AUTO 36004KT 8SM CLR 11/10 A3009 RMK AO2 SLP190 T01050102 10139 20103 52018 KW78 221155Z AUTO 30006KT 10SM OVC048 10/04 A2998 RMK AO1 T00970043 10113 20090 KSXT 221207Z AUTO 20009G17KT 10SM OVC014 07/06 A2995 RMK AO2 T00670056 KTPL 221155Z AUTO 00000KT 10SM CLR 14/11 A3008 RMK AO1 10180 20140 52007 FNUB 221100Z 08010KT 9999 FEW030 29/13 Q1025 KW81 221155Z AUTO 31007G14KT 5SM SCT046 BKN060 OVC070 10/08 A2993 RMK AO1 P0005 60022 70022 T00990083 10120 20099 FNSU 221100Z 23006KT 9999 BKN012 26/20 Q1017 KSYM 221150Z AUTO 01006KT 10SM OVC013 07/05 A3023 RMK AO2 KSYN 221153Z AUTO 17010G17KT 10SM CLR 05/02 A3020 RMK AO2 T00530022 10076 20053 KTQE 221154Z AUTO 14009KT 10SM CLR 12/07 A3008 RMK AO2 SLP182 T01170067 10139 20117 53002 KUGN 221155Z 00000KT 7SM SCT031 02/01 A3032 RMK AO2 SLP278 T00170006 10039 20017 51012 FNUE 221100Z 09008KT 9999 BKN032 29/// Q1019 FNUG 221200Z 21010KT 9999 SCT020 27/18 Q1016 WMSA 221200Z 07002KT 6000 -TSRA FEW005 FEW017CB SCT025 OVC260 26/25 Q1011 KTQH 221155Z AUTO 00000KT 10SM CLR 13/12 A3016 RMK AO2 KSYR 221154Z 36005KT 6SM BR SCT008 BKN025 OVC045 08/06 A3012 RMK SLP197 T00760064 10092 20074 57024 LKPR 221200Z 25012KT 9999 -RA FEW015 OVC028 06/04 Q1006 NOSIG LLIB 221150Z 16004KT 080V190 CAVOK 28/03 Q1016 KSZL 221158Z AUTO 12005KT 10SM CLR 07/06 A3021 RMK AO2 SLP233 T00730057 10101 20073 53014 $ GFLL 221100Z 33003KT 9999 BKN013 FEW027CB 27/23 Q1013 RMK CB-NE MBPV 221100Z 09006KT 9999 SCT07 28/24 Q1013 KW96 221155Z AUTO 31008G15KT 7SM OVC009 11/10 A2987 RMK AO1 P0011 60033 70035 T01050098 10115 20105 KTRI 221153Z 34007KT 10SM BKN036 08/03 A3016 RMK AO2 SLP200 T00780028 10094 20072 51018 MDAB 221200Z 09005KT 9999 SCT020 26/25 Q1015 KSZT 221155Z AUTO 00000KT 10SM SCT060 05/05 A2997 RMK AO2 KW99 221155Z AUTO 00000KT 10SM SCT032 OVC040 A3003 RMK AO2 60004 70019 KTRK 221155Z AUTO 00000KT 10SM CLR M03/M05 A3016 RMK AO2 KUIL 221153Z AUTO 26003KT 7SM BKN024 BKN035 OVC045 12/12 A2958 RMK AO2 RAE1058 SLP018 P0000 60214 70334 T01220117 10144 20122 53017 KTRL 221153Z AUTO 00000KT 7SM CLR 16/14 A3012 RMK AO2 SLP195 T01560139 10167 20144 53014 KTRM 221152Z AUTO 00000KT 10SM CLR 14/08 A2979 RMK AO2 SLP089 T01390083 10222 20133 53006 TSNO KVAD 221158Z AUTO 35006KT 10SM CLR 12/10 A3002 RMK AO2 SLP167 T01180099 10145 20116 52014 $ KUIN 221154Z AUTO 11005KT 10SM CLR 04/03 A3029 RMK AO2 SLP258 T00440028 10083 20039 51012 KVAF 221155Z AUTO 02020KT 10SM FEW031 25/18 A2997 RMK A01 KTTA 221155Z AUTO 31008G14KT 10SM CLR 10/05 A2998 RMK AO2 T01010045 10116 20100 LKTB 221200Z 30007KT 9999 -RA FEW026 SCT030 09/04 Q1005 NOSIG KTTD 221153Z AUTO 08009KT 10SM OVC039 13/11 A2978 RMK AO2 RAE1057 SLP085 P0000 60008 70013 T01330111 10133 20128 58012 KTTF 221155Z AUTO 36003KT 10SM OVC020 07/04 A3028 RMK AO2 KUKF 221155Z AUTO 34004KT 10SM SCT038 07/01 A3012 RMK AO2 KVBG 221155Z AUTO 03012KT 10SM CLR 17/06 A2991 RMK AO2 SLP118 T01720056 10178 20150 58008 TSNO $ MDBH 221200Z 27004KT 9999 FEW016CB FEW018 24/21 Q1015 CB/SE FOOG 221100Z /////KT 9999 SCT010 BKN030 28/25 Q1014 VVTS 221200Z 03006KT 350V060 6000 -TSRA SCT013 SCT015CB BKN040 26/24 Q1011 NOSIG KUKI 221156Z AUTO 00000KT 10SM CLR 09/07 A3007 RMK AO2 SLP177 T00940072 10128 20089 55003 KVCB 221153Z AUTO 00000KT 10SM CLR 09/04 A3004 RMK AO2 SLP173 T00940044 10150 20083 50002 TSNO FOOL 221146Z 17004KT 140V210 2000 RA SCT010 FEW018CB OVC033 26/25 Q1013 TEMPO 0800 +TSRA KTTN 221153Z 03011KT 4SM RA BR SCT008 BKN013 OVC049 13/11 A2989 RMK AO2 SLP114 P0010 60014 70014 T01280111 10133 20122 53010 FOON 221100Z /////KT 7000 -RA BKN005 FEW016CB OVC023 21/21 Q1014 KVAY 221154Z AUTO 02009KT 10SM BKN010 OVC070 13/11 A2986 RMK AO2 RAE08 CIG 008V013 SLP111 P0000 60007 70007 T01280111 10128 20122 53006 KTTS 221158Z AUTO 32004KT 1/4SM FG VV001 21/20 A2996 RMK AO2 SLP148 P0001 60001 7//// T02080203 10214 20207 52013 RVRNO VISNO RWY33 CHINO RWY33 KVBT 221155Z AUTO 10004KT 10SM CLR 12/09 A3017 RMK AO1 10130 20120 52014 KUKT 221155Z AUTO 03009KT 10SM BKN014 BKN023 OVC036 12/10 A2993 RMK AO1 KTUL 221153Z 13005KT 6SM BR CLR 14/14 A3012 RMK AO2 SLP195 T01440139 10189 20144 53017 KTVC 221153Z 00000KT 10SM CLR M03/M04 A3038 RMK AO2 SLP294 I1000 I6001 T10281044 11006 21028 51014 KULM 221153Z AUTO 15015G21KT 10SM SCT050 07/04 A3012 RMK AO2 LTG DSNT W KVBW 221155Z AUTO 34006KT 10SM OVC030 10/06 A2999 RMK AO2 60001 70013 T01020055 10107 20092 KVDF 221155Z AUTO 00000KT 3SM BR CLR 18/17 A2998 RMK AO2 KTVF 221155Z AUTO 15013G21KT 10SM OVC046 11/04 A2987 RMK AO1 10120 20110 57010 KTUP 221153Z 04009KT 10SM CLR 08/07 A3018 RMK AO2 SLP217 T00830067 10122 20072 53019 RJAA 221200Z 01013KT 5000 SHRA BR FEW006 SCT012 BKN025 14/13 Q1014 TEMPO 03018G28KT 4000 RA BR FEW005 BKN008 KVDI 221155Z AUTO 02004KT 10SM CLR 10/08 A3004 RMK AO2 KTVI 221155Z AUTO 35004KT 10SM CLR 12/12 A3005 RMK AO2 KTUS 221153Z 14006KT 10SM CLR 17/09 A2997 RMK AO2 SLP111 T01670094 10206 20167 53003 KVCT 221151Z 03005KT 7SM CLR 16/13 A3003 RMK AO2 SLP167 T01560133 10167 20150 53007 KTVK 221155Z AUTO 12005KT 10SM CLR 04/04 A3027 RMK AO2 KTVL 221153Z AUTO 18003KT 10SM CLR M01/M04 A3015 RMK AO2 SLP188 T10061044 10022 21011 51004 $ KVCV 221155Z AUTO 17003KT 10SM CLR 11/03 A2998 RMK AO2 RJAF 220729Z 33007KT 9000 -RA VCFG FEW006 SCT011 BKN025 11/09 Q1013 RMK 2ST006 4ST011 7SC025 A2994 LKVO 221100Z 25010KT 5000 -RA BR OVC017 05/04 Q1007 KTWF 221153Z 18007KT 10SM CLR 03/M01 A3012 RMK AO2 SLP184 70005 T00331011 10056 20028 53004 MDCY 221200Z 00000KT 9999 FEW018 23/22 Q1014 NOSIG RJAH 221200Z 01009KT 7000 -SHRA FEW008 BKN010 OVC020 13/11 Q1014 RJAI 220130Z 03006G21KT 4000 -SHRA BR FEW003 SCT006 BKN010 16/13 Q1012 RMK 1ST003 3ST006 6CU010 A2990 KTVR 221153Z AUTO 00000KT 10SM CLR 08/07 A3012 RMK AO2 SLP207 T00830072 10161 20078 53012 KUNI 221155Z AUTO 31005KT 10SM OVC014 08/05 A3019 RMK AO2 60001 70001 T00790052 10079 20073 RJAK 212325Z 06013KT 2500 -SHRA BR BKN010 OVC020 16/15 Q1013 RMK 6ST010 8CU020 A2991 RJBB 221200Z 03019KT 9999 FEW010 SCT030 BKN100 18/11 Q1013 NOSIG RJBD 221000Z 32011KT 9000 -SHRA FEW008 SCT020 BKN030 17/16 Q1009 KVEL 221153Z AUTO 29005KT 10SM CLR 05/03 A3013 RMK AO2 SLP181 70004 T00500028 10100 20044 53012 SABE 221200Z 35009KT CAVOK 22/16 Q1018 RJBE 221200Z 04010KT 9999 FEW010 SCT030 BKN060 17/12 Q1013 KTWM 221154Z AUTO 19003KT 10SM CLR 02/M04 A3021 RMK AO2 KUNO 221153Z AUTO 08004KT 10SM CLR 07/04 A3024 RMK AO2 SLP240 T00720044 10106 20067 51015 SAAR 221200Z 02010KT CAVOK 23/14 Q1016 RJCA 220027Z VRB01KT 6000 FEW003 SCT010 BKN060 02/M01 Q1019 RMK 1ST003 4ST010 5CU060 A3009 KVER 221155Z AUTO 11005KT 1/4SM FG VV002 08/05 A3025 RMK AO2 T00750050 10241 20038 RJAT 220318Z 05005KT 0800 -SHRA FG FEW000 SCT004 BKN008 15/15 Q1012 RMK 1ST000 3ST004 5ST008 A2990 RJCB 221100Z VRB01KT 9999 FEW050 02/M00 Q1018 KVES 221155Z AUTO 35006KT 10SM OVC021 05/05 A3027 RMK AO2 RJCC 221200Z 33004KT 9999 FEW050 01/M04 Q1020 EYKA 221150Z 08014KT 040V100 9999 OVC017 03/M02 Q1012 KTXK 221153Z 07005KT 5SM BR CLR 13/12 A3014 RMK AO2 SLP204 T01280122 10161 20117 53017 KUNU 221155Z AUTO 00000KT 10SM CLR M01/M01 A3035 RMK AO2 T10101015 10010 21016 RJAW 221200Z 03005KT 9999 FEW020 24/19 Q1014 RMK 2CU020 A2996 KUNV 221153Z 36007KT 10SM OVC016 09/06 A3003 RJCH 221100Z 02007KT CAVOK 04/M00 Q1019 RJCK 221100Z 36005KT 9999 FEW040 04/M03 Q1019 RJBT 220900Z 02009KT 9999 -SHRA FEW003 SCT010 BKN020 14/12 Q1014 RJDC 221200Z 35004KT 270V040 9999 FEW015 SCT040 BKN070 16/12 Q1016 RJCM 221100Z 21003KT 170V290 9999 FEW040 01/M03 Q1019 RJCN 220900Z 28002KT 9999 FEW050 01/M02 Q1018 RJCO 220221Z 31010KT 9999 FEW040 BKN060 09/00 Q1018 RMK 1CU040 5CU060 A3008 SADF 221200Z 34009KT 280V010 CAVOK 22/16 Q1018 SACO 221200Z 02016KT CAVOK 24/18 Q1017 KUOX 221155Z AUTO 00000KT 10SM CLR 07/06 A3019 RMK AO2 PWINO PNO KTYQ 221155Z AUTO 02004KT 10SM CLR 02/00 A3030 RMK AO2 T00151001 10045 20015 FQCH 221200Z 19008KT 9999 SCT015 27/14 Q1022 KTYR 221153Z 00000KT 6SM BR CLR 16/14 A3011 RMK AO2 SLP190 T01560139 10178 20156 53012 RJCT 212216Z 32002KT 9999 FEW020 BKN040 04/M03 Q1017 RMK 2CU020 5CU040 A3006 W/E FQBR 221200Z 10012KT 9999 FEW020 SCT070 27/20 Q1017 RJEB 220700Z 13003KT 080V160 9999 FEW050 06/M02 Q1016 KTYS 221153Z 02005KT 10SM SCT039 07/05 A3017 RMK AO2 SLP214 T00670050 10089 20056 53017 RJEC 221100Z 17003KT 9999 FEW040 M00/M05 Q1019 KVGT 221153Z 31008KT 10SM CLR 18/M04 A2994 RMK AO2 SLP135 T01781039 10222 20161 53015 RJDM 220709Z 03015G35KT 9999 -RA FEW010 BKN040 BKN060 18/13 Q1012 RMK 1ST010 5SC040 7SC060 A2990 RJCW 220900Z 19006KT 9999 FEW040 01/M05 Q1017 KVIH 221153Z AUTO 10007KT 10SM CLR 06/04 A3023 RMK AO2 SLP238 T00560039 10094 20056 51016 KTZR 221155Z 33010G14KT 10SM OVC008 06/05 A3024 RJDT 221100Z 03015G25KT 350V070 9999 FEW025 SCT030 BKN035 16/10 Q1018 MDJB 221200Z 00000KT 9999 SCT016 23/22 Q1015 NOSIG RJFE 220239Z 02014KT 9999 FEW010 BKN015 BKN020 20/17 Q1011 RMK 2CU010 5CU015 6CU020 A2987 LLSD 221150Z 30008KT CAVOK 26/13 Q1013 RJFF 221200Z 01012KT 9999 -RA FEW020 BKN040 BKN050 17/13 Q1017 KUSE 221155Z AUTO 33006KT 10SM OVC025 06/03 A3030 RMK AO2 RJFG 220900Z 28015KT 9999 FEW015 SCT020 BKN/// 21/19 Q1011 KVJI 221155Z AUTO 00000KT 10SM OVC028 07/03 A3014 RMK AO2 T00700030 10088 20066 RJFK 221200Z 34008KT 9999 FEW030 16/14 Q1013 KVIS 221155Z 00000KT 10SM CLR 09/03 A3003 RMK AO1 10140 20090 52003 KUTA 221155Z AUTO 36004KT 10SM CLR 08/07 A3020 RMK AO2 KY19 221155Z AUTO 28016G20KT 10SM CLR 13/08 A2978 RMK AO2 RJFM 221200Z 02020KT 9999 FEW010 SCT020 BKN030 21/16 Q1011 KWAL 221154Z AUTO 35007KT 2 1/2SM BR BKN006 OVC017 13/12 A2980 RMK AO2 SLP089 70029 T01330122 10133 20128 51004 RJFO 221200Z 32007KT 9999 FEW015 SCT030 BKN045 17/14 Q1015 KY23 221155Z AUTO 12007KT 10SM CLR 02/01 A3028 RMK AO2 T00170005 10037 20016 RJGG 221200Z 33010KT 9999 -SHRA FEW009 SCT020 BKN060 17/14 Q1012 NOSIG SAEZ 221200Z 35008KT 310V050 CAVOK 22/13 Q1018 RJFR 221200Z 36015KT 9999 FEW020 SCT030 BKN060 17/13 Q1016 RJFS 221200Z 01010KT 9999 FEW025 SCT035 17/11 Q1016 RJFT 221200Z 02007KT 350V050 9999 FEW020 SCT030 BKN040 16/13 Q1015 RJFU 221200Z 36016KT 9999 FEW020 SCT030 BKN045 18/14 Q1015 EYPA 221150Z 08016KT 9999 FEW013 BKN110 BKN150 03/01 Q1011 KVLD 221153Z 36005KT 10SM CLR 12/08 A3002 RMK AO2 SLP173 T01170083 10122 20106 51012 RJFY 212119Z 28008KT 8000 -SHRA FEW003 SCT010 BKN015 FEW015CB 21/20 Q1010 RMK 2ST003 4CU010 7CU015 1CB015 A2985 CB 10KM NE MOV NE KUTS 221153Z AUTO 00000KT 7SM BKN003 14/13 A3008 RMK AO2 SLP184 T01390128 10167 20139 53013 KUVA 221155Z AUTO 07006KT 10SM OVC080 20/13 A3007 RMK AO2 T02000133 10227 20200 KVKS 221155Z AUTO 00000KT 3/4SM BR VV005 10/10 A3012 RMK A01 KVLL 221155Z AUTO 01005KT 10SM OVC018 08/04 A3031 RMK AO2 T00760036 10079 20076 GGOV 221100Z 20004KT CAVOK 31/23 Q1013 NOSIG KWDG 221150Z 16005KT 3SM BR SKC 12/12 A3008 SBAA 221100Z 02005KT CAVOK ///// Q1013 MDLR 221200Z 00000KT 9999 FEW016 25/24 Q1014 KY50 221156Z AUTO 00000KT 10SM CLR M05/M06 A3036 RMK AO2 TSNO 53013 T10501055 11022 21050 SLP288 KY49 221155Z AUTO 16011G17KT 10SM CLR 07/03 A3004 RMK AO2 T00700030 10083 20070 KVNC 221155Z AUTO 21/20 A2996 RMK AO2 TSNO LMML 221115Z 31027G38KT 9999 FEW035 26/16 Q1009 NOSIG KUUU 221153Z AUTO 01012KT 9SM OVC004 12/11 A2993 RMK AO2 SLP133 T01220106 10144 20122 58002 KY51 221155Z AUTO 14006KT 5SM CLR 01/01 A3030 RMK AO1 T00100010 10028 20010 SBAF 220800Z 02002KT 5000 BR BKN015 OVC030 18/16 Q1021 RJKA 221000Z VRB06G16KT 9999 FEW015 BKN180 23/16 Q1012 KWDR 221115Z AUTO 36003KT 10SM CLR 08/06 A3008 RMK AO2 T00790056 KVOA 221155Z AUTO 05019KT 10SM CLR 25/15 A3000 RMK A01 EYSA 221150Z 07011G23KT 9999 OVC016 01/M01 Q1014 SBAN 221100Z 03005KT CAVOK 22/15 Q1020 SBBE 221200Z 08008KT 9999 SCT020 BKN100 28/24 Q1013 KY63 221156Z AUTO 14023G30KT 10SM SCT085 10/05 A2995 RMK AO2 LTG DSNT SE T00960045 10114 20095 SBBG 212100Z 09005KT CAVOK 23/13 Q1020 FQIN 221100Z 19015KT 9999 BKN020 27/16 Q1021 SBAQ 212200Z 32006KT CAVOK 33/17 Q1013 SBBH 220800Z 10009KT 9999 SCT023 SCT090 19/15 Q1019 SBBI 221100Z 10007KT 9999 BKN009 14/12 Q1024 SBAR 221200Z 12011KT 9999 SCT020 28/18 Q1017 SBCA 221100Z 09020KT CAVOK 19/14 Q1021 SBAT 221100Z 02001KT 9999 SCT030 FEW045TCU 26/23 Q1013 SBCB 221200Z 07007KT 9999 FEW010 27/16 Q1023 SBCC 221100Z 02004KT 9999 FEW035TCU BKN100 24/19 Q1014 SBAU 220800Z 18016KT CAVOK 18/11 Q1016 KVOK 221158Z 12002KT 10SM CLR M05/M05 A3033 RMK AO2A SLP286 51010 KY70 221154Z AUTO 00000KT 10SM OVC020 02/01 A3034 RMK AO2 T00230010 MDPC 221200Z 14008KT 9999 FEW023 29/23 Q1015 NOSIG KVPC 221153Z AUTO 33003KT 10SM CLR 07/04 A3012 RMK AO2 SLP193 T00720044 10089 20050 51012 KUXL 221155Z AUTO 02003KT 10SM CLR 17/16 A3006 RMK AO2 T01690155 10171 20140 SBAX 211800Z 17009KT 9999 SCT020 29/11 Q1017 SBCF 221200Z 10014KT 9999 SCT030 BKN100 21/14 Q1022 KUYF 221155Z AUTO 34010KT 10SM SCT007 OVC028 05/03 A3023 RMK AO2 SBCG 221200Z 09015KT CAVOK 22/15 Q1018 SBBQ 220800Z 11005KT 3500 BR FEW005 12/10 Q1024 SBCH 221100Z 12008KT CAVOK 17/08 Q1022 KVNY 221151Z 00000KT 10SM CLR 14/09 A2989 RMK AO2 SLP113 T01440094 10194 20139 50001 SBCI 221100Z 36002KT 7000 FEW030 28/22 Q1013 SBBR 221200Z 07008KT 9999 FEW020 BKN100 23/17 Q1021 SBCJ 221200Z 00000KT 9999 BKN009 23/20 Q1018 KUZA 221154Z AUTO 33004KT 10SM CLR 06/03 A3005 RMK AO2 SLP173 T00610028 10117 20056 53018 SBBU 220800Z 16010G20KT CAVOK 17/14 Q1018 FPST 221100Z 18012KT 9999 FEW017CB BKN040 28/24 Q1014 NOSIG SBCM 221100Z 08002KT CAVOK 20/15 Q1023 SBBV 221200Z 18004KT 9999 FEW035 BKN070 25/21 Q1014 SBBW 221100Z 12004KT CAVOK 28/18 Q1015 FQLC 220800Z 12022KT CAVOK 21/12 Q1024 SAME 221200Z 18005KT CAVOK 25/12 Q1014 SBCO 221100Z 12003KT 7000 3000NE NSC 18/16 Q1022 SBCP 221200Z 21006KT 9999 FEW015 OVC100 22/18 Q1022 MDPP 221200Z 00000KT CAVOK 27/23 Q1014 NOSIG SBCR 221200Z 12009KT CAVOK 30/20 Q1014 SBCT 221200Z 11008KT 9999 SCT010 BKN013 15/11 Q1025 KVPS 221155Z 36002KT 10SM FEW035 FEW250 13/11 A3004 RMK AO2A SLP179 T01290106 10154 20129 52012 $ FQMA 221200Z 12004KT 080V140 9999 BKN020 BKN025 24/16 Q1022 NOSIG KVRB 221153Z 28003KT 1/2SM FG VV002 19/17 A2996 RMK AO2 SLP144 70156 T01940172 10194 20189 51013 $ SBDN 220800Z 14010KT CAVOK 16/12 Q1017 SBCX 221100Z 03008KT 9999 FEW010 14/12 Q1023 RJNG 221025Z 02001KT 9999 FEW020 SCT030 BKN040 16/15 Q1010 RMK 1CU020 4CU030 7SC040 A2985 SBEG 221200Z 35002KT CAVOK 26/23 Q1013 SBCY 221200Z 09002KT CAVOK 30/22 Q1014 KWHP 220247Z 14004KT 10SM SCT200 20/14 A2990 RMK LAST SBCZ 221200Z 00000KT 9999 OVC008 23/23 Q1015 KVPZ 221156Z AUTO 05003KT 10SM CLR 00/M01 A3034 RMK AO2 SLP278 T00001006 10033 20000 51013 TSNO KVQQ 221150Z 00000KT 10SM CLR 10/10 A3000 RJOA 221200Z 01006KT 320V050 9999 FEW020 BKN060 14/10 Q1015 SBEK 221100Z 28003KT 5000 -TSRA FEW025CB OVC070 ///// Q1013 RJNK 221200Z 03014KT 9999 SCT015 BKN025 OVC035 14/11 Q1015 RJOB 221200Z 01004KT 300V050 9999 FEW020 SCT080 BKN/// 13/11 Q1015 EYVI 221150Z 09008KT 050V110 9999 OVC015 01/M02 Q1012 NOSIG SAOC 221200Z 34014KT CAVOK 24/11 Q1014 RJOC 221100Z 03017KT 9999 -SHRA FEW010 SCT020 BKN030 17/13 Q1017 KVQT 221155Z AUTO 06012G18KT 10SM SCT034 24/16 A3001 RMK A01 RJOE 220437Z 30007KT 9999 -SHRA FEW012 SCT025 BKN045 21/15 Q1009 RMK 2CU012 3CU025 5SC045 A2980 MDSD 221200Z 00405KT 9999 FEW016CB FEW018 25/23 Q1014 CB/SE/SW RJOF 220739Z VRB02KT 9999 -SHRA FEW008 SCT030 BKN040 17/14 Q1012 RMK 1ST008 3CU030 6CU040 A2991 KVSF 221154Z AUTO 06003KT 6SM BR BKN017 OVC022 09/07 A3011 RMK AO2 SLP200 60001 70005 T00890072 10094 20089 53014 KWJF 221156Z 00000KT 10SM CLR 12/01 A2998 RMK AO2 SLP143 T01170011 10150 20111 50004 RJOH 221200Z 03016KT 9999 FEW025 BKN030 BKN045 17/10 Q1017 KVSH 221155Z AUTO 04004KT 10SM CLR 19/12 A3005 RMK AO1 10210 20190 52007 RJOI 221155Z 36014KT 9999 FEW030 BKN060 OVC100 17/12 A2999 RMK SLP154 60005 70093 T01720117 10178 20161 52014 SBFI 221200Z 08009KT CAVOK 23/15 Q1019 SBES 220800Z 31003KT 9999 SCT015 BKN025 17/17 Q1020 RJNS 221100Z 06009KT 030V090 8000 -SHRA FEW003 SCT006 BKN010 15/14 Q1012 SANT 221100Z 23003KT 7000 NSC 22/17 Q1014 RJOK 221100Z 35012KT 9999 FEW025 SCT070 19/12 Q1010 RJNT 221200Z 02009KT 340V050 9999 FEW020 SCT040 BKN100 14/09 Q1015 KVTA 221154Z AUTO 32008KT 10SM BKN011 BKN022 OVC036 08/06 A3020 RMK AO2 SLP230 70003 T00780056 10083 20078 51017 SBFL 221200Z 27002KT 9999 SCT030 21/14 Q1024 RJOM 221200Z 02013KT 9999 FEW030 BKN070 17/13 Q1014 SBFN 221200Z /////KT 9999 FEW023 29/22 Q1015 RJNW 221000Z 04007KT 9999 FEW015 SCT030 BKN120 11/09 Q1016 LOAN 221100Z 30015G32KT 18KM FEW015CU SCT020SC BKN050SC RMK BKN RJOO 221100Z 35006KT 290V030 9999 FEW010 SCT025 BKN080 17/12 Q1012 RJOP 221104Z 32018G31KT 9999 FEW006 BKN025 OVC045 18/14 Q1013 RMK 1ST006 5CU025 8SC045 A2991 RJNY 221125Z 06015G25KT 030V100 5000 -SHRA BR FEW006 BKN015 BKN020 15/14 Q1011 RMK 1ST006 5CU015 6CU020 A2987 FQNP 221200Z 23014KT 9999 FEW020 30/23 Q1016 RJOR 221200Z 03024KT 9999 FEW020 SCT030 BKN045 16/10 Q1016 RJOS 221042Z 02017G29KT 9999 FEW006 SCT025 OVC045 18/13 Q1012 RMK 1ST006 4CU025 8SC045 A2991 SBFS 220815Z 27004KT 7000 FEW020 BKN040 OVC100 17/17 Q1020 RJOT 221200Z 30003KT 260V340 9999 FEW005 SCT020 BKN035 15/13 Q1015 VYMD 221130Z 34002KT 8000 SCT025 28/23 Q1011 SBGL 221200Z 33008KT 9999 SCT015 BKN045 21/16 Q1023 MDST 221200Z 00000KT 9999 FEW018 24/23 Q1014 NOSIG SBGM 221100Z 00000KT 9999 BKN014 25/23 Q1013 FQPB 221200Z 11012KT 9999 FEW025 28/22 Q1014 LOAV 221100Z 29014G46KT 22KM SCT020CU BKN120AS 09/02 Q1007 RMK BKN RJOW 221000Z 06007KT 020V100 9999 -SHRA FEW015 SCT020 BKN030 15/13 Q1016 KWLD 221154Z AUTO 12004KT 8SM CLR 15/14 A3012 RMK AO2 SLP193 T01500144 10178 20150 53017 SBGO 221200Z 03009KT CAVOK 27/14 Q1018 KVTN 221152Z AUTO 19009KT 10SM FEW090 SCT110 14/11 A2987 RMK AO2 RAB02E18 SLP104 P0000 60000 T01440106 10172 20144 50012 RJOY 221000Z 01004KT 310V050 9999 VCSH FEW015 BKN030 BKN045 17/13 Q1012 RJOZ 220232Z 01022G39KT 9999 -SHRA FEW012 SCT025 BKN050 19/15 Q1010 RMK 1CU012 3CU025 7SC050 A2984 SBFZ 221200Z 12017KT 9999 SCT025 28/19 Q1015 KVTP 221150Z AUTO 19009G17KT 150V240 10SM CLR 02/00 A3028 RMK AO2 KXBP 221155Z AUTO 06003KT 7SM CLR 12/12 A3012 RMK AO2 T01150115 10152 20111 SBGR 221200Z 12007KT 9999 BKN015 18/15 Q1024 KVUJ 221155Z AUTO 35007KT 10SM CLR 09/05 A3005 RMK AO2 T00900047 10115 20080 SBIC 221100Z 30002KT CAVOK 24/24 Q1013 SBGU 221100Z 09012KT 9999 BKN015 13/09 Q1023 SARC 221200Z 09007KT CAVOK 24/14 Q1016 KWMC 221156Z AUTO 11004KT 10SM CLR M03/M07 A3013 RMK AO2 SLP202 T10281072 10011 21028 53005 SBGW 220800Z 04002KT 9999 FEW013 OVC043 17/13 Q1021 SARE 221200Z 09007KT CAVOK 25/14 Q1016 SARF 222200Z 14007KT 9000 NSC 24/15 Q1016 KVUO 221153Z AUTO 15008KT 10SM OVC037 15/10 A2978 RMK AO2 SLP085 60005 70006 T01500100 10150 20128 57008 $ SBIH 221100Z 00000KT 6000 FEW008 26/25 Q1012 KVVG 221155Z AUTO 16/16 A2989 RMK A01 SARI 221200Z 05012KT CAVOK 22/17 Q1020 RJSA 221200Z 18002KT CAVOK 01/01 Q1019 SASA 221200Z 00000KT 9999 FEW025 SCT100 21/13 Q1021 SBHT 221100Z 00000KT 9999 BKN015 26/25 Q1013 RKJB 221200Z 03001KT 9999 SCT040 14/13 Q1021 NOSIG SBIL 221100Z 12004KT 9999 SCT025 27/21 Q1017 RJSC 221000Z 16004KT 9999 FEW003 SCT020 BKN030 11/08 Q1016 SARL 221100Z 09012KT CAVOK 19/14 Q1018 FQQL 221200Z 15005KT 9999 FEW010 30/18 Q1016 SBJF 220000Z 20005KT 3000 BR BKN002 OVC008 14/14 Q1023 RJSF 221050Z 34009KT 0900 R01/P1800N -SHRA FG SCT001 BKN002 10/10 Q1015 RMK 3ST001 7ST002 A3000 SBIP 220815Z 27002KT 9999 BKN030 OVC090 22/19 Q1018 SARP 221200Z 05009KT CAVOK 23/13 Q1019 RJSH 211527Z 32005KT 290V350 5000 BR SCT010 BKN025 12/12 Q1014 RMK 3ST010 7CU025 A2995 RJSI 221000Z 02007KT 9999 FEW030 SCT070 BKN180 08/05 Q1017 SASJ 221200Z 00000KT CAVOK 25/16 Q1017 SCBA 221200Z 30015KT 9999 FEW015 07/04 Q1012 RJSK 221200Z 32003KT 9999 FEW030 BKN200 07/06 Q1018 RKJK 221207Z AUTO 05004KT 10SM CLR 14/11 A3015 RMK AO2 RJTC 220726Z 01004KT 4500 RA BR FEW003 SCT005 BKN015 14/12 Q1014 RMK 2ST003 3ST005 6SC015 A2994 HAAB 221200Z 09016KT 9999 SCT025 22/11 Q1026 RJTE 220747Z 02012KT 340V050 6000 +SHRA FEW007 BKN012 FEW012TCU BKN030 16/14 Q1011 RMK 1ST007 5CU012 1TCU012 7CU030 A2986 TCU OHD MOV UNKNOWN RJSN 221200Z 16003KT 9999 BKN025 BKN140 12/08 Q1017 KVVV 221153Z AUTO 14015G20KT 10SM CLR 09/05 A2993 RMK AO2 RJSO 212329Z 03012KT 9999 FEW025 BKN120 09/01 Q1018 RMK 1CU025 7AC120 A3008 RJTF 220736Z 36004KT 320V030 5000 SHRA BR FEW008 BKN015 BKN020 14/11 Q1013 RMK 1ST008 5CU015 6CU020 A2994 SBKG 221100Z 11008KT 9999 VCSH SCT012 BKN019 BKN070 23/20 Q1018 SBJP 221200Z 09010KT 060V120 9999 SCT030 BKN039 28/19 Q1016 SCAP 221200Z AUTO VRB05KT //// // FEW020 10/06 Q1022 SBIZ 221100Z 09004KT 8000 -RA SCT030 OVC070 24/23 Q1014 RETS SBJR 220815Z 01003KT 9999 FEW018 OVC040 19/19 Q1021 RJTI 220708Z 02010KT 350V060 7000 -SHRA FEW007 SCT009 BKN020 14/12 Q1013 RMK 1ST007 3CU009 5CU020 A2992 RJSR 221000Z 01004KT 9999 FEW020 BKN/// 06/04 Q1017 SCAR 221200Z 33002KT 9999 OVC021 19/13 Q1014 SCAS 221200Z 00000KT 9999 SCT006 BKN033 09/09 Q1014 RJSS 221200Z 01006KT 9999 FEW010 SCT020 BKN030 12/09 Q1017 SBLB 220830Z 18013KT 9999 BKN020 OVC080 22/16 Q1020 W///S3 RJTK 220735Z 02015KT 6000 -SHRA FEW006 BKN008 OVC015 15/14 Q1012 RMK 1ST006 5ST008 8CU015 A2990 SCAT 221200Z 33007KT CAVOK 14/10 Q1016 RJSU 220722Z 35004KT 9999 -RA FEW010 SCT020 BKN030 13/09 Q1015 RMK 1ST010 3CU020 6SC030 A3000 SBJU 221100Z 08006KT 9999 BKN020 28/21 Q1019 RJTL 220749Z 03009KT 360V060 8000 -SHRA FEW008 BKN010 BKN012 13/12 Q1013 RMK 1ST008 5ST010 6CU012 A2993 SBJV 221100Z 32001KT 9999 FEW015 SCT025 21/17 Q1023 KVWU 221154Z AUTO 14011G17KT 10SM CLR 07/04 A2998 RMK AO2 KXFL 221150Z 33004KT 7SM CLR 15/14 A2998 SBLE 221130Z 14008KT 9999 BKN030 24/17 Q1020 RJTO 220715Z 04021KT 8000 -SHRA FEW005 SCT008 BKN025 15/14 Q1011 RMK 1ST005 4ST008 7CU025 A2987 SCCF 221200Z 10014KT CAVOK 15/M14 Q1026 RJSY 221200Z 09003KT 9999 FEW030 BKN190 08/06 Q1017 SBKP 221200Z 14015KT 9999 FEW040 22/12 Q1021 SCCH 221200Z 21006KT 2000 BR OVC005 12/10 Q1018 RJTR 212215Z 32004KT 1SM -RA BR FEW007 SCT020 BKN040 OVC045 18/16 A2987 RMK FIRST SCCI 221200Z 27016KT 9999 SCT030 06/M01 Q1004 NOSIG SBMA 221200Z 02002KT 9999 -RA SCT012 FEW030TCU BKN100 24/23 Q10 15 RETS SCDA 221200Z 24002KT 9999 BKN022 18/12 Q1015 RJTT 221200Z 02017KT 6000 -SHRA FEW007 BKN010 BKN050 14/13 Q1014 TEMPO FEW005 BKN008 RJTU 220540Z 07009KT 9000 -RA FEW009 SCT020 BKN070 14/12 Q1014 RMK 1ST009 3SC020 7AC070 A2994 SAVC 221200Z 27020G34KT CAVOK 16/M00 Q1010 SBMD 221100Z 05004KT 9999 FEW016 ///// Q1013 SAVE 221200Z 27013KT 9999 FEW030 10/02 Q1014 SBME 220800Z 30004KT 8000 SCT020 OVC080 18/18 Q1020 SBLO 221200Z 13012KT CAVOK 23/13 Q1021 SBLP 221100Z 12006KT 9999 FEW030 29/17 Q1017 SBMG 221100Z 11009KT CAVOK 18/12 Q1020 RJTY 221158Z AUTO 03005KT 7SM RA FEW010 OVC027 13/13 A3003 RMK AO2 OVC V BKN CIG 007 RWY18 SLP172 P0006 60044 T01300129 10141 20129 53011 SBLS 220800Z 14011KT 9999 SCT020 BKN070 19/15 Q1019 SBMK 220900Z 05006KT 9999 FEW025 BKN080 21/17 Q1017 KVYS 221155Z AUTO 03003KT 10SM CLR 01/00 A3034 RMK AO2 T00070001 10042 20000 SBML 220800Z 13018KT CAVOK 16/11 Q1018 KWRB 221158Z AUTO 36002KT 10SM CLR 08/08 A3006 RMK AO2 SLP182 70001 T00830076 10123 20078 52017 FQTT 221200Z 15011KT CAVOK 33/16 Q1016 SBMN 221200Z 27002KT 9999 FEW008 27/23 Q1013 SAWE 221200Z 25015KT CAVOK 07/00 Q1001 SBNF 221200Z 15008KT 9999 SCT025 SCT050 21/16 Q1023 SBMO 221200Z 12009KT 9999 SCT020 26/20 Q1017 SCCY 221200Z 36003KT 9999 -SHRA BKN030 07/06 Q1013 SAWG 221200Z 25019KT 9999 FEW025 07/M03 Q1006 SAWH 221200Z 00000KT 9999 BKN040 04/M00 Q0998 SBMQ 221200Z 05007KT 9999 SCT020 32/24 Q1013 LOIH 220900Z 15007KT 20KM SCT015SC BKN030SC 08/05 Q1019 RMK OVC KXIH 221155Z AUTO 09016KT 10SM CLR 24/17 A3002 RMK A01 SBMS 221100Z 09010KT 9999 SCT025 30/20 Q1015 KWRI 221202Z AUTO 01009KT 8SM -RA FEW007 SCT049 OVC080 13/12 A2985 RMK AO2 SCFA 221200Z 32005KT 9000 OVC017 16/12 Q1015 NOSIG SBMT 221000Z 13009KT 9999 BKN010 OVC013 16/13 Q1023 SCEL 221200Z VRB03KT CAVOK 16/10 Q1016 NOSIG KWRL 221153Z AUTO 19008KT 9SM -SN CLR 00/M06 A3004 RMK AO2 SLP164 P0000 60000 T00001061 10050 21006 53015 FQVL 221100Z 12011KT 9999 BKN020 24/16 Q1019 SBMY 221100Z 36004KT CAVOK 25/24 Q1013 SBOI 221200Z 08003KT 9999 SCT017 28/24 Q1013 SBPA 221200Z 08005KT CAVOK 20/15 Q1022 SBPB 221200Z 09018KT 9999 FEW020 33/21 Q1014 SBNT 221200Z 11014KT 9999 BKN025 29/19 Q1016 SBPC 220915Z 08004KT 9999 BKN010 17/14 Q1022 RKPC 221200Z 12008KT 9999 SCT035 17/12 Q1020 NOSIG SCGE 221200Z 18006KT CAVOK 12/10 Q1018 SBPF 221100Z 06020KT CAVOK 14/13 Q1022 RKNY 221200Z AUTO 24005KT 3000 ///044 10/07 Q1022 LPAR 221200Z 00000KT CAVOK 26/18 Q1025 SBPJ 221100Z 16007KT 9999 FEW030 SCT100 26/21 Q1014 LPBJ 221200Z VRB02KT CAVOK 30/15 Q1026 RKPK 221200Z 03007KT 9999 BKN050 13/09 Q1021 NOSIG SCFT 221200Z 32010KT 270V030 9999 VCSH SCT020 BKN040 09/05 Q1017 SBPK 221200Z 05009KT 9999 FEW015 20/17 Q1022 MGCB 221200Z 23004KT 9999 SCT016 SCT200 16/15 QFE 866.9 SBPL 221200Z 12011KT 9999 BKN035 28/18 Q1018 KWST 221202Z AUTO 02009KT 10SM OVC010 12/11 A2994 RMK AO2 T01220106 SBPN 221100Z 18006KT 9999 FEW025 BKN100 25/21 Q1013 SBPP 221200Z 03017KT CAVOK 21/17 Q1019 SBPR 220820Z 18006KT 9999 BKN025 BKN080 19/15 Q1020 LPAZ 221200Z 12018KT 9999 FEW014 BKN050 21/18 Q1017 SBPS 221200Z 00000KT 8000 SCT010 OVC030 24/22 Q1018 SBRB 221200Z 22006KT CAVOK 22/21 Q1015 SCIC 221200Z 18007KT 9999 BKN006 13/11 Q1016 SAZM 221200Z 32018KT CAVOK 21/14 Q1014 SBPV 221200Z 20003KT CAVOK 25/22 Q1013 KXLL 221155Z AUTO 02009KT 10SM -RA OVC012 12/10 A2994 RMK AO2 SAZN 221200Z 23005KT CAVOK 19/09 Q1015 SCIE 221200Z 17004KT 130V210 9999 OVC006 13/12 Q1018 SBRF 221200Z 05004KT 6000 -RA BKN019 BKN060 26/22 Q1016 MGCP 211900Z 22004KT 9999 SCT016 BKN080 26/24 QFE 1005.3 SAZS 221200Z 32010KT 9999 FEW030 SCT200 12/03 Q1017 SBRJ 221200Z 03002KT 9999 FEW020 BKN050 22/17 Q1022 KWVI 221153Z AUTO 31003KT 10SM CLR 11/08 A3004 RMK AO2 SLP170 T01060078 10133 20106 56004 KXNA 221153Z 00000KT 6SM BR CLR 10/09 A3016 RMK AO2 SLP209 T01000094 10133 20100 51012 SBSC 220800Z 35004KT 9999 FEW025 BKN040 18/17 Q1020 FSIA 221200Z 15004KT 9999 SCT019 30/23 Q1011 NOSIG X SBQV 221100Z 08009KT 9999 BKN018 SCT080 22/16 Q1021 KWVL 221155Z 02010KT 10SM BKN010 OVC025 07/03 A3017 RMK AO1 60006 70054 10070 20070 52017 KWWD 221155Z AUTO 36007KT 10SM FEW006 13/10 A2983 RMK AO1 60002 70015 10140 20120 52014 SBRP 221200Z 10009KT 060V150 CAVOK 26/15 Q1019 RKSG 221155Z 10004KT 7SM CLR 13/09 A3016 RMK AO2A SLP219 $ SCIP 221200Z 12009KT 080V160 9999 BKN020 16/06 Q1025 NOSIG SCIR 221200Z 15007KT 9999 OVC006 14/13 Q1020 RKSI 221200Z 07005KT 9999 SCT040 12/07 Q1022 NOSIG SBTA 220800Z /////KT 6000 BKN015 SCT070 ///// Q1021 SBSJ 221200Z 13007KT 9999 FEW020 BKN030 22/13 Q1024 KXMR 221158Z AUTO 32006KT 4SM BR FEW003 21/21 A2995 RMK AO2 SLP145 T02110206 10217 20210 52013 SBTC 212020Z 02006KT 9999 FEW020 28/20 Q1015 SBSL 221200Z 06015KT 030V110 9999 SCT017 30/20 Q1013 SBSM 221115Z 11008KT 9999 SCT006 16/14 Q1021 RKSM 221100Z 16002KT 9999 FEW040 11/09 A3018 SBTE 221200Z 02003KT 9999 BKN015 BKN100 28/24 Q1014 SBSN 221200Z 10006KT 5000 -TSRA SCT010 BKN015 FEW020CB 24/22 Q1 013 RERA SCJO 221200Z VRB02KT 9999 FEW030 SCT080 14/12 Q1019 SBTF 221200Z 15002KT 9999 FEW020 26/23 Q1013 RKSO 221158Z AUTO 07003KT 7SM CLR 12/12 A3018 RMK AO2 SLP223 T01200120 10175 20120 52014 $ SBSP 221200Z 12008KT 9999 BKN015 18/12 Q1024 SBSR 220800Z 15008KT CAVOK 18/10 Q1018 SBUA 221115Z 29001KT 9999 FEW015 SCT070 24/22 Q1013 RKSS 221200Z 09005KT 9999 FEW040 12/04 Q1022 NOSIG KWWR 221155Z AUTO 19011G18KT 10SM CLR 17/10 A3010 RMK AO2 SBTK 221115Z 21001KT 9999 SCT015 BKN100 23/22 Q1015 MGES 221200Z 00000KT 6000 BKN015 BKN200 19/19 QFE 907.6 BR SBST 220800Z 00000KT 6000 SCT035 BKN070 19/16 Q1020 LPFL 221200Z 02004KT 310V070 9999 FEW006 SCT008 BKN016 20/18 Q1019 RMK WIND RWY36 04005KT 330V120 POS MID 05007KT 020V090 SBSV 221200Z 13010KT 9999 FEW017 28/19 Q1017 RKTN 221200Z 32001KT 9999 BKN050 12/10 Q1021 NOSIG SBUF 221100Z 10006KT 9999 BKN017 27/20 Q1018 SBUG 221200Z 06011KT CAVOK 21/13 Q1019 LPFR 221200Z 23003KT CAVOK 28/17 Q1023 SBTT 221200Z 00000KT 9999 FEW008 BKN100 26/24 Q1014 SBTU 221100Z 05007KT 1000 BR OVC001 25/25 Q1015 SBUL 220800Z 08010KT CAVOK 18/16 Q1017 RKTU 221200Z 07005KT CAVOK 12/08 Q1022 NOSIG VYYY 221200Z 31004KT 5000 BKN013 FEW017CB OVC100 27/26 Q1012 CB -SW SBVH 221100Z 23002KT CAVOK 23/22 Q1015 SBUR 221100Z 10009KT CAVOK 23/16 Q1020 SCMK 221200Z 36008KT 9999 SCT008 13/10 Q1015 KWYS 221155Z AUTO 21007KT 10SM OVC018 00/00 A3013 RMK AO2 MGGT 221200Z 00000KT 5000 BR BKN012 16/16 Q1021 A3015 SBUY 221100Z 00000KT 9999 SCT006 BKN090 24/23 Q1012 KXPY 221155Z AUTO 03007KT 10SM CLR 21/18 A3006 RMK A01 YABA 221208Z AUTO 32018G28KT 9999 // BKN009 BKN087 17/16 Q1014 LPHR 221200Z 05014KT 9999 SCT012 22/18 Q1016 SBVT 221200Z 20006KT 9999 SCT018 OVC080 21/17 Q1022 20 KXSA 221155Z AUTO 29005KT 10SM OVC007 12/09 A2986 RMK AO2 T01200092 10121 20117 MGHT 221200Z 00000KT 9999 OVC018 14/14 QFE 815.5 WSAP 221200Z 36001KT 9999 FEW018 BKN300 27/24 Q1011 KYIP 221153Z AUTO 01006KT 10SM OVC017 09/03 A3029 RMK AO2 SLP259 70001 T00890033 10089 20083 53015 TSNO SBYA 211900Z 00000KT 9999 FEW018 FEW025TCU 30/25 Q1008 SCNT 221200Z 29014KT 9999 FEW033 07/M00 Q1007 MHAM 221200Z 36004KT 9999 BKN025 25/25 SCON 221200Z VRB02KT 9999 SCT020 BKN100 12/10 Q1017 MHCA 221200Z 00000KT 1000 FG SCT025 BKN070 22/22 1KM NE E S FG LPLA 221200Z /////KT 9000 3000W -SHRA BKN003 OVC025 20/19 Q1018 RMK ESTMD WND 14015KT LQBK 221200Z 25008KT 9999 -RA SCT015 BKN027 05/04 Q1009 NOSIG KYKM 221153Z AUTO 00000KT 10SM OVC050 11/07 A2984 RMK AO2 SLP103 T01060067 10111 20056 56015 KYKN 221155Z AUTO 15010G16KT 10SM CLR 12/06 A2998 RMK AO1 10150 20120 54000 SCPQ 221200Z 36007KT 9999 FEW040 11/10 Q1018 MHCH 221200Z 00000KT 9999 FEW028 FEW30CB BKN080 24/24 CB SW BR SBYS 221100Z 17008KT CAVOK 20/11 Q1021 LPMA 221130Z 04013KT 9999 FEW016 28/15 Q1022 RS03006KT 0506011KT 2306015KT SCRD 221200Z 00000KT 1800 BR BKN006 11/11 Q1015 SCRG 221200Z 15008KT CAVOK 15/13 Q1015 SCQP 221200Z VRB01KT 9999 BKN007 OVC011 13/12 Q1020 KXVG 221156Z AUTO 15012G16KT 10SM CLR 06/03 A3007 RMK AO2 MGMM 212100Z 32004KT 9999 FEW020 BKN200 31/24 Q1006 A2971 SCSE 221200Z 08004KT 9999 OVC014 14/11 Q1014 KYNG 221151Z 35010KT 10SM OVC005 07/06 A3016 RMK AO2 SLP218 60000 70020 T00720061 10078 20072 51017 LOWG 221150Z 33013KT 310V010 9999 FEW050 SCT070 12/M00 Q1006 NOSIG LPMR 221200Z 01003KT 300V080 CAVOK 26/19 Q1026 LOWI 221150Z 26019G29KT 9999 -SHRA FEW012 SCT020 BKN040 06/02 Q1015 NOSIG SCTB 221200Z 00000KT CAVOK 15/12 Q1016 MGMT 221200Z 00000KT 9999 BKN013 24/23 Q1004 LPMT 221200Z 03005KT CAVOK 25/18 Q1025 LOWK 221150Z 33014KT 300V360 9999 FEW055 SCT080 12/M03 Q1008 NOSIG LOWL 221150Z 27018KT 9999 -RA FEW012 BKN014 06/04 Q1011 RERA TEMPO RA FEW010 BKN017 SCTE 221200Z 00000KT 9999 SCT026 SCT200 12/11 Q1019 NOSIG SCSN 221200Z 00000KT 0800 FG OVC002 11/11 Q1016 LOWS 221150Z 27012KT 240V310 9999 -RA FEW015 SCT024 BKN030 05/03 Q1014 NOSIG MGPB 221200Z 00000KT 9999 FEW018 BKN090 25/24 Q1007 A2974 PCPN DIST N LPPD 221200Z 10014KT 070V130 9999 -SHRA FEW007 SCT012 BKN018 20/19 Q1017 LOWW 221150Z 30022G33KT 9999 FEW023 SCT037 BKN300 09/05 Q1006 NOSIG LOWZ 221100Z 28011KT 8000 RA OVC010SC 03/02 Q1013 RMK OVC LOXT 221150Z 26019KT 25KM -SHRA FEW022CU BKN035SC 09/06 Q1007 NOSIG RMK BKN SCVD 221200Z 21004KT 170V250 9999 FEW013 14/11 Q1020 LPOV 221200Z 31004KT 7000 NSC 23/18 Q1026 LOXZ 221150Z 26018KT 20KM FEW035SC BKN060SC 07/01 Q1007 NOSIG RMK SH MON ARROUND/BKN LPPR 221200Z VRB02KT CAVOK 28/20 Q1027 LPPS 221200Z 07010KT 040V100 9999 FEW015 31/13 Q1022 RMK T/DP FM BACK-UP LPPT 221200Z 07004KT 040V120 CAVOK 27/17 Q1026 SCVM 221200Z 00000KT 2000 BR OVC003 12/12 Q1016 YBAF 221200Z AUTO 00000KT 9999 // NCD 16/11 Q1023 MGQZ 221200Z 27004KT 1000 BR -DZ OVC008 11/11 QFE 764.6 APCH CLSD YBAS 221200Z AUTO 08007KT 9999 // NCD 27/M02 Q1018 MGSJ 221200Z 00000KT 9999 -DZ FEW018 OVC090 23/23 Q1011 A2985 MGRT 221200Z 00000KT CAVOK 22/21 Q1012 A2988 OVC090 PCPN E VOL. STA. MARIA Y SANTIAGUITO EN ACTIVIDAD YBBN 221200Z 10005KT 9999 FEW034 19/12 Q1023 NOSIG LRBC 221200Z 17012KT 9999 OVC012 15/13 Q1003 YBCG 221200Z AUTO 23005KT 9999 // BKN036 16/13 Q1023 YBCK 221200Z AUTO 09005KT //// // ////// 25/05 Q1019 YAMB 221200Z AUTO 00000KT 9999 // NCD 14/10 Q1023 LRAR 221200Z 28012KT 2900 -RA BR SCT004 SCT008 09/09 Q1002 R09/19//95 LPST 221200Z 02006KT 350V060 CAVOK 30/13 Q1026 MHLC 221200Z 00000KT 9999 FEW024 BKN200 24/22 Q1007 A2975 NOSIG LRBM 221130Z 08010KT 9999 FEW017 SCT046 17/11 Q0999 R10/19//95 YBDG 221200Z AUTO 12004KT 9999 // NCD 21/11 Q1016 MHLE 221200Z 00000KT 9999 FEW020 BKN200 14/14 LRBO 220900Z 04006KT 0800 -DZ FG OVC003 13/11 Q1007 AMB AMB YBCS 221200Z 16008KT 9999 FEW026 SCT045 23/18 Q1019 LRBS 221200Z 03004KT 340V090 7000 FEW015 17/13 Q1003 NOSIG YBCV 221200Z AUTO 32003KT 9999 // SCT120 26/09 Q1020 SEGU 221200Z 25007KT 9999 FEW013 BKN020 OVC100 24/20 Q1012 NOSIG RMK A2989 LRCK 221200Z 11011KT 070V130 9999 FEW037 21/19 Q1004 NOSIG MGTU 221200Z 00000KT 9999 FEW020 OVC090 23/22 LRCL 221200Z 12006KT 090V150 9999 FEW030 SCT077 16/12 Q1000 MHLM 221200Z 24006KT 9999 FEW025 BKN250 25/24 Q1007 A2974 NOSIG YBDV 221200Z AUTO 01004KT //// // ////// 28/M01 Q1016 LRCT 221200Z VRB03KT 9999 BKN100 16/12 Q1000 BLU BLU LRCV 221200Z 06012KT CAVOK 18/12 Q1001 LQMO 221200Z 34013G26KT 300V020 9999 FEW015 SCT030 BKN050 09/05 Q1002 BGBW 221150Z 04001KT 9999 SCT003 BKN010 00/M00 Q0998 ROAH 221200Z 35016KT 9999 FEW025 24/17 Q1016 SFAL 221100Z 25012KT 9999 BKN020 XX/XX Q0999 GMAD 221200Z VRB02KT CAVOK 35/01 Q1018 NOSIG MHNO 221200Z 00000KT 9999 SCT030 20/19 Q1014 HZ GMAG 221200Z 20004KT CAVOK 35/M04 Q1017 NOSIG FTTA 221200Z 00000KT 9999 FEW040 30/22 Q1013 FTTC 221100Z 22006KT 9999 FEW040 BKN150 36/17 Q1013 FTTD 220900Z 20004KT 9999 FEW040 30/22 Q1015 HDAM 221000Z 08009KT 9999 FEW023 33/25 Q1014 YBHI 221200Z AUTO 04007KT 9999 // SCT115 30/04 Q1016 KZPH 221155Z AUTO 01003KT 15/15 A2999 RMK AO2 PWINO MGZA 221200Z 00000KT 9999 BKN018 SCT080 24/23 QFE 984.8 FTTJ 221100Z 16006KT 080V200 8000 NSC 36/20 Q1011 NOSIG YBHM 221200Z AUTO 12022KT 9999 // SCT033 22/15 Q1020 MHPL 221200Z 18006KT 9999 SCT020 BKN250 25/24 Q1011 HZ GMAT 221200Z 08004KT CAVOK 29/11 Q1018 NOSIG YARG 221200Z AUTO 35009KT 9999 // BKN090 33/17 Q1012 BGGH 221150Z 31002KT 9999 FEW030TCU BKN045 M01/M04 Q1006 SELT 221200Z 19007KT 9999 FEW003 BKN020 11/10 Q1031 LRIA 221200Z 10014KT 9999 SCT016 BKN044 14/12 Q1004 YARM 221200Z AUTO 07006KT 9999 // NCD 10/06 Q1024 FVBU 220700Z 04005KT 300V100 CAVOK 23/09 Q1025 NOSIG RODN 221205Z AUTO 32007KT 10SM SCT026 BKN032 23/18 A3001 RMK AO2 CIG 027 RWY05 $ YCBA 221200Z AUTO 05007KT //// // ////// 25/07 Q1018 YCBB 221200Z AUTO 34007KT //// // ////// 20/10 Q1021 LQSA 221200Z 00000KT 1500 SN BR BKN002 OVC015 01/00 Q1009 NOSIG WSSL 221200Z 00000KT 9000 FEW018 SCT150 BKN300 27/23 Q1011 RMK 1130Z Q1011 SEMT 221200Z 20006KT 9999 FEW010 OVC020 23/21 Q1012 RMK A2991 YBKE 221200Z AUTO 10007KT //// // ////// 23/11 Q1019 MHSC 221158Z AUTO 15003KT 9999 FEW230 21/21 A2991 RMK AO2 SLP093 T02120206 10223 20203 50011 $ MHRO 221200Z 00000KT 9999 FEW022 BKN250 27/24 Q1010 A2983 NOSIG YCAR 221200Z AUTO 24009KT 9999 // NCD 22/16 Q1018 YCAS 221200Z AUTO 22004KT //// // ////// 12/09 Q1023 WSSS 221200Z VRB01KT 9999 FEW020 BKN300 26/24 Q1012 NOSIG FVCZ 220400Z 07006KT 9999 FEW015 19/15 Q1026 FVFA 221200Z VRB08KT CAVOK 36/04 Q1017 NOSIG MHTE 221200Z 00000KT 9999 FEW024 BKN090 24/24 Q1006 HZ YCBP 221200Z AUTO 19009KT //// // NCD 27/02 Q1017 MHTG 221200Z 00000KT 9999 FEW025 18/18 Q1016 A3000 NOSIG GMFF 221200Z 05013KT 010V110 CAVOK 32/M01 Q1023 NOSIG YBMA 221200Z AUTO 00000KT 9999 // NCD 21/03 Q1017 YBKT 221200Z AUTO 31006KT //// // ////// 23/16 Q1014 MHSR 220600Z 00000KT 9999 SCT022CB SCT250 20/19 CB LTNG NW HZ YBLN 221200Z AUTO 30007KT //// // ////// 18/15 Q1012 GMFK 221200Z 14009KT 120V180 CAVOK 28/M01 Q1027 NOSIG GMFM 221200Z 06009KT CAVOK 31/00 Q1023 NOSIG BGJN 221150Z 32003KT 9999 SCT025 BKN055 M03/M08 Q1003 GMFO 221200Z 34004KT 290V080 CAVOK 30/02 Q1024 NOSIG YBNA 221200Z AUTO 00000KT 9999 // SCT031 13/12 Q1023 MHTR 221200Z 16004KT 9999 FEW025 BKN250 26/22 Q1007 HZ YBMK 221200Z AUTO 12015KT 9999 // SCT052 23/15 Q1021 FVHA 221200Z VRB06KT CAVOK 29/04 Q1023 NOSIG YCEE 221200Z AUTO 16009KT //// // ////// 14/12 Q1021 SEQM 221200Z 04001KT 9999 SCT 4000FT 12/10 Q1027 NOSIG RMK A3032 YCDO 221200Z AUTO 35007KT //// // ////// 22/08 Q1017 BGKK 221150Z 31001KT 9999 BKN083 M01/M09 Q0993 YCCY 221200Z AUTO 13009KT //// // ////// 30/M01 Q1016 ROIG 221100Z 03018KT 9999 FEW025 BKN040 24/19 Q1016 LQTZ 221200Z 27008KT 3500 RA BR BKN010 OVC025 03/03 Q1008 YCDU 221200Z AUTO 17010KT 9999 // OVC012 16/13 Q1020 YCEM 221200Z AUTO 27009KT //// // ////// 19/14 Q1017 GLRB 221200Z 19006KT 9999 BKN016 30/25 Q1013 NOSIG SESG 221100Z 27018KT 9999 FEW035 21/04 Q1016 YBNS 221200Z AUTO 03006KT 9999 // SCT120 19/13 Q1015 YBOK 221200Z 06011KT CAVOK 15/10 Q1023 YCFL 221200Z AUTO 13018KT //// // ////// 24/17 Q1018 YAYE 221200Z AUTO 09005KT 9999 // NCD 31/M04 Q1015 LROD 221200Z 23012KT 5000 BR BKN005 OVC009 10/09 Q1000 R01/25//95 YCFS 221200Z AUTO 33005KT 9999 // NCD 15/12 Q1023 SGAS 221200Z 08007KT CAVOK 28/15 Q1016 HEBA 221100Z 21005KT 9999 SCT020 27/13 Q1015 NOSIG FVKB 220400Z 06001KT CAVOK 25/09 Q1018 YBPN 221200Z AUTO 12010KT 9999 // SCT040 22/16 Q1020 LSGC 221150Z VRB04KT 9999 -SHRASN FEW015 SCT025 BKN035 02/M00 Q1023 RESHSN LSGG 221150Z VRB03KT 9999 VCSH FEW035 SCT045 07/02 Q1026 NOSIG LROP 221200Z 03006KT 340V080 6000 BKN011 16/15 Q1003 NOSIG YCHK 221200Z AUTO 16005KT 9999 // NCD 32/M02 Q1014 YAYT 221050Z 31010KT 9999 FEW035 25/03 Q1015 HEAR 220500Z 00000KT CAVOK 15/13 Q1016 NOSIG HECA 221200Z 32007KT CAVOK 26/10 Q1014 NOSIG HEAT 221100Z 35005KT CAVOK 26/12 Q1016 NOSIG HEBL 221100Z 33006KT CAVOK 32/09 Q1014 NOSIG HEAX 221100Z 24004KT 9999 FEW020 27/13 Q1015 NOSIG MHYR 221200Z 00000KT 9999 SCT020 21/20 BR YBRK 221200Z 12005KT 9999 FEW040 20/15 Q1021 YBRL 221200Z AUTO 03005KT //// // ////// 26/22 Q1014 LSGS 221150Z 26010KT 9999 -RA BKN040 BKN070 06/02 Q1024 YBRM 221200Z AUTO 32012KT 9999 // NCD 27/24 Q1011 YCIN 221200Z AUTO 35008KT //// // NCD 28/23 Q1011 GMMB 221200Z 05009KT 350V100 5000 NSC 36/04 Q1021 NOSIG FWCL 221200Z 29009KT CAVOK 28/11 Q1019 NOSIG GMMC 221200Z 08006KT 5000 NSC 27/13 Q1019 YBSG 221200Z AUTO 11007KT //// // NCD 25/18 Q1015 GMME 221130Z 08007KT 030V120 8000 FEW020 BKN200?34/02 Q1020 GMMH 221200Z 36011KT CAVOK 28/17 Q1016 NOSIG GMMI 221200Z 29007KT 8000 NSC 34/06 Q1019 NOSIG LRSB 221200Z 13014KT 9999 FEW045 19/08 Q0999 NOSIG LTAC 221150Z 22009KT 190V260 9999 FEW040 SCT200 19/00 Q1014 NOSIG SGEN 221200Z 07018KT CAVOK 23/10 Q1017 KZZV 221153Z AUTO 33008KT 10SM SCT009 BKN014 OVC027 08/06 A3018 RMK AO2 SLP223 60000 70007 T00780061 10078 20072 53020 GMML 221200Z 06010KT CAVOK 36/02 Q1018 NOSIG YBRY 221200Z AUTO 13004KT 9999 // NCD 31/01 Q1016 YBTH 221200Z AUTO 11001KT 9999 // NCD 14/11 Q1022 ROMY 221100Z 01012G24KT 340V040 9999 FEW022 24/19 Q1016 LTAF 221150Z VRB01KT 9999 FEW040 BKN100 24/06 Q1016 NOSIG GMMN 221200Z 03007KT 320V110 CAVOK 32/10 Q1020 NOSIG LTAG 221150Z 11007KT CAVOK 24/06 Q1017 NOSIG LTAH 220426Z 07003KT 020V110 5000 BR NSC 01/M01 Q1016 RMK RWY13 30003KT 250V340 SGES 221200Z 10013KT 060V130 CAVOK 24/16 Q1018 LTAI 221150Z 13008KT 080V170 9999 BKN030 23/15 Q1015 NOSIG YBSU 221200Z AUTO 10010KT 9999 // BKN038 OVC047 20/12 Q1023 YBTL 221200Z AUTO 09007KT 9999 // SCT038 24/16 Q1020 LTBA 221150Z 20010KT 170V230 CAVOK 22/10 Q1008 NOSIG LTAJ 221150Z 15005KT 100V220 CAVOK 19/05 Q1020 NOSIG YBUD 221200Z AUTO 14009KT 9999 // NCD 16/11 Q1022 YCKN 221200Z AUTO 13013KT 9999 // NCD 24/14 Q1018 LRTC 221200Z 12008KT 100V160 9999 FEW020 21/16 Q1004 LRSM 221200Z 14006KT CAVOK 16/12 Q0998 R01/29//95 FVMV 220900Z 18007KT CAVOK 27/10 Q1024 NOSIG LTAN 221150Z 20007KT 170V250 9999 SCT047 22/M01 Q1015 NOSIG LTBF 221150Z 19017KT 160V220 9999 SCT035 24/06 Q1010 NOSIG GMMW 221200Z 12002KT CAVOK 33/04 Q1022 NOSIG LTAP 221150Z 00000KT CAVOK 22/M01 Q1012 NOSIG GMMX 221200Z 34004KT 300V030 CAVOK 32/04 Q1021 NOSIG BGSF 221150Z AUTO 07006KT 9999NDV -SN SCT023/// OVC065/// M06/M07 Q1007 LTAR 221150Z 16011KT 130V190 CAVOK 17/M02 Q1018 GMMZ 221200Z VRB01KT CAVOK 27/M02 Q1027 NOSIG LTAS 220524Z 17005KT 130V220 CAVOK 10/04 Q1011 RMK RWY18 VRB02KT LTBJ 221150Z 18018KT 9999 SCT030 BKN100 24/11 Q1011 NOSIG LTCA 221150Z VRB02KT 9999 FEW035 20/05 Q1020 NOSIG LTAT 221150Z VRB02KT CAVOK 19/06 Q1019 NOSIG LTAU 221150Z VRB02KT 9999 FEW040 SCT120 21/01 Q1016 NOSIG LTCC 221150Z 06004KT 010V090 9999 SCT040 BKN100 20/10 Q1020 NOSIG LTCD 221150Z VRB01KT CAVOK 18/02 Q1019 NOSIG LRSV 221200Z 15014KT 090V170 9999 OVC014 13/13 Q1003 LRTM 221200Z 10006KT CAVOK 20/14 Q0999 YDBY 221200Z AUTO 35014KT //// // ////// 28/24 Q1011 LTCE 221150Z 27009KT 240V300 CAVOK 15/M02 Q1020 NOSIG BIBD 221200Z 05010G22KT CAVOK 04/// Q0987 LTCF 220850Z 04008KT 9999 FEW040 13/02 Q1020 LTBP 220433Z 00000KT CAVOK 08/03 Q1010 RMK RWY26 20004KT LTCG 221150Z 07006KT CAVOK 19/14 Q1012 NOSIG LTAZ 221150Z 22011KT 9999 FEW040 SCT100 22/M01 Q1015 RMK RWY29 20015KT LTBQ 221150Z VRB01KT CAVOK 25/06 Q1008 NOSIG LTBR 221150Z 27003KT 230V320 CAVOK 23/06 Q1009 NOSIG RMK RWY07 30003KT 250V340 LTCI 221150Z 30006KT 280V360 9999 SCT040 14/05 Q1022 NOSIG LRTR 221200Z 28012KT 260V320 2000 -RA BR FEW004 OVC014 09/08 Q1002 R11/29//95 LSMA 221150Z 27004KT 230V320 9999 -RA SCT012 BKN056 04/02 Q1024 RERA RMK WHT LTBS 221150Z 19017KT 150V210 9999 SCT025 SCT100 24/14 Q1013 NOSIG LTCJ 221150Z VRB02KT 9999 FEW040 SCT100 21/07 Q1020 YCMM 221200Z AUTO 16010KT //// // ////// 14/12 Q1021 LTCK 221150Z 22011KT 180V260 9999 SCT035 17/04 Q1022 BIAR 221200Z 19004KT 9999 BKN049 M03/M06 Q0991 LTBU 221150Z 21014KT CAVOK 22/07 Q1008 RMK RWY23 22015KT LSMD 221150Z 30013KT 260V320 9999 FEW018 SCT054 BKN091 06/02 Q1022 RMK WHT LSME 221150Z 25006KT 210V290 9999 FEW068 BKN077 06/02 Q1024 RMK WHT BGTL 221158Z AUTO 07008KT 9999 CLR M15/M18 A2955 RMK AO2 SLP996 60000 T11521179 11088 21152 52013 $ HEGN 221100Z 04003KT CAVOK 33/14 Q1013 NOSIG LRTZ 220900Z 20008KT 8000 FEW020 SCT200 18/17 Q1007 BLU BLU YCMT 221200Z AUTO 05003KT //// // ////// 21/09 Q1020 YCNK 221200Z AUTO 20004KT //// // ////// 14/11 Q1019 LTCS 220204Z 14006KT 4000 R04/0900N R22/P1500U BCFG FEW003 10/09 Q1021 RMK RWY22 15008KT YCNM 221200Z AUTO 03007KT //// // ////// 24/08 Q1018 YCOE 221200Z AUTO 07008KT //// // ////// 24/17 Q1016 LSMM 221150Z 31009KT 280V010 6000 -RA FEW025 OVC033 05/00 Q1023 RMK GRN YBWP 221200Z AUTO 09008KT 9999 // ////// 25/18 Q1015 LSMP 221150Z 26005KT 210V360 9999 FEW035 BKN045 09/M00 Q1025 RMK WHT RORS 221000Z 01026KT 9999 FEW020 SCT030 BKN043 25/19 Q1015 LTFA 220541Z 13011KT 9999 SCT044 18/11 Q1012 RMK RWY17 13010KT LSMS 221150Z 26010KT 9999 -RA BKN040 BKN070 06/02 Q1024 YCOM 221200Z AUTO 05002KT 9999 // NCD 10/07 Q1021 LTFC 221150Z 14016KT 9999 SCT035 19/07 Q1016 RMK RWY23 13018KT YBWX 221200Z AUTO 21020KT //// // ////// 25/20 Q1013 YCNY 221200Z AUTO 17002KT //// // ////// 24/05 Q1015 LTFE 221150Z 16018KT 9999 SCT035 BKN100 25/12 Q1012 NOSIG LTFH 221150Z 19006KT CAVOK 28/03 Q1010 NOSIG BIEG 221200Z 36008KT 9000 -SN BKN015 OVC030 M02/M04 Q0992 R04/490156 RMK RWY SANDED RPLB 221200Z VRB01KT 9999 FEW020 26/23 Q1011 RESH LTFJ 221150Z 24014KT 200V270 CAVOK 22/08 Q1008 NOSIG RMK RWY24 21009KT 170V250 LTFK 221109Z 18017G31KT 9999 BKN025 21/15 Q1007 GMTA 221200Z 36006KT CAVOK 26/18 Q1022 NOSIG ROTM 221158Z 34012KT 9999 SCT030 23/17 A3002 RMK SLP151 XWND ADV T02280172 10256 20228 52010 RPLI 221200Z 09002KT 9999 FEW018CB FEW100 SCT290 25/23 Q1012 NOSIG RMK A2988 CB SE FWKI 220800Z 10012KT CAVOK 26/09 Q1023 NOSIG RPLL 221200Z 11003KT 080V150 9999 FEW023CB SCT025 28/25 Q1012 NOSGI RMK A2988 CB W/ LTNG W/ FRQNT LTNG RPMD 221100Z 18008KT 7000 TS SCT015CB SCT090 BKN290 29/25 Q1010 RMK A2983 CB ALL QDS GMTN 221200Z 20004KT 160V220 7000 NSC 33/07 Q1021 NOSIG HEMA 221100Z 03010KT CAVOK 28/16 Q1014 NOSIG GMTT 221200Z 09003KT 010V150 CAVOK 35/03 Q1021 NOSIG HEMM 221100Z 24015KT CAVOK 27/09 Q1014 NOSIG BIHN 221200Z 04006KT 9999 BR FEW008 SCT030 BKN040 05/// Q0988 HELX 221100Z 29003KT CAVOK 30/15 Q1014 NOSIG RPMZ 221200Z 00000KT 9999 FEW017 BKN300 28/25 Q1012 RMK A2989 NCAI 221100Z AUTO 13004KT //// //// 22/16 Q1015 MKJP 221200Z 01005KT 9999 FEW022 FEW024CB SCT070 27/24 Q1012 MKJS 221200Z VRB02KT 9999 FEW022CB BKN042 25/23 Q1012 YCUN 221200Z AUTO 27015KT //// // ////// 18/12 Q1014 BIIS 221200Z 21003KT 9999 BKN070 M00/M06 Q0988 YDLQ 221200Z AUTO 13009KT //// // ////// 23/13 Q1016 YCWA 221200Z AUTO 21009KT 9999 // NCD 30/02 Q1017 GOGG 221100Z 24004KT CAVOK 32/25 Q1015 BIKF 221200Z 09009KT 7000 RA FEW008 BKN011 OVC014 04/03 Q0982 GOGK 220900Z VRB02KT CAVOK 28/25 Q1013 GOGS 221100Z 20004KT 9999 FEW016 SCT230 32/24 Q1014 HEPS 221100Z 32002KT 9999 FEW025 BKN200 24/16 Q1015 NOSIG YCWR 221200Z AUTO 11006KT //// // ////// 19/13 Q1019 HESC 221100Z 04003KT CAVOK 26/01 Q1022 NOSIG HESH 221100Z 10006KT CAVOK 29/17 Q1013 NOSIG YDPO 221200Z AUTO 16004KT 9999 // NCD 11/10 Q1016 HESN 221100Z 33005KT CAVOK 32/11 Q1013 NOSIG LSZA 221150Z 01014KT 350V060 9999 FEW080 14/M05 Q1015 WS ALL RWY NOSIG LSZB 221150Z 28011KT 230V300 9999 FEW034 BKN055 07/00 Q1024 WS ALL RWY NOSIG LSZC 221150Z 25007KT 9999 SCT020 SCT060 BKN080 04/02 Q1024 RERA LSZG 221150Z VRB07KT 9999 VCSH FEW025 SCT038 BKN057 08/M00 Q1024 NOSIG LSZH 221150Z 24011KT 200V280 9999 VCSH FEW015 BKN080 07/02 Q1022 NOSIG RPVM 221200Z 33004KT 9999 FEW018CB SCT300 27/24 Q1011 RMK OCNL DSTNT LTNG NNE A2987 LSZL 221150Z VRB08G18KT 9999 FEW070 15/M07 Q1016 RMK BLU LSZR 221150Z 26010G20KT 220V290 9999 -SHRA BKN032 06/01 Q1021 NOSIG RMK H LSZS 221150Z VRB03KT 3000 -SN BKN035 M02/M04 Q1015 R03/29//// MMAA 221147Z 09008KT 7SM BKN015CB OVC090 25/25 A2978 RMK SLP089 52012 928 60155 8/96/ RAE43 FXMM 221100Z 04007KT 9999 FEW035 27/07 Q1024 NOSIG YELD 221200Z AUTO 09006KT //// // ////// 26/26 Q//// CAHR 221100Z AUTO 09004KT 06/04 RMK AO1 SLP283 T00580035 53010 BIRK 221200Z 08016KT 8000N 9999 R19/1500N -RA BKN028 OVC034 03/01 Q0983 MMAN 221153Z 14004KT 4SM BKN004 OVC010 21/20 A3005 RMK SLP139 5//// 909 60081 8/5// HZY RTS GOOD 220900Z 36002KT CAVOK 28/25 Q1013 YFBS 221200Z AUTO 02004KT //// // ////// 19/12 Q1018 GOOG 221100Z 34003KT CAVOK 35/22 Q//// MMAS 221142Z 04006KT 10SM SKC 10/09 A3018 RMK SLP128 MMCB 221159Z RTD 00000KT 12SM SCT080 BKN220 17/17 A3004 RMK 8/038 LUKK 221200Z 09007KT 9999 BKN013 13/11 Q1005 R08/150060 NOSIG GOOK 221100Z 36002KT CAVOK 34/24 Q1014 FYGB 221100Z AUTO 01008KT //// // ////// 34/M02 Q1022 YFDF 221200Z AUTO 14005KT 9999 // SCT002 31/M01 Q1015 MMCE 221142Z 18006KT 5SM OVC010 26/24 A2971 RMK SLP058 5//// 967 8/8// CBBC 221200Z AUTO 12004KT 080V140 9SM FEW210 07/06 A2950 RMK SLP990 FYGF 221100Z 33007KT 9999 SCT040 34/01 Q1022 YEML 221200Z AUTO 07010KT 9999 // NCD 23/11 Q1020 MMBT 221140Z 00000KT 6SM SCT040 OVC090 22/20 A2987 RMK SLP583 5//// 904 8/42/ MMCL 220545Z 00000KT 10SM SKC 26/20 A2979 RMK SLP086 52013 912 MMCM 220043Z 12010KT 7SM SCT020 SCT090 29/25 A2971 RMK 8/530 CB NW RTS MMCN 221059Z RTD 08002KT 10SM SKC 19/13 A2974 RMK HZY RTS MMCP 221151Z 00000KT 6SM BKN006 OVC070 24/24 A2972 RMK SLP065 5//// 955 8/77/ HZY NCMH 212300Z AUTO 35006KT //// //// 32/23 Q1009 GOOY 221200Z 34008KT 310V010 CAVOK 31/25 Q1013 NOSIG MMCS 220250Z RTD 12010KT 10SM SCT050 SCT250 17/10 A2998 RMK SLP091 52005 908 8/505 MMCT 212043Z 10009KT 7SM OVC040 26/25 A2974 RMK 8/6// DZ MSGTX MMMD MMCU 221140Z 00000KT 10SM SCT080 SCT200 11/11 A3010 RMK SLP128 54000 903 8/078 VCFG SW / NW MMCV 221141Z 31004KT 8SM FEW015 19/19 A2998 RMK SLP149 52007 917 8/500 HZY MMDO 221150Z 00000KT 7SM SCT070 BKN200 12/12 A3015 RMK SLP073 5//// 916 60108 8/027 ISOL BCFG ARND RTS MMCZ 221202Z RTD 03003KT 1 1/2SM TSRA BKN008CB OVC080 22/22 A2980 RMK SLP084 57005 957 66305 8/97/ SC RTS BIVM 221200Z 10022KT 9999 BKN020 05/03 Q0984 MMEP 220153Z 36003KT 3SM BR OVC010 22/21 A2992 RMK 6//// 8/5// OCNL DROPS GOSM 221100Z 36004KT CAVOK 37/20 Q1012 GOSP 220900Z 00000KT CAVOK 28/20 Q1013 GOSS 221100Z 34008KT CAVOK 32/25 Q1013 GOTK 211800Z 06006KT 9999 FEW030CB BKN230 35/23 Q1010 MMGL 221154Z 00000KT 8SM SCT015 SCT080 16/12 A3008 RMK SLP072 52003 906 8/530 MMGM 220140Z 00000KT 6SM SKC 29/19 A2969 MMIA 221155Z 00000KT 1 1/2SM BR OVC020 22/21 A2990 RMK 8/7// YERN 221200Z AUTO 15010KT //// // ////// 30/M00 Q1019 GOTT 221100Z VRB02KT CAVOK 34/23 Q1013 FYKT 221100Z AUTO 10003KT //// // ////// 34/M04 Q1018 MMHO 220347Z 00000KT 10SM SKC 25/17 A2980 RMK HZY NCRG 221100Z 17005KT 9999 FEW023 21/15 Q1014 NCPY 221100Z AUTO 06002KT //// //// 27/22 Q1011 FYML 221100Z AUTO 26002KT //// // ////// 34/M07 Q1020 YESP 221200Z AUTO 06010KT 9999 // NCD 19/15 Q1014 MMIO 221140Z 00000KT 2SM BR OVC005 14/12 A3019 RMK 8/5// BINOVC YGBI 221200Z AUTO 07004KT //// // ////// 27/22 Q1013 YEST 221200Z 07011KT CAVOK 19/14 Q1014 FYLZ 221100Z AUTO 20011KT //// // ////// 20/10 Q1016 MMIT 211340Z 00000KT 5SM BR SCT007 OVC012 23/22 A2979 RMK 8/8// BINOVC FYOA 221100Z 35011KT 9999 FEW050 37/05 Q1016 YGAY 221200Z AUTO 09004KT //// // ////// 17/10 Q1022 YFLI 221200Z AUTO 04004KT 9999 // NCD 17/12 Q1015 MNBL 212300Z 10004KT 9999 FEW018CB SCT070 28/25 Q1007 CB/SW/NW YGDH 221200Z AUTO 24003KT //// // ////// 17/11 Q1019 FYOO 221100Z AUTO 34008KT //// // ////// 37/03 Q1016 MNCH 212300Z 18004KT 9999 -TS FEW024CB SCT090 27/24 Q1008 CB/N/NE MMMA 220240Z 02004KT 6SM DZ SCT020 OVC070 24/24 A2997 RMK SLP139 52014 903 60005 8/46/ HZ INTMT DZ BINOVC MMLM 221041Z 00000KT 8SM SKC 23/17 A2978 MMMD 221149Z 09005KT 7SM OVC005 23/23 A2976 RMK SLP090 53011 904 8/6// BINOVC MMLO 221150Z 00000KT 8SM SKC 13/10 A3020 RMK SLP105 52002 910 FYOW 221100Z AUTO 03005KT //// // ////// 34/07 Q1019 MMLP 221200Z RTD 00000KT 10SM SKC 17/15 A2982 RMK SLP099 5//// 902 ISOL SC RTS YGEL 221200Z 33007KT 9999 FEW020 BKN050 19/16 Q1016 MMLT 220040Z 00000KT 8SM FEW040 27/20 A2973 RMK 8/100 MMML 220453Z 16004KT 10SM SKC 25/15 A2977 RMK ISOL-CI MMMM 221143Z 00000KT 5SM SKC 11/11 A3013 RMK SLP093 57002 915 HZ MMMT 221145Z 00000KT 5SM BKN010 OVC015 24/24 A2975 RMK SLP149 5//// 910 60708 8/7// VC RA MMNL 221140Z 00000KT 8SM BKN080 22/19 A3001 RMK SLP188 53008 907 8/070 YGFN 221200Z AUTO 00000KT 9999 // SCT042 14/11 Q1023 MMMV 212040Z 08005KT 8SM BR BKN020 OVC030 22/19 A2995 RMK 8/5// FYRN 221100Z 09012KT CAVOK 36/01 Q1018 MMMX 221153Z 34004KT 12SM BKN020 OVC080 14/11 A3026 NOSIG RMK SLP089 52004 913 8/57/ LWR SC SKBG 221200Z 21003KT 8000 2000S BCFG BKN005 19/18 A3002 RMK AD OPER IMC MMMY 221140Z 11005KT 4SM BKN006 OVC010 21/20 A3000 RMK SLP171 53012 930 8/5// HZY SKAR 221100Z 00000KT 7000 VCFG SCT022 FEW025TCU BKN090 18/17 A3007 RMK TCU/NE MMMZ 221149Z 36007KT 8SM SCT032 BKN070 22/19 A2976 RMK SLP081 52003 903 8/570 HZY MMPA 221149Z RTD 34006KT 3SM BR HZ SCT010 BKN020 BKN070 BKN280 22/21 A2991 RMK SLP139 50000 925 60158 8/838 OCNL DROPS MMPB 221151Z 35008KT 8SM SCT025 BKN100 13/10 A3023 RMK 8/530 ISOL CI SKCC 221200Z 18004KT 9999 FEW023 SCT200 26/21 A2998 SKBO 221200Z 07006KT 9999 FEW017 SCT080 12/10 A3037 SKCG 221200Z VRB02KT 9999 FEW017 BKN080 27/25 A2984 MMPG 212240Z 12006KT 10SM BKN100 28/20 A2996 RMK 8/090 SKBQ 221200Z 26004KT 5000 BR FEW020 SCT100 26/26 A2987 SKCL 221200Z 00000KT 9999 SCT015 SCT200 22/19 A3001 MMPN 221151Z 00000KT 4SM SKC 14/14 A3007 RMK HZY BR CI DSNT LTG SE RTS MMOX 221143Z 18002KT 7SM BKN018 OVC080 17/16 A3011 RMK SLP084 5//// 914 8/77/ LWR ST ARND BINOVC MMPQ 221207Z RTD 00000KT 4SM BKN070 24/23 A2964 RMK 8/020 HZY MSGTX MMMD MMPR 221146Z 01004KT 10SM SCT015 BKN070 OVC250 25/24 A2977 RMK SLP077 54000 908 8/577 MMPS 212341Z 09014KT 10SM BKN010CB BKN070 OVC280 26/24 A2986 RMK SLP092 57005 900 8/963 TS OVHD PCPN N-NE-E FQTS LTGIC NE HZY YHBA 221200Z AUTO 13007KT 9999 // NCD 19/12 Q1022 SKEJ 221200Z 00000KT 9999 BKN015 SCT200 25/23 A2987 YFRT 221200Z AUTO 12014KT //// // ////// 17/12 Q1020 BKPR 221200Z 14006KT 110V170 9999 SCT050 BKN080 19/09 Q1001 NOSIG MMQT 221145Z 06008KT 6SM SCT025 BKN090 OVC200 14/13 A3024 RMK 8/727 DZ FYWB 221000Z 29006KT 9999 BKN100 18/10 Q1017 MMSD 221201Z RTD 33003KT 12SM SKC 22/17 A2983 RMK AC RTS FYWE 221000Z 14003KT CAVOK 31/M06 Q1023 MNJG 212300Z 00000KT 2000 RA BKN016TCU 21/20 Q1009 TCU/E/N YGLA 221200Z AUTO 13009KT 9999 // NCD 21/13 Q1022 YGLB 221200Z AUTO 00000KT //// // ////// 11/09 Q1020 FYWH 221100Z 12006KT 9999 FEW050 32/M05 Q1023 NOSIG TAPA 221200Z 10009KT 9999 FEW020 29/23 Q1015 NOSIG GQNI 221200Z 08018KT 1000 BLSA NSC 39/03 Q1014 MMSL 220443Z 00000KT 8SM SKC 22/17 A2986 RMK MSGTX MMSD MMTC 221145Z 00000KT 7SM FEW010 OVC100 17/16 A3005 RMK SLP091 5//// 910 8/57/ HZY YHAY 221200Z AUTO 09005KT //// // ////// 26/06 Q1015 MMRX 221140Z 36004KT 8SM SCT020 20/19 A2996 RMK SLP140 52008 965 8/500 HZY GQNN 221200Z 13008KT 100V170 8000 NSC 39/05 Q1013 NOSIG YGLI 221200Z AUTO 14007KT //// // ////// 10/08 Q1024 MMTG 221148Z 29002KT 3SM BR OVC070 21/21 A2987 RMK SLP088 5//// 909 8/02/ BCFG ARND VSBY LWR 4 QUAD VRBL COND MMSP 221145Z 07004KT 2SM -DZ OVC010 13/13 A3020 RMK SLP111 57001 919 8/6// -DZB40 MMTJ 221140Z 08004KT 3SM BR SKC 16/14 A2990 RMK SLP129 58007 961 GQPA 221100Z 04004KT 8000 NSC 36/07 Q1018 MNJU 212300Z 18004KT 9999 FEW020CB SCT300 29/24 Q1008 CB/N/NE/E/W MMTM 221146Z 32005KT 5SM FEW010 SCT200 23/22 A2991 RMK SLP135 52010 910 8/401 YFTZ 221200Z AUTO 00000KT //// // ////// 31/08 Q1010 MMTO 221151Z 26004KT 1SM BR HZ VV005 08/07 A3029 RMK SLP091 52003 912 8//// FYWW 221100Z 33006KT CAVOK 34/M06 Q1023 MMTP 221141Z 00000KT 10SM BKN120 OVC200 24/23 A2983 082 54000 957 8/058 BINOVC YGLS 221200Z 13006KT CAVOK 31/M01 Q1016 SKIB 221200Z 27003KT 3000 BCFG FEW010 BKN070 21/21 A3011 RMK AD OPR IMC MMVA 221147Z 00000KT 5SM SCT004 BKN015 BKN040 OVC100 24/23 A2977 RMK SLP078 5//// 903 8/62/ INTMNT -DZ/ VRB CONDS MMUN 221145Z 13005KT 2SM TS RA BKN009CB OVC070 23/22 A2979 RMK SLP070 51007 974 60015 8/96/ K04V 221154Z AUTO 34008KT 10SM CLR 02/00 A3022 RMK AO2 LTG DSNT NW K06D 221155Z AUTO 19014KT 10SM FEW110 12/07 A2967 RMK AO2 K04W 221203Z AUTO 13004KT 10SM CLR 03/02 A3020 RMK AO2 MNMG 221200Z 00000KT 9999 FEW020 SCT070 24/23 Q1009 A2981 NOSIG GQPP 221200Z 36006KT 8000 NSC 34/10 Q1015 NOSIG SKIP 221200Z 00000KT 9999 FEW016 BKN070 06/06 A3047 MMVR 221152Z 35011KT 7SM SCT070 25/21 A2980 RMK SLP072 5//// 919 8/030 HZY GQPZ 221100Z 12006KT 8000 NSC 35/M02 Q1019 K08D 221155Z AUTO 28015G22KT 10SM FEW030 FEW060 OVC090 10/10 A2973 RMK AO2 LWOH 221200Z 00000KT 9999 FEW033 BKN050 18/10 Q1005 SLAS 221200Z 18006KT 5000 FU NSC 27/21 Q1015 SLCA 221200Z 00000KT 9999 FEW036 23/18 Q1020 SLCB 221200Z 00000KT 2000S FU FEW017 SCT080 BKN200 15/11 Q1029 SKLC 221200Z 11003KT 9999 SCT003 SCT100 BKN250 25/25 A2987 LXGB 221150Z 22004KT CAVOK 30/13 Q1021 NOSIG MNPC 212300Z 16004KT 8000 BKN016 SCT300 28/25 Q1006 HZ NFFN 221200Z 10004KT 9999 SCT028 SCT048 BKN120 24/22 Q1012 NOSIG YHID 221200Z AUTO 11016KT 9999 // SCT023 26/20 Q1014 SKMD 221200Z 00000KT 9999 -DZ FEW015 OVC100 18/17 A3016 MMZC 221140Z 00000KT 10SM FEW040 11/07 A3020 RMK 8/400 SLCO 221200Z 00000KT 9999 SCT010 BKN080 25/23 Q1015 SLCP 221200Z 16004KT 8000 FEW070 26/21 Q1017 MMZH 220145Z 00000KT 6SM SCT020TCU 26/23 A2974 RMK 8/200 HZY SKLT 221800Z 00000KT 9999 FEW004 BKN080 25/24 A2992 MMZO 220145Z 30005KT 10SM FEW020 SCT210 27/24 A2969 RMK 8/104 HZY SKMR 221200Z 00000KT 8000 FEW018 SCT100 25/24 A2985 RMK HZ K11R 221155Z AUTO 00000KT 10SM CLR 18/17 A3007 RMK AO2 T01750165 10180 20152 YGTE 221200Z AUTO 00000KT 9999 // NCD 24/21 Q1014 YGTH 221200Z AUTO 05003KT 9999 // NCD 22/08 Q1016 K12N 221154Z AUTO VRB06KT 10/09 A2996 RMK AO1 SLP146 P0003 60022 70027 T01000094 10117 20100 53015 SKMZ 221100Z 11003KT 9999 SCT050 14/XX A3030 RMK HZ YHLC 221200Z AUTO 13001KT //// // ////// 30/02 Q1014 MNRS 212300Z 00000KT 2000 TSRA SCT015CB BKN016 24/24 Q1008 CB/4/C SLET 221200Z 15005KT 7000 NSC 29/20 Q1015 TBPB 221200Z 08012KT 9999 FEW012CB SCT014 BKN300 29/25 Q1013 NOSIG SKPC 221200Z 00000KT 9999 OVC080 26/24 A2987 LWSK 221200Z 28003KT 9999 BKN100 19/12 Q1003 NOSIG YGTN 221200Z AUTO 09013KT //// // ////// 24/11 Q1018 SKNV 221200Z 00000KT 9999 VCSH BKN120 25/19 A2991 RMK VCSH/S SKPE 221200Z VRB02KT 9999 FEW015 SCT080 20/17 A3012 LYBE 221200Z 28013KT 9999 -RA BKN010 OVC023 08/07 Q1005 NOSIG MPBO 221200Z 00000KT 9999 FEW018 SCT090 Q1013 SKPS 221200Z 19005KT 9999 SCT025 SCT080 16/11 A3020 MPDA 221200Z 00000KT 9999 SCT005 BKN200 24/23 Q1010 LYBT 221200Z 28010KT 260V320 6000 -RA FEW007 BKN015 08/07 Q1005 NOSIG SKPV 221200Z VRB02KT 9999 FEW017 SCT200 27/24 A//// SKRG 221200Z 00000KT 9999 FEW005 SCT080 BKN200 13/12 A3031 REDZ SKRH 221200Z VRB02KT 9999 FEW020 BKN100 26/25 A2989 K14Y 221202Z AUTO 12014G21KT 10SM CLR 06/02 A3006 RMK AO2 LTG DSNT SW NFNA 221200Z 13004KT 9999 SCT020 BKN048 BKN120 24/23 Q1013 K0A9 221155Z AUTO 26005KT 10SM FEW030 OVC038 07/02 A3014 RMK SLJE 221200Z 00000KT 9999 SCT070 30/20 Q1017 SKSM 221200Z 00000KT 9999 FEW020 SCT070 24/22 A2983 YHOO 221200Z AUTO 09006KT //// // ////// 28/01 Q1014 SLJO 221200Z 27006KT 8000 BKN080 26/23 Q1012 SKSP 221200Z VRB02KT 9999 SCT017 SCT200 27/25 A2982 YHOT 221200Z AUTO 31003KT 9999 // ////// 14/07 Q1023 SKUC 221200Z 00000KT 9999 SCT025 25/25 A2991 K19A 221155Z AUTO 00000KT 10SM CLR 07/05 A3007 RMK AO2 TDCF 221200Z 13001KT 9999 FEW017 29/22 Q1013 SKUI 221200Z 00000KT 5000 BR BKN008 OVC070 25/25 A2990 RMK AD OPR IMC K0E0 221155Z AUTO 00000KT 1/4SM FG OVC002 07/06 A3019 RMK AO2 70001 T00680060 10090 20061 NGFU 221200Z 00000KT 9999 FEW020 27/24 Q1010 K21D 221150Z AUTO 16007KT 10SM CLR 05/02 A3023 RMK AO2 SLMG 221200Z 00000KT 8000 BKN080 26/23 Q1013 SLLP 221200Z VRB02KT 9999 FEW005 SCT013 BKN070 06/03 Q1039 YJAB 221200Z AUTO 35005KT //// // ////// 29/18 Q1013 K20U 221155Z AUTO 27014G18KT 10SM 08/07 A2987 RMK AO2 K20V 221155Z AUTO 00000KT 10SM BKN075 BKN090 04/01 RMK AO2 K0F2 221155Z AUTO 14003KT 3SM BR CLR 14/13 A3010 RMK AO2 T01370132 10157 20134 SKVP 221200Z 01004KT 9999 BKN070 25/23 A2993 K0CO 221150Z AUTO 10SM CLR M04/M06 A3030 RMK AO2 LTG DSNT SW YHSM 221200Z AUTO 20011KT //// // NCD 17/12 Q1017 SKVV 221200Z 00000KT 9999 VCSH SCT020 BKN080 23/21 A2998 RMK VCSH/E HKEL 221100Z 21010KT 9999 FEW021CB BKN022 21/14 Q1023 HKEM 221100Z 00000KT 9999 BKN023TCU 24/15 YHUG 221200Z AUTO 12007KT //// // ////// 24/M01 Q1018 NFTF 221200Z 00000KT 9999 FEW016 BKN110 23/19 Q1015 SLOR 221200Z 32003KT 9999 FEW013 BKN070 06/04 Q1037 HKGA 221100Z 23006KT 9999 SCT031 35/19 Q1009 K24J 221155Z AUTO 36005KT 10SM CLR 15/12 A3002 RMK AO1 NFTL 221200Z 07010KT 9999 FEW018 BKN120 26/24 Q1014 SLPO 221200Z 00000KT 9999 BKN015 07/05 Q1039 SLPS 221500Z 00000KT 9000 NSC 29/23 Q1013 SLRB 221200Z 00000KT 9999 NSC 25/21 Q1016 NFTV 221200Z 08013KT 9999 SCT016 OVC120 25/20 Q1014 LYKV 221200Z 29006KT 250V350 9999 -RA SCT007 BKN027 08/08 Q1006 RERA NOSIG MPMG 221200Z 04004KT 9999 FEW018 SCT100 26/25 Q1011 NOSIG K0J4 221158Z AUTO 00000KT 8SM CLR 10/09 A3008 RMK AO2 SLP183 T01000089 10156 20089 53013 $ SLRI 221200Z 19004KT 5000 FU SCT020 BKN080 25/23 Q1014 K1A5 221155Z AUTO 00000KT 7SM 00/00 A3015 RMK AO2 T10021002 10048 21002 SLSA 221200Z 24008KT 8000 BKN080 26/23 Q1012 K1A6 221155Z AUTO 01004KT 10SM OVC029 07/04 A3021 RMK AO2 T00710035 10091 20065 K1A9 221155Z AUTO 00000KT 10SM CLR 10/08 A3010 RMK AO2 T00990081 10122 20087 SLRQ 221200Z 18012KT 9999 FEW030 BKN070 28/22 Q1014 SLSI 221200Z 00000KT 9999 NSC 24/21 Q1015 LYNI 221200Z 33026G38KT 9999 SQ FEW017 SCT037 13/09 Q1002 NOSIG K1B7 221145Z 05012KT 10SM SKC 22/17 A3002 SLRY 221000Z 00000KT 9999 BKN027 22/22 Q1013 SMJP 221200Z 12004KT 9999 FEW010 26/24 Q1013 NOSIG SLTJ 221200Z 00000KT 8000 FEW012 BKN070 16/14 Q1023 MPPA 221200Z VRB01KT 9999 FEW018 Q1011 SLSU 221200Z 02004KT 9999 FEW007 SCT010 BKN070 10/09 Q1033 HKJK 221100Z 09007KT 9999 BKN025 24/13 Q1021 NOSIG LYPG 221200Z 13013KT 3000 SHRA FEW010 SCT023TCU BKN030 18/17 Q0999 NOSIG RMK 3000SE 3000NE SLTR 221200Z 16004KT 140V210 8000 NSC 28/22 Q1014 HKKG 220600Z 11007KT 9999 FEW019 SCT080 21/17 HKKI 221100Z 24000KT 9999 FEW026CB BKN090 28/18 Q1016 ZBAA 221200Z VRB01MPS 6000 NSC 12/07 Q1020 NOSIG HKKR 220700Z 05004KT 9999 FEW023CB SCT024 22/15 HKMA 220700Z 23006KT 9999 SCT026 29/20 HKKS 221100Z 16007KT 9999 SCT024 SCT090 25/15 LZIB 221200Z 31015KT 280V360 9999 -RA FEW018 SCT029 OVC090 09/05 Q1005 NOSIG HKMB 220100Z 17013KT 9999 SCT018 BKN080 19/17 RERA SLVM 221200Z 00000KT 9999 NSC 26/19 Q1015 HKKT 221100Z 36005KT 9999 FEW023CB BKN024 24/15 K1F0 221155Z AUTO 00000KT 2 1/2SM BR CLR 13/13 A3011 RMK AO2 SLUY 221200Z 15003KT 8000 SCT005 SCT012 BKN070 05/03 Q1036 HKME 220700Z 14006KT 9999 BKN017 20/16 HKLO 220400Z 09003KT 9999 FEW023 BKN090 25/23 SLVR 221200Z 18005KT 8000 FEW070 BKN200 28/18 Q1015 HKLU 221100Z 14010KT 9999 SCT027 32/23 HKNC 221100Z 11005KT 9999 BKN022 22/13 Q1023 HKML 221100Z 18010KT 9999 BKN027TCU 30/23 Q1013 HKMO 221100Z 18012KT 9999 SCT025 30/22 Q1013 NOSIG GUCY 212100Z 06006KT 9999 SCT013 FEW020CB SCT110 26/23 Q1013 CB/NW/SE SLYA 221200Z 36004KT 9999 FEW070 26/19 Q1016 YJLC 221200Z AUTO 13011KT //// // ////// 27/M02 Q1016 HKNI 220700Z 14004KT 9999 BKN019 18/16 TDPD 221200Z 09008KT 9999 BKN018 29/24 Q1015 HKNK 221100Z 36007KT 9999 FEW25CB BKN027 24/12 HKMU 221100Z 09006KT 9999 BKN031 31/15 K1H2 221155Z AUTO 00000KT 10SM CLR 04/02 A3030 RMK AO2 T00400023 10070 20040 CERM 221100Z AUTO 31002KT M03/M04 RMK AO1 SLP301 T10341042 53018 HKNO 220900Z 14014KT 9999 FEW020CB BKN021 22/13 HKMY 221100Z 11002KT BKN025 25/19 K0R0 211550Z AUTO RMK AO2 PNO PWINO TSNO K33V 221155Z AUTO 20006KT 10SM CLR 02/00 A3016 RMK AO2 HKNW 221100Z 12015KT 9999 BKN026 24/13 Q1021 MPTO 221200Z 01005KT 9000 FEW018 BKN100 26/25 Q1011 NOSIG NGTT 221200Z 08004KT 9999 FEW020 OVC300 27/23 Q1010 YIVO 221200Z AUTO 36006KT //// // ////// 27/05 Q1015 LYTV 221200Z 20009G24KT 4000 -SHRA SCT023 SCT030TCU BKN036 20/18 Q0999 NOSIG LZKZ 221200Z 01013KT 9000 -RA BKN018 OVC024 09/08 Q0999 NOSIG K1K1 221155Z AUTO 14005KT 4SM BR CLR 13/13 A3011 RMK AO2 T01320129 10166 20132 LYUZ 221200Z 31012KT 0100 -RA FG VV001 02/02 Q1004 LYVR 221200Z 28008KT 250V320 5000 RA BKN006 09/09 Q1004 NOSIG K1II 221155Z AUTO 35004KT 10SM BKN020 02/01 A3030 RMK AO2 K1L0 221155Z AUTO 02005KT 10SM CLR 16/14 A3006 RMK AO2 T01580140 10170 20145 GVAC 221200Z 05014KT 9999 FEW014 30/22 Q1016 NOSIG K36U 221155Z AUTO 00000KT 10SM CLR M03/M05 A3018 RMK AO2 SOCA 221200Z AUTO 10003KT 050V170 9999 BKN013 29/25 Q1013 GVBA 221200Z 05014KT 9999 FEW014 29/23 Q1016 NOSIG K2C8 221155Z AUTO 17013G19KT 10SM CLR 12/05 A2975 RMK AO2 K40B 221116Z AUTO VRB02KT 02/M01 A3032 RMK AO1 SLP286 T00231006 52016 ZBHH 221200Z 04003MPS 340V070 8000 NSC 11/01 Q1018 NOSIG K1M4 221156Z AUTO 02004KT 10SM CLR 06/06 A3019 RMK AO2 53015 T00610055 10105 20055 SLP232 K0V4 221155Z AUTO 30006KT 10SM BKN070 BKN085 BKN110 10/07 A2998 RMK AO1 60001 70002 T00950070 10105 20087 K2D5 221155Z AUTO 16011KT 7SM 13/07 A2981 RMK AO2 K40J 221155Z AUTO 02003KT 10SM CLR 14/11 A3002 RMK AO2 LZPP 221200Z 31014KT 9999 -RA BKN025 OVC035 08/05 Q1005 HLLM 221050Z 29009KT 9999 SCT025 27/19 Q1016 AYGN 220400Z VRB02KT 9999 BKN018 SCT040 BKN140 29/24 Q1011 RMKS K0VG 221155Z AUTO 01004KT 10SM BKN029 08/03 A3019 RMK AO2 YLBD 221200Z AUTO 29004KT 9999 // BKN015 27/23 Q1012 K42J 221155Z AUTO 36004KT 10SM 12/12 A3000 RMK AO1 TSNO MSAC 212250Z 16006KT 9999 VCSH SCT030 FEW037CB 28/23 Q1009 A2980 K1P1 221155Z AUTO 00000KT 7SM DZ OVC025 09/09 A3013 RMK AO2 60002 70005 T00870087 10090 20085 TFFF 221200Z AUTO 05008KT 010V080 9999 NSC 29/25 Q1013 HKVO 221100Z 18012KT 9999 BKN026 31/18 K2G4 221150Z AUTO 33007G15KT 292V352 M1/4SM FG OVC001 05/ A3003 RMK AO1 K2DP 221156Z AUTO 30010KT 10SM BKN013 12/10 A2986 RMK AO2 BKN V SCT SLPNO 70006 T01230104 10146 20118 52011 HKWJ 220900Z 16008KT 9999 SCT031 SCT090 33/19 Q1012 LZSL 221200Z 22003KT 9999 -RA FEW007 SCT013 OVC032 07/05 Q1002 TFFR 221200Z VRB03KT 9999 FEW020 29/23 Q1014 MRLB 221200Z 12004KT 9999 FEW015 BKN030 24/23 A2987 K2I0 221155Z AUTO 02003KT 2 1/2SM BR CLR 05/05 A3026 RMK AO2 T00460046 10080 20045 YLEC 221200Z AUTO 19007KT //// // ////// 27/07 Q1017 K1R7 221155Z AUTO 00000KT 1/2SM FG VV005 10/10 A3012 RMK AO2 LZTT 221200Z 27010KT 9999 -RA FEW006 OVC017 03/02 Q1001 BECMG FEW006 OVC015 MRLM 212300Z 25002KT 9999 FEW015 BKN080 28/24 A2976 YKMP 221200Z AUTO 26003KT //// // ////// 11/09 Q1022 SMZO 221200Z 12004KT 9999 SCT015 28/24 Q1013 NOSIG K46D 221155Z AUTO 17014KT 9SM CLR 12/07 A2974 RMK AO2 K2J9 221135Z AUTO 8SM FEW029 12/12 A3005 RMK AO1 YLEO 221200Z AUTO 33010KT 9999 // NCD 31/M01 Q1014 YKNT 221200Z AUTO 08006KT //// // ////// 32/M01 Q1015 MROC 221200Z 08003KT 9999 BCFG FEW001 SCT015 BKN100 19/18 A3003 NOSIG YKOW 221200Z AUTO 21005KT //// // BKN110 25/19 Q1014 K3D2 221155Z AUTO 15003KT 10SM CLR 02/00 A3036 RMK AO2 7//// T00240000 10040 20024 YLHI 221200Z AUTO 12002KT 9999 // SCT026 BKN035 OVC050 16/13 Q1024 K1V4 221154Z AUTO 08/07 A3015 RMK AO1 SLP212 60007 70023 T00780072 10083 20078 53014 K1V6 221155Z AUTO 27010KT 10SM CLR 12/03 A3005 RMK AO2 SPCL 221200Z 18004KT 5000 BR BKN008 BKN080 23/23 Q1016 RMK BIRD HAZARD RWY 02/20 PP000 YLHR 221200Z AUTO 12011KT //// // OVC026 25/20 Q1016 LZZI 221200Z VRB01KT 9999 -RA FEW007 BKN028 OVC033 07/05 Q1004 AYNZ 220700Z 08018KT 9999 FEW030 SCT140 OVC280 27/21 Q1009= MRPV 221200Z 14001KT 8000 FEW015 BKN100 19/19 A3003 NOSIG YMBA 221200Z AUTO 14007KT //// // ////// 19/14 Q1020 YLIS 221200Z AUTO 00000KT 9999 // NCD 12/10 Q1023 ZBSJ 221200Z 33002MPS 3500 BR NSC 12/09 Q1020 NOSIG OAHR 220955Z 19024G35KT 0500 BLDU NSC 31/M01 Q1012 RMK SKC VIS MIN 0500 RED YMBD 221200Z AUTO 21015KT //// // ////// 15/12 Q1020 YKRY 221200Z AUTO 13003KT //// // ////// 14/10 Q1024 ZBTJ 221200Z 16002MPS 8000 NSC 14/08 Q1020 NOSIG AYPY 221100Z 16010KT 9999 BKN030 25/21 Q1013= YMAV 221200Z AUTO 21011KT 9999 -SHRA BKN110 OVC120 16/14 Q1018 OAKB 221150Z 11009KT CAVOK 21/03 Q1023 NOSIG RMK BLU BLU YLLE 221200Z AUTO 05017KT //// // ////// 26/11 Q1019 YMAY 221200Z AUTO 12001KT 9999 // NCD 19/15 Q1018 GVNP 221200Z 03017KT 9999 FEW015 SCT200 30/22 Q1016 NOSIG OBBI 221100Z 36015KT CAVOK 31/15 Q1015 NOSIG K54J 221155Z AUTO 01006KT 10SM CLR 13/11 A3005 RMK AO2 T01300106 10149 20120 SPGM 212100Z /////KT 9999 SCT040 BKN130 28/21 Q1012 RMK BIRD HAZARD RWY 19 TMX /// PP000 YMCO 221200Z AUTO 33007KT //// // ////// 16/13 Q1017 NIUE 220200Z 12012KT 9999 BKN020 26/17 Q1012 RMKS OAKN 221055Z VRB03KT 9999 BKN120 31/M01 Q1016 RMK A3000 DA5881 BLU YMDG 221200Z AUTO 00000KT //// // NCD 16/11 Q1020 K3I2 221155Z AUTO 28003KT 10SM BKN016 OVC031 09/07 A3020 RMK AO2 MTBO 221200Z AUTO 28006KT 9999 // NCD 15/10 Q//// SPHI 221200Z 17005KT 9999 FEW007 BKN013 18/16 Q1014 RMK BR/S-SW VRB PP000 SPHO 221200Z 00000KT 9000 FEW010 SCT040 OVC090 11/10 Q1031 RMK PP002 MSLP 221150Z VRB02KT 9999 FEW013 SCT033 24/24 Q1010 A2983 YMEK 221200Z AUTO 31008KT 9999 // NCD 28/04 Q1016 K4A6 221155Z AUTO 04005KT 10SM CLR 07/05 A3017 RMK AO2 K3J7 221155Z AUTO 00000KT 10SM CLR 08/08 A3003 RMK AO2 K1YT 212256Z AUTO 21013G21KT 10SM FEW070 17/06 A2992 RMK AO2 LTG DSNT NW SLPNO T01700055 MSLU 212250Z 13002KT 9999 FEW037 FEW040CB 28/25 Q1006 A2972 YMEN 221200Z AUTO 19011KT 9999 // NCD 16/13 Q1018 SPIM 221200Z 19003KT 9999 OVC007 17/15 Q1014 NOSIG RMK PP000 K4A9 221155Z AUTO 00000KT 3SM BR CLR 02/01 A3014 RMK AO2 SPHY 221200Z 21004KT 9000 SCT011 OVC050 06/04 Q1036 RMK T.MAX 16.4 21/10 RERA PPTRZ K3K3 221155Z AUTO 14012KT 10SM CLR 14/12 A2996 RMK AO2 YMER 221200Z AUTO 00000KT 9000 // NCD 13/12 Q1018 YMES 221200Z AUTO 20005KT //// // OVC125 19/16 Q1016 SPJI 212100Z 03005KT 9999 FEW025 33/22 Q1017 RMK T.MAX 34.1 PP000 YMGB 221200Z AUTO 08008KT //// // ////// 27/22 Q1013 SPJJ 221038Z 00000KT 9999 SCT030 BKN070 08/05 Q1030 OAMS 221150Z 06015KT 8000 FEW130 30/08 Q1009 BLU+WHT TEMPO BLU YMGD 221200Z AUTO 00000G10KT 9999 // NCD 27/22 Q1013 SPJL 221200Z /////KT 9999 FEW010 BKN080 06/04 Q1040 RMK PP000 AYVN 220600Z 32007KT 9999 FEW018CB FEW020 SCT300 31/25 Q1007 RMKS SPJR 221200Z 00000KT CAVOK 09/07 Q1030 RMK PP000 YMHB 221200Z 18014G24KT 9999 FEW017 BKN045 14/09 Q1019 ZBYN 221200Z 09001MPS 4000 HZ SCT040 13/06 Q1020 NOSIG AYWK 220700Z 09005KT 9999 FEW018CB FEW018 BKN300 29/24 Q1008 RMKS YMIA 221200Z AUTO 26007KT 9999 // NCD 29/05 Q1014 K2V5 221155Z AUTO 36005KT 10SM OVC100 14/08 A2996 RMK AO2 T01360083 10167 20127 YLRE 221200Z 09004KT CAVOK 25/03 Q1018 SPME 221200Z 27003KT 9999 OVC017 22/29 Q1012 RMK BIRD HAZARD RWY 32/14 PP000 SPLO 212100Z 17008KT 9999 SCT025 21/16 Q1011 RMK TMAX 22.8 PP000 GVSV 221200Z 05018KT 9999 FEW017 SCT200 30/21 Q1017 NOSIG K3LF 221155Z AUTO 06004KT 10SM CLR 04/03 A3029 RMK AO2 T00410025 10066 20040 K2W6 221149Z AUTO 32007KT 10SM BKN012 BKN020 OVC025 12/10 A2986 RMK AO1 SPNC 211335Z OOOOOKT 9999 SCT040 SCT120 20/15 Q1024 RMK K3N8 221155Z AUTO 15014G22KT 10SM SCT085 10/05 A2990 RMK AO2 T01030045 10111 20096 YMIN 221200Z AUTO 17017KT //// // ////// 14/11 Q1020 SPMS 221200Z 00000KT 8000 FEW010 BKN100 24/23 Q1016 RMK BIRD HAZARD 09/27 PP000 MSSA 220050Z 18002KT 9999 FEW017 BKN047 22/22 Q1014 A2996 YNAR 221200Z AUTO 10003KT //// // ////// 21/09 Q1017 YLST 221200Z AUTO 31008KT 9999 // NCD 28/04 Q1015 YLTN 221200Z AUTO 07008KT //// // ////// 28/06 Q1015 MSSM 220050Z 00000KT 9999 FEW033 FEW040CB 24/23 Q10071 A2974 DAAD 221200Z 36012KT CAVOK 29/08 Q1019 YNBR 221200Z AUTO 09009KT //// // ////// 21/09 Q1020 DAAE 221200Z 04012KT 6000 SCT016TCU FEW026CB BKN040 22/16 Q1021 DAAG 221200Z 34010KT 300V360 9999 SCT023TCU FEW030CB SCT210 26/17 Q1021 MSSS 221150Z 20002KT 5000 BR SCT020 22/21 Q1013 A2993 YLTV 221200Z AUTO 32005KT 9999 // NCD 17/15 Q1016 DAAJ 221200Z 24004KT 9999 FEW046 28/08 Q1020 DABB 221200Z 36020G31KT 8000 FEW026 BKN040 22/16 Q1017 DABC 221200Z 35012KT 6000 -RA SCT023TCU BKN026 17/14 Q1021 K4I3 221155Z AUTO 32007KT 10SM BKN007 OVC013 07/06 A3020 RMK AO2 MUCF 221152Z 04003KT 7000 -RA FEW018 OVC060 23/23 Q1014 K2WX 221156Z AUTO 29014KT 09/04 A2985 RMK AO1 SLP100 T00890039 10150 20089 51028 DAAP 221200Z 06004KT CAVOK 29/05 Q1017 YMLT 221200Z AUTO 16004KT 9999 // NCD 11/09 Q1017 YMML 221200Z 17012KT CAVOK 16/13 Q1018 FM1400 20010KT 9999 -DZ BKN010 K4I7 221155Z AUTO 06003KT 7SM CLR 02/01 A3029 RMK AO2 K3R7 221155Z AUTO 06003KT 10SM CLR 14/13 A3006 RMK AO2 T01370134 10167 20137 YMNE 221200Z AUTO 30006KT 9999 // NCD 27/06 Q1016 DAAS 221200Z 32016KT 9999 BKN030 18/11 Q1022 MUCL 221152Z 10012KT 5000 -RA FEW012 OVC040 25/23 Q1012 DAAT 221200Z 24006KT CAVOK 27/01 Q1021 MUCM 221150Z 08005KT 9000 NSC 24/22 Q1014 YMNG 221200Z AUTO 14008KT 090V260 9999 // NCD 21/13 Q1017 TGPY 221200Z 05007KT 9999 SCT018TCU 30/26 Q1013 TCU W NOSIG DAAV 221200Z 36010KT 9999 SCT020 BKN030 23/18 Q1019 DAAY 221200Z 35012KT 8000 NSC 26/10 Q1028 AZUH 221054Z 12004KT CAVOK 18/08 Q1018 SPQT 221200Z 00000KT 9999 SCT012 BKN100 24/23 Q1013 RMK PP000 K65S 221155Z AUTO 00000KT 10SM OVC055 08/05 A2997 RMK AO2 SPQU 221200Z VRB02KT CAVOK 16/M03 Q1027 NOSIG RMK PP000 YNEN 221200Z AUTO 10007KT 9999 // OVC245 28/21 Q1013 DABS 221200Z 34016KT 9999 FEW040 SCT230 24/09 Q1020 MUCU 221152Z 35003KT 9000 FEW020CB 24/21 Q1014 DABT 221200Z 30018KT 9999 FEW023TCU BKN026 23/09 Q1021 YMOG 221200Z AUTO 30009KT //// // ////// 27/04 Q1015 K3T5 221155Z AUTO 34003KT 10SM CLR 16/15 A3005 RMK AO2 T01570146 10173 20142 K66R 221155Z AUTO 00000KT 10SM CLR 15/15 A3005 RMK AO2 T01530146 10157 20140 SPRU 221200Z 13005KT 9999 OVC016 18/16 Q1014 RMK PP000 K5C1 221155Z AUTO 00000KT 10SM CLR 12/08 A3009 RMK AO1 SPSO 221200Z 03003KT 4000 BR SCT007 OVC010 Q1013 RMK BIRD HAZARD RWY 22/04 PP000 YMOR 221200Z AUTO 00000KT 9999 // NCD 20/11 Q1020 DAEF 221200Z 30004KT CAVOK 30/03 Q1017 SPST 221200Z 00000KT 3000 BCFG SCT012 BKN080 22/20 Q1015 RMK BIRD HAZARD RWY 17/35 PP000 SPTN 221200Z VRB02KT 9999 FEW020 18/14 Q1012 RMK PP000 DAEN 221000Z 00000KT CAVOK 26/02 Q1018 YMRB 221200Z AUTO 08011KT 9999 // NCD 21/15 Q1021 YNHL 221200Z AUTO 17012KT //// // ////// 19/10 Q1016 DAFH 221200Z 36018KT CAVOK 27/06 Q1022 MUHA 221155Z 06003KT 7000 -RA FEW020CB BKN066 23/21 Q1013 SPTU 221200Z 24003KT 9999 OVC030 24/23 Q1013 RMK BIRD HAZARD RWY 01/19 PP000 K4M9 221155Z AUTO 03006KT 10SM CLR 08/06 A3025 RMK AO2 MUGM 221156Z 36005KT 9999 FEW028 SCT180 BKN280 24/24 A2995 RMK SLP141 T02440239 10256 20239 53016 MTPP 212000Z VRB03KT 9999 FEW027 35// Q1011/0 A2985 MUHG 221150Z 12003KT 7000 VCFG FEW030 BKN300 23/21 Q1014 K4O4 221155Z AUTO 07005KT 10SM CLR 14/13 A3014 RMK AO2 YMRY 221200Z AUTO 29004KT 9999 // NCD 13/13 Q1019 YMTG 221200Z AUTO 15010KT 9000 // OVC008 13/12 Q1020 YMTI 221200Z AUTO 33008KT //// // ////// 26/20 Q1014 K4MR 221156Z AUTO 20007KT 10SM BKN007 14/13 A3013 RMK AO2 SLP166 70084 T01430131 10145 20140 53005 K5H4 221155Z AUTO 21007KT 10SM FEW110 13/08 A2971 RMK AO2 SPZA 221130Z 00000KT 9000 NSC 18/13 Q1013 SPYL 212100Z 20012KT CAVOK 27/18 Q1009 RMK TMAX 29.5 PP000 DBBB 221200Z 21012KT 9999 SCT013 30/26 Q1011 NOSIG SPZO 221200Z 00000KT 9999 FEW033 BKN050 10/06 Q1034 NOSIG RMK HZ PP000 K6A2 221155Z AUTO 32003KT 10SM CLR 07/06 A3008 RMK AO2 UAAA 221200Z 23002MPS 190V250 5000 FU SCT100 BKN200 15/07 Q1016 R88/CLRD65 NOSIG K6B0 221155Z AUTO 36006KT 5SM BR OVC003 08/08 A3013 RMK AO2 70007 T00780078 10085 20076 UAAH 221100Z 13004MPS 9999 FEW023 BKN130 09/04 Q1017 R05/0///60 NOSIG RMK QFE726/0968 YMYB 221200Z AUTO 17005KT 9999 // NCD 15/12 Q1022 DAMH 221200Z 32006KT CAVOK 31/06 Q1017 UACC 221200Z 20004MPS CAVOK 04/M02 Q1015 R22/0/0070 NOSIG RMK QFE730/0973 DAOB 221200Z 29011KT CAVOK 21/13 Q1024 TJBQ 221150Z 12004KT 10SM SKC 27/21 A2998 RMK RWY 8 ATIS L DAOF 221200Z 17008KT CAVOK 33/M00 Q1021 YNRC 221200Z AUTO 16018KT //// // ////// 14/12 Q1019 UACK 221130Z 21007MPS CAVOK 02/M01 Q1011 R20/650542 NOSIG RMK QFE735/0980 DAOI 221200Z 30010KT 8000 SCT030 27/15 Q1021 K79J 221156Z AUTO 00000KT 10SM CLR 13/09 A3008 RMK AO2 SLP181 T01280094 10172 20122 53019 UADD 221200Z 33002MPS 9999 NSC 18/08 Q1013 R13/0///65 NOSIG RMK QFE703/0937 K5M9 221155Z AUTO 05004KT 5SM BR CLR 05/04 A3026 RMK AO2 T00450043 10077 20040 UACP 221130Z 17004MPS 6000 -RA BKN007 OVC022 01/00 Q1010 R23/2/1040 NOSIG RMK QFE745/0993 DAON 221200Z 02004KT CAVOK 30/07 Q1023 DAOO 221200Z 36006KT CAVOK 29/12 Q1022 YPAD 221200Z 18014KT 9999 FEW022 BKN320 16/12 Q1019 NOSIG DAOR 221200Z 35004KT CAVOK 30/05 Q1025 DAOV 221200Z 36014KT CAVOK 26/09 Q1024 YNSM 221200Z AUTO 07013KT //// // ////// 23/13 Q1013 OEAB 221200Z 06011KT 9999 SCT020 27/M04 Q1025 NOSIG MUSC 212148Z 08009KT 050V120 5000 VCSH BKN020 22/20 Q1012 RMK SH AT QUAD I/II OEAH 221200Z 03007KT CAVOK 34/12 Q1015 NOSIG YPCC 221200Z AUTO 13016KT 9999 // SCT019 SCT026 BKN033 27/23 Q1014 OEBA 221200Z 09008KT 9999 FEW030 29/08 Q1021 NOSIG YOLD 221200Z AUTO 20009KT 1400 // NCD 28/05 Q1016 YNTN 221200Z AUTO 36004KT //// // ////// 25/18 Q1014 YPBO 221200Z AUTO 23010KT 9999 // NCD 32/05 Q1016 K82V 221155Z AUTO 29008KT 10SM CLR 06/04 A3004 RMK AO2 OEAO 221200Z 21006KT CAVOK 33/M03 Q1016 OEBH 221200Z 06009KT CAVOK 34/02 Q1017 NOSIG MWCB 221200Z 14009KT 9999 FEW016 SCT070 29/25 Q1012 YPEA 221200Z 36006KT CAVOK 16/13 Q1014 INTER 1300/1500 3000 SHRA BKN008 YPED 221200Z AUTO 20008KT 9999 // NCD 17/11 Q1019 K5R8 221155Z AUTO 00000KT 10SM CLR 16/15 A3007 RMK AO2 T01580145 10177 20140 YOLW 221200Z AUTO 23015KT //// // ////// 27/15 Q1015 YPDN 221200Z 31014KT CAVOK 29/22 Q1013 DAUA 221200Z 05008KT CAVOK 33/09 Q1018 DAUB 221200Z /////KT 9999 FEW040 BKN200 32/08 Q1015 TJIG 221147Z 00000KT 10SM SCT030 27/22 A3001 RMK RY09 IN USE ATIS B DATM 221200Z 18012KT CAVOK 35/03 Q1014 OEDF 221200Z 01015KT CAVOK 30/13 Q1015 NOSIG DAUE 221200Z /////KT CAVOK 30/06 Q1020 UAII 221200Z 12002MPS CAVOK 22/08 Q1012 R10/0///70 NOSIG RMK QFE723/0965 MWCR 221200Z 17009KT 9999 FEW018 28/24 Q1011 NOSIG DAUG 221200Z 36015KT 340V040 CAVOK 29/03 Q1020 DAUH 221200Z 00000KT CAVOK 31/10 Q1017 YOOD 221200Z AUTO 19007KT //// // ////// 31/01 Q1015 DAUI 221200Z 00000KT CAVOK 33/04 Q1018 YNWN 221200Z AUTO 17004KT //// // NCD 30/M01 Q1016 OEDM 221200Z 27006KT CAVOK 33/02 Q1017 DAUK 221200Z 36008KT CAVOK 30/09 Q1017 DAUL 221200Z 36010KT CAVOK 27/04 Q1021 DAUO 221200Z /////KT CAVOK 30/06 Q1015 OEDR 220800Z 02013KT CAVOK 32/13 Q1016 NOSIG MUVR 221150Z 13004KT 9000 FEW020 BKN060 23/21 Q1013 UBBB 221200Z 19013KT CAVOK 19/11 Q1010 88CLRD70 NOSIG YOOM 221200Z AUTO 27008KT //// // ////// 31/03 Q1016 UAKD 221100Z 120045MPS 7000 OVC015 07/04 Q1015 R220///65 NOSIG RMK QFE728/0971 K5T9 221155Z AUTO 10006KT 10SM OVC085 21/16 A3003 RMK A01 DAUT 221200Z ///10KT 9000 NSC 32/M02 Q1019 DAUU 221200Z 33006KT CAVOK 30/04 Q1017 ZGGG 221200Z 01003MPS CAVOK 26/16 Q1016 NOSIG UBBG 221200Z 28004KT 9999 SCT100 22/01 Q1012 R30/CLRD70 NOSIG K6L4 221155Z AUTO 31004KT 1 3/4SM -RA OVC021 06/06 A3015 RMK AO2 ZGHA 221200Z 32004MPS 7000 NSC 20/13 Q1020 NOSIG DAUZ 221200Z 30004KT CAVOK 28/04 Q1017 UAKK 221200Z 00000MPS CAVOK 06/M02 Q1016 R23/0///70 NOSIG RMK QFE715/0953 UBBL 221200Z 14010KT 9999 NSC 19/14 Q1012 R15/CLRD70 NOSIG RMK MT OP UBBN 221200Z 19002KT 9999 NSC 19/06 Q1017 R14R/CLRD60 NOSIG RMK MT OP QFE687 TISX 221153Z 07007KT 10SM FEW028 28/23 A2999 RMK AO2 SLP153 T02830233 10283 20233 51017 K5SM 221158Z AUTO 00000KT 7SM BKN022 OVC035 02/01 A3030 RMK AO2 LTG DSNT S UBBQ 221200Z 27009KT 9999 NSC 20/05 Q1011 R16/CLRD70 NOSIG RMK MT OP YPGV 221200Z 10004KT 9999 FEW019 24/21 Q1014 YORG 221200Z AUTO 00000KT 9999 // NCD 11/09 Q1022 OEGN 221200Z 23012KT 9999 FEW030 FEW035CB 35/25 Q1010 NOSIG K7BM 221153Z AUTO 00000KT 10SM SCT023 SCT029 BKN055 04/02 A3027 RMK AO2 LTG DSNT W UBBY 221200Z 31005KT 9999 BKN100 18/07 Q1015 R33/////// NOSIG RMK MT OP OEGS 221200Z 08008KT CAVOK 33/15 Q1016 OEGT 221200Z 10012KT CAVOK 27/03 Q1016 NOSIG K5W8 221155Z AUTO 31003KT 10SM CLR 08/04 A3000 RMK AO2 T00830041 10090 20053 OEHL 221200Z 08004KT CAVOK 29/07 Q1019 NOSIG UBEE 221200Z 30012KT CAVOK 24/03 Q1011 R30/CLRD70 NOSIG YPKA 221200Z AUTO 25013KT 9999 // NCD 29/19 Q1012 YPKG 221200Z AUTO 07013KT //// // NCD 27/08 Q1012 TJMZ 221050Z 09004KT 10SM FEW030 22/20 A2998 TJNR 221153Z AUTO 10SM BKN023 BKN042 28/23 A3001 RMK AO2 SLP161 T02830233 10283 20239 53017 $ YPJT 221200Z AUTO 31010KT 9999 // NCD 19/14 Q1014 ZHCC 221200Z VRB01MPS 1800 BR NSC 16/14 Q1020 NOSIG ZGKL 221200Z 04005MPS CAVOK 21/11 Q1019 BECMG FM1300 VRB03MPS UAOO 221200Z 05002MPS 020V090 7000 -RA OVC033 08/07 Q1013 R06/29//60 NOSIG RMK QFE748/0998 OEJN 221200Z 25010KT CAVOK 33/21 Q1010 NOSIG YPKS 221200Z AUTO 02004KT //// // ////// 17/13 Q1018 YPKT 221200Z AUTO 26003KT //// // ////// 27/23 Q1012 YPKU 221200Z AUTO 36007KT 9999 // NCD 28/18 Q1012 OEKJ 221200Z 07005KT CAVOK 34/08 Q1018 OEKK 221100Z 16004KT CAVOK 32/13 Q1019 NOSIG YPLM 221200Z AUTO 21015KT 9999 // NCD 22/15 Q1016 OEKM 221200Z 12006KT 9999 SCT022 27/03 Q1024 NOSIG K6R3 220930Z AUTO 00000KT 7SM CLR 15/14 A3005 RMK AO2 T01450142 TJPS 220850Z 00000KT 8SM FEW030 24/22 A2991 K6R6 221153Z AUTO 10003KT 18/18 A3005 RMK AO1 SLP150 70014 T01830178 10189 20183 53008 OEMA 221200Z 03004KT 9000 SKC 36/01 Q1016 NOSIG K8A0 221155Z AUTO 03005KT 10SM CLR 07/07 A3014 RMK AO2 K96D 221155Z AUTO 16014G22KT 10SM CLR 12/05 A2972 RMK AO2 YPMQ 221200Z AUTO 36003KT 9999 // NCD 14/12 Q1022 SUAA 221200Z 36011KT CAVOK 22/15 Q1019 OEMK 221200Z 27004KT 9999 FEW040 37/23 Q1011 ZGNN 221200Z 06002MPS 350V160 CAVOK 25/17 Q1016 NOSIG SUAG 211900Z 09010KT CAVOK 27/12 Q1018 OENG 221200Z 09010KT CAVOK 32/M03 Q1018 NOSIG UARR 221200Z 29006MPS 9999 SCT022CB BKN096 08/05 Q1002 R88/////// NOSIG RMK QFE748/0997 TJSJ 221156Z 13004KT 10SM FEW030 SCT065 28/23 A2998 RMK AO2 SLP152 T02780228 10278 20256 51018 UASK 221200Z 18002MPS 160V270 9999 SCT130 BKN230 08/01 Q1020 R12/010060 NOSIG RMK QFE739/0986 YPPD 221200Z AUTO 28011KT 9999 // NCD 28/20 Q1011 YPPF 221200Z AUTO 20005KT 9999 // NCD 15/11 Q1019 UATE 221200Z 18006MPS CAVOK 15/08 Q1011 R30/0///70 NOSIG RMK QFE757/1010 K7L2 221155Z AUTO 27011G16KT 10SM FEW120 15/09 A2977 RMK AO2 PWINO PNO UATG 221200Z 21008MPS 5000 BR BKN029CB 11/08 Q1009 R14/29//60 NOSIG RMK QFE758/1011 UASP 221200Z 19002MPS 9999 SCT033CB OVC100 05/M02 Q1018 R21/290265 NOSIG RMK QFE752/1003 YPPH 221200Z 31008KT CAVOK 18/14 Q1014 INTER 1300/1430 VRB20G30KT 3000 TSRA BKN010 FEW030CB SUCA 221200Z XXXXXKT CAVOK 22/14 Q1016 UASS 221030Z 23002MPS CAVOK 09/M05 Q1020 R26/0///60 NOSIG RMK QFE746/0995 OEPA 221100Z 00000KT CAVOK 30/13 Q1018 NOSIG ZGOW 221200Z 10004MPS 7000 FEW017 BKN060 25/21 Q1017 NOSIG ZHHH 221200Z 10003MPS CAVOK 20/13 Q1021 NOSIG K8D3 221156Z AUTO 18011KT 11/06 A2989 RMK AO1 SLP120 T01060061 10111 20100 55003 UATT 221200Z 23008MPS 6000 -DZ OVC008 09/08 Q1005 R13/29//50 NOSIG RMK QFE734/0979 CMGB 221145Z AUTO 02006KT 06/05 RMK AO1 2PAST HR 3018 SLP228 P0001 T00550048 50002 CMFM 221200Z AUTO 18001KT 01/M02 RMK AO1 SLP289 T00131018 53017 UAUU 221200Z 20007MPS 9999 OVC005 05/03 Q1005 R15/290250 NOSIG RMK QBB150 QFE737/0983 OERF 221200Z 00000KT CAVOK 27/02 Q1018 SUDU 221200Z 24015KT CAVOK 21/15 Q1019 OERK 221200Z 11008KT CAVOK 31/08 Q1018 NOSIG OESH 221200Z 06009KT CAVOK 35/07 Q1015 NOSIG OERR 221200Z 15006KT CAVOK 26/09 Q1019 NOSIG OETB 221200Z 25004KT CAVOK 31/M02 Q1015 NOSIG OESK 221200Z 14007KT CAVOK 29/00 Q1019 NOSIG YPTN 221200Z AUTO 10004KT 9999 // NCD 29/08 Q1012 UCFM 221200Z 30002MPS 280V360 9999 SCT066CB BKN130 18/13 Q1014 R08/CLRD70 NOSIG UCFO 221200Z 29001MPS CAVOK 18/08 Q1015 R12/CLRD70 NOSIG OETF 221200Z 27015KT 9999 SCT030 30/14 Q1020 NOSIG ZGSZ 221200Z 04005MPS 9999 BKN050 28/18 Q1016 NOSIG OERY 221200Z 09008KT 8000 SKC 31/12 Q1019 TKPK 221200Z 08012KT 9999 VCSH SCT018 29/24 Q1015 TKPN 221200Z 11008KT 9999 VCSH SCT015TCU 29/24 Q1015 K7R3 221011Z 04006KT 10SM SKC 18/16 A3003 K7R4 211248Z 04005KT 7SM SKC 14/07 A3002 OETR 221200Z 13008KT CAVOK 25/03 Q1019 SVAC 221100Z 340//KT 9999 FEW017 ///// Q1012 YREN 221200Z AUTO 23011KT //// // ////// 17/12 Q1017 OEWD 221200Z 14006KT CAVOK 35/13 Q1015 NOSIG YPWR 221200Z AUTO 15013KT 9999 // NCD 25/08 Q1017 OEWJ 221200Z 31016KT CAVOK 30/21 Q1012 NOSIG YPXM 221200Z AUTO ///11KT 9999 // BKN006 OVC011 24/23 Q1015 SVBC 221200Z 00000KT 9999 FEW010 SCT060 25/25 Q1013 SVBI 221100Z 36005KT 9999 FEW020 24/23 Q1012 SVCB 221100Z 07006KT 9999 SCT013 26/// Q1010 SVBM 221200Z 16006KT 9000 FEW016 23/21 Q1016 MYGF 221200Z 00000KT 9999 VCSH FEW015CB BKN040 BKN180 24/23 A2992 RMK SHRA/CB NW/N SVBS 221000Z 00000KT 9999 OVC013 23/22 Q1015 K9D7 221155Z AUTO 16012KT 10SM SCT120 12/07 A2970 RMK AO2 SVCN 211900Z 00000KT 9999 SCT080 ///// A3000 OEYN 221200Z 24010KT CAVOK 36/13 Q1009 NOSIG K7W4 221155Z AUTO 31004KT 10SM BKN013 OVC020 10/10 A2991 RMK AO1 60001 70001 T01040095 10117 20103 SVCR 221200Z 08010KT 9999 FEW016 XX/XX Q1013 SULS 221200Z 34006KT CAVOK 24/13 Q1019 SVCU 221100Z 00000KT 9999 CAVOK 23/23 Q1010 K9F2 221008Z 03008KT 7SM SKC 20/18 A3000 SUMU 221200Z 36009KT CAVOK 22/14 Q1018 NOSIG YSBK 221200Z AUTO 00000KT 9999 // NCD 16/11 Q1020 YSCB 221200Z AUTO 16005KT 9999 // NCD 12/09 Q1020 TLPC 221200Z 07007KT 9999 SCT023 30/25 Q1014 TEMPO SHRA SVFM 221100Z 00000KT CAVOK ///// Q1016 SVGD 221100Z 29002KT 9999 FEW020 SCT300 24/23 Q//// YRMD 221200Z AUTO 11011KT //// // ////// 26/00 Q1017 TLPL 221200Z 08014KT 9999 BKN023 29/25 Q1014 TEMPO SHRA YSCN 221200Z AUTO 19003KT 9999 // NCD 14/12 Q1020 YSCO 221200Z AUTO 27004KT //// // ////// 14/09 Q1019 YSCR 221200Z AUTO 25014KT //// // ////// 26/10 Q1012 SVGU 221100Z /////KT 9999 SCT017 25/21 Q1010 MZBZ 221200Z 00000KT 9999 FEW016 SCT045 26/25 A2973 Q1006 RETS NOSIG YSDU 221203Z AUTO 28009KT 9999 // SCT094 SCT110 24/12 Q1020 HRYR 221200Z 04003KT 9999 FEW023CB SCT025 25/19 Q1018 NOSIG SVJC 212200Z 11018KT 9999 FEW013 XX/XX Q1008 YROM 221200Z AUTO 03004KT 9999 // NCD 21/06 Q1021 YSGE 221200Z AUTO 04004KT //// // ////// 22/08 Q1019 SVJM 221100Z /////KT 9999 BKN020 20/19 Q1013 SUSO 221100Z 05006KT CAVOK 19/14 Q1018 MYNN 221200Z 00000KT 9999 FEW018 BKN035 BKN100 25/24 A2996 K9L2 221155Z AUTO 00000KT 10SM CLR 07/01 A2996 RMK AO2 SLP141 T00670006 10133 20061 51006 TSNO $ TNCA 221200Z 09014KT 9999 FEW018 30/24 Q1012 A2991 NOSIG TNCB 221100Z AUTO 08009KT 050V120 //// /////28/25 Q1012 TNCC 221100Z 12007KT 9999 FEW016 28/25 Q1012 NOSIG TNCE 221100Z AUTO 06008KT //// ////// ///// Q1015 SVLF 221200Z 00000KT 9999 FEW040 XX/XX Q1013 DFFD 221200Z 09009KT 060V170 CAVOK 37/09 Q1013 NOSIG YSHK 221200Z AUTO 26010KT //// // ////// 21/15 Q1017 ZJHK 221200Z 06004MPS 7000 NSC 24/22 Q1014 NOSIG HSSS 221200Z 34012KT 9999 FEW050 38/05 Q1010 NOSIG SVMD 221200Z 06008KT CAVOK 16/13 Q1022 TNCM 221100Z 10004KT 070V130 9999 FEW021 28/23 Q1015 A2998 NOSIG K8W2 221155Z AUTO 33006KT 10SM OVC025 10/07 A2998 RMK AO1 60006 70025 T01010071 10106 20088 SVMG 221200Z /////KT 9999 SCT010 29/23 Q1012 NOSIG SVMI 221200Z 00000KT 9999 FEW023 27/22 Q1013 NOSIG YSHT 221200Z AUTO 00000KT //// // ////// 23/12 Q1017 YSHW 221200Z AUTO 12005KT 9999 // NCD 16/12 Q1020 SVMN 221100Z 20002KT 9999 BKN013 27/// Q1008 UEEE 221200Z 06002MPS 9999 FEW050CB BKN100 M14/M15 Q0997 NOSIG RMK QFE739 23490145 SVMT 220300Z 02003KT CAVOK 26/26 Q1012 OIAA 221200Z 33012KT CAVOK 28/08 Q1017 K9MN 221154Z AUTO 13009KT 100V160 10SM CLR 04/01 A3025 RMK AO1 T00400011 10055 20038 YTAR 221200Z AUTO 20012KT //// // ////// 23/10 Q1019 YRTI 221200Z AUTO 31019KT //// // ////// 19/14 Q1014 OIAG 221100Z 31012KT CAVOK 28/04 Q1017 OIAH 221100Z 00000KT CAVOK 25/10 Q1019 OIAI 221100Z 30006KT CAVOK 25/10 Q1017 OIBA 221200Z 26012KT CAVOK 32/24 Q1011 SVPC 221100Z 00000KT 9999 BKN040 XX/XX Q1013 OIBB 221200Z 33016KT CAVOK 27/11 Q1015 A2999 DGAA 221150Z 19011KT 140V240 9999 BKN029 30/23 Q1013 NOSIG OIAM 221200Z 32012KT CAVOK 28/06 Q1017 HUEN 221000Z 16008KT 9999 FEW023TCU FEW025CB BKN140 25/21 Q1019 RETS OIBJ 221200Z 32016KT CAVOK 29/M03 Q1018 OIBK 221200Z 30012KT 8000 SKC 33/17 Q1012 SVPM 221200Z 00000KT 9999 SCT027 XX/XX Q1016 OIBL 221200Z 24014KT CAVOK 34/22 Q1011 OICC 221200Z 29008KT CAVOK 17/02 Q1023 A3021 NOSIG OIAW 221200Z 30006KT CAVOK 27/09 Q1017 YSMH 221200Z AUTO 12005KT 9999 // NCD 20/15 Q1021 YSMI 221200Z AUTO 22010KT //// // ////// 13/12 Q1018 OIBP 2208250Z 29007KT 5000 SA SKC 33/18 Q1015 A2998 SVPR 221200Z 00000KT CAVOK ///// Q1014 OIBQ 221200Z 35019KT CAVOK 28/12 Q1016 OICI 221200Z 26006KT CAVOK 17/05 Q1023 A3021 OICJ 221050Z 11006KT CAVOK 16/05 Q1023 OIBS 221200Z 24010KT 9999 FEW035 34/25 Q1012 OICK 221200Z 26004KT 9999 FEW035 19/05 Q1022 YTEE 221200Z AUTO 10007KT 9999 // NCD 25/M04 Q1018 KMG 221200Z AUTO 14007KT 9999 // NCD 18/11 Q1019 OIBV 221100Z 27018KT CAVOK 33/13 Q1012 YSNF 221200Z AUTO 22006KT 9999 // SCT020 15/11 Q1019 YTEF 221200Z AUTO 23002KT //// // ////// 34/06 Q1012 SVSA 221200Z /////KT 9999 SCT020 24/19 Q1014 OICS 221200Z 18008KT CAVOK 19/04 Q1020 YTEM 221200Z AUTO 00000KT //// // ////// 14/10 Q1018 CPBT 221100Z AUTO 25011KT 04/01 RMK AO1 PK WND 26017/1036 T00440005 UDSG 221200Z 22004MPS 9999 FEW050 16/02 Q1018 R02/CLRD70 NOSIG YSNW 221200Z AUTO 25002KT 9999 // NCD 14/13 Q1019 SVSO 221100Z 00000KT 9999 SCT023 21/21 Q1014 SVSP 212200Z 04012KT 9999 FEW040 XX/XX Q1011 SVSR 221100Z /////KT 9999 CAVOK 25/// Q1011 SVST 212000Z 00000KT CAVOK ///// Q1013 HUJI 220900Z 16005KT 9999 FEW021 FEW023CB BKN120 25/19 CPEH 221100Z AUTO 23008KT 02/M00 RMK AO1 T00231001 YTGM 221200Z AUTO 03007KT //// // ////// 26/06 Q1020 HUKA 220900Z 17002KT 9999 BKN021 FEW024CB BKN130 XX/XX OIFK 221100Z 12006KT CAVOK 22/07 Q1018 OIFM 221200Z 33012KT CAVOK 21/M02 Q1019 A3011 SVSZ 221200Z 00000KT 7000 HZ BKN030 XX/XX Q1012 OIGG 221200Z 01004KT CAVOK 21/16 Q1012 YTIB 221200Z AUTO 36011KT //// // ////// 27/08 Q1018 SVVA 221200Z 00000KT 9999 SCT016 24/22 Q1015 HUKI 220700Z 05002KT 9999 BKN019 FEW022CB 23/19 OIFS 221200Z 25008KT CAVOK 19/M02 Q1022 CPFI 221100Z AUTO 22009KT 06/01 RMK AO1 T00630011 OIGK 221050Z 21004KT 9999 SCT035 12/00 Q1020 K9V9 221155Z AUTO 17009G14KT 10SM CLR 15/11 A2984 RMK AO2 T01500107 10166 20143 SVVG 221200Z 00000KT 9999 FEW020 26/25 Q1010 YSRI 221200Z AUTO 00000KT 9999 // NCD 16/13 Q1020 DFOO 221200Z 34006KT CAVOK 33/19 Q1014 OIHH 221151Z 31008KT 9999 FEW040 17/02 Q1021 HULI 220900Z 04004KT 9999 BKN020 27/XX SVVL 220600Z 23004KT 9999 BKN020 24/19 Q1014 HUKS 220600Z 18003KT 9999 SCT018 FEW025CB OVC140 23/20 OIHM 221100Z 30010KT 9999 FEW025 14/04 Q1023 OIIE 221200Z 32020KT CAVOK 21/04 Q1015 NOSIG OIHR 221100Z 30010KT 9999 FEW035 16/05 Q1021 OIII 221200Z 27018KT 9999 FEW040 19/06 Q1016 A3000 NOSIG HUMI 220900Z 22003KT 9999 BKN020 FEW022CB 25/20 OIIK 221200Z 26006KT 9999 FEW030 19/05 Q1018 PAAD 221155Z AUTO 10033G36KT 1SM BR OVC015 M03/M04 A2984 RMK AO2 OIIP 221200Z 32016KT 9999 FEW035 18/M00 Q1017 OJAI 221200Z 17014KT 8000 NSC 28/02 Q1017 NOSIG OIIS 221100Z 19008KT 9999 FEW030TCU 19/06 Q1016 PABA 221201Z AUTO 09030G36KT 3SM -SN BR OVC018 M03/M05 A2987 RMK AO2 PK WND 10039/1140 SNB1104 SLP113 P0000 60000 T10281050 11022 21028 51001 FZRANO OIKB 221150Z 21018KT 6000 FEW025CB FEW030 32/24 Q1010 A2984 NOSIG PAAK 221156Z 28020G27KT 220V300 10SM SCT023 BKN030 OVC036 05/02 A3015 RMK AO1 10060 20040 52010 OJAM 221200Z 18007KT 5000 HZ NSC 26/02 Q1017 YSSY 221200Z 01011KT CAVOK 19/14 Q1020 NOSIG ZJSY 221200Z 08002MPS 040V120 9000 SCT018 BKN050 28/23 Q1013 NOSIG PABE 221153Z 33011KT 10SM SCT085 M08/M09 A2963 RMK AO2 SLP035 60000 T10781089 11022 21083 53014 PAAP 220057Z 13015KT 6SM -SHRA BKN015 OVC025 10/07 A2904 RMK LAST NO SPECI OJAQ 221200Z 00000KT CAVOK 32/07 Q1013 NOSIG PAAQ 221153Z AUTO VRB04KT 10SM CLR M04/M06 A2921 RMK AO2 SLP894 T10391056 11017 21056 55000 TSNO PABI 221200Z AUTO 00000KT 10SM BKN007 OVC014 M06/M07 A2948 RMK AO2 T10561067 TSNO CPIR 221100Z AUTO 25011KT 05/01 RMK AO1 T00470007 OIKK 221200Z 25012G26KT 9999 SCT035 26/M04 Q1019 A3012 PABL 221156Z AUTO 00000KT 10SM CLR M12/M14 A2975 RMK AO1 11060 21130 52010 YSTW 221200Z AUTO 15006KT 9999 // NCD 16/06 Q1020 PACD 221153Z 32018KT 10SM SCT037 OVC046 02/00 A2952 RMK AO2 RAB1055E04 SLP997 P0000 60001 70016 T00170000 10022 20006 51017 OIKO 221050Z 18010KT 9999 FEW030TCU 36/22 Q1012 OIKQ 221200Z 21018KT 4000 SA SKC 31/25 Q1011 OIKR 221200Z 27014G29KT 8000 FEW040 27/M08 Q1018 A3009 PABR 221153Z 05024G29KT 8SM OVC009 M09/M10 A3006 RMK AO2 PK WND 06030/1058 SLP182 60001 70001 4/002 T10891100 11083 21089 50001 OIMB 221200Z 27016KT 5000 SA FEW040 24/00 Q1016 PABT 221153Z 34003KT 10SM OVC055 M03/M08 A2964 RMK AO2 SLP051 4/002 T10331083 11028 21033 53005 OIMC 221100Z 30008KT 5000 DU SCT035 OVC090 19/09 Q1016 YTMO 221200Z AUTO 11006KT //// // ////// 26/01 Q1018 OIMD 221100Z 30010KT 9999 FEW030CB FEW035 21/04 Q1012 PABV 221156Z AUTO 16003KT 10SM CLR M04/M04 A2923 RMK AO1 10000 21040 54000 PACM 221156Z AUTO 30005KT 4SM -SN BR BKN004 OVC015 M01/M01 A2977 RMK AO2 FZRANO TSNO 53012 60000 T10051011 10000 21011 BKN V SCT P0000 SLP075 $ YTNG 221200Z AUTO 12004KT 9999 // NCD 18/11 Q1022 PADE 221153Z AUTO 21008KT 10SM SCT046 M11/M13 A2973 RMK SLP067 I6000 T11061133 11094 21122 51005 TSNO VIA AUTODIAL YSWG 221200Z 12007KT CAVOK 20/12 Q1017 YSWH 221200Z AUTO 13006KT //// // ////// 25/08 Q1015 PADG 212000Z 02012G21KT 15SM FEW050 M05/M11 A2960 UDYZ 221200Z VRB01MPS 9999 FEW100 19/04 Q1018 R09/000070 NOSIG YTNK 221200Z AUTO 09006KT 9999 // NCD 28/M01 Q1016 OINB 221100Z VRB02KT 9999 FEW030 21/16 Q1013 PADK 221156Z AUTO 29012KT 10SM CLR 06/01 A3026 RMK AO1 70005 10060 20050 57003 PAEC 220051Z 01006KT 40SM SCT200 02/M04 A2926 RMK NOSPECI PADL 221156Z 00000KT 10SM BKN070 BKN085 00/M03 A2944 RMK AO1 10010 21010 52007 OIMM 221200Z 26006KT 9999 SCT020 FEW030CB SCT080 14/09 Q1015 A2999 PACV 221153Z 01003KT 10SM SCT200 M01/M02 A2911 RMK AO2 SLP857 I6000 T10111022 11006 21022 55001 PADM 221156Z AUTO 09005KT 10SM OVC090 M04/M06 A2969 RMK AO2 TSNO 51017 T10381061 11016 21061 OVC V BKN SLP043 $ PAED 221158Z AUTO 00000KT 10SM CLR M04/M06 A2922 RMK AO2 SLP892 T10451061 11014 21050 53001 $ OIMN 221200Z 30008KT 7000 -RA SCT007 SCT040 OVC080 10/08 Q1017 OINE 221200Z 00000KT 9999 FEW035 23/11 Q1014 OING 221200Z 12004KT 9999 FEW040 24/10 Q1015 PAEG 221153Z AUTO 00000KT 10SM OVC070 M06/M08 A2952 RMK AO2 SLP009 T10611083 11028 21083 51004 TSNO $ OIMQ 221100Z 24008KT 9999 SCT035 17/10 Q1015 PACZ 221155Z AUTO 04013KT 10SM OVC013 00/M02 A2970 RMK AO2 SHSNB0945E1114 SLP067 70001 T10031021 11016 21028 53017 PADQ 221153Z 32014G20KT 10SM FEW025 BKN120 06/02 A2918 RMK AO2 SLP882 T00560017 10056 20039 53000 PAEH 221155Z AUTO 01018KT 10SM BKN007 M01/M02 A2957 RMK AO2 SLP023 70002 T10111018 10005 21013 52020 PAEI 221158Z AUTO 15003KT 10SM FEW001 BKN100 M12/M14 A2949 RMK AO2 SLP998 T11251145 11063 21130 52005 $ NSFA 221100Z 17004KT 9999 FEW024 22/22 Q1012 PAFA 221153Z 01006KT 10SM SCT060 BKN085 BKN200 M03/M08 A2950 RMK AO2 SLP997 T10281078 11006 21039 51005 OIMT 221200Z 30014KT 7000 FEW035 25/01 Q1014 OINK 221100Z 00000KT 9999 FEW030 23/11 Q1013 PAFB 221156Z AUTO 00000KT 10SM BKN085 M07/M09 A2949 RMK SLP994 T10671089 11022 21072 51004 $ VIA AUTODIAL PAEL 220057Z 10009KT 20SM SCT023 BKN035 BKN060 OVC180 08/04 A2909 RMK SPB E03015KT NOSPECI LAST PADU 221156Z AUTO 31027G38KT 5SM -RA SCT018 BKN023 OVC034 04/01 A2976 RMK AO2 PK WND 33039/1118 RAB1058 SLP083 6//// 7//// T00440006 10056 20039 53012 PNO $ PAEM 221156Z 35003KT 10SM OVC019 M01/M04 A2971 RMK AO1 11010 21050 52014 OINN 221200Z 09008KT CAVOK 21/17 Q1013 PAEN 221153Z AUTO 00000KT 10SM CLR M04/M06 A2924 RMK AO2 SLP903 T10441056 11017 21050 51002 TSNO PAFE 221156Z AUTO 11017G24KT 10SM FEW028 OVC039 07/04 A2917 RMK AO1 P0002 60002 70005 10100 20070 52007 OINR 221200Z 11008KT CAVOK 20/16 Q1012 PAGA 221158Z AUTO VRB03KT 10SM CLR M08/M09 A2964 RMK AO2 SLP043 T10781089 11039 21078 51008 FZRANO PAFM 221156Z AUTO 30003KT 10SM OVC060 M06/M10 A2972 RMK AO1 11040 21070 52007 HUSO 220900Z 02005KT 9999 BKN020 FEW022CB BKN120 27/19 Q1018 OINZ 221200Z 02012KT 9999 FEW030 24/15 Q1013 PAGH 221157Z AUTO 22003KT 10SM OVC055 M05/M07 A2970 RMK AO2 SLP090 T10501067 11050 21061 51005 FZRANO SYCJ 221200Z 22006KT 9000 -SHRA FEW012CB SCT037 BKN090 25/24 Q1013 CB ENE-S NOSIG PAFS 221156Z AUTO 00000KT 10SM OVC020 M01/M05 A2952 RMK AO2 TSNO 51009 T10111050 11011 21050 SLP006 $ PAGK 221153Z AUTO 00000KT 10SM BKN006 OVC023 M04/M06 A2931 RMK AO2 SLP954 I6001 T10441056 11039 21050 50004 TSNO PAGL 221146Z 32006KT 10SM CLR M02/M06 A2972 RMK VIA PHONE PAHC 221156Z AUTO 36010G16KT 10SM CLR M03/M06 A2961 RMK AO2 TSNO 51016 60000 T10271061 11011 21027 SLP030 $ YTRE 221200Z AUTO 03005KT //// // ////// 17/12 Q1021 PAGM 221156Z AUTO 35017KT 4SM SCT019 BKN024 OVC034 M01/M04 A2990 RMK AO1 11010 21010 52014 PAGN 221156Z AUTO 10008G17KT 060V130 5SM HZ FEW004 SCT029 OVC043 08/05 A2912 RMK AO2 TSNO 55003 60000 T00830050 10105 20083 RAE56 P0000 SLP861 $ PAGS 221154Z AUTO 33005KT 10SM OVC070 08/ A2910 RMK VIA PHONE PAHL 221156Z AUTO 30006KT 10SM CLR M08/M11 A2964 RMK AO1 11030 21090 52007 PAHN 221154Z AUTO 31015KT 10SM FEW095 04/03 A2922 RMK AO2 SLP899 60002 70002 T00440033 10061 20044 58005 TSNO PAHO 221153Z AUTO 00000KT 10SM CLR M01/M04 A2922 RMK AO2 SLP897 I1000 I6000 T10111044 10028 21011 55001 TSNO PAGY 221153Z AUTO VRB03KT 10SM CLR 08/02 A2922 RMK AO2 SLP894 T00830022 10094 20072 58006 TSNO PAHP 221156Z AUTO 36010KT 10SM OVC018 01/M03 A2975 RMK AO1 10010 21040 52017 PAIG 221156Z AUTO 21006KT 10SM CLR M05/M06 A2937 RMK AO2 TSNO 51006 60000 T10501061 11011 21050 SLP949 $ PAII 221156Z AUTO 36008KT 10SM SCT060 OVC080 M01/M03 A2941 RMK AO1 70003 11010 21030 52010 OISA 221052Z 27010KT CAVOK 20/M06 Q1022 NTAA 221200Z 20007KT 9999 FEW020 BKN060 BKN090 24/21 Q1010 NOSIG PAIK 221201Z AUTO 00000KT 10SM FEW110 M09/M11 A2976 RMK AO2 SLP121 T10941111 11056 21094 51009 FZRANO PAIL 221153Z AUTO 33007KT 10SM CLR M03/M05 A2933 RMK AO2 SLP936 T10281050 11006 21028 53003 TSNO PAJC 221156Z AUTO 26012KT 10SM CLR 02/M04 A2940 RMK AO1 10020 20000 52014 PAIM 221155Z AUTO 09013G23KT 10SM BKN049 M03/M07 A2958 RMK AO2 SLP037 T10291066 11021 21031 51005 PAIN 221156Z AUTO 00000KT 10SM OVC012 M06/M06 A2942 RMK AO1 11040 21070 52003 OISF 221150Z 24016KT CAVOK 28/M07 Q1016 PAHX 221156Z AUTO 00000KT 7SM CLR M07/M09 A2962 RMK AO2 SLP035 T10721089 11028 21072 51013 FZRANO YTTI 221200Z AUTO 33006KT //// // ////// 28/26 Q1014 PAHY 221156Z AUTO 06023G30KT 10SM FEW034 SCT040 BKN045 10/04 A2923 RMK AO1 P0001 60045 10110 20090 52014 YTST 221200Z AUTO 33004KT 9999 // NCD 27/23 Q1013 OISL 221200Z 32012KT 9999 FEW040 31/08 Q1015 PAJN 221153Z 00000KT 10SM FEW095 OVC140 05/04 A2915 RMK AO2 SLP871 60001 70002 T00500044 10089 20039 58007 PAIW 221158Z AUTO 34014KT 10SM UP FEW009 BKN013 OVC025 M01/M02 A2980 RMK AO2 UPB41 SLP093 P0000 60000 T10061022 10000 21006 53008 FZRANO DIAD 221100Z 12004KT 9999 BKN013 28/24 Q1013 NOSIG PAKF 221201Z AUTO 9SM -RA FEW020 OVC049 03/M02 A2956 RMK AO2 RAB1103E1119B1151UPB1149E1151 SLP106 P0001 60012 70071 T00281017 10039 20022 51011 $ CPRO 221100Z AUTO 22004KT M01/M02 RMK AO1 T10121019 PAKH 221156Z AUTO 33015KT 10SM FEW085 04/M04 A2923 RMK AO2 TSNO 58001 70001 T00381038 10044 20011 SLP900 $ OISR 220500Z 29012KT CAVOK 25/15 Q1018 PAKI 221156Z AUTO 31014KT 10SM CLR M05/M07 A2969 RMK AO2 TSNO 51019 T10501066 11050 21072 SLP055 $ ZLLL 221200Z 33002MPS CAVOK 07/02 Q1026 NOSIG OISS 221200Z 26014KT CAVOK 24/M04 Q1019 A3011 OKBK 221100Z 02011KT CAVOK 29/06 Q1018 NOSIG OITK 221000Z 00000KT 9999 FEW030 15/07 Q1019 PAKK 221156Z AUTO 35008KT 10SM OVC055 M04/M08 A2965 RMK AO1 11020 21040 52010 OITL 221200Z 22017KT CAVOK 17/08 Q1017 OITM 221200Z 30004KT 9999 FEW030 15/07 Q1021 SYGO 221200Z 18004KT 9999 BKN010 FEW011CB SCT036 BKN080 26/24 Q1013 RERA PAKN 221154Z 35009KT 10SM FEW055 FEW075 M02/M04 A2936 RMK AO2 SLP944 T10221039 11011 21050 51008 OISY 221200Z 18010KT CAVOK 19/01 Q1024 PAKP 221156Z AUTO 05007KT 5SM FEW024 OVC090 M08/M12 A2960 RMK AO1 11070 21080 54000 PALG 221156Z AUTO VRB04KT 10SM CLR M04/M06 A2960 RMK AO2 TSNO 51015 T10441061 11016 21044 SLP027 $ PALH 221153Z 00000KT 10SM CLR M03/M05 A2924 RMK AO2 SLP901 T10281050 10039 21028 53000 PAJZ 221156Z AUTO 34004KT 10SM CLR M03/M06 A2947 RMK AO2 TSNO 53009 T10271055 11016 21044 SLP972 YTWB 221200Z AUTO 10018KT 9999 // NCD 13/10 Q1024 CPRY 221100Z AUTO 23011KT 06/M00 RMK AO1 T00571001 OITR 221200Z 00000KT 7000 FEW035 16/04 Q1020 NOSIG DIAP 221200Z 20010KT 170V230 9999 FEW011 29/24 Q1012 NOSIG PALJ 220054Z 00000KT 30SM FEW010 SCT070 00/M03 A2928 RMK LAST 400061039 EST PASS OPEN NOSPECI OITT 221200Z 27008KT 9999 FEW035 14/08 Q1021 A3017 PAKT 221153Z AUTO 16009G19KT 10SM -RA OVC027 09/06 A2931 RMK AO2 SLP925 P0002 60002 70029 T00890061 10100 20089 53014 TSNO PAMB 221156Z AUTO 00000KT 10SM FEW075 OVC090 M02/M04 A2941 RMK AO2 TSNO 51013 60002 70002 T10161044 11005 21033 SLP964 $ PAKU 221149Z 06030G34KT 1 5/8SM R06/P6000FT -SN BLSN OVC008 M04/M04 A2985 OITU 221054Z 14004KT 9999 FEW035 16/06 Q1019 PAMC 221153Z 29004KT 10SM CLR M09/M11 A2955 RMK SLP012 I1000 I6000 T10891106 11011 21094 51012 VIA AUTODIAL CPST 221200Z AUTO 21007KT M00/M03 RMK AO1 T10021034 PAKV 221153Z AUTO 00000KT 10SM CLR M06/M08 A2968 RMK AO2 SLP053 T10611078 11011 21078 51009 TSNO PAMD 221156Z 05013KT 10SM OVC070 08/03 A2907 RMK AO1 70031 10080 20070 57003 PAKW 221153Z AUTO 15013G19KT 10SM -RA FEW028 SCT037 OVC049 08/06 A2919 RMK AO2 SLP884 P0001 60032 70064 T00780056 10100 20072 53006 TSNO CPSV 221200Z AUTO 26013KT 06/02 RMK AO1 T00640023 PALP 221155Z 03020G28KT 3SM -SN BLSN BKN013 OVC019 M04/M06 A2988 OITZ 221200Z 32006KT 9999 FEW030 15/06 Q1020 PAMH 221156Z AUTO 02003KT 10SM M02/M07 A2950 RMK AO1 11020 21030 52010 PANA 221156Z AUTO 36007KT 10SM CLR M08/M09 A2962 RMK AO2 SLP031 60000 T10781089 11028 21078 53013 FZRANO PAMK 221156Z AUTO 02011KT 10SM OVC003 M01/M04 A2967 RMK AO2 TSNO 53014 T10111038 10000 21016 SLP052 $ PANC 221153Z 03004KT 10SM CLR 01/M06 A2922 RMK AO2 SLP897 T00061056 10028 21022 53000 PALU 221200Z AUTO 07025KT 10SM -SHSN OVC013 M04/M05 A2989 RMK AO2 PK WND 07030/1156 SLP122 PAMM 221156Z AUTO 13011G20KT 10SM FEW025 SCT034 BKN043 09/06 A2933 RMK AO1 P0001 60001 10110 20090 52010 DIBU 221100Z 00000KT 9999 SCT015 30/23 Q1012 NOSIG PAMO 221156Z AUTO 32007KT 10SM OVC001 M04/M05 A2971 RMK AO2 TSNO 51018 60000 T10441050 11038 21050 UPE11 P0000 SLP946 $ PAMR 221153Z 00000KT 10SM CLR M04/M07 A2922 RMK AO2 SLP897 T10391067 11006 21039 55000 PANI 221156Z AUTO 01005KT 10SM CLR M03/M06 A2959 RMK AO1 70004 11010 21030 52014 UHBB 221200Z 17004MPS 140V200 CAVOK 04/M13 Q1007 NOSIG RMK QFE740/0987 18090060 DIDK 221100Z ///// 9999 BKN015 30/25 Q//// NOSIG DIDL 221100Z ///// 9999 BKN015 28/23 Q1015 NOSIG PANN 221153Z AUTO 00000KT 10SM SCT031 SCT080 M08/M10 A2950 RMK AO2 SLP998 I1000 I6000 T10781100 11017 21083 53005 TSNO PAMY 221149Z 35011KT 10SM OVC019 01/M04 A2974 RMK VIA PHONE PAOH 221156Z AUTO VRB05KT 6SM -RA BR OVC039 07/07 A2913 RMK AO2 TSNO 56003 60004 70024 T00720066 10083 20072 P0003 SLP867 $ PAPB 221153Z AUTO 36024G34KT 10SM FEW027 BKN033 03/M02 A2984 RMK AO2 PK WND 35039/1135 SNB00E10 SLP091 P0000 60000 T00331017 10033 20017 52018 TSNO PANT 221153Z 14015G26KT 10SM -RA SCT023 SCT040 OVC047 10/07 A2931 RMK AO2 PK WND 14028/1055 SLP926 P0000 60000 70021 T01000067 10100 20089 53011 PAOM 221153Z 01004KT 10SM FEW060 FEW130 SCT180 M06/M09 A2972 RMK SLP066 T10611089 11017 21067 51010 VIA AUTODIAL PANV 221156Z AUTO 33003KT 10SM CLR M04/M07 A2960 RMK AO1 11010 21040 52010 PANW 221156Z AUTO 35009KT 10SM CLR M04/M06 A2943 RMK AO2 TSNO 53009 T10381055 11022 21038 SLP945 $ UGKO 221200Z 09004KT 070V130 CAVOK 25/M03 Q1011 R07/09//70 NOSIG PAOO 221156Z AUTO 33027G35KT 10SM CLR M01/M03 A2968 RMK AO2 TSNO 50010 T10111033 11011 21044 PK WND 32035/1141 SLP054 $ PAPG 221156Z 14018G30KT 10SM OVC040 09/03 A2922 RMK AO1 P0002 10120 20090 52017 PAPH 221156Z AUTO 02005KT 10SM SCT030 OVC035 M04/M07 A2944 RMK AO1 70006 11030 21050 52017 PAOR 221153Z 30004KT 10SM SCT030 OVC060 M03/M05 A2936 RMK AO2 SLP968 I6000 T10331050 11033 21056 55001 OIZB 221200Z 18008KT CAVOK 36/06 Q1008 PAOT 221153Z 05006KT 10SM FEW060 M07/M09 A2974 RMK AO2 SLP072 T10721094 11033 21072 51006 DIGA 221100Z 28004KT 9999 BKN013 28/23 Q1014 NOSIG PAOU 221156Z AUTO 01019KT CLR 03/01 A2947 RMK AO2 TSNO 53020 60001 70011 T00330005 10038 20022 RAB1058E11 P0000 SLP984 $ PAPM 221156Z AUTO 10SM FEW095 M04/M05 A2956 RMK AO2 TSNO 53016 T10381050 11005 21050 SLP011 $ CPXL 221200Z AUTO 25007KT 07/02 RMK AO1 T00680020 PAPN 221156Z AUTO 01007KT 10SM CLR M03/M05 A2942 RMK AO2 PWINO TSNO 52014 T10331050 11033 21055 SLP964 $ PAPO 212255Z 03023G34KT 10SM OVC110 M05/M08 A2978 RMK AWOS OBSERVATION RELAYED BY PILOT VIA PHO RCO OIZH 221200Z 21016KT 8000 SKC 29/02 Q1016 A3002 TEMPO 23020G30KT 5000 SA PAQH 221156Z AUTO 32013KT 10SM BKN016 M03/M04 A2961 RMK AO2 SNE36 SLP027 P0000 60000 T10281039 11028 21100 53017 FZRANO PAPR 211817Z 00000KT 10SM BKN015 OVC035 M03/ A2948 RMK LAST OIZI 221200Z 25010KT CAVOK 34/07 Q1013 OIZJ 221200Z 22008KT 6000 SKC 30/26 Q1011 PARC 221016Z AUTO 08004KT 5SM CLR M06/M08 A2961 RMK AO1 OIYY 221200Z 32010KT CAVOK 25/M06 Q1018 PASA 221156Z AUTO 36012KT 10SM OVC025 00/M05 A2987 RMK AO1 10010 20000 52014 PAQT 221153Z AUTO 05028G35KT 1SM -SN BR SCT011 OVC025 M04/M05 A2988 RMK PK WND 05035/1139 SLP118 P0000 6//// 7//// T10391050 11033 21039 50000 TSNO $ VIA AUTODIAL PASC 221153Z 07030KT 3/4SM R05/6000VP6000FT -SN BLSN BR BKN028 OVC034 M03/M05 A2984 RMK AO2 PK WND 07036/1056 SNB30 SLP105 P0000 60000 T10331050 11028 21033 50004 PASD 221156Z AUTO 34010KT 10SM FEW023 BKN095 03/01 A2944 RMK AO1 10030 20020 52017 YWCA 221200Z AUTO 01009KT //// // ////// 25/08 Q1016 PASH 221156Z AUTO 09003KT 10SM OVC025 M01/M03 A2979 RMK AO1 10010 21010 52010 PASI 221153Z 11020G30KT 6SM -RA OVC042 08/05 A2903 RMK AO2 PK WND 11033/1140 SLP829 P0004 60006 70006 T00780050 10100 20078 53012 YWBL 221200Z AUTO 17009KT //// // ////// 13/12 Q1020 OLBA 221100Z 36010KT 8000 SCT080 25/11 Q1016 PATA 221152Z AUTO 32004KT 10SM OVC055 M04/M07 A2959 RMK AO2 SLP024 T10441067 11044 21067 53005 TSNO PARS 221156Z AUTO 32005KT 10SM SCT080 BKN100 M02/M04 A2963 RMK AO2 TSNO 51013 T10161044 11005 21022 SLP039 $ PASK 221156Z AUTO 00000KT 10SM CLR M09/M12 A2975 RMK AO1 11080 21110 52007 PASL 221116Z AUTO 32005KT 10SM CLR M02/M09 A2954 RMK AO1 PATC 221155Z AUTO 02013KT 10SM SCT022 BKN110 M01/M02 A2977 RMK AO2 SLP084 T10151025 11002 21014 52009 PASM 221156Z AUTO 35007KT 10SM FEW011 M05/M08 A2968 RMK AO1 11030 21070 52017 PASN 221153Z 34016G26KT 10SM FEW025 BKN036 03/M01 A2986 RMK AO2 PK WND 34032/1126 RAE06B29E40 SLP114 T00281011 10033 20017 52018 $ PATE 221158Z AUTO 00000KT 10SM CLR M04/M05 A2976 RMK AO2 SLP090 T10441050 11011 21044 51008 FZRANO PASO 221153Z AUTO 00000KT 10SM CLR M01/M02 A2922 RMK AO2 SLP895 70001 T10111017 10006 21011 53001 TSNO $ YWBR 221200Z AUTO 12007KT //// // ////// 32/03 Q1015 PATG 221156Z AUTO 03005KT 10SM CLR M03/M07 A2947 RMK AO1 11020 21060 52010 PARY 221156Z AUTO 00000KT 10SM CLR M06/M07 A2958 RMK AO2 TSNO 51006 T10551066 11016 21055 SLP027 $ MSV 221200Z AUTO 01003KT 9999 // NCD 13/10 Q1021 PATK 221153Z AUTO 02005KT 10SM CLR 01/M08 A2923 RMK AO2 SLP904 T00111078 10028 20006 53000 TSNO $ PATL 221155Z AUTO 00000KT 10SM FEW250 M05/M06 A2954 RMK AO2 SLP020 T10481056 10004 21034 52010 $ PASV 221155Z AUTO 00000KT 10SM CLR M08/M08 A2934 RMK AO2 SNB1104E1106 SLP966 T10781081 11008 21065 52002 MUI 221200Z AUTO 11004KT 9999 // NCD 19/07 Q1022 PASW 220049Z 30005KT 30SM FEW050 SCT120 05/00 A2931 RMK MAX TEMP 05 70001 LAST NOSPECI PATO 221153Z AUTO 29003KT 1/2SM FZFG VV002 M01/M01 A2923 RMK AO2 SLP898 70007 I1001 I6004 T10111011 11006 21017 53002 TSNO PASX 221156Z AUTO 00000KT 10SM CLR M06/M08 A2923 RMK AO1 11030 21060 52003 UHHH 221200Z METAR 24007MPS CAVOK 01/M11 Q1016 NOSIG PASY 221156Z AUTO 20019KT 10SM OVC029 08/06 A3010 RMK AO2 SLP193 T00780061 10083 20078 58009 TSNO $ PAVA 221157Z AUTO 30003KT 10SM OVC016 M03/M03 A2978 RMK AO2 SLP088 T10281033 11006 21044 53019 FZRANO NSTU 221150Z 09012KT 10SM FEW024 27/23 A2987 RMK SLP115 8/100 T02670226 10271 20267 56007 PAVC 221156Z AUTO 31007KT 10SM 03/M04 A2951 RMK AO2 TSNO 53023 60001 70023 T00271038 10027 20011 PK WND 32026/1127 SLP994 $ PAVD 221156Z 02003KT 10SM CLR 04/M05 A2918 RMK AO1 10060 20040 54000 PAUN 221156Z AUTO 14007KT 10SM CLR M08/M11 A2967 RMK AO1 11040 21080 52014 UIAA 221200Z 27009MPS 9999 FEW050 BKN100 03/M04 Q1009 TEMPO 30010G15MPS RMK QFE699 29CLRD70 UGSB 221200Z 02006KT CAVOK 22/08 Q1013 R13/CLRD70 NOSIG PAUT 221155Z AUTO 32018G43KT 5SM -DZ BKN016 BKN023 OVC029 03/02 A2965 RMK AO2 60001 70002 T00330021 10048 20011 PAVL 221153Z AUTO 02010KT 9SM CLR M08/M11 A2978 RMK AO2 SLP083 T10781106 11072 21083 51006 TSNO PAWD 221153Z AUTO 01019G26KT 10SM CLR 03/M02 A2917 RMK AO2 PK WND 04026/1145 SLP877 70002 T00281022 10044 20022 50003 TSNO PAWG 221156Z AUTO 12017G21KT 10SM SCT028 BKN037 OVC075 08/04 A2927 RMK AO1 P0001 60001 70036 10110 20080 52010 PAWI 221153Z AUTO 06019KT 5SM BR OVC012 M07/M09 A3001 RMK AO2 UPE04SNB04E05 SLP164 P0000 60000 T10671089 11067 21067 50000 TSNO UIBB 221200Z 26005G10MPS P5000 FEW040CB BKN100 M02/M07 Q1015 NOSIG RMK QFE718/0957 30210260 UGTB 221200Z 21004KT 180V270 CAVOK 21/02 Q1015 R31L/CLRD80 NOSIG PAWM 221158Z AUTO 36009KT 10SM CLR M04/M08 A2972 RMK AO2 SLP070 T10441078 10000 21044 51011 FZRANO PAWN 221156Z AUTO 34007KT 10SM CLR M09/M13 A2976 RMK AO1 11060 21100 52007 YWHA 221200Z AUTO 20014KT 9999 // NCD 17/15 Q1019 PAYA 221153Z 07006KT 10SM FEW075 SCT110 09/00 A2905 RMK AO2 SLP838 T00940000 10100 20017 51001 $ PAWS 221156Z AUTO 00000KT 10SM CLR M04/M09 A2920 RMK AO1 10020 21050 54000 ZLXY 221200Z 00000MPS 1200 R23R/P2000 R23L/P2000 BR NSC 12/11 Q1021 NOSIG UHMA 221200Z 10005MPS 9999 BKN200 M04/M08 Q1015 RMK QFE758/1010 YWGT 221200Z AUTO 14004KT //// // ////// 17/14 Q1017 YVRD 221200Z AUTO 00000KT //// // ////// 28/08 Q1011 UHMD 220430Z 34005MPS 9999 BKN040 M00/M04 Q1010 RMK QFE757/1009 PAZK 221156Z AUTO 00000KT 10SM OVC032 M04/M06 A2923 RMK AO1 11040 21080 52003 UHMM 221200Z 14002MPS 9999 BKN026CB M10/M11 Q0996 RMK QFE732 YWIS 221200Z AUTO 10005KT //// // ////// 21/15 Q1021 OMAA 221200Z 32013KT 8000 NSC 34/22 Q1012 A2990 NOSIG OMAD 221200Z 34012KT CAVOK 33/24 Q1013 A2991 NOSIG ZMUB 221200Z VRB01MPS CAVOK 01/M08 Q1013 NOSIG RMK QFE652.6 51 OMAL 221200Z 31010KT 260V340 8000 NSC 37/07 Q1014 A2994 NOSIG YWLG 221200Z AUTO 03008KT 9999 // NCD 25/09 Q1019 TQPF 212100Z 09009KT 9999 SCT020 28/// Q1012 YWLM 221200Z AUTO 03007KT 9999 // NCD 17/13 Q1020 DITB 221100Z 16008KT 9999 BKN013 29/24 Q1014 NOSIG UHPP 221200Z 32003MPS 9999 NSC M03/M08 Q1005 NOSIG RMK QFE750/1000 SC070 EBBE 221204Z 29005KT 9999 FEW019 SCT028 BKN040 09/08 Q1021 BLU BLU TEMPO WHT DISP 221100Z 20004KT 9999 SCT013 BKN100 29/24 Q1014 NOSIG OMDB 221200Z 31013KT 9999 FEW035 33/25 Q1013 NOSIG DISS 221100Z VRB02KT 9999 BKN015 29/24 Q1013 NOSIG EBBL 221155Z 27006KT 9999 FEW027 SCT050 11/07 Q1020 BLU BLU TEMPO WHT EBAW 221150Z 32013KT 280V360 8000 -SHRA SCT024 SCT033 10/07 Q1021 TEMPO 4500 SHRA UIII 221200Z 05001MPS 9999 FEW043CB BKN100 OVC200 02/M00 Q1016 NOSIG RMK QFE717/0957 30190055 EBCI 221150Z 28011KT 240V320 9999 SCT028 11/04 Q1022 NOSIG EBBR 221150Z 30014KT 280V350 9999 FEW030 SCT046 11/07 Q1021 NOSIG VAAH 221140Z 10003KT 6000 NSC 37/16 Q1011 BECMG 5000 FU YWOL 221200Z AUTO 28004KT 9999 // NCD 14/13 Q1020 VABB 221140Z 25010KT 4000 FU NSC 34/23 Q1009 NOSIG OMDW 221200Z 32011KT CAVOK 33/23 Q1014 NOSIG EBCV 221125Z AUTO 31016KT 9999 FEW034/// SCT250/// 12/05 Q1023 BLU UHSS 221200Z 16002MPS 9999 NSC M04/M07 Q1016 RMK QFE761/1015 OMFJ 221200Z 05005KT 350V100 5000 HZ NSC 31/25 Q1012 A2991 EBDT 221125Z 28012KT 9999 FEW022 SCT040 12/07 Q1020 BLU BLU TEMPO WHT EBFN 221155Z 32015KT 9999 FEW028 SCT049 BKN240 13/06 Q1024 BLU BLU TEMPO WHT EBFS 221206Z 30013KT 9999 FEW026 BKN040 10/04 Q1022 BLU BLU DIYO 221100Z 22006KT 9999 BKN011 27/23 Q1014 NOSIG YWUD 221200Z AUTO 18006KT //// // ////// 15/11 Q1020 YWTN 221200Z AUTO 10006KT //// // ////// 25/02 Q1018 UHWW 221200Z 00000MPS 9999 SKC M02/M11 Q1023 NOSIG RMK QFE766/1021 57CLRD70 TRPG 221100Z 11012KT 9999 SCT025 27/22 Q1015 EBLB 221125Z AUTO 30013KT 9999 FEW007/// SCT010/// BKN019/// 06/04 Q1019 GRN EBLG 221150Z 29015KT 260V320 9999 FEW021 SCT032 10/06 Q1020 NOSIG YWWL 221200Z AUTO 36005KT //// // ////// 23/10 Q1018 UKBB 221200Z VRB02MPS CAVOK 13/08 Q1008 88CLRD95 NOSIG YWYM 221200Z AUTO 20006KT //// // ////// 31/17 Q1011 CTNK 221100Z AUTO 00000KT M02/M02 RMK AO1 1013 SLP264 T10161019 50002 UKDD 221200Z VRB01MPS 9999 BKN033 17/07 Q1008 26090070 NOSIG UKDE 221200Z VRB01MPS 3600 BR BKN009 12/10 Q1009 20CLRD70 NOSIG YWYY 221200Z AUTO 25006KT 9999 // NCD 10/10 Q1017 TTCP 221100Z 00000KT 9999 VCSH FEW012CB 26/23 Q1012 NOSIG UIUU 221200Z 11003MPS 9999 SCT100 M03/M06 Q1016 NOSIG RMK QFE717/0956 26CLRD60 EBOS 221150Z 32016KT 9999 FEW025 SCT042 12/06 Q1023 TEMPO 32018G28KT UKDR 221200Z VRB01MPS CAVOK 16/08 Q1008 1809//70 NOSIG OMRK 221200Z 34010KT CAVOK 34/18 Q1013 A2992 CTRA 221200Z AUTO 18007KT 06/03 RMK AO1 SLP158 T00560030 57007 VANP 221140Z 16003KT 5000 HZ NSC 30/18 Q1013 NOSIG OMSJ 221200Z 30012KT 8000 NSC 33/22 Q1013 EDAC 221150Z 28013KT 250V310 9999 -RA SCT016 BKN020 07/05 Q1007 RERA EDAH 221150Z 07008KT 9000 BKN011 12/11 Q1003 EDBC 221150Z 29015KT 3000 SHRA BKN006 08/08 Q1005 UKHH 221200Z 04004MPS 9999 SCT008 BKN030 09/06 Q1009 070///65 NOSIG PFCL 221156Z AUTO 35009KT 10SM SCT065 OVC080 01/M03 A2944 RMK AO2 SLP973 T00061033 10006 21028 51009 FZRANO YYNG 221200Z AUTO 21004KT //// // ////// 11/10 Q1019 ULAA 221130Z 04003MPS 360V070 CAVOK M08/M12 Q1028 NOSIG RMK QFE770/1027 SC060 EDDB 221150Z 27012KT 9000 -RA BKN007 BKN012 09/08 Q1004 NOSIG EDDC 221150Z 27010KT 8000 -RA BKN013 07/06 Q1005 TEMPO 29015G25KT 4500 RA BKN009 EDDE 221150Z 27022KT 8000 RA SCT013 BKN020 06/05 Q1008 NOSIG EDDF 221150Z 26013KT 230V290 9999 FEW020 BKN027 09/05 Q1016 NOSIG EDDG 221150Z 29014G24KT 9999 FEW029 SCT080 BKN110 12/06 Q1014 NOSIG EDDH 221150Z 32013KT 9999 SCT016 BKN250 13/10 Q1007 NOSIG KAAA 221155Z AUTO 00000KT 7SM CLR 02/01 A3031 RMK AO2 T00170011 10045 20017 KC09 221155Z AUTO 00000KT 10SM CLR 02/02 A3032 RMK AO2 T00180018 10045 20014 PFEL 221158Z AUTO 35007KT 10SM CLR M02/M06 A2971 RMK AO2 SLP064 T10171061 10000 21017 51014 FZRANO NVVV 211600Z 000000KT 9999 FEW020 19/18 Q1012 EDDK 221150Z 28020KT 9999 FEW020 SCT025 BKN045 10/07 Q1017 NOSIG EDDL 221150Z 29016KT 9999 -SHRA FEW018 SCT025TCU BKN035 11/06 Q1017 NOSIG EDDM 221150Z 26014KT 8000 -RA BKN016 06/04 Q1015 NOSIG KAAF 221153Z AUTO 04007KT 10SM CLR 17/12 A3001 RMK AO2 SLP163 T01670122 10183 20161 53015 TSNO EDDN 221150Z 27020G30KT 9999 -RA FEW017 BKN020 07/04 Q1013 NOSIG VCBI 221110Z 27005KT 9999 SCT016 FEW020CB 30/23 Q1009 NOSIG EDDP 221150Z 25021KT 9999 -RA SCT015 BKN027 07/06 Q1006 TEMPO 28020G30KT BKN014 UKKK 221200Z 08003MPS 9999 FEW019 BKN084 13/08 Q1008 08CLRD70 NOSIG EDDR 221150Z 26014KT 9999 BKN020 BKN030 08/04 Q1020 NOSIG UKKM 221200Z VRB01MPS 6000 NSC 12/09 Q1008 1511//65 NOSIG EDDS 221150Z 26013KT 9999 -RA FEW011 BKN023 06/03 Q1018 NOSIG EDDT 221150Z 28008KT 7000 -RA FEW007 OVC009 09/08 Q1004 NOSIG ZPPP 221200Z 16004MPS CAVOK 16/09 Q1025 NOSIG KABE 221151Z 03008KT 10SM -RA BKN016 OVC023 12/10 A2993 RMK AO2 RAE18B41 SLP136 P0001 60001 70001 T01220100 10128 20111 53009 EDDV 221150Z 31015KT 4500 -RADZ BR SCT008 OVC012 09/09 Q1008 BECMG 7000 EDDW 221150Z 30021KT 2600 DZ BKN007 BKN013 10/09 Q1010 BECMG 7000 NSW SCT012 KAAO 221154Z AUTO 14003KT 1/4SM FG VV007 12/12 A3010 RMK AO2 SLP189 T01220122 10167 20122 53014 UKLI 221200Z 09006MPS 070V130 9999 BKN014 BKN100 11/08 Q1002 NOSIG KABH 221156Z AUTO 00000KT 10SM CLR 07/04 A3009 RMK AO2 SLP146 T00720039 10139 20072 53021 $ KABI 221152Z 18004KT 10SM BKN120 18/11 A3010 RMK AO2 RAB35E47 SLP173 P0000 60000 T01780111 10189 20172 53010 EDFH 221150Z 30015KT 9999 BKN018 BKN025 06/04 Q1018 UKLL 221200Z 12005MPS 9999 SCT033 OVC100 15/08 Q1001 13CLRD80 NOSIG KACB 221158Z AUTO 00000KT 10SM CLR M03/M04 A3040 RMK AO2 T10321040 KAAT 221155Z AUTO 00000KT 10SM CLR 00/M01 A3009 RMK AO2 SLP186 70001 T00001006 10028 20000 51002 KC29 221155Z AUTO 00000KT M1/4SM OVC001 M01/M01 A3035 RMK AO1 T10151015 10001 21021 UKLN 221200Z 12005MPS 9999 OVC007 11/10 Q1003 1519//65 NOSIG EDFM 221150Z 28014KT 240V310 9999 SCT034 BKN068 10/04 Q1018 UKLR 221200Z 12004MPS 080V160 9999 FEW026 BKN100 15/07 Q1005 30090070 NOSIG KC35 221155Z AUTO 00000KT 1 3/4SM BR OVC002 M03/M03 A3034 RMK AO2 T10311033 11005 21033 KABQ 221152Z 14005KT 10SM SCT095 12/08 A3014 RMK AO2 SLP150 T01220083 10144 20117 53005 KABR 221153Z AUTO 18014G25KT 10SM CLR 14/06 A2983 RMK AO2 PK WND 17028/1102 SLP099 T01390061 10172 20139 53004 UKLU 221200Z 09004MPS 9999 -RA OVC021 12/11 Q0998 10290060 NOSIG KACJ 221155Z AUTO 00000KT 10SM CLR 09/08 A3008 RMK AO2 KACK 221153Z 04014KT 5SM BR OVC004 14/13 A2989 RMK AO2 SLP121 60001 70023 T01440133 10144 20106 55005 KADC 221153Z AUTO 15013G16KT 10SM BKN060 07/03 A3002 RMK AO2 KADF 221156Z AUTO 00000KT 10SM CLR 11/11 A3017 RMK AO2 53016 T01110111 10133 20105 SLP230 KABY 221153Z 00000KT 10SM CLR 09/08 A3008 RMK AO2 SLP186 T00940083 10150 20089 53020 KADG 221153Z AUTO 34008KT 10SM OVC026 06/03 A3030 RMK AO2 SLP268 T00610028 10061 20056 51016 KACP 221155Z AUTO 00000KT 5SM BR CLR 11/11 A3008 RMK AO2 T01140108 10140 20110 KACQ 221154Z AUTO 14011G16KT 10SM CLR 03/00 A3021 RMK AO2 KADH 221155Z AUTO 12004KT 5SM BR SCT038 14/14 A3013 RMK AO2 EDHI 221150Z 34011KT 310V010 9999 FEW018 SCT140 13/10 Q1007 EDGS 221150Z 30022G36KT 9999 2200W SHRA BCFG SCT003CB BKN007 05/05 Q1014 KACT 221151Z 02003KT 9SM CLR 15/13 A3009 RMK AO2 SLP184 T01500133 10178 20144 53008 EDHK 221150Z 33010KT 9999 SCT011 SCT014 12/10 Q1007 KACV 221153Z AUTO 13007KT 10SM OVC060 16/08 A3000 RMK AO2 SLP161 T01610078 10161 20139 58005 EDHL 221150Z 33006KT 240V040 9999 SCT018 14/10 Q1006 KADM 221155Z 00000KT 7SM SKC 11/11 A3011 KACY 221154Z 01007KT 10SM SCT047 12/11 A2984 RMK AO2 SLP103 60058 70058 T01170111 10139 20117 53016 KAEG 221150Z 00000KT 10SM SCT095 09/08 A3016 KADS 221147Z 10004KT 10SM SKC 18/15 A3011 KAEJ 221155Z AUTO 31007KT 10SM SCT120 04/01 A3021 RMK AO2 T00410013 10059 20011 EDJA 221150Z 25018KT 9999 BKN009 BKN017 03/02 Q1018 UKON 221200Z 07004MPS 030V090 8000 SCT009 OVC200 13/12 Q1007 05190065 NOSIG KAEL 221155Z AUTO 16010G16KT 10SM CLR 04/03 A3021 RMK AO2 KADU 221155Z AUTO 15008KT 10SM SCT037 10/04 A3016 RMK AO2 UKOO 221200Z 09004MPS 050V120 9999 FEW008 OVC024 14/12 Q1006 16090060 NOSIG KADW 221203Z AUTO 34014KT 5SM +RA BR FEW003 BKN006 BKN012 BKN018 OVC025 12/11 A2988 RMK AO2 CIG 006V013 BKN006 V SCT $ CWAE 220100Z 18002KT 15SM FEW018 OVC030 08/07 A2975 RMK SC2SC6 LAST OBS/NEXT 221300UTC WND ESTD SLP079 KAFF 221158Z AUTO 34007KT 10SM CLR 08/03 A3011 RMK AO2 SLP145 T00750029 10157 20073 52022 CWAF 221200Z AUTO 02016KT 04/01 RMK AO1 PK WND 02020/1154 T00390014 KAFJ 221155Z AUTO 34006KT 10SM OVC017 08/05 A3013 RMK AO1 60002 70012 10080 20080 52020 CWBA 220900Z AUTO 36004KT M00/M00 RMK AO1 T10021001 CWAJ 221100Z AUTO 33005KT 06/03 RMK AO1 SLP241 T00620032 53020 KAFK 221155Z AUTO 15008KT 10SM CLR 11/05 A3012 RMK AO2 T01130052 10142 20113 KAGC 221153Z 35011G18KT 10SM OVC017 08/04 A3010 RMK AO2 SLP201 60001 70011 T00780044 10089 20078 53020 TTPP 221100Z 00000KT 7000 -SHRA VCSH FEW008 SCT014 25/23 Q1012 NOSIG KAFN 221152Z AUTO 4SM -RA BR OVC003 08/07 A3006 RMK AO2 SLP187 P0004 60008 70009 T00780072 10089 20078 53008 CWBE 221200Z AUTO 02005KT 01/M02 RMK AO1 SLP298 T00051017 53014 KAEX 221153Z 00000KT 6SM BR CLR 14/14 A3008 RMK AO2 SLP189 T01440139 10178 20133 53012 KAFO 221155Z AUTO 00000KT 10SM CLR M03/M05 A3018 RMK AO2 KAFP 221155Z AUTO 31005KT 10SM CLR 10/04 A3002 RMK AO2 T00990040 10115 20064 KC75 221155Z AUTO 00000KT 5SM BR CLR 00/00 A3032 RMK AO2 T10011005 10022 21003 CWAQ 221100Z AUTO 26013G19KT 08/06 RMK AO1 PK WND 25022/1023 SLP052 T00760059 53006 PFKT 221149Z VRB03KT 10SM CLR M02/M04 A2978 RMK FZRANO VIA PHONE CWAR 221100Z AUTO 05005KT 07/05 RMK AO1 SLP296 T00680047 53018 CWCA 221200Z 28005KT 15SM FEW030 FEW200 M00/M04 A3041 RMK CU1CI1 TR CI SLP298 CWBK 221200Z AUTO 09017KT 11/07 RMK AO1 PK WND 09021/1146 SLP276 T01110071 53015 PFKW 221156Z AUTO 35008KT 10SM CLR M05/M06 A2961 RMK AO2 SLP027 60000 T10501056 11028 21061 53014 FZRANO CWAV 221200Z AUTO 25002KT M06/M08 RMK AO1 SOG 50 8008 SLP092 T10601078 KAFW 221153Z 00000KT 6SM BR FEW300 13/13 A3010 RMK AO2 SLP187 T01330128 10161 20122 53011 CWCF 221100Z AUTO 15012G18KT 11/05 RMK AO1 PK WND 17019/1040 SLP054 T01090051 56012 CWBO 221200Z AUTO 22004KT 03/M00 RMK AO1 SLP091 T00301003 51001 CWCI 221100Z AUTO 18011KT 04/02 RMK AO1 SLP290 T00400018 51008 KAIA 221153Z AUTO 00000KT 10SM SCT075 SCT090 BKN120 11/10 A2996 RMK AO2 RAE50 SLP124 P0001 60002 70002 T01110100 10133 20072 50017 KAGS 221153Z 00000KT 10SM CLR 06/04 A3006 RMK AO2 SLP177 T00560044 10133 20050 51019 CWDA 221100Z AUTO 33005KT 01/01 RMK AO1 SLP295 T00050005 53021 CWBS 221100Z AUTO 02019KT 07/01 RMK AO1 PK WND 03022/1043 T00700013 EDMA 221150Z 26014KT 8000 RA BKN010 OVC013 05/05 Q1016 RMK ATIS X-R KAIB 221155Z AUTO 10009KT 10SM CLR 06/03 A3016 RMK AO2 LTG DSNT NE CWBT 222300Z AUTO 33002KT 05/03 RMK AO1 SLP238 T00450028 51036 KAID 221159Z 33005KT 10SM OVC023 04/02 A3030 CWDC 221200Z AUTO 07004KT 01/01 RMK AO1 SLP057 T00110011 50008 CWBU 221200Z AUTO 31006KT 09/06 RMK AO1 SLP033 T00880055 53013 CWCL 221200Z AUTO 17011G22KT 9SM 08/01 A2953 RMK SLP007 CWBV 221200Z AUTO 06020KT 12/12 RMK AO1 PK WND 07026/1144 SLP258 T01230120 53012 KAHN 221151Z 32003KT 10SM CLR 08/06 A3007 RMK AO2 SLP181 T00780056 10122 20061 53017 EDLN 221150Z 29014G25KT 250V320 CAVOK 11/08 Q1018 RMK ATIS M CWCO 221000Z AUTO 01003KT 05/02 RMK AO1 SLP251 T00450015 53012 KAIG 221155Z AUTO 14003KT 1/4SM FZFG OVC002 00/00 A3034 RMK AO2 T10031003 10000 21025 CWBY 221200Z AUTO 05004KT 02/M01 RMK AO1 SLP330 T00181010 53020 EDLP 221150Z 28014G25KT 220V350 9999 -SHRA FEW017 SCT022 BKN032 08/05 Q1012 RMK ATIS WHI KAHQ 221155Z AUTO 15010KT 10SM CLR 11/07 A3008 RMK AO2 T01130065 10135 20111 OOMS 221050Z 03007KT CAVOK 32/25 Q1012 NOSIG CWBZ 221200Z AUTO 05009KT 07/03 RMK AO1 SLP240 T00740026 53020 UMBB 221200Z 09007G11MPS 9999 SCT027CB SCT100 14/07 Q1005 R11/190060 NOSIG KD07 221156Z AUTO 30016KT 12/04 A2986 RMK AO1 SLP108 T01220044 10167 20122 51020 CWDJ 222200Z AUTO 15012KT 21/06 RMK AO1 SLP009 T02140058 56015 KAIK 221215Z AUTO 00000KT 10SM CLR 08/06 A3008 RMK AO2 PNO KBAB 221158Z AUTO 10001KT 10SM CLR 11/08 A3002 RMK AO2 CIG 190 RWY15 SLP242 T01100078 10121 20091 55002 $ CWEB 221200Z AUTO 16002KT 10/10 RMK AO1 3022 SLP004 T01010098 50031 CWDK 221200Z AUTO 25012G17KT 08/M02 RMK AO1 PK WND 27020/1108 SLP101 T00791017 53001 CWCT 221100Z AUTO 27005KT M00/M01 RMK AO1 SLP096 T10031009 53007 KBAC 221155Z AUTO 16012G18KT 10SM CLR 11/06 A2980 RMK AO2 KBAD 221158Z AUTO 36002KT 10SM CLR 13/12 A3012 RMK AO2 SLP202 T01330116 10158 20131 52015 CWDM 221200Z AUTO 36006KT M00/M01 RMK AO1 SLP322 T10041011 53022 EDLV 221150Z 29014KT 260V320 9999 SCT025 12/08 Q1018 PFNO 221158Z AUTO 01006KT 10SM CLR M09/M11 A2975 RMK AO2 SLP078 T10941106 11039 21094 53007 FZRANO CWEE 221100Z AUTO M03/M04 RMK AO1 SLP310 T10311035 53015 KBAF 221153Z 01010KT 10SM OVC017 11/08 A3000 RMK AO2 SLP162 T01110078 10117 20111 53004 EDLW 221150Z 28015KT 240V300 9999 BKN020 10/06 Q1016 RMK ATIS R KAIO 221155Z AUTO 16009KT 10SM OVC036 11/06 A3015 RMK AO2 CWEF 221100Z AUTO 06009KT 08/04 RMK AO1 SLP292 T00830038 53009 CWDO 221100Z AUTO 30005KT 06/02 RMK AO1 SLP297 T00570017 53017 EDMO 221150Z 25020KT 9999 -RA BKN017 OVC028 04/02 Q1016 RMK ATIS E KAJG 221155Z AUTO 00000KT 10SM CLR 05/04 A3028 RMK AO2 CWDQ 221100Z AUTO 01001KT M03/M03 RMK AO1 SLP297 T10261026 51017 CWEH 221200Z AUTO 28010KT 07/07 RMK AO1 0PAST HR 3009 SLP094 P0004 T00650065 50048 EEEI 221150Z 07013KT 9999 FEW035 01/M08 Q1021 NOSIG KBAK 221159Z 01005KTS 10SM SKC 02/02 A3030 KAIT 221154Z AUTO 15012G19KT 10SM CLR 08/03 A3011 RMK AO2 KBBB 221153Z AUTO 17014G18KT 10SM SCT090 08/04 A3001 RMK AO2 LTG DSNT E AND SE KAJL 220948Z AUTO 25007G17KT 1/2SM FZFG OVC002 M05/M05 A3012 RMK AO2 T10471047 CWEK 221100Z AUTO 14017KT 10/ RMK AO1 PK WND 14020/1036 SLP931 T0097 53009 CWDT 221100Z AUTO 32003KT M03/M04 RMK AO1 SLP336 T10331041 53015 CWEL 221200Z AUTO 16020G25KT 12/10 RMK AO1 2PAST HR 3011 PK WND 17038/1107 SLP991 P0001 T01190097 50086 KBBD 221155Z AUTO 12004KT 10SM CLR 16/11 A3010 RMK NWWW 221200Z AUTO 00000KT 9999 NCD 18/13 Q1017 CWDV 221100Z AUTO 16005KT 01/M00 RMK AO1 SLP245 T00051004 53001 CWFD 221207Z AUTO 22018KT 5/8SM CLR M10/ A2945 KAJO 221156Z AUTO 00000KT 3/4SM BR CLR 08/07 A2990 RMK AO2 51003 T00830072 10138 20083 VIS 1/4V5 SLP122 $ KBBF 221155Z AUTO 10015G22KT 9SM FEW029 25/18 A2998 RMK A01 CWFF 221200Z AUTO 31006KT 09/06 RMK AO1 SLP042 T00890059 53016 ULLI 221200Z 03005MPS 350V060 9999 OVC031 M03/M09 Q1023 88090070 NOSIG KD25 221155Z AUTO 16003KT 10SM CLR 00/00 A3030 RMK AO2 T10011001 10012 21009 KBBG 221145Z 11011KT 10SM SKC 09/08 A3020 CWEP 221200Z AUTO 06016KT 09/05 RMK AO1 PK WND 06021/1118 SLP292 T00910054 53010 KAIZ 221155Z AUTO 09004KT 10SM CLR 07/04 A3023 RMK AO1 10100 20070 52014 KAKH 221154Z AUTO 00000KT 10SM CLR 08/02 A3004 RMK AO2 SLP171 T00830022 10100 20061 51017 CWEQ 221200Z AUTO 24004KT 04/03 RMK AO1 SLP023 T00360027 51005 CWDZ 221200Z AUTO 16002KT M01/M02 RMK AO1 SLP092 T10131021 53001 CWER 221100Z AUTO 05028G33KT RMK AO1 PK WND 05034/1002 CWFJ 221200Z AUTO 24006KT 06/M01 RMK AO1 T00601009 KALB 221151Z 01010KT 10SM SCT011 OVC028 10/07 A3007 RMK AO2 SLP182 SCT V BKN 70042 T01000072 10100 20100 53014 KBCB 221155Z AUTO 27003KT 10SM BKN026 OVC032 08/05 A3008 RMK AO2 CWGB 221200Z AUTO 12016KT 12/10 RMK AO1 3010 PK WND 12025/1108 SLP986 T01190101 50102 CWEU 221200Z 28012G19KT 15SM DRSN OVC080 M19/M24 A2972 RMK AC8 SN COV/MEDIUM PACK SLP066 CWGD 221200Z AUTO 04004KT 01/M00 RMK AO1 SLP261 T00091001 53017 KBCE 221153Z AUTO 34004KT 10SM CLR 01/M01 A3020 RMK AO2 SLP156 T00061011 10011 21011 53007 TSNO CWEW 221100Z AUTO 02008KT 06/01 RMK AO1 SLP257 T00550005 53017 KAKO 221153Z AUTO 32008KT 10SM OVC100 11/08 A3001 RMK AO2 RAB35E45 SLP122 P0000 60000 T01110078 10139 20111 53012 KBAX 221158Z AUTO 02006KT 10SM OVC017 07/04 A3033 RMK AO2 T00650043 10065 20060 KBBP 221155Z AUTO 26003KT 10SM CLR 08/00 A3001 RMK AO2 KBAZ 221151Z AUTO 00000KT 10SM CLR 17/12 A3005 RMK AO2 SLP169 T01670122 10189 20150 52007 KAKQ 221154Z AUTO 29006KT 6SM -RA BR SCT009 OVC014 11/09 A2988 RMK AO2 SLP118 P0017 60032 70032 T01110094 10128 20111 51010 TSNO EDNY 221150Z 26014KT 9999 -RA SCT020 BKN025 OVC038 06/01 Q1020 RMK Q KAJZ 221155Z AUTO 05006KT 10SM BKN100 OVC110 11/08 A3012 RMK AO2 LTG DSNT E T01100081 10147 20097 CWFQ 221200Z AUTO 03004KT 07/ RMK AO1 T0067 CWEZ 221200Z AUTO 19028KT 12/10 RMK AO1 4PAST HR 1018 PK WND 19041/1121 SLP009 P0013 T01200100 50052 KALI 221153Z AUTO 03007KT 10SM CLR 18/17 A3000 RMK AO2 SLP157 T01830167 10206 20183 53009 KAKR 221154Z AUTO 01006KT 8SM OVC007 08/07 A3019 RMK AO2 RAB06E31 CIG 006V012 SLP226 P0000 60001 70017 T00830067 10089 20083 51020 KAMA 221153Z 17009G16KT 10SM OVC080 16/11 A3010 RMK AO2 SLP155 60000 T01560111 10161 20150 53005 ULMM 221130Z 00000MPS 9999 FEW003 M10/M13 Q1032 NOSIG RMK QBB100 OBST OBSC QFE766 31390150 KD39 221153Z AUTO 13013G18KT 10SM VCTS CLR 07/03 A3006 RMK AO2 T00650030 10080 20063 KALK 221156Z AUTO 00000KT 10SM CLR 11/06 A3009 RMK AO2 SLP114 T01060061 10150 20100 53003 TSNO KBCK 221155Z AUTO 00000KT 10SM CLR M05/M05 A3032 RMK AO2 T10541054 11028 21056 CWGL 221200Z AUTO 01006KT 01/M00 RMK AO1 SLP252 T00121001 53016 CWGM 221200Z AUTO 24019G28KT 08/M03 RMK AO1 PK WND 23031/1134 T00791032 KBBW 221153Z AUTO 15007KT 10SM BKN095 14/12 A2994 RMK AO2 SLP126 T01390117 10156 20133 53003 KBDE 221153Z AUTO 14008KT 10SM CLR 07/03 A2996 RMK AO2 SLP154 T00670033 10072 20056 58009 TSNO KALN 221150Z 00000KT 10SM SKC 04/03 A3030 KALO 221154Z 12008KT 10SM CLR 02/01 A3027 RMK AO2 SLP257 T00220011 10050 20017 51009 KAMG 221153Z AUTO 35004KT 10SM CLR 12/09 A3003 RMK AO2 SLP169 T01170094 10133 20094 53019 KBDG 221155Z AUTO 03007KT 10SM CLR 08/04 A3019 RMK AO1 T00770042 10214 20023 KBDH 221155Z AUTO 14016G23KT 10SM BKN046 BKN060 09/03 A3007 RMK AO2 LTG DSNT S AND NW OOSA 221050Z AUTO 16008KT 9999 31/19 Q1013 NZAA 221200Z AUTO 03003KT 9999 BKN043/// OVC055/// 14/12 Q1020 NOSIG CWGR 211600Z AUTO 26015KT 07/02 RMK AO1 PK WND 27020/1518 SLP187 T00740019 51013 CWHI 221100Z AUTO 04001KT M02/M02 RMK AO1 4PAST HR M P0002 T10191021 50004 ZSAM 221200Z 06008MPS 9999 FEW023 OVC046 23/19 Q1018 NOSIG KALS 221152Z AUTO 00000KT 10SM CLR M01/M02 A3020 RMK AO2 SLP191 70001 T10111022 10094 21011 53009 KBEA 221155Z AUTO 05006KT 10SM CLR 19/15 A3002 RMK AO2 T01920152 10197 20181 KBCT 220250Z 00000KT 10SM CLR 23/21 A2997 KANB 221153Z AUTO 00000KT 10SM CLR 07/05 A3013 RMK AO2 SLP207 T00670050 10106 20050 53011 KD50 221155Z AUTO 24014G19KT 10SM CLR 10/07 A2973 RMK AO2 CWGT 221200Z AUTO 10019G24KT 12/10 RMK AO1 PK WND 11036/1102 SLP987 T01240104 51047 KBDL 221151Z 02011KT 10SM OVC014 12/08 A2998 RMK AO2 SLP152 T01170083 10122 20117 53007 CWHL 221200Z AUTO 13015KT 09/05 RMK AO1 2PAST HR 3018 PK WND 13020/1121 SLP947 P0001 T00890054 50002 KBED 221203Z 03013G24KT 3SM RA BR OVC006 12/11 A3000 RMK AO2 CIG 004V008 P0001 T01170111 KAND 221156Z AUTO 00000KT 10SM CLR 04/04 A3007 RMK AO2 SLP179 T00440039 10111 20039 51020 CWID 221100Z AUTO 09002KT M01/M02 RMK AO1 SLP066 T10121020 53013 CWHM 221100Z AUTO 04012G17KT 07/01 RMK AO1 PK WND 03022/1019 T00740009 EDQM 221150Z 25015KT 7000 -RA SCT010 BKN013 05/03 Q1009 KALW 221153Z AUTO 17009KT 10SM BKN110 15/02 A2988 RMK AO2 SLP117 T01500022 10150 20083 58009 KANE 221154Z AUTO 14009G16KT 10SM CLR 06/04 A3020 RMK AO2 KAMN 221154Z AUTO 00000KT 10SM OVC017 05/02 A3035 RMK AO2 T00470023 KBDN 221155Z AUTO 18009KT 10SM CLR 10/03 A2994 RMK AO2 CWGW 221200Z AUTO 16007KT 08/02 RMK AO1 SLP143 T00800015 52002 CWHN 221200Z AUTO 34003KT 300V050 9SM CLR 05/01 A2970 RMK SLP076 KALX 221155Z AUTO 02004KT 10SM CLR 11/07 A3011 RMK AO2 T01060071 10120 20092 CWGX 221200Z AUTO 18009KT 05/03 RMK AO1 SLP049 T00500028 51004 CWHO 221200Z AUTO 25015G20KT 01/M03 RMK AO1 PK WND 27024/1142 SLP276 T00061034 53012 KD55 221155Z AUTO 17016G21KT 10SM CLR 12/05 A2971 RMK AO2 PFSH 221158Z AUTO 01014KT 10SM CLR M05/M06 A2969 RMK AO2 SLP070 T10501061 11033 21056 51010 FZRANO CWHP 221100Z AUTO 03012KT 05/03 RMK AO1 SLP307 T00520031 51015 CWIG 220800Z AUTO 03016G22KT RMK AO1 PK WND 03022/0757 CWGY 221200Z AUTO 24009KT 04/02 RMK AO1 SLP098 T00430021 52011 KBEH 221153Z AUTO 08004KT 6SM BR CLR M02/M02 A3034 RMK AO2 SLP281 70008 I1000 I6001 T10221022 10011 21033 53010 CWGZ 212000Z 06005KT 6SM -SN OVC020 M15/M17 A2976 RMK ST8 -13.2/-15.2/0/TR WIND SPEED EST SNW CVR/ONE LOOSE LAST OB/NEXT 221600 SLP085 CWHQ 222300Z AUTO 06005KT 07/M01 RMK AO1 T00681011 KD57 221155Z AUTO 28013G19KT 10SM CLR 11/07 A2980 RMK AO2 TSNO KBDR 221152Z 03016G21KT 10SM FEW015 OVC040 13/10 A2993 RMK AO2 SLP135 70003 T01280100 10139 20128 53005 CWII 221200Z AUTO 15018G23KT 11/06 RMK AO1 PK WND 16025/1119 T01070055 KANJ 221155Z AUTO 00000KT 10SM CLR M02/M04 A3039 RMK AO2 SLP299 I6001 T10221044 10000 21028 53010 CWIJ 221100Z AUTO 06014KT M09/M10 RMK AO1 PK WND 07017/1015 SLP100 T10921095 OPKC 221155Z 23010KT 7000 NSC 35/10 Q1012 NOSIG KANK 221155Z AUTO 25006KT 10SM SCT060 BKN085 OVC090 06/03 A3028 RMK AO1 T00610032 10083 20057 KD60 221155Z AUTO 26013G19KT 10SM CLR 09/09 A2978 RMK AO2 CWJB 221200Z AUTO 07015G23KT 06/02 RMK AO1 PK WND 06024/1131 T00600018 CWHT 221200Z AUTO 00000KT M00/M02 RMK AO1 SOG 01 0002 SLP934 T10021015 CWIK 221200Z AUTO 26005KT 11/06 RMK AO1 SLP029 T01060063 53010 EDSB 221150Z 25008KT 210V300 9999 SCT032 09/03 Q1021 KBDU 221156Z AUTO 24006KT 10SM CLR 13/01 A3002 RMK AO2 ULOO 221130Z 08001MPS P6000 SKC 00/M10 Q1019 01190060 NOSIG RMK QFE760 CWIL 221200Z AUTO 04024KT M12/ A2998 RMK SLP160 KBFD 221204Z AUTO 01009KT 3SM BR OVC002 05/04 A3010 RMK AO2 RAE02 P0000 T00500039 CWJD 221100Z AUTO 07001KT 03/01 RMK AO1 SLP031 T00260011 58004 CWHV 221100Z AUTO 06001KT 05/00 RMK AO1 SLP259 T00470000 53015 UMGG 221200Z 07005MPS P1900 -SHRA OVC025CB 03/01 Q1012 R28/290050 NOSIG KAMW 221153Z AUTO 14006KT 10SM CLR 05/03 A3023 RMK AO2 SLP240 T00500033 10072 20050 53010 NZAP 221100Z 34002KT 35KM SCT025 14/11 Q1019 RMK ALT VATSIM USE ONLY KBFF 221153Z AUTO 32006KT 10SM SCT080 10/08 A2997 RMK AO2 SLP123 60011 70011 T01000083 10167 20100 53010 $ CXAF 221100Z AUTO 13003KT M03/M04 RMK AO1 T10321035 TUPJ 221200Z 10005KT 9999 SCT020 29/24 Q1015 RMK A2999 CWIP 222300Z AUTO 35005KT 06/ RMK AO1 T0061 CXAG 221100Z AUTO 14005KT M02/M02 RMK AO1 T10221024 KANQ 221215Z AUTO 00000KT 02/M06 A3031 RMK KAOH 221153Z AUTO 34007KT 10SM OVC020 07/03 A3027 RMK AO2 SLP255 T00670033 10072 20067 53017 CWJH 221200Z AUTO 29002KT 07/06 RMK AO1 4PAST HR 3012 SLP051 P0002 T00720064 50016 KBFI 221153Z 15009KT 10SM -RA BKN048 OVC060 14/11 A2966 RMK AO2 SLP042 P0005 60012 70015 T01440106 10161 20139 55009 OPLA 221155Z 34004KT 6000 NSC 31/13 Q1015 NOSIG CWJI 221200Z AUTO 27013KT 08/06 RMK AO1 PK WND 26017/1144 SLP062 T00770058 51010 KAPA 221153Z 18005KT 10SM FEW100 FEW200 07/04 A3008 RMK AO2 SLP150 60000 T00720044 10133 20067 51015 PHBK 221156Z AUTO 10003KT 10SM CLR 23/22 A2996 RMK AO2 SLP148 60000 T02280222 10261 20228 58015 CXBA 221100Z AUTO 27007KT 04/03 RMK AO1 T00400026 CXAJ 221100Z AUTO 00000KT M04/M04 RMK AO1 T10361038 CWIS 221200Z AUTO 03007KT M00/M02 RMK AO1 SLP297 T10021017 53018 EEKA 221150Z 10011KT CAVOK 02/M06 Q1020 CXAK 221100Z AUTO 18006KT 02/01 RMK AO1 T00190008 KAPC 221154Z AUTO 00000KT 10SM CLR 08/07 A3004 RMK AO2 SLP163 T00780072 10106 20067 58002 KBFL 221154Z AUTO 00000KT 10SM SCT049 13/06 A3003 RMK AO2 SLP165 T01330061 10172 20122 53000 KBGD 221151Z AUTO 19009KT 10SM OVC060 17/11 A3008 RMK AO2 SLP151 60000 T01720111 10172 20150 53004 KBFM 221153Z 34007KT 10SM CLR 12/12 A3007 RMK AO2 SLP182 T01220117 10139 20117 53010 CWKD 221100Z AUTO 15003KT M02/M02 RMK AO1 SLP334 T10191015 51011 KANW 221155Z AUTO 19009KT 10SM RA BKN095 BKN120 15/11 A2991 RMK AO2 T01450112 10152 20136 KBGE 221155Z AUTO 00000KT 7SM CLR 12/11 A3005 RMK AO2 CWIW 221100Z AUTO 35017G24KT 10/06 RMK AO1 PK WND 00025/1041 SLP021 T01010059 50004 EEKE 221150Z 09013G23KT 9999 OVC023 01/M03 Q1019 KAOO 221153Z AUTO 01009KT 10SM OVC020 09/07 A3002 RMK AO2 SLP170 60000 70001 T00890067 10100 20083 53015 KAPF 221153Z 00000KT 10SM OVC110 23/22 A2995 RMK AO2 SLP140 T02280217 10233 20228 53012 KBGF 221155Z AUTO 00000KT 8SM CLR 01/01 A3018 RMK KAPG 221157Z 35006KT 3SM -RA BR SCT007 OVC012 12/11 A2989 CWIX 221100Z AUTO 08002KT M01/M02 RMK AO1 T10111015 CWJO 221200Z AUTO 06003KT M02/M02 RMK AO1 SLP329 T10171020 53019 NZCH 221200Z AUTO 05009KT 9999 BKN019/// 11/08 Q1018 TEMPO BKN014 NZCI 221100Z 29003KT 20KM SKC 10/07 Q1021 RMK ALT NZNR VATSIM USE ONLY CWIY 221100Z AUTO 03002KT M01/M02 RMK AO1 SLP294 T10081016 53019 CWKG 221200Z AUTO 03009G18KT 09/09 RMK AO1 PK WND 03019/1135 SLP222 T00850086 51009 CWKH 221200Z AUTO 10/09 RMK AO1 0PAST HR 3007 SLP006 P0008 T00960088 50180 CWIZ 221200Z AUTO 03009G16KT 06/03 RMK AO1 T00610030 EDRZ 221150Z 27014KT 9999 -RA FEW016 BKN020 OVC028 07/04 Q1020 CWJR 221200Z AUTO 35002KT 09/06 RMK AO1 SLP154 T00900060 58004 CXBI 221200Z AUTO 01007KT 01/01 RMK AO1 SLP262 T00110005 53015 CXCA 221200Z AUTO 18005KT 03/02 RMK AO1 SLP266 T00310016 51003 KBHB 221155Z AUTO 03011G19KT 8SM SCT014 BKN060 OVC085 09/09 A3017 RMK AO1 P0001 60010 70041 10090 20080 52010 NZCM 221155Z 00000KT 9999 FEW090 BKN170 BKN210 M18/M25 A2887 RMK ICE1050 ACSL W SLP781 CWJT 221200Z AUTO 04002KT 05/01 RMK AO1 SLP259 T00540005 53017 CXAT 221100Z AUTO 34003KT M20/M24 RMK AO1 2013 SLP083 T11981235 50002 CWKK 221100Z AUTO 19008G18KT 04/03 RMK AO1 PK WND 19018/1009 SLP249 T00400028 50002 CWLB 221200Z AUTO 17003KT M00/M00 RMK AO1 SLP077 T10021002 55001 CXBK 221200Z AUTO 25012KT 08/07 RMK AO1 SLP035 T00820069 50013 KBHC 221155Z AUTO 36003KT 10SM CLR 11/09 A3004 RMK AO2 EDTL 221150Z 28009KT 9999 BKN041 09/03 Q1022 CWJU 221100Z AUTO 16009G22KT 08/06 RMK AO1 3024 PK WND 15022/1052 SLP905 T00800055 50031 CWLC 221200Z AUTO 12023KT 08/06 RMK AO1 PK WND 12028/1157 T00750061 KBGM 221153Z AUTO 04009KT 10SM OVC005 08/07 A3004 RMK AO2 RAE22 SLP176 P0000 60002 70002 T00830072 10094 20083 53015 CXCD 221000Z AUTO 36003KT 03/01 RMK AO1 T00290011 CWJV 221200Z AUTO 09006KT 11/05 RMK AO1 SLP067 T01120046 56017 CWKM 221200Z AUTO 12019KT M05/ A2992 RMK SLP139 KAPN 221154Z AUTO 35004KT 10SM OVC020 04/01 A3037 RMK AO2 SLP292 T00440011 10050 20039 53012 KBFW 221154Z AUTO 00000KT 10SM CLR M02/M03 A3022 RMK AO2 DNKN 220800Z 02008KT 3000 HZ 25/13 Q1016 NOSIG CWLE 221200Z AUTO 30011KT 09/07 RMK AO1 T00880068 53013 CWJW 221200Z AUTO 20003KT 08/M01 RMK AO1 SLP037 T00761007 56016 VCRI 221110Z 15007KT 120V180 9999 SCT016 FEW018CB BKN280 29/23 Q1009 NOSIG RMK NW CWKO 221100Z AUTO 27014KT 06/05 RMK AO1 PK WND 26021/1013 SLP067 T00600053 53008 CWJX 221200Z AUTO 26008KT 07/05 RMK AO1 SLP088 T00690051 51014 CXBO 221200Z AUTO 07018G23KT RMK AO1 PK WND 07025/1138 UMII 221200Z 07006G09MPS P6000 SCT030 M01/M08 Q1015 R05/CLRD// NOSIG UNAA 221200Z 23005MPS 9999 SCT030CB BKN100 02/M04 Q1021 NOSIG RMK QFE743 20190060 CWKP 221200Z AUTO ///// M12/ A2996 RMK SLP184 CXCH 221100Z AUTO 04/01 RMK AO1 T00420013 KBGR 221153Z 02010KT 10SM FEW075 OVC100 07/06 A3022 RMK AO2 RAB26E41 SLP233 P0000 60002 70033 T00720061 10083 20072 53009 CXBR 221100Z AUTO 24014KT 08/M01 RMK AO1 PK WND 24020/1017 T00781006 CWLI 221200Z AUTO 09016KT M08/ A3000 RMK SLP172 KARA 221153Z 04007KT 10SM CLR 17/14 A3006 RMK AO2 SLP180 T01670144 10189 20167 53010 KBHK 221151Z AUTO 27021KT 10SM CLR 07/04 A2990 RMK AO2 PK WND 27026/1139 SLP116 60000 70003 T00720039 10122 20072 53016 KARB 221153Z AUTO 02007KT 10SM OVC016 07/02 A3029 RMK AO2 SLP260 T00670022 10067 20056 53014 CXDB 221100Z AUTO 26008KT 02/M01 RMK AO1 T00221012 CXCK 221200Z AUTO 27003KT M00/M01 RMK AO1 6003 SLP954 T10011012 50002 NZDN 221100Z 25001KT 35KM SCT032 10/08 Q1018 RMK ALT VATSIM USE ONLY KBHM 221153Z 06003KT 10SM CLR 09/06 A3016 RMK AO2 SLP210 T00940061 10117 20089 51018 KBID 221155Z AUTO 04013G20KT 10SM OVC006 13/11 A2992 RMK AO1 10140 20120 52003 CWLM 221200Z AUTO 15010G16KT 12/10 RMK AO1 0PAST HR 0016 PK WND 15018/1102 SLP013 P0004 T01180102 50028 KBIE 221155Z AUTO 15010KT 10SM CLR 12/07 A3008 RMK AO2 T01220070 10151 20122 402440030 CXBW 221100Z AUTO 23008KT 06/M00 RMK AO1 T00571004 KAQO 221140Z AUTO RMK AO2 CWME 221100Z AUTO 08005KT 08/07 RMK AO1 3011 SLP979 T00770066 50038 CXDE 221100Z AUTO 28004KT M06/M07 RMK AO1 SLP093 T10601066 51005 KBIF 221158Z 35006KT 10SM BKN020 OVC100 15/14 A3009 RMK AO2A SLP142 T01490136 10164 20132 53006 $ CWKW 221200Z AUTO ///// M03/ A2990 RMK SLP162 EDVE 221150Z 30013KT 260V330 7000 -RA BKN006 OVC014 09/09 Q1006 RERA KAPY 212250Z AUTO 13008G14KT 10SM SCT080 27/19 A2991 RMK AO2 T02700193 CWKX 221200Z AUTO 27002KT M00/M00 RMK AO1 SLP945 T10011002 57002 KD95 221154Z AUTO 01004KT 10SM OVC017 06/03 A3031 RMK AO2 T00600033 KAQP 221154Z AUTO 14015G21KT 10SM SCT080 11/05 A2996 RMK AO2 LTG DSNT NE KARG 221155Z AUTO 02007KT 10SM CLR 08/03 A3024 RMK AO1 10120 20080 52020 OPNH 221155Z 13505KT 6000M NSC 37/13 Q1011 CXCP 221200Z AUTO 18002KT M00/M03 RMK AO1 T10041032 CWLP 221200Z AUTO 11018KT 10/08 RMK AO1 3009 PK WND 11020/1159 SLP977 T01000082 50016 EDTY 221150Z 27017KT 9999 -RA BKN008 OVC015 05/04 Q1016 KBIH 221156Z AUTO 30007KT 10SM CLR 07/M07 A3008 RMK AO2 SLP151 T00721072 10128 20061 53012 UNBB 221200Z 24005MPS 9999 SCT033 OVC100 02/M03 Q1019 NOSIG RMK QFE742/0989 24CLRD66 KAQR 221155Z AUTO 00000KT 3SM BR CLR 15/15 A3014 RMK AO2 CXDI 221100Z AUTO 01005KT 04/01 RMK AO1 SLP230 T00360008 51018 OPMT 221155Z 05006KT 4000 HZ NSC 31/19 Q1013 NOSIG KBIJ 221155Z AUTO 00000KT 7SM CLR 10/10 RMK AO2 CXCS 221100Z AUTO 30009KT 03/02 RMK AO1 T00330016 CWMJ 221100Z AUTO 36003KT 01/M01 RMK AO1 SLP266 T00061013 53013 CWLS 221100Z AUTO 36004KT 02/01 RMK AO1 SLP252 T00240010 53014 CXEA 221200Z AUTO 12003KT 05/03 RMK AO1 SLP164 T00470029 58007 CXDK 221100Z AUTO 13006KT M00/M03 RMK AO1 SLP049 T10011029 53007 KBJC 221155Z AUTO 28008KT 10SM SCT110 12/02 A3005 RMK AO2 KBIL 221153Z 28021G27KT 10SM CLR 09/M02 A2999 RMK AO2 PK WND 28028/1114 SLP143 T00891022 10100 20083 51010 EDVK 221150Z 28027G37KT 8000 -RA SCT017 OVC026 07/06 Q1009 RMK ATIS Q KE11 221155Z AUTO 17003KT 10SM BKN027 OVC043 17/15 A3010 RMK AO2 T01650147 10180 20165 CWNC 221100Z AUTO 01007KT 06/01 RMK AO1 SLP218 T00630010 51013 CXEC 221200Z AUTO 04/ RMK AO1 T0036 KASD 221153Z AUTO 36003KT 8SM CLR 11/10 A3006 RMK AO2 SLP179 T01110100 10133 20111 51013 KCAD 221155Z AUTO 00000KT 10SM OVC008 M02/M03 A3034 RMK AO2 T10261032 KAQV 221156Z AUTO 00000KT 5SM BR OVC042 14/13 A3008 RMK AO2 SLP185 T01440133 10156 20139 51008 KARM 221155Z AUTO 04003KT 10SM CLR 15/13 A3005 RMK AO2 T01450134 10165 20142 CWND 221517Z M01/M01 RMK 8012 T10121011 CWMM 221200Z AUTO 18005KT 13/11 RMK AO1 5PAST HR 1010 SLP027 P0010 T01280108 50064 KASE 221153Z AUTO 19006KT 10SM -RA FEW012 BKN035 OVC070 03/02 A3021 RMK AO2 RAE18B47 SLP170 P0001 60024 70046 T00330022 10050 20028 50002 KAQW 221152Z AUTO 11011G17KT 10SM OVC019 11/07 A3004 RMK AO2 SLP176 70012 T01060072 10111 20100 53011 KCAE 221156Z 00000KT 10SM CLR 07/04 A3004 RMK AO2 SLP173 T00720044 10150 20072 51020 CWNE 221100Z AUTO 06017KT 08/05 RMK AO1 PK WND 06020/1035 SLP286 T00810048 53005 KASG 221148Z 08005KT 10SM FEW047 10/09 A3018 CWLX 221200Z AUTO 07007KT M08/ A2955 RMK SLP027 KCAG 221153Z AUTO 00000KT 10SM SCT065 BKN090 03/01 A3015 RMK AO2 SLP179 60010 70025 T00280011 10078 20028 53005 $ CXDP 221100Z AUTO 10008KT M00/M00 RMK AO1 T10011002 CXEG 221100Z AUTO 01/M00 RMK AO1 T00051003 CWLY 221200Z AUTO 18009KT 4SM RA BR OVC055 10/09 A2960 RMK SLP027 KASH 221158Z 03007G17KT 3SM -RA BR OVC009 11/09 A3006 RMK AO2 CIG 007V012 P0000 $ KE16 221155Z AUTO 00000KT 10SM CLR 09/08 A3006 RMK AO2 UMKK 221130Z 10007MPS 070V140 9999 OVC007 06/04 Q1008 R06/19//60 NOSIG RMK QFE755/1007 CWMQ 221200Z AUTO 25004KT 08/05 RMK AO1 2014 SLP103 T00780051 50042 CWNH 221200Z AUTO 04006KT 02/M01 RMK AO1 SLP310 T00201008 53015 ZSHC 221200Z 00000MPS 5000 HZ NSC 17/12 Q1023 NOSIG KARR 221152Z AUTO 31003KT 8SM CLR M01/M02 A3033 RMK AO2 SLP278 I1000 I6001 T10061022 10017 21011 53013 KBJI 221153Z AUTO 15011KT 10SM CLR 07/04 A3000 RMK AO2 T00710037 PFWS 221156Z AUTO 01011KT 10SM OVC080 M01/M03 A2942 RMK AO2 SLP968 60000 T10111028 11011 21033 53011 FZRANO KBIS 221152Z 28009KT 240V300 10SM CLR 14/08 A2977 RMK AO2 SLP077 T01390083 10189 20117 53028 VECC 221150Z 32003KT 3200 HZ NSC 29/21 Q1011 NOSIG KASJ 221155Z AUTO 00000KT 10SM BKN031 OVC050 11/09 A2991 RMK AO2 60002 70004 T01050085 10116 20099 KBJJ 221156Z AUTO 02005KT 9SM OVC010 09/07 A3021 RMK AO2 SLP234 60004 70011 T00890067 10089 20083 51020 TSNO KBKB 221205Z AUTO 00000KT 2 1/2SM BR SCT042 16/14 A3007 RMK AO2 T01610139 KCAK 221151Z 36009KT 7SM -RA OVC005 08/06 A3018 RMK AO2 RAB10 SLP225 P0000 60002 70021 T00780061 10083 20078 51021 $ KART 221156Z AUTO 04010KT 10SM OVC018 07/02 A3018 RMK AO2 SLP221 70005 T00720022 10078 20072 52018 CWNK 221200Z AUTO 15014G20KT 11/06 RMK AO1 PK WND 14021/1118 T01130056 CWMT 221000Z AUTO 02003KT M04/M05 RMK AO1 SLP070 T10361046 51014 CWOB 221200Z AUTO ///// -SN M05/ A2970 RMK SLP103 KASL 221155Z AUTO 00000KT 5SM CLR 15/14 A3014 RMK AO1 T01490138 10160 20146 CWOC 222300Z AUTO 34004KT 03/01 RMK AO1 SLP235 T00330009 52027 CWNL 221100Z AUTO 07003KT 03/M00 RMK AO1 SLP283 T00301003 51010 KBIV 221153Z AUTO 00000KT 10SM CLR 00/M02 A3036 RMK AO2 SLP288 I1001 I6001 T00001022 10039 20000 53015 KARV 221155Z AUTO 15003KT 10SM CLR 01/00 A3031 RMK AO2 T00110002 10032 21008 KBKD 221155Z AUTO 00000KT 10SM CLR 16/11 A3010 RMK AO2 T01550105 10178 20152 CWOD 221200Z AUTO 31005KT M02/M03 RMK AO1 SLP310 T10231027 53022 CWNM 221200Z AUTO 11002KT 10/08 RMK AO1 SLP136 T00980081 56007 ZSFZ 221200Z 06008MPS 9999 BKN033 23/16 Q1020 NOSIG KCBE 221151Z AUTO 35003KT 10SM OVC038 11/08 A3005 RMK AO1 KARW 221155Z AUTO 01009KT 10SM CLR 13/07 A3002 RMK AO2 KBKE 221153Z AUTO 10009KT 10SM OVC110 06/01 A3003 RMK AO2 SLP172 T00610011 10061 20000 58001 KASN 221155Z AUTO 00000KT 10SM CLR 07/06 A3014 RMK AO2 T00720060 10137 20071 CWOE 221200Z AUTO 29014KT 06/01 RMK AO1 PK WND 29017/1100 SLP112 T00610009 52007 CXDW 221100Z AUTO 15015KT 14/07 RMK AO1 PK WND 16022/1059 T01360066 KBIX 221158Z AUTO 04003KT 10SM CLR 14/12 A3006 RMK AO2 SLP182 T01430116 10167 20141 52013 KCAO 221155Z AUTO 21012KT 10SM FEW100 13/11 A3007 RMK AO2 SLP138 T01280106 10133 20117 53005 KBKF 221158Z 18006KT 10SM FEW110 FEW220 07/05 A3007 RMK AO2A SLP137 60000 T00700049 10136 20070 51017 KCBF 221155Z AUTO 14014KT 10SM BKN065 11/08 A3010 RMK AO2 KCBG 221156Z AUTO 15007KT 10SM CLR 06/01 A3017 RMK AO2 CWNP 221200Z AUTO 17003KT 09/06 RMK AO1 SLP106 T00930055 58012 CWMZ 221100Z AUTO 05014KT 05/01 RMK AO1 PK WND 04017/1005 SLP261 T00460013 51016 CWNQ 222200Z AUTO 05006KT 08/03 RMK AO1 SLP201 T00780026 52011 KCAR 221154Z AUTO 02011KT 10SM CLR 01/M02 A3037 RMK AO2 SNB13E39 SLP295 P0000 60000 T00111017 10039 20011 53022 KAST 221204Z AUTO 19022G34KT 2 1/2SM +RA BR SCT014 BKN026 OVC035 15/13 A2966 RMK AO2 PK WND 18034/1203 P0005 T01500133 KCBK 221155Z AUTO 19008KT 10SM CLR 12/11 A2998 RMK AO2 CXET 221200Z AUTO 34006KT 01/M00 RMK AO1 3016 SLP259 T00051001 50002 KATL 221152Z 32009KT 10SM CLR 08/05 A3007 RMK AO2 SLP182 T00830050 10122 20083 53012 EFET 221150Z AUTO 16010KT 120V220 9999 -SN OVC021 M07/M10 Q1024 KBKL 221153Z 02010KT 10SM OVC017 09/06 A3021 RMK AO2 SLP233 70011 T00940061 10100 20094 51021 CWPC 221200Z AUTO 02009KT 07/04 RMK AO1 SLP236 T00680036 52016 KCAV 221155Z AUTO 15011G16KT 10SM CLR 05/04 A3021 RMK AO2 KCBM 221157Z 00002KT 10SM CLR 08/07 A3015 RMK UPB1154 SLP213 P0000 60000 T00810074 10105 20076 52017 $ CXFM 221100Z AUTO 24009KT 05/01 RMK AO1 T00490011 CWPD 221200Z AUTO 02004KT M00/M02 RMK AO1 SLP283 T10021015 53013 KBKN 221155Z AUTO 11004KT 5SM BR FEW060 14/13 A3010 RMK AO2 KASW 221155Z AUTO 04004KT 10SM CLR 00/00 A3032 RMK AO2 UMMG 221200Z 09005G09MPS 9999 OVC006 05/04 Q1009 R17/190065 NOSIG RMK QBB190 CWPE 221200Z AUTO 03007KT 09/07 RMK AO1 3014 SLP242 T00870069 50008 KBLF 221152Z AUTO 31004KT 10SM OVC005 05/03 A3011 RMK AO2 SLP196 60000 70004 T00500028 10061 20050 53017 KASX 221153Z AUTO 15003KT 10SM CLR M02/M03 A3027 RMK AO2 SLP263 I6001 T10221028 11006 21033 51009 CWPF 221200Z AUTO 33004KT 12/10 RMK AO1 0PAST HR 3017 SLP016 P0004 T01160103 50060 KAUG 221153Z AUTO 01011KT 9SM -RA BKN008 BKN022 OVC060 07/06 A3018 RMK AO2 RAB46 SLP222 P0000 60008 70086 T00670056 10072 20067 51014 KATP 221155Z AUTO 07018KT 8SM 25/17 A2996 RMK A01 PHHI 221058Z AUTO 20001KT 10SM CLR 22/21 A3002 RMK AO2 SLP154 T02200205 $ KBLH 221152Z AUTO 01005KT 10SM CLR 19/06 A2983 RMK AO2 SLP095 T01940061 10250 20189 53005 KAUH 221155Z AUTO 15010KT 10SM CLR 12/11 A3001 RMK AO2 T01220108 10147 20122 NZGS 221100Z 08001KT 35KM SCT037 12/08 Q1021 RMK ALT VATSIM USE ONLY CWNZ 221100Z AUTO 16005KT M03/M04 RMK AO1 SLP294 T10341039 51004 CXGH 221100Z AUTO 15018G24KT 11/06 RMK AO1 PK WND 15024/1053 T01120060 KBLI 221153Z AUTO 15016G25KT 10SM -RA FEW034 OVC070 13/10 A2960 RMK AO2 PK WND 12038/1108 SLP027 P0007 60011 70012 T01330100 10167 20133 53007 OPPS 221200Z NE-06KT 4000 HZ SCT240 28/16 Q1015.4 NZHK 221100Z 26004KT 25KM SCT012 13/10 Q1020 RMK ALT VATSIM USE ONLY CXFR 221100Z AUTO 09009KT 05/M00 RMK AO1 T00501003 ULWC 221200Z 33005G08MPS 9999 FEW033 M08/M16 Q1016 NOSIG RMK QFE752/1003 SC040 KCDA 221155Z AUTO 03010G17KT 10SM BKN026 OVC060 08/05 A3018 RMK AO2 7//// T00810051 10086 20075 KE38 221155Z AUTO 20003KT 10SM BKN014 BKN042 15/14 A3018 RMK AO2 7//// T01510138 10161 20150 KBKS 221155Z AUTO 01006KT 10SM CLR 19/18 A2999 RMK AO1 70002 T01850177 10220 20185 CXHA 221200Z AUTO 03003KT 08/05 RMK AO1 SLP252 T00760047 53020 UMMM 221200Z 07005G08MPS 9999 OVC014 01/M01 Q1012 R12/190060 NOSIG RMK QFE739 EFHA 221150Z 09009KT CAVOK M03/M11 Q1025 KATT 221151Z AUTO 00000KT 10SM CLR 17/14 A3008 RMK AO2 SLP179 T01670144 10189 20161 53007 PFYU 221156Z 04008KT 10SM OVC043 M03/M08 A2963 RMK AO1 11030 21030 52003 KBKT 221155Z AUTO 31008KT 7SM SCT043 OVC050 10/09 A2993 RMK AO1 P0001 60019 70019 T00970088 10115 20097 UNEE 221200Z 19004MPS 5000 -SHSN OVC026CB M00/M02 Q1018 NOSIG RMK QFE741 23410550 CWPK 221200Z AUTO 09001KT M03/M04 RMK AO1 SLP310 T10331040 53018 KCDC 221153Z AUTO 00000KT 10SM CLR 04/M01 A3013 RMK AO2 SLP163 T00441006 10083 20028 53008 TSNO $ KAVC 221155Z AUTO 30005KT 10SM OVC035 11/08 A2998 RMK AO2 KBMC 221155Z AUTO 29004KT 10SM CLR 02/M02 A3016 RMK AO1 T00211016 10367 20015 NZHN 221100Z 35009KT 25KM SCT033 15/11 Q1020 RMK ALT NZTG VATSIM USE ONLY KBKV 221153Z 00000KT 5SM BR 16/15 A2999 RMK AO2 SLP154 T01560150 10183 20150 51013 KBLM 221155Z AUTO 02013G16KT 10SM SCT006 OVC013 12/09 A2987 RMK AO1 LTG DSNT NE TSB23E38 P0027 60073 70085 10140 20120 52010 KCDD 221153Z AUTO 16006KT 10SM CLR 04/02 A3014 RMK AO2 KAUM 221155Z AUTO 16006KT 10SM CLR 03/02 A3023 RMK AO2 CXHD 221100Z AUTO 20005KT M00/M00 RMK AO1 T10041004 KBKW 221151Z AUTO 33009KT 4SM -RA BR OVC003 05/04 A3010 RMK AO2 RAB1057 SLP205 P0001 60002 70015 T00500039 10056 20044 51017 TSNO KATW 221145Z VRB03KT 10SM SCT100 00/M01 A3035 KAUN 221155Z AUTO 10004KT 10SM CLR 11/06 A3004 RMK AO1 EDXW 221150Z 33025KT 5000 -DZ FEW010 BKN012 12/10 Q1009 RMK ATIS IND KAUO 221155Z AUTO 02009KT 10SM CLR 09/04 A3012 RMK AO1 10130 20090 52020 KCCO 221155Z AUTO 35007KT 10SM CLR 09/07 A3008 RMK AO2 T00850065 10139 20085 DNPO 220700Z 24002KT 8000 SCT008 FEW020CB 24/23 Q1013 NOSIG CXHF 221200Z AUTO 04/M00 RMK AO1 T00361002 CWPO 221200Z AUTO 17019KT 13/06 RMK AO1 PK WND 16031/1110 SLP052 T01270064 58002 EFHF 221150Z VRB07KT 9999 FEW036 M01/M08 Q1024 KATY 221153Z AUTO 17021G25KT 10SM CLR 11/06 A2990 RMK AO2 PK WND 17028/1109 SLP123 T01110061 10128 20111 56009 KBMG 221153Z 04006KT 10SM CLR 04/02 A3028 RMK AO2 SLP256 T00390022 10061 20011 53009 $ CWOY 221200Z AUTO 31006KT 09/06 RMK AO1 SLP032 T00860062 53016 UMMS 221200Z 09004MPS 060V120 9999 OVC020 00/M01 Q1013 R13/290060 NOSIG KCDH 221155Z AUTO 00000KT 1/4SM FG VV002 08/07 A3015 RMK AO2 NZHS 221100Z 29003KT 20KM SKC 10/07 Q1021 RMK ALT NZNR VATSIM USE ONLY CWQH 221200Z AUTO 03008KT 05/04 RMK AO1 3PAST HR M P0009 T00500035 50076 KCCR 221153Z 18004KT 10SM CLR 11/08 A3004 RMK AO2 SLP160 T01110083 10144 20106 58001 KBMI 221156Z 03004KT 10SM CLR 03/02 A3033 RMK AO2 53015 T00270022 10055 20016 SLP279 NZHT 221100Z 00000KT 30KM SKC 12/10 Q1020 RMK ALT VATSIM USE ONLY CWPR 221200Z AUTO 27003KT 07/02 RMK AO1 SOG 00 6022 SLP033 T00730023 KBNA 221153Z 03004KT 10SM CLR 07/05 A3022 RMK AO2 SLP233 T00670050 10106 20067 53016 KAUS 221153Z 00000KT 10SM BKN200 15/14 A3007 RMK AO2 SLP180 T01500139 10156 20128 53009 KCDJ 221152Z AUTO 12005KT 08/04 A3025 RMK AO1 SLP244 T00780044 10111 20078 53018 CWPS 221100Z AUTO 07/03 RMK AO1 SLP219 T00670027 51019 CWRA 221100Z AUTO 34007KT 03/ RMK AO1 SLP298 T0031 53018 KAVK 221150Z AUTO 17006KT 8SM SCT050 13/11 A3008 RMK AO2 CWQK 221200Z AUTO 35011KT 12/11 RMK AO1 SLP016 T01230112 53023 CXIB 221200Z AUTO 22002KT 05/03 RMK AO1 SLP305 T00460030 53014 KBML 221152Z AUTO 03007KT 10SM OVC018 08/06 A3019 RMK AO2 RAE08 SLP231 P0000 60025 70054 T00780061 10078 20067 53017 KBLU 221152Z AUTO 10003KT 10SM CLR 09/M07 A3013 RMK AO2 SLP161 T00941067 10100 20078 51001 EFHK 221150Z 04013KT 9999 FEW034 M01/M08 Q1024 NOSIG KAVL 221154Z 33007KT 10SM SCT037 07/02 A3010 RMK AO2 SLP185 T00720017 10083 20067 53013 KCCU 221157Z AUTO 27014KT 1/4SM -SN OVC001 01/M01 A3033 RMK AO2 LTG DSNT W KCEC 221156Z AUTO 16017KT 10SM BKN028 BKN036 OVC060 17/11 A2996 RMK AO2 RAE47 SLP143 P0000 60000 70002 T01670106 10167 20150 58008 EEPU 221150Z 07011KT 040V110 CAVOK 01/M07 Q1020 KBLV 221158Z 33001KT 10SM CLR 04/04 A3029 RMK AO2A SLP262 T00370035 10076 20035 52017 OPRN 221200Z 27012KT 8000 FEW100 29/16 Q1016.9/30.03 CXHM 221100Z AUTO 01003KT 06/02 RMK AO1 SLP233 T00580015 53017 KCDN 221155Z AUTO 31003KT 10SM CLR 07/04 A3004 RMK AO2 TSNO PGRO 220950Z 13004KT 7SM FEW030 SCT120 27/24 A2982 RMK LAST KAUW 221154Z AUTO 00000KT 10SM CLR M01/M02 A3033 RMK AO2 SLP288 I1001 I6001 T10111022 10011 21017 53011 KCEF 221204Z AUTO 03009KT 10SM FEW008 OVC014 11/09 A3000 RMK AO2 RAE1158DZB1158 PHJH 220350Z 03008KT 15SM FEW015 SCT030 BKN060 25/22 A2995 CWQO 221200Z AUTO 06009KT 05/03 RMK AO1 T00460033 CWPX 221200Z AUTO 02023KT M22/ A3006 RMK SLP208 CWRF 221200Z AUTO ///// M18/ A2971 RMK SLP105 KAVP 221154Z AUTO 03005KT 10SM OVC019 11/09 A2998 RMK AO2 RAE1055 SLP152 P0000 60002 70005 T01060089 10111 20106 53015 KAWG 221155Z AUTO 11005KT 3SM BR CLR 01/01 A3029 RMK AO2 KCCY 221155Z AUTO 14008G14KT 10SM CLR 03/02 A3027 RMK AO2 CXHP 221100Z AUTO 08005KT M00/M01 RMK AO1 T10031006 CWQP 221200Z AUTO 03014G21KT 05/01 RMK AO1 PK WND 02021/1155 SLP223 T00530010 53018 KBMQ 221153Z AUTO 00000KT 10SM CLR 16/12 A3011 RMK AO2 SLP184 T01610117 10189 20156 53008 $ CWPZ 220300Z AUTO 14008KT 08/01 RMK AO1 SLP991 T00750009 50001 CWRH 221200Z AUTO ///// M02/ A2979 RMK PRESFR SLP122 KCDR 221153Z AUTO 30010KT 10SM FEW100 14/06 A2993 RMK AO2 SLP123 60001 70001 T01390056 10194 20128 53010 CXHR 221100Z AUTO 28007KT 04/M01 RMK AO1 T00361013 OPSK 221200Z 23010KT 5000 HZ NSC 37/17 QNH.1010 RH.31 PC CWQR 221200Z AUTO 02005KT 02/ RMK AO1 T0015 KCDS 221153Z AUTO 16006KT 10SM CLR 14/09 A3009 RMK AO2 SLP172 T01390094 10156 20133 53007 KAXA 221155Z AUTO 15012G17KT 10SM OVC050 07/04 A3018 RMK AO2 CWQS 221100Z AUTO 21019G24KT 12/07 RMK AO1 3017 PK WND 21024/1025 SLP915 T01180069 50004 CWRJ 221200Z AUTO 30007KT 09/07 RMK AO1 SLP062 T00880069 53010 CWSA 221200Z AUTO 09016G22KT 9SM CLR 14/11 A3029 RMK SLP255 EGAA 221150Z 22011KT 9999 BKN011 BKN015 11/09 Q1020 KBMT 221155Z AUTO 04004KT 10SM CLR 15/15 A3007 RMK AO2 T01500145 10168 20150 CYAB 221200Z 29010KT 15SM FEW040 FEW060 SCT210 M19/M24 A2977 RMK SC1SC1CS1 SLP085 CWRK 221100Z AUTO 34004KT M00/01 RMK AO1 SLP255 T10040005 53015 KBNL 221215Z AUTO 00000KT 10SM CLR 07/06 A3005 RMK AO2 EGAC 221150Z 23017KT 9999 FEW011 SCT040 11/09 Q1019 UMOO 221200Z 07006MPS 9999 OVC022 M00/M04 Q1015 R31/CLRD// NOSIG KAWM 221153Z AUTO 06004KT 10SM CLR 08/08 A3020 RMK AO2 SLP225 T00830078 10128 20083 51022 PGSN 221154Z 05005KT 10SM FEW040 27/24 A2985 RMK AO2 RAB22E34 SLP128 P0000 60000 70010 T02670244 10289 20261 50022 KCFD 221155Z AUTO 00000KT 7SM CLR 15/15 A3010 RMK AO2 T01510147 10175 20149 CYAD 221200Z 17002KT 15SM FEW090 M04/M04 A3042 RMK AC1 SLP319 CWRM 221100Z AUTO 12003KT M03/M03 RMK AO1 SLP077 T10261028 58007 CWSD 221200Z AUTO 06013KT 09/04 RMK AO1 SLP289 T00880035 53014 CWQV 221200Z AUTO 09004KT 03/02 RMK AO1 T00270019 KCDW 221153Z AUTO VRB04KT 8SM -RA OVC010 11/09 A2995 RMK AO2 CIG 006V013 SLP145 P0002 60009 70051 T01110094 10128 20111 51017 TSNO KCFE 221155Z AUTO 13008KT 10SM CLR 05/02 A3017 RMK AO2 T00510022 10084 20051 EGAE 221150Z 22018KT 9999 SCT014 BKN020 13/10 Q1017 CWRN 221200Z AUTO 08011G17KT 12/ RMK AO1 PK WND 08017/1152 T0117 KAVX 221151Z AUTO 13004KT 10SM CLR 17/10 A2992 RMK AO2 SLP113 T01670100 10183 20167 53002 KBNO 221153Z AUTO 28005KT 10SM SCT090 BKN120 M01/M02 A3007 RMK AO2 SLP185 T10061022 10000 21044 53002 KAWO 221155Z AUTO 18007KT 10SM OVC037 13/09 A2967 RMK AO1 P0001 60013 70014 10130 20120 57003 CWRO 221200Z AUTO 17016G21KT 10/07 RMK AO1 1PAST HR 1016 PK WND 16024/1105 SLP925 P0000 T00960074 50013 CWSF 221200Z AUTO 17005KT 02/01 RMK AO1 SLP331 T00240013 53018 NZKI 221100Z 09008KT 35KM SCT016 11/09 Q1020 RMK ALT VATSIM USE ONLY CWSG 221100Z AUTO 18004KT M01/M02 RMK AO1 SLP318 T10111017 53015 PHJR 221153Z AUTO 00000KT 10SM CLR 24/22 A3000 RMK AO2 SLP164 T02390217 10256 20233 58007 TSNO ORBI 221200Z 19006KT 140V260 CAVOK 26/10 Q1019 NOSIG KAXH 221155Z AUTO 00000KT 7SM CLR 12/12 A3006 RMK AO2 T01230120 10140 20123 CYAH 221200Z AUTO VRB03KT 9SM CLR M04/M05 A3044 RMK SLP332 KBOI 221153Z 13010KT 10SM CLR 08/02 A3007 RMK AO2 SLP177 70009 T00780022 10083 20072 55002 PGUA 221158Z AUTO 04004KT 10SM CLR 27/24 A2985 RMK AO2 SLP098 T02710240 10289 20265 52012 $ NZKK 221010Z 35006KT 20KM FEW018 BKN050 14/11 Q1020 RMK NZAA VATSIM USE ONLY CXKA 221200Z AUTO 18004KT M04/M05 RMK AO1 SLP305 T10371048 51007 EFKA 221150Z 10008KT 060V140 CAVOK M02/M08 Q1026 KBOK 221156Z AUTO 15009G17KT 7SM -RA OVC022 15/11 A2995 RMK AO2 58008 60002 70024 T01500111 10150 20133 RAB54 P0000 SLP142 CYBB 212300Z 07016KT 5SM -SN DRSN OVC020 M10/M12 A2967 RMK SC8 -10.0/-12.5/0.6/6/MUCH LOOSE LAST OB/NEXT 221200Z SLP048 CWSK 221200Z AUTO 15002KT 11/11 RMK AO1 4PAST HR 1013 SLP012 P0029 T01110107 50296 CWRT 221200Z AUTO 29012G22KT 08/M01 RMK AO1 PK WND 31027/1139 T00791013 EGBB 221150Z 27007KT 220V290 9999 SCT028 SCT040 12/06 Q1025 KCEU 221154Z AUTO 32004KT 10SM CLR 08/02 A3007 RMK AO2 SLP179 T00830022 10133 20072 52018 KCGC 221155Z AUTO 00000KT 7SM CLR 13/13 A2999 RMK AO2 PWINO KBPC 221155Z AUTO 00000KT 10SM OVC055 15/10 A3007 RMK AO2 CWRU 221100Z AUTO 12011KT 11/07 RMK AO1 SLP969 T01060073 51014 CWSL 221200Z AUTO 15005KT 14/04 RMK AO1 SLP062 T01400043 57021 CYBC 221200Z AUTO 03005KT 9SM CLR 04/M01 A3051 RMK SLP333 CYBD 220100Z 00000KT 3SM -RA BCFG SCT050 OVC070 09/09 A2956 RMK SC4AC4 TR SF RA IS VRY LGT LAST OBS/NEXT 221300UTC SLP011 VDPP 221200Z 22005KT 9000 SCT015 FEW017CB BKN040 29/27 Q1009 CB CYAM 221200Z 07002KT 15SM SKC M03/M04 A3041 RMK FROIN SC TR SLP308 KCEW 221153Z AUTO 00000KT 10SM CLR 11/09 A3006 RMK AO2 SLP178 T01060094 10111 20083 51011 KCGE 221149Z AUTO 36009KT 330V030 M1/4SM OVC009 13/11 A2983 RMK AO1 PHKO 221153Z AUTO 11004KT 10SM FEW060 26/22 A2997 RMK AO2 SLP148 T02560217 10278 20256 56006 TSNO EFIV 221150Z AUTO 17005KT 130V210 CAVOK M06/M08 Q1028 KAXN 221153Z AUTO 15019G23KT 10SM OVC044 08/04 A3003 RMK AO2 LTG DSNT S SLP176 T00830039 10094 20078 58007 KBNW 221155Z AUTO 14009G14KT 10SM OVC049 05/04 A3021 RMK AO2 KCGF 221200Z 02008KT 10SM BKN016 OVC035 09/07 A3022 KAXO 221005Z 04011KT 7SM BKN040 24/17 A3001 EGBE 221150Z 26011KT 9999 FEW035 12/08 Q1024 CXKE 221100Z AUTO 04005KT 06/M00 RMK AO1 SLP233 T00581003 51015 EFKE 221150Z AUTO 14007KT 9999 FEW019 M04/M08 Q1029 CWRX 221200Z AUTO 34008KT M08/ A2961 EFJO 221150Z AUTO 03008KT 360V060 9999 SCT020 M04/M07 Q1027 KCEY 221155Z AUTO 05004KT 7SM CLR 05/05 A3024 RMK AO1 KBPG 221155Z AUTO 15007KT 10SM SCT050 BKN055 OVC070 18/14 A3011 RMK AO2 T01830135 10190 20176 CWSP 221200Z AUTO 28009KT 13/12 RMK AO1 2PAST HR 1014 SLP012 P0005 T01290122 50210 CWRY 221100Z AUTO 26015KT 07/01 RMK AO1 PK WND 26019/1058 SLP113 T00660006 51005 CWTG 221200Z AUTO 03008KT 03/M02 RMK AO1 SLP333 T00261021 53021 CYBG 221200Z 04003KT 25SM FEW025 M01/M02 A3046 RMK SC1 SLP322 ZSNB 221200Z 02002MPS 350V050 8000 SCT033 19/15 Q1022 NOSIG KCEZ 221153Z AUTO 12003KT 10SM CLR 03/01 A3015 RMK AO2 SLP167 T00280011 10094 20022 53011 PHLI 221153Z 12009KT 10SM FEW034 SCT050 OVC060 26/23 A2999 RMK AO2 SLP153 60000 70002 T02610228 10261 20244 58011 CWRZ 221200Z AUTO 01009KT 04/02 RMK AO1 SLP314 T00440022 53014 KBPI 221153Z AUTO 06005KT 10SM CLR M06/M08 A3018 RMK AO2 SLP209 70007 T10561078 11011 21067 53007 KCGI 221204Z 26004KT 10SM CLR 03/03 A3027 RMK AO2 CXKI 221100Z AUTO M03/M03 RMK AO1 SLP308 T10311031 51007 CWSR 221100Z AUTO 30006KT 07/05 RMK AO1 3007 SLP048 T00720052 50002 EFKI 221150Z AUTO 10007KT 070V140 CAVOK M04/M09 Q1029 KCHA 221153Z 00000KT 10SM CLR 07/04 A3017 RMK AO2 SLP214 T00720039 10117 20067 53018 KBOS 221154Z 05019G29KT 6SM BR OVC007 13/12 A2999 RMK AO2 PK WND 05029/1149 RAE49 SLP155 P0006 60006 70006 T01330122 10133 20106 50002 KCFS 221155Z AUTO 00000KT 10SM OVC018 07/04 A3032 RMK AO2 T00650036 10065 20056 KAXS 221200Z AUTO 10007KT 10SM CLR 13/10 A3011 RMK AO2 T01330100 NZMC 221100Z 00000KT 30KM SKC 12/10 Q1020 RMK ALT NZHT VATSIM USE ONLY KE80 220035Z AUTO 15005KT 10SM CLR 16/08 A3005 RMK AO2 T01580080 CYAS 221200Z 24015G25KT 15SM FEW020 BKN030 01/M02 A2990 RMK SC2SC6 SLP134 EGBJ 221150Z 23006KT 200V260 9999 FEW035 13/08 Q1026 CWSS 221100Z AUTO 05007KT 07/05 RMK AO1 2PAST HR 2008 SLP239 P0001 T00680054 50004 KBPK 221153Z AUTO 07005KT 10SM CLR 08/07 A3021 RMK AO2 SLP228 T00830072 10122 20083 51013 CXLB 221200Z AUTO 07017G23KT 12/11 RMK AO1 PK WND 08023/1152 SLP226 T01240110 53008 CWST 221200Z AUTO 04009KT 04/02 RMK AO1 SLP300 T00370021 53020 CYCB 221200Z 05017KT 7SM DRSN SKC M20/M24 A3011 RMK SNOW COVER / ONE LOOSE SLP201 CYBK 221200Z 33012G18KT 15SM VCFG FEW005 BKN020 M06/M07 A2970 RMK ST1SC4 SNW CVR/MEDIUM PACK PRESRR SLP059 PGUM 221154Z 00000KT 10SM CLR 27/24 A2984 RMK AO2 SLP098 T02670244 10311 20261 51010 EFKK 221150Z AUTO 11008KT CAVOK M03/M08 Q1027 KAZC 221155Z AUTO 14005KT 10SM CLR 06/03 A3011 RMK AO2 T00590029 10388 20011 CYBL 220400Z 16002KT 4SM -SHRA BR BKN004 OVC012 10/09 A2955 RMK SF5SC3 TCU /LAST OBS/NEXT 221300 UTC PRESFR SLP007 KCHD 220347Z VRB03KT 15SM SCT250 23/12 A2983 RMK LAST KCFV 221152Z AUTO 00000KT 10SM BKN070 13/12 A3014 RMK AO2 SLP204 T01330117 10150 20117 53018 EGCC 221150Z 26009KT 9000 4000N -RA BKN016TCU BKN021 BKN027 10/09 Q1023 NOSIG KAXV 221154Z AUTO 35005KT 10SM OVC012 06/05 A3028 RMK AO2 NZMF 221100Z 16007KT 50KM SCT017 12/07 Q1016 RMK ALT NZQN VATSIM USE ONLY CYCD 220400Z 13012G23KT 8SM -SHRA FEW006 BKN020TCU OVC040 13/11 A2965 RMK SF1TCU4SC3 LAST OBS/NEXT 221300 UTC SLP039 DENSITY ALT 100FT VEGY 221100Z 00000KT 3000 HZ NSC 29/17 Q1013 NOSIG CXKM 221100Z AUTO 18003KT M01/M01 RMK AO1 T10061012 KBOW 221150Z 35004KT 5SM BR FEW002 SCT120 20/ A2998 KAZE 221155Z AUTO 00000KT 4SM BR CLR 11/11 A3004 RMK AO2 T01070105 10328 20080 CWSW 220100Z 19005KT 140V250 15SM BKN040TCU BKN220 10/02 A2985 RMK TCU7CI1 CI TR LAST OBS/NEXT 221300Z SLP112 DENSITY ALT 4200FT CYAW 221200Z 05016G21KT 12SM -SHRA SCT018 BKN040 OVC095 11/09 A3025 RMK SC3SC3AC2 DA-576FT SLP244 CWTN 221200Z AUTO 08011G16KT 06/M00 RMK AO1 SLP297 T00551002 53022 CYBN 221200Z AUTO 32003KT 9SM CLR 01/00 A3028 RMK SLP264 EETN 221150Z 10016KT 9999 FEW040 01/M06 Q1022 NOSIG KAXX 221155Z AUTO 00000KT 10SM SCT013 SCT055 06/04 A3024 RMK AO2 T00570037 10073 20038 ZSNJ 221200Z 00000MPS 2500 BR NSC 15/14 Q1023 NOSIG CYCG 220400Z 16006KT 15SM FEW040 BKN080 11/08 A2994 RMK SC2AC5 INTMT -RA LAST OBS/NEXT 221300UTC SLP142 CYAY 221200Z AUTO 33007KT 9SM CLR 02/M01 A3043 RMK SLP307 EFJY 221150Z 08009KT CAVOK M04/M11 Q1026 CYAZ 220100Z 04004KT 020V090 1 1/2SM -TSRA BR SCT004 BKN016 OVC020 11/10 A2962 RMK SF3CF4SC1 LAST OBS/NEXT 221300UTC PRESFR SLP029 TVSC 211500Z 08011KT 9999 FEW016 31/24 Q1014 CYBR 221200Z 16006KT 15SM FEW140 10/06 A2963 RMK AC2 SLP041 KCGS 221150Z AUTO 33007KT 5SM BKN031 BKN043 OVC060 12/11 A2989 RMK AO1 PHMK 221154Z AUTO 03003KT 10SM FEW044 SCT060 24/23 A3000 RMK AO2 SLP159 60003 70009 T02440233 10250 20244 58007 TSNO KAYS 221155Z AUTO 01005KT 10SM CLR 13/11 A3003 RMK AO2 T01250114 10164 20121 CYDA 212300Z 00000KT 20SM FEW006 OVC020 00/M01 A2944 RMK ST2SC6 CLIMAT 0.3/-2.6/0.2 CM/0.2 MWE LAST OBS/NEXT 221400 UTC SLP989 VEIM 220700Z 15006KT 5000 HZ FEW018 29/17 Q1017 NOSIG KBPT 221153Z 9SM CLR 17/16 A3005 RMK AO2 SLP176 T01720156 10189 20172 53011 EFMA 221150Z 08009KT 040V130 9999 BKN021 04/M01 Q1021 EFKS 221150Z AUTO 08002KT 9999 FEW008 M06/M08 Q1030 KBQK 221155Z AUTO 35005KT 10SM CLR 13/10 A3002 RMK AO1 CWTT 221200Z AUTO 04005KT 05/04 RMK AO1 T00530035 CXKT 221200Z AUTO 06005KT 09/05 RMK AO1 SLP254 T00870046 53014 ZSOF 221200Z 09002MPS 2500 BR NSC 16/14 Q1022 NOSIG CYDB 221200Z AUTO 30008KT 9SM BKN005 OVC046 M05/M05 A2929 RMK SLP960 CYCK 221200Z AUTO 36007KT 9SM CLR 04/03 A3027 RMK SLP255 EFKT 221150Z AUTO 17010KT 150V210 CAVOK M06/M09 Q1027 KCIC 221155Z AUTO 00000KT 10SM CLR 10/05 A3004 RMK AO1 CYDC 220100Z 00000KT 25SM FEW055 12/02 A2983 RMK SC1 LAST OBS/NEXT 22 1300 UTC SLP108 DENSITY ALT 2500FT CXLL 221100Z AUTO 00000KT M01/M03 RMK AO1 SLP062 T10111026 53011 CWTU 221200Z AUTO 29027KT M06/ A3019 RMK SLP264 CYBU 221200Z AUTO 30007KT 9SM -RA SCT100 OVC120 09/06 A2961 RMK PRESRR SLP036 EETU 221150Z 08010KT 9999 FEW035 M01/M10 Q1021 KCID 221152Z 11006KT 7SM CLR 01/01 A3029 RMK AO2 SLP264 T00110011 10039 20011 53009 EFKU 221150Z 05008KT 9999 FEW015 M04/M10 Q1028 KBRD 221153Z AUTO 15012KT 10SM CLR 06/02 A3010 RMK AO2 SLP202 T00560022 10078 20056 58003 CYBV 221200Z 16013G23KT 15SM SCT090 11/06 A2967 RMK AC3 SLP054 CXMD 221200Z AUTO 17011KT 12/05 RMK AO1 PK WND 16021/1106 SLP047 T01210053 56010 CWVD 221200Z AUTO ///// M08/ A2951 RMK SLP049 CYBW 221200Z AUTO 20002KT 9SM CLR 00/M05 A2976 RMK SLP110 EGCN 221050Z 27011KT 9999 SCT025 SCT029 14/08 Q1023 KAZO 221153Z 00000KT 10SM CLR M01/M02 A3033 RMK AO2 SLP280 70001 I6003 T10061017 10011 21011 51011 KCHO 221153Z 34011G17KT 10SM BKN027 BKN033 OVC070 12/07 A2995 RMK AO2 SLP140 P0001 60004 70005 T01170067 10122 20100 51011 PHNG 221157Z 11003KT 10SM BKN020 BKN030 26/23 A2999 RMK AO2 SLP149 60000 70004 T02610228 10267 20256 58009 $ CWVF 221200Z AUTO 17027G34KT 12/12 RMK AO1 PK WND 18034/1152 T01240117 CYBX 221200Z 36005KT 15SM FEW020 FEW200 00/M02 A3044 RMK SC1CI1 TR SC SLP311 CYCO 221200Z 06019KT 6SM -SN DRSN BKN012 OVC025 M07/M09 A2998 RMK SC6SC2 SNOW COVER/MUCH LOOSE SLP157 CYDF 221100Z 00000KT 15SM FEW002 FEW027 BKN200 M01/M01 A3042 RMK ST1SC1CI4 TR ST SLP304 KF05 221156Z AUTO 00000KT 10SM CLR 13/09 A3010 RMK AO2 KBQP 221155Z AUTO 00000KT 10SM CLR 11/10 A3014 RMK AO2 T01070102 10147 20105 CYCP 220100Z 00000KT 15SM FEW002 BKN060TCU 10/09 A2977 RMK SF1TCU6 LAST OB/NEXT 221300 UTC SLP093 CXMG 221100Z AUTO 01002KT M02/M03 RMK AO1 T10231028 CWTY 221100Z AUTO 03012G20KT 08/02 RMK AO1 PK WND 04022/1049 SLP259 T00760022 53014 CWUP 221200Z AUTO ///// M07/ A2953 RMK SLP033 EFLP 221150Z AUTO 05012KT CAVOK M03/M14 Q1025 KCGZ 221155Z AUTO 00000KT 9SM CLR 16/09 A2990 RMK AO1 10210 20160 52007 CYCQ 220100Z 26004KT 35SM BKN040TCU BKN050 BKN100 OVC200 11/03 A2955 RMK TCU5SC1AC1CI1 DIST PCPN ALQDS LAST OBS/NEXT 221300Z SLP028 DENSITY ALT 2400FT CWVH 221200Z AUTO 09022KT M10/ A2989 RMK SLP148 KDAA 221156Z 32009KT 3SM +RA FEW012 OVC049 12/11 A2991 RMK A02 RAE1104B1121DZB1104E1121 SLP129 P0010 60023 70053 T01190106 10120 20116 52013 CWVI 221200Z AUTO 18006KT M02/M02 RMK AO1 SLP084 T10241024 53002 CXMI 221200Z AUTO 06008G15KT 11/09 RMK AO1 PK WND 05018/1130 SLP242 T01070091 53009 ZSPD 221200Z 36005MPS CAVOK 18/13 Q1022 NOSIG EFMI 221150Z AUTO 09006KT 030V140 CAVOK M03/M12 Q1026 KCHS 221156Z 01007KT 10SM CLR 13/06 A3002 RMK AO2 SLP166 T01280056 10172 20111 53026 CWWA 221200Z AUTO 09005KT 11/10 RMK AO1 4PAST HR 7005 SLP022 P0013 T01090097 50153 CWUS 221200Z AUTO 16015G26KT 12/04 RMK AO1 PK WND 16031/1106 SLP073 T01240039 56011 KDAB 221153Z 00000KT 8SM FEW140 FEW250 18/17 A2998 RMK AO2 SLP149 T01780167 10194 20178 52014 PHNL 221153Z 34003KT 10SM FEW029 SCT065 25/23 A2998 RMK AO2 SLP152 T02500228 10272 20250 58007 CWWB 221200Z AUTO 34014KT 06/01 RMK AO1 PK WND 35017/1157 SLP244 T00560009 51015 KBRL 221153Z AUTO 10005KT 9SM CLR 04/03 A3030 RMK AO2 SLP263 T00440028 10067 20039 51012 EGEC 221150Z 24018KT 9000 RA OVC011 11/10 Q1017 CYDL 221200Z AUTO VRB03KT 9SM OVC070 00/ A2928 RMK SLP931 CXMM 221100Z AUTO 13004KT M01/M02 RMK AO1 SLP056 T10111016 53001 EGDM 221150Z 29012KT 9999 FEW020 SCT032 OVC140 13/07 Q1026 BLU NOSIG CYED 221200Z AUTO 20005KT 9SM CLR 01/M00 A2969 RMK SLP073 KCIN 221155Z AUTO 14009KT 10SM OVC042 08/05 A3015 RMK AO2 NZNP 221100Z 09003KT 15KM SKC 12/11 Q1019 RMK ALT VATSIM USE ONLY PHOG 221154Z AUTO 15005KT 10SM SCT060 23/21 A2998 RMK AO2 SLP157 T02330211 10267 20228 58008 TSNO CWVN 221200Z AUTO 29013KT 08/07 RMK AO1 PK WND 29018/1108 SLP089 T00810069 53012 CWWE 221200Z AUTO 06021G30KT 13/12 RMK AO1 7PAST HR 1005 PK WND 08030/1126 SLP207 P0007 T01290121 50032 CYDN 221200Z AUTO VRB02KT 9SM SCT160 SCT210 04/03 A2957 RMK SLP021 KBRO 221201Z 14011G14KT 2 1/2SM +RA BR SCT008 BKN021 OVC047 23/22 A2996 RMK AO2 P0004 CWUW 221200Z AUTO 14008KT 1SM FEW005 FEW051 FEW077 M10/ A2948 RMK ICG PAST HR SLP037 NZOH 221100Z 32002KT 40KM SKC 10/07 Q1020 RMK ALT NZPM VATSIM USE ONLY CWUX 220800Z AUTO 12002KT M03/M03 RMK AO1 SLP292 T10321032 51009 CXMO 221100Z AUTO 19006KT M01/M01 RMK AO1 T10081009 VDSR 221200Z 04004KT 9999 SCT015 FEW018CB 27/25 Q1010 CB CWWF 221200Z AUTO 27008KT 10/07 RMK AO1 SLP050 T00950070 53012 CYCX 221200Z 04008KT 15SM FEW100 BKN120 07/05 A3032 RMK AC2AC5 DA-1155FT VIRGA SLP271 KDAG 221150Z AUTO 24010KT 10SM CLR 12/03 A2995 RMK AO2 SLP125 T01220033 10183 20122 53006 NZNR 221100Z 29003KT 20KM SKC 10/07 Q1021 RMK ALT VATSIM USE ONLY CYDP 221200Z 25007G15KT 15SM FEW120 SCT210 01/M04 A3030 RMK AC2CI1 SLP262 CWVP 221200Z AUTO 30009KT 05/01 RMK AO1 3009 SLP095 T00490013 50060 CYEG 221200Z 16006KT 15SM FEW250 00/M01 A2970 RMK CI1 CI TR SLP078 CYCY 221200Z AUTO 26007KT 9SM CLR M09/M13 A2955 RMK SLP010 ORER 221200Z VRB03KT 9000 FEW040 22/09 Q1019 VEJS 221100Z 00000KT 2500 HZ FEW020 30/18 Q1012 NZNS 221100Z 17003KT 35KM SKC 12/09 Q1019 RMK ALT VATSIM USE ONLY CWVQ 221200Z AUTO 04012G19KT 07/01 RMK AO1 PK WND 04020/1146 SLP246 T00690014 53020 CYDQ 221200Z AUTO VRB02KT 9SM OVC085 03/01 A2947 RMK SLP996 KCIR 221155Z AUTO 00000KT 10SM CLR 06/04 A3026 RMK AO2 70002 T00610039 10100 20051 UNKL 221200Z 24005G08MPS 9000 -SHSN SCT033CB OVC083 M01/M05 Q1017 TEMPO 1000 SHSN RMK QFE737 29////50 ZSQD 221200Z 07001MPS 3500 BR NSC 13/10 Q1022 NOSIG PGWT 220950Z 04004KT 7SM FEW015 FEW150 26/24 A2980 RMK LAST EGDR 221150Z 27011KT 9999 HZ FEW024 SCT026 BKN030 14/06 Q1028 BLU TEMPO FEW020 SCT024 BKN030 WHT KBTA 221155Z AUTO 15012G16KT 10SM CLR 13/07 A3008 RMK AO2 T01310067 10148 20130 TVSV 221200Z 07010KT 9999 BKN018 30/25 Q1014 CWXA 221100Z AUTO 24006KT 08/M04 RMK AO1 SLP078 T00751035 58006 KCKB 221153Z 34009G15KT 10SM OVC008 08/07 A3009 RMK AO2 RAE10 SLP189 P0000 60000 7//// T00830072 10083 20072 53016 NZNV 221100Z 26010KT 45KM SCT026 10/06 Q1018 RMK ALT VATSIM USE ONLY CWWK 221200Z AUTO 16011G18KT 12/11 RMK AO1 4PAST HR 0004 PK WND 18024/1132 SLP022 P0009 T01150108 50060 CWVT 221200Z AUTO 00000KT 01/01 RMK AO1 SLP081 T00110005 50006 CYFB 221200Z 13019G27KT 10SM -SN DRSN SCT020 OVC041 M01/M03 A2966 RMK SC4SC4 PRESFR SLP047 CYEK 221200Z 33004KT 1/2SM FG VV003 01/01 A2968 RMK FG8 SLP051 KDAL 221153Z 10005KT 8SM CLR 18/16 A3010 RMK AO2 SLP189 VIS LWR SE T01780156 10194 20172 53012 KCIU 221155Z AUTO 00000KT 10SM FEW016 M02/M03 A3040 RMK AO1 10010 21030 52010 KCKC 221154Z AUTO 16006KT M1/4SM FG OVC001 03/02 A3024 RMK AO2 CWWL 221100Z AUTO 14006KT 09/07 RMK AO1 2PAST HR 3019 PK WND 15030/1045 SLP939 P0001 T00910073 50002 CWXC 221100Z AUTO 15002KT M02/M02 RMK AO1 SLP304 T10231024 53015 CWVU 221200Z AUTO 04019G25KT 12/10 RMK AO1 5PAST HR 1006 PK WND 04025/1153 SLP221 P0002 T01200104 50014 CYFC 221200Z AUTO 02010G15KT 9SM SCT180 SCT200 07/04 A3033 RMK SLP272 CXNM 221200Z AUTO 11006KT 03/03 RMK AO1 SOG 00 T00340029 KDAN 221153Z AUTO 28006KT 10SM CLR 08/03 A3000 RMK AO2 SLP153 60000 T00830033 10117 20067 53014 CYEN 221200Z 24009KT 15SM -RA BKN100 BKN250 09/07 A2969 RMK AC6CI1 SLP062 KCKF 221155Z AUTO 00000KT 10SM CLR 09/08 A3007 RMK AO2 T00930084 10123 20091 PHNY 221156Z AUTO RMK AO2 PWINO PNO TSNO 5//// 6//// 7//// SLPNO $ EGEO 221120Z 22016KT 6000 +RA SCT006 BKN012 OVC018 13/11 Q1015 EGDX 221150Z 28014KT 9999 SCT026 BKN034 13/07 Q1026 BLU EGFF 221150Z AUTO 28011KT 9999 OVC029 13/08 Q1026 CXMY 221100Z AUTO 09/06 RMK AO1 T00900061 CXNP 221100Z AUTO 04007KT 08/05 RMK AO1 SLP268 T00790047 53008 EGDY 221150Z 27013KT 9999 FEW030 SCT040 BKN080 14/07 Q1027 BLU /NOSIG KCKI 221155Z AUTO 00000KT 10SM CLR 07/06 A3002 RMK AO2 KCJR 221155Z AUTO 33006KT 10SM DZ BKN030 BKN036 OVC050 12/10 A2994 RMK AO2 P0003 CWXI 221200Z AUTO 36006KT 04/01 RMK AO1 SLP301 T00400005 53022 CYER 221200Z AUTO 21009G15KT 9SM CLR 03/00 A2985 RMK SLP108 KDCA 221152Z 33014KT 5SM RA SCT015 BKN030 OVC060 13/10 A2990 RMK AO2 SLP126 P0019 60038 70062 T01330100 10133 20128 51012 CWWS 221100Z AUTO 16016G24KT 10/07 RMK AO1 PK WND 17024/1012 SLP036 T00970066 56013 CXPA 221100Z AUTO 07007KT 05/01 RMK AO1 T00460010 NZPM 221100Z 32002KT 40KM SKC 10/07 Q1020 RMK ALT VATSIM USE ONLY CYET 221200Z AUTO 00000KT 9SM FEW210 M02/M03 A2961 RMK SLP051 KBTL 221153Z 00000KT 10SM OVC016 02/01 A3034 RMK AO2 SLP280 70001 T00220006 10022 20006 51015 CXOL 221100Z AUTO 23009KT 04/M02 RMK AO1 T00381024 CXPC 221200Z AUTO 01/M01 RMK AO1 SLP264 T00061009 51013 CWXL 221000Z AUTO 27013KT 07/02 RMK AO1 PK WND 27017/0954 T00700020 KBTM 221153Z AUTO 00000KT 10SM CLR 00/M02 A3009 RMK AO2 SLP203 70061 T00001022 10039 21006 53005 KCKM 221155Z AUTO 01005KT 10SM CLR 09/09 A3019 RMK AO1 CYEV 221100Z 07009KT 15SM SKC M10/M13 A2992 RMK SLP138 EGGD 221150Z 28015KT 9999 BKN030 12/07 Q1026 KDAW 221151Z AUTO 02008G19KT 10SM OVC006 09/08 A3008 RMK AO2 SLP185 60007 70031 T00890078 10089 20083 53012 KCLE 221151Z 02011KT 10SM OVC016 09/06 A3024 RMK AO2 SLP243 60000 70023 T00890056 10089 20089 51020 $ KCKN 221155Z AUTO 17020G26KT 10SM CLR 12/06 A2986 RMK AO2 KDBN 221155Z AUTO 00000KT 7SM CLR 05/05 A3008 RMK AO2 NZPP 221100Z 10002KT 30KM SKC 09/06 Q1019 RMK ALT VATSIM USE ONLY CYGE 221200Z 17006G16KT 10SM FEW006 SCT035 BKN055 08/04 A2985 RMK ST2SC2SC3 SLP122 KBUF 221154Z 01006KT 10SM OVC021 07/04 A3019 RMK AO2 SLP228 60000 70005 T00720039 10072 20067 53017 CYFO 221200Z VRB02KT 15SM OVC075 06/05 A2959 RMK AC8 SLP028 CWWX 221100Z AUTO 10013KT 06/04 RMK AO1 PK WND 08017/1008 SLP269 T00620041 52013 KBTP 221155Z AUTO 34004KT 10SM OVC012 08/04 A3014 RMK AO1 70015 10080 20070 52020 KDAY 221156Z 34007KT 10SM OVC025 07/04 A3027 RMK AO2 SLP254 70002 T00670039 10072 20056 53017 KCKP 221155Z AUTO 16006KT 10SM SCT080 09/06 A3010 RMK AO2 T00920062 10105 20092 KDBQ 221153Z 12005KT 10SM CLR 02/01 A3031 RMK AO2 SLP274 T00220011 10033 20017 53009 CYGH 212300Z 01004KT 15SM OVC018 M05/M07 A2972 RMK SC8 -4.2/-5.4/0/18 MUCH LOOSE LAST OBS/NXT 221300Z SLP072 CWWZ 221200Z AUTO 36016KT 08/04 RMK AO1 PK WND 35019/1120 SLP237 T00780043 53017 KBTR 221153Z 04005KT 10SM CLR 14/12 A3007 RMK AO2 SLP182 T01440122 10167 20128 53009 KCLI 221155Z AUTO 00000KT 10SM SCT004 M01/M02 A3036 RMK AO2 CYFR 212200Z 28003KT 1 1/2SM -DZ BR OVC004 04/04 A2949 RMK ST8 5.8/-1.3/TR/ LAST OBS/NXT221400Z SLP996 CWXR 221200Z AUTO 10006KT M11/ A3006 RMK SLP190 KCMA 221155Z AUTO 00000KT 10SM CLR 14/08 A2987 RMK AO2 SLP124 T01390083 10161 20128 52004 NZRC 221100Z 26010KT 45KM SCT026 10/06 Q1018 RMK ALT NZNV VATSIM USE ONLY CYHA 221200Z 21017G22KT 15SM -RASN OVC012 02/M00 A2985 RMK ST8 SN COV/MED PACK SLP111 CWZA 221200Z AUTO 00000KT 11/11 RMK AO1 5PAST HR 5000 SLP032 P0014 T01140107 50035 CWYJ 221200Z AUTO 15003KT 12/10 RMK AO1 2PAST HR 0009 SLP014 P0005 T01160099 50030 CYFS 221200Z 33008KT 15SM OVC025 M03/M05 A2971 RMK SC8 PRESRR SLP074 KCLK 221155Z AUTO 15006KT 10SM BKN095 12/08 A3011 RMK AO2 CYFT 221200Z 24018KT 15SM FEW025 FEW090 SCT220 M02/M04 A3035 RMK SC1AC1CI2 TR SC AC SLP282 CYGK 221200Z 04016G25KT 15SM OVC020 06/02 A3020 RMK SC8 SLP230 CWYK 221200Z AUTO 19015KT M05/ A3001 RMK SLP219 KCLL 221153Z AUTO 06005KT 10SM CLR 18/16 A3007 RMK AO2 SLP179 T01780156 10189 20172 51010 KDDC 221152Z AUTO 16009KT 9SM CLR 12/09 A3004 RMK AO2 SLP156 T01170089 10156 20117 51005 NZQN 221100Z 16007KT 50KM SCT017 12/07 Q1016 RMK ALT VATSIM USE ONLY CXPL 221100Z AUTO 22006KT M02/M02 RMK AO1 T10191020 CWYL 221100Z AUTO 27009KT 02/02 RMK AO1 PK WND 26019/1011 SLP114 T00200019 56004 CYGL 221200Z 19008KT 15SM FEW100 SCT240 M03/M04 A3038 RMK AC1CI3 SLP303 KCKV 221152Z AUTO 05004KT 10SM CLR 06/04 A3023 RMK AO2 SLP236 T00560039 10089 20050 51018 EFOU 221150Z AUTO 13011KT CAVOK M03/M09 Q1029 R12/0/0095 KCLM 221153Z AUTO 00000KT 10SM -RA BKN070 BKN080 OVC090 12/11 A2957 RMK AO2 PRESRR SLP013 P0004 60032 70044 T01220111 10128 20111 51017 TSNO $ KBTV 221154Z 34006KT 10SM OVC004 08/07 A3017 RMK AO2 SLP217 70022 T00830067 10083 20078 KCMD 221155Z AUTO 04003KT 10SM CLR 04/04 A3017 RMK AO2 T00440042 CWYM 221200Z AUTO 21010KT M07/ A2961 RMK SLP077 CYHD 221200Z AUTO 17013G20KT 9SM CLR 05/03 A3002 RMK SLP184 KBVE 221151Z AUTO 04008KT 10SM CLR 23/16 A3003 RMK AO2 SLP167 T02280156 10228 20200 53010 EGHE 221150Z 26016KT 9999 SCT033 14/09 Q1029 CYHE 221209Z AUTO VRB02KT 5SM RA BR FEW006 SCT015 OVC070 11/10 A2963 KF44 221155Z AUTO 00000KT 7SM CLR 13/13 A3010 RMK AO2 CXOX 221200Z AUTO 27002KT 07/06 RMK AO1 3017 SLP053 T00670061 50004 EFPO 221150Z AUTO 10010KT CAVOK 01/M08 Q1024 CWZG 221100Z AUTO 21004KT 02/00 RMK AO1 SLP113 T00190000 57007 CXOY 221100Z AUTO 28007KT 06/04 RMK AO1 T00550041 CYGP 221200Z 00000KT 15SM SCT016 M02/M02 A3049 RMK SC3 SLP327 EGGP 221150Z 26013KT 8000 SHRA FEW021 BKN038 11/09 Q1023 KCMH 221151Z 34011KT 7SM OVC009 07/04 A3022 RMK AO2 SLP237 70007 T00670044 10072 20067 53018 KDDH 221154Z AUTO VRB04KT 10SM OVC020 11/07 A3005 RMK AO2 SLP177 70010 T01110067 10111 20100 53014 KF46 221155Z AUTO 00000KT 5SM BR CLR 15/15 A3011 RMK AO2 T01530150 10189 20145 CYHH 221200Z 08004KT 15SM SKC M04/M06 A3048 RMK SLP339 KBVI 221147Z 34008KT 10SM OVC006 07/07 A3013 CYGQ 221200Z 18004KT 15SM FEW015 00/M00 A3029 RMK SC1 FROIN SLP278 EGHH 221150Z 28007KT CAVOK 13/08 Q1027 KBUR 221153Z 00000KT 10SM CLR 15/09 A2988 RMK AO2 SLP108 7//// T01500089 10178 20144 58000 KCMI 221153Z 05004KT 10SM CLR 02/01 A3031 RMK AO2 SLP268 T00220011 10067 20022 53015 $ CYHI 212300Z 07011KT 15SM FEW015 FEW250 M13/M18 A3002 RMK SC1CI1 SLP171 CYGR 221200Z 06007KT 20SM FEW025 SCT120 BKN250 08/05 A3043 RMK SC2AC2CI2 SLP304 EGHI 221150Z 32007KT 230V010 9999 FEW036 13/05 Q1026 KCLS 221155Z AUTO 19010G17KT 3SM -RA SCT014 BKN022 OVC034 13/12 A2968 RMK AO2 KCLT 221152Z 33006KT 10SM FEW250 08/02 A3004 RMK AO2 SLP171 T00830022 10111 20083 53017 KCNB 221154Z AUTO 16011G18KT 10SM SCT090 13/06 A2997 RMK AO2 T01260061 10135 20105 CYGT 221200Z 33013KT 10SM -SN OVC005 M10/M11 A2966 RMK ST8 SLP052 CXRB 221100Z AUTO 34016G21KT M25/M29 RMK AO1 0006 PK WND 35024/1036 SLP113 T12541286 50002 CYHK 221000Z AUTO /////KT RMK CLD MISG WX MISG VIS MISG PCPN MISG ICG MISG KDCU 221153Z AUTO 01003KT CLR 06/05 A3018 RMK AO2 SLP219 T00610050 10122 20050 51019 $ KDEC 221154Z 04004KT 8SM CLR 03/01 A3031 RMK AO2 SLP269 T00280011 10044 20011 53016 KCNC 221155Z AUTO 14010KT 10SM OVC060 06/04 A3024 RMK AO2 KBUU 221155Z AUTO 00000KT 2 1/2SM BR CLR M04/M04 A3033 RMK AO2 VIS 1 1/2V3 T10401041 11021 21040 CWZL 221100Z AUTO 16012KT 10/07 RMK AO1 2012 SLP936 T01000066 50004 KDED 221155Z AUTO 32003KT 7SM CLR 16/15 A2999 RMK AO1 KBWD 221155Z AUTO 00000KT 10SM FEW029 BKN041 OVC085 15/12 A3011 RMK AO2 NZRO 221100Z 35009KT 25KM SCT033 15/11 Q1020 RMK ALT NZTG VATSIM USE ONLY CYGV 221200Z AUTO 02006KT 9SM CLR M00/M02 A3051 RMK SLP334 CYHM 221200Z 36006KT 15SM OVC023 05/01 A3023 RMK SC8 SLP244 PHSF 221156Z AUTO 08004KT 10SM CLR 10/05 A3034 RMK AO2 SLP157 T01040054 10137 20091 57007 $ KBVN 221155Z AUTO 14009KT 10SM CLR 12/08 A3000 RMK AO2 T01150084 10133 20115 KCLW 221155Z AUTO 00000KT 10SM CLR 20/16 A2996 RMK AO2 CWZN 221100Z AUTO 07/02 RMK AO1 SLP298 T00690024 53019 CYGW 221200Z AUTO 19014G19KT 9SM FEW180 SCT200 03/01 A3025 RMK SLP245 EGGW 221150Z AUTO 29012KT 9999 FEW030 13/06 Q1024 KBVO 221153Z AUTO 00000KT 7SM BKN065 12/12 A3014 RMK AO2 SLP200 T01170117 10133 20111 51014 CWZO 221200Z AUTO 15025G31KT RMK AO1 PK WND 17037/1101 CYGX 221200Z 19009KT 15SM FEW025 05/03 A2967 RMK SC1 SLP056 ZSSS 221200Z 07004MPS CAVOK 19/13 Q1022 NOSIG KBWG 221153Z AUTO 04004KT 10SM CLR 06/03 A3025 RMK AO2 SLP244 T00560033 10078 20044 51019 KBUY 221154Z AUTO 30007KT 10SM CLR 09/03 A3000 RMK AO2 SLP155 T00940028 10100 20072 53010 KDCY 221155Z AUTO 00000KT 7SM CLR 03/03 A3028 RMK AO2 T00310031 10065 20027 CWYY 221200Z AUTO 14006KT 12/07 RMK AO1 SLP096 T01160067 58011 KDEH 221155Z AUTO 14005KT 8SM CLR 02/02 A3029 RMK AO2 EGHQ 221150Z 28014KT 9999 SCT032 13/07 Q1028 CXRH 221100Z AUTO 03002KT 02/02 RMK AO1 T00240020 CWZQ 221140Z AUTO 08003KT 08/03 RMK AO1 T00800030 UNNT 221200Z 19003MPS 9999 -SN OVC026 01/M01 Q1018 25190060 16190060 NOSIG RMK QFE753/1005 KBWI 221200Z 34006KT 3SM -RA BR FEW011 BKN023 OVC041 12/11 A2988 RMK AO2 P0003 KCNI 221155Z AUTO 36003KT 10SM CLR 08/01 A3008 RMK AO2 NZTB 212155Z 23036G46KT 9999 SCT040 M18/M22 A2890 RMK BKN150 VIS MAX NE 45 KM VIS MIN 1500SE SDF/HDG SE HDP GRID03036G46KT KBVS 221155Z AUTO 14010G16KT 030V040 8SM FEW001 OVC034 A2965 RMK A01 P010 KBXA 221155Z AUTO 02003KT 10SM 12/10 A3009 RMK AO2 T01170101 10133 20110 EGJA 221150Z 29011KT 260V330 9999 SCT025 14/08 Q1028 CWZS 221200Z AUTO 00000KT M03/M03 RMK AO1 SLP322 T10281031 53018 EFSA 221150Z AUTO 02009KT 340V070 9999 FEW028 M03/M09 Q1026 KCNK 221155Z AUTO 15011KT 9SM CLR 13/13 A3006 RMK AO2 SLP172 T01330128 10167 20133 51008 CYIK 221200Z 21015KT 10SM OVC007 02/02 A2964 RMK ST8 SN TR LOOSE SLP040 EGJB 221150Z 28013KT 9999 FEW028 BKN035 14/09 Q1029 KBVU 221155Z AUTO 00000KT 10SM CLR 15/M01 A2995 RMK AO2 CXSC 221100Z AUTO 26008KT 07/05 RMK AO1 T00660053 UNOO 221200Z 20003MPS 2300 -SHSN BR BKN005 BKN033CB 01/00 Q1014 25810545 TEMPO 1000 SHSN BR BKN004 RMK QBB150 OBST OBSC QFE752 CXRL 221200Z AUTO M03/M03 RMK AO1 T10311031 CYHU 221200Z AUTO 04015G22KT 9SM SCT033 BKN043 OVC055 06/01 A3026 RMK SLP248 KCNM 221153Z AUTO 15004KT 5SM BR CLR 16/14 A3007 RMK AO2 SLP146 70001 T01560144 10178 20156 53005 KCOD 221155Z 33005KT 10SM CLR A3003 RMK AO1 70001 52010 CWZV 221100Z AUTO 28005KT 10/06 RMK AO1 SLP942 T01020064 52012 KDEN 221153Z 15005KT 10SM SCT100 BKN200 08/05 A3004 RMK AO2 SLP122 60002 70002 T00780050 10150 20078 50014 KCOE 221155Z AUTO 00000KT 10SM CLR 04/02 A2996 RMK AO1 70001 10090 20030 57010 NZTG 221100Z 35009KT 25KM SCT033 15/11 Q1020 RMK ALT VATSIM USE ONLY NZSP 221150Z 02014KT 2400 IC BR DRSN SCT010 BKN030 BKN070 M43/ A2856 RMK CLN AIR 36014G17KT ALL WNDS GRID SDF/HDP CXSE 221100Z AUTO 31002KT M18/M20 RMK AO1 SLP202 T11801198 51011 CWZW 221200Z AUTO 09004KT M00/M00 RMK AO1 8003 SLP942 T10021001 50015 CYIN 221200Z AUTO 14017G31KT 9SM FEW180 SCT200 SCT220 07/01 A2949 RMK SLP990 DENSITY ALT 4100FT KCMX 221153Z AUTO 00000KT 10SM CLR M02/M03 A3031 RMK AO2 SLP279 I6000 T10171033 10011 21017 53006 KCNO 221153Z AUTO 07004KT 5SM BR CLR 12/11 A2991 RMK AO2 SLP122 T01170106 10156 20117 50002 KBVX 221155Z AUTO 00000KT 10SM CLR 08/07 A3023 RMK AO1 10110 20070 52020 KCOF 221158Z AUTO 33004KT 10SM CLR 22/22 A2996 RMK AO2 SLP150 T02180215 10221 20214 52011 CYJF 212200Z 06009KT 7SM FEW008 BKN018 OVC080 01/M01 A2953 RMK SF2SC4AC2 CIG RAG/1.5/-1.9/0/7 MEDIUM PACK LAST OB/NEXT 221400UTC SLP009 CYIO 221200Z AUTO 25012KT 9SM BKN025 OVC055 M10/M14 A2959 RMK SLP027 EFRO 221150Z 14007KT CAVOK M06/M12 Q1029 KBVY 221153Z 05014G28KT 10SM OVC007 13/11 A3001 RMK AO2 PK WND 05031/1143 RAE21 SLP157 P0000 60001 70001 T01280111 10133 20100 53011 KBWP 221155Z AUTO 15017G23KT 10SM SCT090 10/03 A2991 RMK AO1 KCMY 221155Z AUTO 00000KT 10SM CLR M03/M04 A3032 RMK AO2 T10331039 11021 21041 ZUCK 221200Z 36005MPS CAVOK 22/15 Q1019 NOSIG CYHY 221200Z 06003KT 010V080 1 3/4SM -DZ BR OVC003 01/01 A2966 RMK FG4ST4 CIG RAG PRESFR SLP053 KDEQ 221201Z AUTO 00000KT 1/2SM FG VV002 12/12 A3014 RMK AO2 T01220122 CXSH 221200Z AUTO 01004KT 05/01 RMK AO1 SLP273 T00480005 53019 CYHZ 221143Z 06009KT 15SM -SHRA SCT030 BKN050 BKN100 09/06 A3027 RMK SC3SC2AC2 SLP255 CWZZ 221200Z AUTO 25016KT M02/ A3004 RMK SLP207 KDFI 221153Z AUTO 35004KT 10SM OVC021 07/03 A3030 RMK AO2 SLP265 T00670033 10072 20067 51016 EFSI 221150Z 11009KT CAVOK M02/M10 Q1025 EGKA 221150Z 29010KT CAVOK 13/06 Q1026 KBXK 221155Z AUTO 01004KT 10SM BKN003 15/08 A2989 RMK AO1 CYKA 221100Z 11014G22KT 40SM OVC110 15/03 A2962 RMK AC8 SLP033 DENSITY ALT 1600FT EGJJ 221150Z 28014KT 9999 FEW028 15/08 Q1029 NOSIG KDET 221153Z 02009KT 10SM OVC018 08/03 A3030 RMK AO2 SLP263 T00830033 10089 20083 51020 KF70 221155Z AUTO 00000KT 10SM CLR 12/10 A2992 RMK AO1 EGKB 221150Z 29010KT 250V330 9999 FEW030 12/04 Q1025 KCNU 221152Z AUTO 13005KT 10SM BKN041 BKN060 OVC075 14/10 A3015 RMK AO2 SLP203 T01390100 10144 20122 53018 EHAK 221155Z AUTO 34023KT 300V030 9999 FEW026/// 11/05 Q1016 KCPC 221155Z AUTO 00000KT 10SM CLR 10/05 A2998 RMK AO2 T00990053 10151 20095 CXSL 221200Z AUTO 12006KT 01/01 RMK AO1 T00140008 KCOM 221155Z AUTO 00000KT 10SM SCT075 17/12 A3011 RMK AO2 T01720116 10191 20171 CYKD 212300Z 05003KT 12SM FEW015 OVC055 M04/M07 A2982 RMK SC1SC7 -3.5/-4.3/2.6/22/MUCH LOOSE/LAST OBS/NXT 221300Z SLP099 KCNW 221150Z 00000KT 5SM BR SKC 15/15 A3010 CXTD 221200Z AUTO 10006KT 08/07 RMK AO1 SLP289 T00820068 53013 CYIV 221200Z 15010KT 15SM FEW030 07/04 A2976 RMK SC2 SLP087 KCON 221201Z AUTO 04008KT 7SM BKN013 OVC020 08/08 A3009 RMK AO2 T00830078 PHTO 221153Z 23004KT 10SM SCT047 OVC055 22/19 A2999 RMK AO2 SLP153 T02220194 10244 20217 58010 KDEW 221153Z AUTO 04004KT 10SM CLR 03/02 A2994 RMK AO2 SLP144 T00280022 10061 20000 58014 EHAM 221155Z 32021KT 9999 VCSH FEW028CB 12/06 Q1018 NOSIG CZBF 221100Z VRB02KT 15SM BKN020 BKN120 BKN210 05/03 A3043 RMK SC7AC1CC1 AC TR CC TR SLP307 CYKF 221200Z AUTO 35005KT 9SM CLR 01/M00 A3025 RMK SLP253 KBYG 221153Z AUTO 24003KT 10SM CLR 03/M04 A3004 RMK AO2 SLP145 T00331044 10111 20028 53018 KCNY 221153Z AUTO 16003KT 10SM CLR 10/06 A3005 RMK AO2 SLP139 T01000056 10167 20094 53015 KBYH 212050Z 33005KT 10SM SKC 23/08 A3005 CXSP 221100Z AUTO 00000KT M04/M04 RMK AO1 T10351036 KCOQ 221157Z AUTO 12004KT 10SM CLR 02/01 A3019 RMK AO2 CXTH 221100Z AUTO 15005KT 03/01 RMK AO1 T00280011 KBYI 221153Z AUTO 00000KT 10SM CLR 00/M03 A3014 RMK AO2 SLP207 70003 T00001028 10039 21006 53008 VEPT 221150Z 02002KT 4000 HZ FEW020 SCT025 28/20 Q1012 NOSIG CXSR 221100Z AUTO 12011KT 07/M01 RMK AO1 SLP987 T00651010 58017 KCOS 221154Z 01006KT 10SM FEW160 10/02 A3010 RMK AO2 SLP141 T01000022 10156 20089 53024 NZTU 221100Z 04006KT 9000 SHRA SCT011 10/09 Q1019 RMK ALT VATSIM USE ONLY CYLA 212100Z 23008KT 15SM FEW010 FEW020 SCT080 BKN210 01/M01 A3008 RMK SC1SC2AC2CI0 SNW CVR/MEDIUM PACK LAST OBS/NXT 221200Z SLP191 CYKJ 221200Z AUTO 28002KT 9SM CLR 04/03 A2968 RMK SLP069 KCOT 221153Z AUTO 05005KT 10SM CLR 19/15 A3004 RMK AO2 SLP164 T01890150 10239 20189 53010 $ KCPK 221155Z AUTO 28007KT 10SM OVC016 13/12 A2985 RMK AO2 LTG DSNT NE KCQB 221155Z AUTO 00000KT 5SM BR CLR 16/16 A3012 RMK AO2 CYJT 221200Z 04005KT 15SM FEW011 SCT020 BKN080 BKN220 06/04 A3044 RMK SC1SC2AC2CI1 SLP310 EGKK 221150Z 30009KT 9999 FEW038 14/07 Q1025 KCQC 221203Z AUTO 29005KT 9SM SCT001 07/06 A3018 RMK AO2 T00670061 KCOU 221154Z 11006KT 10SM CLR 07/04 A3026 RMK AO2 SLP247 T00670044 10094 20067 53015 EHBK 221155Z AUTO 27006KT 230V330 9999 -RA FEW015CB BKN022 BKN028 10/07 Q1019 TEMPO 28015G25KT 7000 -SHRA CYLC 221200Z 14015KT 1/2SM SN OVC003 00/00 A2972 RMK SN6ST2 1.0/-5.7/37/38 MUCH LOOSE SLP068 CYKL 221200Z AUTO 23006KT 9SM FEW010 M05/M06 A3037 RMK SLP322 EGLC 221150Z 28012KT CAVOK 14/05 Q1025 CYLD 221200Z 00000KT 15SM SKC M07/M08 A3039 RMK FROIN SLP318 KDFW 221153Z 09004KT 6SM BR CLR 17/15 A3010 RMK AO2 SLP186 T01670150 10194 20161 53012 KCQF 221155Z AUTO 02004KT 10SM CLR 13/11 A3005 RMK AO2 CYKO 211500Z 25006KT 12SM -SN FEW005 BKN030 BKN220 00/M01 A3003 RMK SC2SC2CC1 SLP173 EGLF 221150Z 28010KT 9999 FEW030 12/06 Q1026 CXTO 221200Z AUTO 05/01 RMK AO1 SLP242 T00520012 53013 CXTP 221100Z AUTO 30004KT 05/03 RMK AO1 SOG 17 3018 SLP297 T00460030 EFTP 221150Z 07010KT CAVOK M02/M11 Q1025 OSDI 221200Z 00000KT 9999 FEW030 SCT100 24/03 Q1018 CYKQ 212100Z 28008KT 15SM FEW250 04/M01 A3034 RMK CI1 SLP274 CYLH 221200Z AUTO 19008KT 9SM CLR 02/M00 A3009 RMK SLP204 KCPR 221153Z 27007KT 10SM CLR 03/M06 A3006 RMK AO2 SLP150 T00331061 10100 20017 53013 NZWB 221100Z 17003KT 35KM SKC 12/09 Q1019 RMK ALT NZNS VATSIM USE ONLY KCPS 221153Z 00000KT 10SM CLR 03/03 A3030 RMK AO2 SLP261 T00330028 10089 20033 53018 KBYS 221155Z AUTO 36005KT 10SM CLR 13/01 A2993 RMK AO2 SLP115 T01280010 10190 20130 52004 $ CYLJ 221200Z 22003KT 15SM FEW080 03/01 A2972 RMK AC1 SLP078 CYMA 221200Z 03011KT 20SM BKN100 M00/M05 A2938 RMK AS7 CLIMAT 1.6/-0.4/0.0 SLP973 EFVA 221150Z AUTO 12008KT CAVOK M01/M09 Q1025 KCPT 221155Z AUTO 00000KT 10SM CLR 16/15 A3012 RMK AO2 CYLK 220200Z 29002KT 5/8SM -DZ BR OVC002 03/03 A2953 RMK ST8 4.0/3.0/TR/0 LAST OB/NEXT 221400Z SLP011 CZDB 221100Z AUTO 07010KT 06/01 RMK AO1 SLP265 T00590013 53005 ORMM 221200Z 32006KT CAVOK 28/07 Q1018 NOSIG CYLL 221200Z AUTO 26007KT 9SM CLR 01/M00 A2974 RMK SLP092 EGMC 221150Z 29009KT 260V320 CAVOK 13/05 Q1024 EFTU 221150Z AUTO 10011KT CAVOK 01/M06 Q1023 EGLL 221150Z 29010KT 9999 FEW034 13/06 Q1025 NOSIG KCQM 221155Z AUTO 16006G14KT 10SM CLR 05/02 A3014 RMK AO2 EGMD 221150Z 31011KT CAVOK 14/08 Q1025 CXTV 221100Z AUTO 10011KT M09/M11 RMK AO1 SLP144 T10931114 52007 KDHN 221153Z 01005KT 7SM CLR 10/09 A3010 RMK AO2 SLP191 T01000089 10133 20094 53019 KDGW 221153Z AUTO 33008KT 10SM CLR 07/M04 A3005 RMK AO2 SLP141 T00721039 10150 20072 53014 KCRE 221153Z 33006KT 10SM CLR 11/05 A2998 RMK AO1 SLP152 T01060050 10156 20106 53023 KCPW 221157Z AUTO 24008G15KT 1/2SM FZFG OVC002 00/00 RMK AO2 LTG DSNT NW KBZN 221156Z AUTO 10004KT 10SM CLR M01/M02 A3007 RMK AO2 SLP203 70016 T10061022 10044 21011 53004 KCRG 221153Z 34005KT 10SM CLR 16/12 A2999 RMK AO2 SLP155 T01560117 10189 20144 53016 KBYY 221155Z AUTO 02004KT 7SM 17/17 A3004 RMK AO2 T01720169 KCRH 220010Z AUTO 08014KT 10SM CLR 25/15 A2998 RMK A01 CZCP 221200Z AUTO 09026KT 9SM OVC019 M07/ A3006 RMK SLP189 CYKY 221200Z 29005KT 15SM OVC050 07/05 A2974 RMK SC8 SLP082 ORNI 221200Z 14005KT CAVOK 27/07 Q1019 NOSIG CYMH 221100Z 29005KT 15SM BKN026 01/M03 A3042 RMK SC6 SLP300 CYKZ 221200Z 36006KT 15SM FEW045 FEW220 04/01 A3025 RMK SC1CI1 SC TR CI TR SLP249 NZWK 221100Z 35009KT 25KM SCT033 15/11 Q1020 RMK ALT NZTG VATSIM USE ONLY CZCR 221100Z AUTO 22005KT M02/M02 RMK AO1 SLP315 T10171023 53018 KDIJ 221156Z AUTO 17003KT 10SM CLR M01/M02 A3016 RMK AO2 53005 70005 T10051022 10033 21005 SLP193 CYMJ 221200Z 25007KT 15SM FEW064 SCT085 BKN140 08/07 A2967 RMK SC1AC3AC2 SLP055 CYNA 221200Z AUTO 03006KT 9SM CLR 01/M02 A3049 RMK SLP326 KDHT 221153Z AUTO 18011KT 7SM FEW120 14/12 A3008 RMK AO2 SLP145 T01440122 10161 20133 53002 KCQT 221147Z AUTO 00000KT 10SM CLR 17/14 A2988 RMK AO2 SLP116 T01670144 10194 20167 50002 KDIK 221156Z AUTO 28015G25KT 10SM OVC100 10/07 A2982 RMK AO2 PK WND 29026/1057 SLP093 T01000067 10144 20094 53028 CXWB 221100Z AUTO 04028KT M06/M08 RMK AO1 SOG 06 PK WND 04035/1036 T10551080 CYLT 221200Z 34017KT 1 1/2SM -SN BLSN SCT015 OVC029 M18/M21 A2976 RMK ST3SC5 VIS VRB 1-2 WND ESTD SLP082 EFUT 221150Z 05009KT 010V090 CAVOK M03/M11 Q1024 CYNC 212000Z 29005KT 15SM FEW020 FEW120 03/M04 A3034 RMK SC1AC1 LAST OBS/NEXT 221300 UTC SLP276 CYLU 212100Z 28010KT 12SM -SN FEW005 SCT006 OVC008 M00/M02 A3009 RMK SF2ST2SC4 LAST OBS/NEXT 221200Z VIA CZNB FIC SLP195 EGNC 221150Z 24015KT 8000 -RA SCT008 OVC012 11/10 Q1020 NZWN 221200Z AUTO 01007KT 9999 NCD 10/07 Q1019 NOSIG EHDL 221155Z AUTO 32012KT 9999 FEW022 SCT031 12/08 Q1017 BLU TXKF 221155Z 18013KT 9999 SCR018 BKN160 OVC300 24/23 Q1016 RMK WND EST  CYND 221200Z 01006KT 15SM FEW025 BKN060 05/00 A3027 RMK SC2SC5 SLP252 CXVM 221100Z AUTO 26004KT 01/M00 RMK AO1 T00091002 CYMM 221200Z AUTO 12002KT 9SM CLR M01/M01 A2969 RMK SLP071 KCQW 221155Z AUTO 30003KT 10SM 06/04 A3001 RMK AO2 NZWP 221010Z 35006KT 20KM FEW018 BKN050 14/11 Q1020 RMK NZAA VATSIM USE ONLY CYLW 221200Z AUTO 16019G27KT 9SM SCT060 SCT092 OVC110 14/04 A2972 RMK PRESFR SLP066 DENSITY ALT 1800FT CYNE 221200Z AUTO 14004KT 100V170 9SM BKN160 08/05 A2964 RMK SLP045 KCQX 221152Z AUTO 04011G21KT 6SM BR OVC004 14/13 A2991 RMK AO2 SLP131 60000 70003 T01390133 10139 20122 58004 CYMO 221200Z AUTO 19007KT 9SM CLR M01/M03 A3044 RMK SLP307 KCSG 221151Z AUTO 03003KT 10SM CLR 11/07 A3009 RMK AO2 SLP186 T01060072 10150 20106 51021 KCRP 221151Z 01007KT 10SM FEW018 BKN200 19/18 A3000 RMK AO2 SLP157 T01940183 10233 20194 53010 NZWR 221010Z 35006KT 20KM FEW018 BKN050 14/11 Q1020 RMK NZAA VATSIM USE ONLY KCRQ 221153Z 07003KT 4SM BR CLR 16/14 A2988 RMK AO2 SLP117 T01560144 10194 20156 53003 NZWS 221100Z 24005KT 10KM SHRA SCT034 12/10 Q1020 RMK ALT VATSIM USE ONLY EHEH 221155Z AUTO 30013KT 9999 FEW030 SCT052 BKN057 13/06 Q1019 BLU 30010KT 9999 FEW020CB SCT035 TEMPO 31012G25KT EFVR 221150Z AUTO 06006KT 020V090 CAVOK M03/M10 Q1027 KCRS 221153Z AUTO 04003KT 2SM BR FEW018 16/15 A3011 RMK AO2 SLP194 T01610150 10189 20156 51006 NZWU 221100Z 32002KT 40KM SKC 10/07 Q1020 RMK ALT NZPM VATSIM USE ONLY CZFA 212200Z 16004KT 110V190 30SM FEW040 SCT055 BKN200 04/M00 A2935 RMK CU1SC2CI4 CLIMAT 5.3/-3.3/0.0 LAST STFD OBS/NEXT 221400Z SLP970 CYOA 221200Z 07016KT 3SM -SN DRSN OVC005 M06/M07 A2968 RMK ST8 SLP086 EGNJ 221150Z 26013KT 9999 SCT025 14/08 Q1022 KCTB 221156Z AUTO 25016KT 10SM CLR 06/00 A2988 RMK AO2 SLP125 7//// T00610000 10072 20056 53000 KDKB 221155Z AUTO 03003KT 10SM CLR 01/00 A3033 RMK AO2 LTG DSNT N T00050000 10017 21005 CYMT 221200Z 05003KT 15SM SKC M03/M03 A3044 RMK SLP330 CYMU 221200Z 21015G21KT 15SM BKN022 03/01 A3020 RMK SC7 SLP233 CYOC 220100Z 06006KT 2 1/2SM -SN BR SCT011 BKN018 OVC030 M04/M05 A2967 RMK SN2SF2ST3SC1 VIS NE 5 NW 1 CLIMAT -3.9/-4.9/2.4CM 1.8 MWE LAST OBS/NEXT 221300 UTC SLP066 CZEL 221200Z AUTO 02/M00 RMK AO1 SLP253 T00201003 53015 KCSM 221153Z AUTO 17006KT 10SM CLR 13/09 A3012 RMK AO2 SLP182 T01330094 10172 20133 53011 CZEM 212000Z 31006KT 15SM FEW280 04/M02 A3033 RMK CI0 LAST OBS/NEXT 221300 UTC SLP272 CXWM 221100Z AUTO 25010KT 05/01 RMK AO1 PK WND 26018/1006 T00530010 CYNM 221200Z AUTO 00000KT 9SM CLR M07/M08 A3046 RMK ICG MISG SLP334 CYOD 221200Z 00000KT 15SM BCFG SCT240 01/M00 A2973 RMK CI1 SLP088 EGNM 221150Z 27017KT 230V300 9999 -RA SCT021 BKN029 11/08 Q1021 KCRW 221154Z 30006KT 8SM -DZ FEW001 OVC009 07/06 A3016 RMK AO2 RAE00DZB00 SLP214 VLY FG P0000 60000 70031 T00720061 10078 20072 53011 EHDV 221155Z AUTO 33026KT 9999 FEW030/// SCT042/// BKN048/// 12/05 Q1018 EHFD 221155Z AUTO 32032KT 9999 FEW031/// SCT036/// BKN045/// 11/04 Q1015 CXVW 221100Z AUTO 13008KT 04/M00 RMK AO1 T00381002 CXWN 221100Z AUTO 23003KT 12/05 RMK AO1 SLP076 T01180050 56002 KCRX 221155Z AUTO 00000KT 7SM CLR 06/05 A3019 RMK AO2 EGNO 221150Z 28016KT 8000 -RA SCT013 BKN031 12/10 Q1022 CYMX 221200Z 05011G19KT 330V080 15SM FEW021 BKN038 OVC060 07/M00 A3027 RMK SC1SC7SC1 SC TR SLP254 KEBG 221155Z AUTO 00000KT 7SM CLR 21/19 A2998 RMK AO2 70029 T02100194 10235 20210 KCSQ 221155Z AUTO 13012KT 10SM OVC043 09/05 A3020 RMK AO2 UNTT 221200Z 20003MPS 9999 -SHSN SCT023CB OVC066 M03/M04 Q1016 NOSIG RMK QFE747 21590140 KEAR 221155Z 13011KT 10SM CLR 13/11 A2998 RMK AO1 10150 20130 54000 EGNR 221150Z 25009KT 9999 SCT030 BKN049 12/09 Q1024 KCTJ 221155Z AUTO RMK AO2 PWINO CYPA 221200Z 31004KT 15SM BKN110 09/06 A2965 RMK AC7 SLP052 CYOJ 221200Z AUTO 00000KT 9SM CLR M01/M01 A2958 RMK SLP031 KCUB 221153Z AUTO 00000KT 10SM CLR 08/06 A3006 RMK AO2 SLP176 T00780056 10150 20078 51020 EGPA 221150Z 17016KT 9000 -RA FEW011 BKN026 10/08 Q1009 KDKK 221153Z AUTO 02011KT 10SM OVC016 08/05 A3019 RMK AO2 SLP226 60000 70005 T00780050 10083 20072 52018 KEAT 221155Z AUTO 10007KT 10SM BKN050 OVC060 10/06 A2982 RMK AO2 SLP097 T01000061 10111 20078 58011 EGNS 221150Z 25016KT 220V280 9999 -RA BKN011 OVC024 11/09 Q1022 NOSIG EGPB 221150Z 19013KT 9999 FEW015 SCT030 10/06 Q1010 TEMPO RA BKN014 KEAU 221156Z 14005KT 10SM CLR 03/01 A3028 RMK AO2 SLP261 T00280006 10050 20022 51011 EGNT 221150Z 26012KT 9999 BKN016 11/09 Q1018 CYPC 212300Z 08019KT 15SM FEW018 FEW090 SCT210 M06/M11 A2990 RMK SC1AC1CI1 -5.0/-6.6/TR 4 MEDIUM PACK LAST OB/NEXT 221300Z SLP125 ZUGY 221200Z 00000MPS CAVOK 16/11 Q1022 NOSIG EGPC 221150Z 18017KT 9000 -RA FEW010 SCT018 BKN032 09/08 Q1010 KCSV 221153Z AUTO 03005KT 10SM FEW010 FEW015 06/03 A3018 RMK AO2 SLP216 T00560033 10072 20056 51015 CZFM 212300Z 36005KT 15SM -SN FEW030 OVC080 M04/M06 A2979 RMK SC2AC6 -3.9/-4.5/3.0/33 MUCH LOOSE LAST OBS/NXT 221300Z SLP090 EGNV 221150Z 20009KT 9000 -DZ SCT023 11/08 Q1020 CZEV 221100Z AUTO 07008KT M11/M13 RMK AO1 SOG 09 0005 SLP138 T11071133 EGOM 220950Z 25015KT 6000 RA OVC004 08/08 Q1019 YLO2 CYPD 221200Z AUTO 04005KT 9SM BKN011 OVC170 07/05 A3036 RMK PRESRR SLP287 EGPD 221150Z 17009KT 9999 -RA SCT040 08/07 Q1014 TEMPO RA CZFN 212300Z 36005KT 25SM OVC015 M04/M07 A2967 RMK SC8 SLP057 CYPE 221200Z 07004KT 15SM OVC250 02/M00 A2955 RMK CI8 SLP023 EGPE 221150Z 22010KT 9999 FEW009 SCT042 12/10 Q1011 KDLF 221158Z AUTO 11007KT 10SM OVC065 20/14 A3004 RMK AO2 SLP162 60000 T01970136 10216 20197 52009 $ CYOO 221200Z AUTO 01013KT 9SM CLR 04/01 A3022 RMK SLP237 EGNX 221050Z 26013KT 9999 FEW024 12/07 Q1024 EGPF 221150Z AUTO 22016KT 9999 OVC008/// //////TCU 11/10 Q1017 KECG 221154Z 29012G20KT 10SM OVC019 13/10 A2985 RMK AO2 SLP107 60002 7//// T01280100 10150 20128 53006 CYPG 221200Z 15014G19KT 15SM BKN180 12/06 A2968 RMK AC6 SLP054 EGOP 221150Z 27012KT 9999 -RA FEW027 BKN034 BKN080 13/10 Q1026 BLU EHGG 221155Z AUTO 32015KT 290V350 9999 BKN048 12/05 Q1015 NOSIG KDLH 221155Z 15009KT 10SM CLR 04/01 A3019 RMK AO2 SLP241 T00390006 10050 20039 50003 KCUH 221155Z AUTO 00000KT 5SM BR CLR 12/12 A3012 RMK AO2 CXYH 221100Z AUTO 02001KT M01/M02 RMK AO1 SLP046 T10101017 53010 CYPH 221100Z AUTO 21025G33KT 9SM BKN018 04/02 A2993 RMK SLP136 EGPH 221150Z 24018KT 9000 BKN017 12/09 Q1017 KDKR 221155Z AUTO 04003KT 3SM BR CLR 16/15 A3012 RMK AO2 KDMA 221158Z AUTO 17004KT 10SM CLR 16/09 A2995 RMK AO2 SLP107 T01610094 10185 20156 53002 $ KEBS 221155Z AUTO 14012KT 10SM CLR 05/04 A3019 RMK AO2 EGPI 221150Z 24020KT 9999 BKN011 12/11 Q1017 EGQA 221050Z 19012KT 9999 FEW010 SCT016 BKN034 10/// Q1012 WHT CZFS 221100Z AUTO 34006KT M02/M04 RMK AO1 SLP064 T10231044 51006 EGOS 221150Z 25008KT 9999 FEW022 BKN028 12/07 Q1023 BLU NOSIG CYQA 221200Z AUTO VRB02KT 9SM CLR M01/M01 A3028 RMK SLP265 EHFS 221155Z AUTO 31017G29KT 270V330 9999 SCT025/// BKN031/// 13/08 Q1022 KCVB 221155Z AUTO 00000KT 10SM CLR 17/10 A3008 RMK AO2 T01710101 10206 20171 CYQB 221200Z 06018G25KT 30SM FEW010 BKN062 06/00 A3036 RMK SF1SC7 SF TR SLP282 EGPK 221150Z 20008KT 7000 -RA BKN009 10/09 Q1019 KCUL 221155Z AUTO 00000KT 10SM CLR 05/05 A3028 RMK AO2 T00500050 10072 20045 KCVC 221155Z AUTO 00000KT 10SM CLR 07/07 A3007 RMK AO2 KEDC 221155Z AUTO 00000KT 10SM FEW018 BKN025 OVC031 17/14 A3009 RMK AO2 KDLL 221155Z AUTO 00000KT 1/4SM FZFG OVC001 M03/M03 A3034 RMK AO2 T10291033 10000 21032 CYPL 221200Z 18009G16KT 15SM FEW080 FEW230 03/00 A3005 RMK AC1CI1 SLP194 CXZC 221100Z AUTO 18002KT M01/M02 RMK AO1 SLP303 T10121023 51009 EGPL 221150Z 23022KT 4500 -RA FEW006 SCT008 BKN010 12/11 Q1010 CYQD 221200Z 15006KT 15SM SCT200 05/04 A2956 RMK CS4 SLP019 EGPM 221150Z 17011KT 9999 BKN035 09/04 Q1009 TEMPO RA BKN014 VGEG 221150Z 27005KT 5000 HZ FEW028 29/24 Q1010 NOSIG KDLN 221153Z AUTO 20010KT 9SM -SN CLR M01/M03 A3010 RMK AO2 SNE02B22 SLP198 P0000 60000 70021 T10061028 10028 21017 53006 EGOV 221150Z 23017KT 9999 -RA FEW014 SCT017 OVC050 12/10 Q1024 WHT BECMG NSW FEW018 BLU KEDE 221155Z AUTO 30007KT 10SM SCT016 SCT025 BKN032 12/10 A2988 RMK AO2 60001 70019 T01170101 10139 20115 EGOW 221150Z 27015G25KT 5000 RA FEW010 SCT018 BKN060 12/10 Q1023 WHT EGPN 221150Z 22013KT 9999 FEW015 BKN019 11/09 Q1015 CYOW 221200Z 36007KT 15SM FEW030 BKN060 05/01 A3026 RMK SC2SC5 SLP250 CYQF 221200Z 17003KT 15SM SKC M03/M05 A2973 RMK SLP095 KCTY 221153Z AUTO 00000KT 12/11 A3001 RMK AO1 SLP160 60001 70005 T01220106 10161 20117 53017 KCVG 221152Z 35007KT 10SM SCT016 06/03 A3026 RMK AO2 SLP245 SCT V BKN T00610028 10089 20061 51019 EGPO 221150Z 23018KT 9999 -RA FEW003 SCT014 BKN020 13/11 Q1008 KECP 221153Z 00000KT 10SM CLR 13/11 A3003 RMK AO2 SLP180 T01330111 10144 20128 53013 KDLP 221155Z AUTO VRB05G11KT 10SM CLR 25/16 A3001 RMK A01 CYQG 221100Z 36012G17KT 15SM OVC017 08/04 A3026 RMK SC8 SLP252 CYOY 221200Z AUTO 36005KT 9SM OVC060 OVC072 05/M00 A3034 RMK SLP281 KCVH 221155Z AUTO 00000KT 10SM CLR 08/06 A3005 RMK AO1 KDMH 221154Z AUTO 13/11 A2989 RMK AO1 SLP120 P0006 60063 70149 T01280106 10133 20122 51007 KCTZ 221155Z AUTO 30004KT 10SM CLR 09/07 A2997 RMK AO2 T00900070 10145 20090 CYQH 221200Z 33003KT 5/8SM BR VV004 M02/M03 A2937 RMK FG8 CLIMAT -0.8 / -2.4 / 0.0 / RVR RWY 09 4000FT SLP978 CYPQ 221200Z AUTO 01006KT 9SM CLR 03/01 A3025 RMK SLP249 EHFZ 221155Z AUTO 32023KT 9999 FEW022/// SCT039/// 11/07 Q1017 CYQI 221200Z 07018G25KT 5SM -SHRA BR OVC005 12/11 A3008 RMK SF8 SLP186 EHGR 221155Z AUTO 31013KT 9999 FEW057 13/07 Q1019 BLU 29012G22KT 9999 SCT035 TEMPO 31018G30KT 5000 -SHRA FEW012 SCT017CB CYPR 221200Z AUTO 14008KT 9SM -RA BKN040 OVC050 07/05 A2937 RMK SLP947 KDLS 221153Z AUTO 33006KT 10SM OVC075 12/09 A2984 RMK AO2 SLP105 T01170089 10122 20100 56014 KEDJ 221155Z AUTO 35007KT 5SM OVC006 04/04 A3026 RMK AO1 KCWA 221150Z 00000KT 10SM SKC M01/M01 A3034 KECS 221155Z AUTO 33010KT 10SM CLR 07/00 A2999 RMK AO2 CYRA 220000Z 30009KT 15SM SCT045 BKN080 M01/M05 A2956 RMK ST4AS2 1.7/-1.1/0/0 LAST OB/NXT 221400Z SLP024 KCUT 221153Z AUTO 33003KT 10SM SCT100 08/03 A2997 RMK AO2 SLP108 T00780028 10122 20072 51010 CYRB 220400Z 36009KT 15SM SKC 00/00 A2986 RMK WND ESTD/TEMP UNAVBL EGQK 221150Z 20005KT 9999 FEW030 OVC050 12/09 Q1011 BLU CYQK 221200Z 16011G16KT 15SM FEW240 07/03 A2994 RMK CI2 SLP152 KCWC 221155Z AUTO 18003KT 10SM CLR 14/11 A3011 RMK AO2 T01350114 10161 20132 KECU 221150Z AUTO 12006KT 10SM OVC050 18/14 A3012 RMK AO2 CYQL 221200Z 24014KT 15SM SKC 06/M01 A2983 RMK SLP114 EGQL 221150Z 25014KT 9999 FEW012 OVC020 11/09 Q1015 WHT KEED 221156Z AUTO 23004KT 10SM CLR 19/05 A2987 RMK AO2 SLP087 T01940050 10250 20194 53010 EGPU 221150Z 24025KT 9999 -RA BKN010 BKN017 12/11 Q1013 CYQM 221200Z 06010KT 15SM FEW012 BKN120 08/04 A3036 RMK SC1AC7 SC TR SLP282 KDMN 221153Z AUTO 07005KT 9SM CLR 11/10 A3009 RMK AO2 SLP137 T01060100 10144 20106 53004 KCVN 221155Z AUTO 20004KT 8SM BKN090 13/12 A3014 RMK AO1 10150 20130 52003 EGQM 221150Z AUTO 22007KT 9999 -RA BKN050/// 11/09 Q1018 KEDN 221155Z AUTO 01005KT 10SM CLR 11/10 A3006 RMK AO2 CYPW 220200Z 12015G21KT 090V230 3SM +RA BR FEW002 BKN008 OVC020 12/11 A2967 RMK SF1SF6SC2 SF TR LAST OBS/NEXT221300UTC PRESFR SLP049 KDMO 221153Z AUTO 12004KT 6SM BR CLR 08/06 A3023 RMK AO2 SLP237 T00780056 10111 20078 53013 KCVO 221155Z AUTO 20010KT 10SM FEW037 OVC050 13/11 A2983 RMK AO1 60001 70006 10130 20130 57010 KCWF 221155Z 00000KT 10SM SKC 15/14 A3006 CYPX 221200Z 21014KT 5SM BR OVC012 03/03 A2982 RMK SC8 SNW CVR NIL VIA CYPY 221200Z AUTO 06004KT 9SM CLR M02/M02 A2965 RMK SLP051 KDLZ 221156Z AUTO 33008KT 7SM BKN006 OVC010 05/04 A3024 RMK AO2 CYQQ 221200Z 16009KT 20SM FEW007 FEW030 11/11 A2950 RMK SF1SC2 SLP989 KCWI 221155Z AUTO 08007KT 10SM CLR 01/M01 A3035 RMK AO1 10020 21010 52010 CYQR 221200Z 35010KT 15SM -SHRA OVC074 09/07 A2962 RMK AC8 SLP041 DENSITY ALT 1900FT KCVS 221123Z 21003KT 4SM BR SCT030 BKN050 BKN100 14/13 A3011 CYRJ 221200Z 30005KT 40SM FEW012 BKN030 00/M01 A3046 RMK CF1SC7 CF TR SLP323 EGQS 221150Z 15008KT 9999 -RA FEW026 SCT038 BKN050 10/08 Q1011 BLU NOSIG EHJA 221155Z AUTO 31025KT 9999 FEW021/// SCT029/// BKN034/// 12/05 Q1018 CYSB 221100Z 04008KT 15SM SKC M01/M02 A3035 RMK FROIN SLP294 CYQT 221200Z 07003KT 040V120 20SM FEW015 M04/M04 A3029 RMK SC1 SC TR SLP267 OTBD 221100Z 01017KT CAVOK 32/18 Q1015 NOSIG KDNL 221153Z AUTO 35006KT 10SM CLR 10/06 A3006 RMK AO2 SLP176 T01000056 10150 20100 53018 KEDU 221155Z AUTO 00000KT 10SM 09/M44 A3003 RMK AO1 CYRL 221200Z 16008KT 15SM FEW080 05/03 A2994 RMK AS1 SLP151 CXZU 221200Z AUTO 00000KT 01/M00 RMK AO1 SLP047 T00091001 58010 CYSC 221200Z AUTO 04008KT 9SM -RA OVC060 04/04 A3023 RMK PCPN 0.5MM PAST HR SLP246 CYQU 221200Z 08003KT 25SM BKN100 06/00 A2949 RMK AC7 SLP000 KEFD 221150Z 03003KT 10SM FEW250 19/16 A3006 EGSC 221150Z 27014KT 9999 FEW028 13/06 Q1024 CYSD 212300Z 28004KT 20SM -RA OVC060 12/10 A2966 RMK SC8 DA3173FT 17.5/7.9/13-23Z 1.1 MM/LAST OB/NEXT 221300 SLP051 EGSD 221150Z 31015KT 9999 FEW028 13/08 Q1022 CXZV 221200Z AUTO 03005KT M01/M03 RMK AO1 2PAST HR 3016 SLP337 P0001 T10111026 50002 CYQV 221200Z AUTO 20011KT 9SM SCT120 SCT150 08/06 A2959 RMK PRESRR SLP030 KDMW 221150Z AUTO 36010KT 10SM BKN027 11/09 A2992 RMK AO2 KEEN 221155Z AUTO 01010KT 10SM OVC017 10/04 A3007 RMK AO1 10110 20100 52007 KCWN 221156Z AUTO 23006KT 10SM CLR 12/02 A3010 RMK AO2 LTG DSNT W SLP133 T01210019 10157 20117 52021 KEDW 221158Z AUTO 07005KT 10SM CLR 07/01 A2995 RMK AO2 SLP133 T00700009 10140 20070 50006 KCVW 221155Z AUTO 05007KT 10SM 17/15 A3008 RMK A01 KCXE 221155Z AUTO 30006KT 10SM SCT037 OVC050 10/08 A2996 RMK AO1 60003 70003 T01020083 10116 20100 KDNN 221155Z AUTO 34006KT 10SM CLR 06/06 A3015 RMK AO2 CYQW 221200Z AUTO 31007KT 9SM SCT130 05/04 A2973 RMK SLP082 KEEO 221153Z AUTO 10SM BKN050 BKN100 06/04 A3015 RMK AO2 RAB12E21 SLP157 P0000 60015 70036 T00560039 10072 20050 53004 $ KCVX 221155Z AUTO 00000KT 10SM CLR M01/M01 A3041 RMK AO2 T10061006 10039 21012 CYQX 221200Z 31005KT 20SM FEW012 FEW080 SCT250 05/03 A3042 RMK CF1AC1CI2 SC TR SLP308 CYSF 221200Z AUTO VRB02KT 1/4SM FG M00/M00 A2969 RMK CLD MISG SLP067 CZHY 221100Z AUTO 27004KT 01/M00 RMK AO1 SLP054 T00061001 53010 CYQY 221200Z 09003KT 15SM SCT018 OVC150 08/06 A3041 RMK CU4AS4 SLP300 CYQZ 221200Z AUTO /////KT RMK CLD MISG WX MISG VIS MISG PCPN MISG ICG MISG CYRQ 221205Z AUTO 03012KT 9SM BKN055 OVC072 05/01 A3032 RMK SLP271 EGSH 221150Z 30014KT 270V340 9999 SCT028 13/06 Q1022 NOSIG KDPA 221152Z 00000KT 7SM CLR 02/01 A3032 RMK AO2 SLP273 T00220006 10056 20017 53011 KDNS 221155Z AUTO 15007G16KT 10SM OVC034 11/06 A3010 RMK AO2 ORSU 221200Z VRB03KT 9999 FEW040 19/06 Q1023 CYSJ 221100Z 06011G17KT 15SM BKN088 OVC110 09/05 A3027 RMK AC5AC3 SLP252 KEET 221153Z AUTO 00000KT 10SM CLR 12/07 A3013 RMK AO2 SLP199 T01170072 10139 20111 51017 KEFK 221155Z AUTO 34010KT 7SM -RA OVC003 05/05 A3020 RMK AO2 T00520049 10062 20052 CYSK 221200Z 20031G40KT 15SM FEW014 BKN020 04/01 A3004 RMK SC2SC4 4.1/1.1/M/M SLP174 CYRT 221200Z 31008KT 12SM OVC010 01/00 A2964 RMK SC8 SN COV/MEDIUM PACK SLP040 EGTC 221150Z 27012KT 9999 FEW028 13/08 Q1024 KCWV 221155Z AUTO 00000KT 7SM CLR 08/08 A3005 RMK AO2 KDNV 221155Z AUTO 06004KT 10SM CLR 02/01 A3028 RMK AO2 T00200008 10047 20010 CYSM 221200Z 00000KT 3/8SM FZFG VV000 M01/M01 A2966 RMK FG8 SLP057 CYRV 221200Z AUTO VRB02KT 9SM SCT140 BKN190 OVC210 09/07 A2981 RMK SLP100 EHKD 221155Z AUTO 32017G28KT 9999 BKN030 BKN035 13/07 Q1018 BLU 31018G32KT 9999 FEW022 BKN045 TEMPO FEW015 SCT020CB BKN035 KEGE 221155Z AUTO 17003KT 10SM BKN035 06/05 A3021 RMK AO1 60016 70016 10080 20060 52003 CYSN 221200Z 01009KT 15SM SCT020 BKN027 07/04 A3022 RMK SC3SC4 SLP236 KCXO 221153Z AUTO 36003KT 6SM BR CLR 14/13 A3008 RMK AO2 SLP184 T01390133 10172 20139 53011 EGTE 221150Z 28007KT 250V310 9999 SCT035 13/07 Q1028 CYTE 221200Z 27025G31KT 3/8SM -DZ FG VV003 00/ A2944 RMK FG8 2.2/-3.9/6.8/04 MUCH LOOSE PRESRR SLP974 KDPG 211455Z 19010KT 20SM FEW070 FEW250 17/05 A2993 KCXP 221155Z AUTO 00000KT 10SM CLR 03/M04 A3014 RMK AO2 CYSP 221200Z 15008KT 12SM FEW007 BKN013 00/M01 A3034 RMK SF2SC5 FROIN CIG RAG SLP294 CYTH 221200Z 14002KT 15SM SKC 03/02 A2963 RMK SLP043 KEGI 221158Z AUTO 00000KT 10SM CLR 09/09 A3004 RMK AO2 SLP175 T00940088 10120 20092 52012 $ EHJR 221155Z AUTO 30026G29KT //// ///////// 12/06 Q1019 W15/H31 OSLK 221200Z 24004KT CAVOK 24/11 Q1016 KEHA 221148Z AUTO 18008KT 13/09 RMK AO1 PK WND 14 000 T01280095 EGSS 221150Z 30012KT 9999 FEW028 12/06 Q1024 CYUA 221200Z AUTO 09012KT 9SM CLR M10/ A2992 RMK SLP139 KEFT 221155Z AUTO 05004KT 3SM BR CLR 02/01 A3032 RMK AO2 EGTK 221150Z 26008KT 230V300 9999 FEW030 13/08 Q1025 CYUB 220500Z 09013G20KT 15SM OVC020 M05/M09 A2995 RMK SC8 -2.8/-5.0/TR/5 TRACE LOOSE LAST OBS/NEXT 221300UTC SLP144 EGUB 221150Z 24009KT 9999 FEW030 SCT100 BKN200 12/05 Q1025 BLU NOSIG KDPL 221155Z AUTO 28003KT 10SM CLR 09/06 A2996 RMK AO2 T00910058 10146 20087 KEHC 221155Z AUTO 06018KT 10SM CLR 24/15 A3000 RMK A01 CYTL 221200Z AUTO 19010G15KT 9SM BKN130 05/01 A2992 RMK SLP144 KDOV 221203Z AUTO 36009KT 10SM OVC010 13/13 A2982 RMK AO2 $ KCXY 221156Z 34009KT 10SM BKN029 OVC060 13/08 A2995 RMK AO2 SLP143 T01330083 10133 20128 53012 CYSY 212300Z 07028KT 10SM FEW050 M19/M22 A3006 RMK SC2 1.0/0.0/ MED PACK LAST OBS/NEXT 221300Z SLP192 KDQH 221155Z AUTO 02005KT 10SM CLR 14/10 A3005 RMK AO2 VGHS 221150Z 30006KT 5000 HZ FEW015 SCT100 28/21 Q1010 NOSIG CYTQ 221200Z 21020KT 12SM OVC030 01/M01 A3006 RMK SC8 SLP183 CYTR 221200Z 02009KT 15SM BKN047 06/02 A3022 RMK SC6 SLP239 KCYS 221153Z 35005KT 10SM OVC100 10/02 A3006 RMK AO2 SLP120 60002 70003 T01000022 10111 20078 53008 KDRA 221152Z AUTO 09007KT 10SM CLR 11/M04 A2999 RMK AO2 SLP124 T01061044 10150 20100 53009 CYTS 221200Z 30003KT 15SM SKC M06/M07 A3041 RMK FROIN SLP318 EGVA 221158Z AUTO 26013KT 9999 FEW150 SCT170 13/07 A3028 RMK AO2 SLP259 P0003 64738 T01330069 10133 20035 55004 EHMA 221155Z AUTO 32035KT 9999 FEW032/// SCT042/// 12/05 Q1014 EICK 221200Z 23016KT 9999 FEW018 BKN023 BKN120 13/09 Q1025 NOSIG CYUL 221200Z 02017KT 12SM FEW020 OVC034 07/02 A3025 RMK SC1SC7 SLP246 CYVC 221100Z 00000KT 15SM BKN060 08/07 A2965 RMK SC7 SLP050 EGUL 221158Z AUTO 28014KT 9999 SCT028 SCT034 14/11 A3020 RMK AO2 SLP230 70034 T01370105 10137 20066 50000 $ KEGV 221155Z AUTO 00000KT 10SM SCT002 M02/M02 A3032 RMK AO2 T10201020 10002 21040 CZMD 221200Z AUTO 19004KT 9SM CLR 04/02 A2988 RMK SLP131 EHKV 221155Z AUTO 31026KT 270V330 9999 FEW022/// SCT027/// BKN044/// 12/07 Q1019 EGUN 221158Z AUTO 29017KT 9999 CLR 14/11 A3022 RMK AO2 SLP237 70003 T01370113 10137 20067 50001 $ KEHO 221155Z AUTO 00000KT 10SM CLR 08/03 A3005 RMK AO2 T00770025 10093 20064 EGUO 221150Z 28011KT 9999 SCT035 12/07 Q1027 BLU EHMG 221155Z AUTO 32031KT 9999 FEW028/// SCT032/// BKN039/// 12/06 Q1016 CYTZ 221200Z AUTO 35012G18KT 9SM FEW055 06/01 A3024 RMK SLP242 KEHR 221155Z AUTO 03005KT 10SM CLR A3027 RMK AO1 52020 KDRI 221155Z AUTO 00000KT 7SM SCT042 15/14 A3010 RMK AO2 T01490142 10157 20144 CZMJ 221200Z AUTO 26007KT 08/06 RMK AO1 SLP059 T00770060 53015 CYWA 221200Z AUTO 32002KT 9SM CLR 01/M03 A3033 RMK SLP276 CYUS 221200Z AUTO 36014KT 9SM CLR M18/ A2991 RMK SLP135 KEIK 221155Z AUTO 00000KT 10SM CLR 10/07 A3002 RMK AO2 T00950066 10130 20068 KCZT 221155Z AUTO 06003KT 10SM SCT075 18/16 A3003 RMK AO2 CYUT 212200Z 11018KT 2SM -SN DRSN OVC004 M04/M05 A2958 RMK ST8 -3.6/-9.9/5.0/3.0 MUCH LOOSE LAST OBS/NXT 221200Z SLP017 EIDL 221130Z 23024KT 9999 SCT021 SCT026 13/10 Q1019 EGWC 221150Z 26004KT 9999 -RA BKN025 OVC050 12/06 Q1024 BLU KDRM 221155Z AUTO 00000KT 10SM CLR M02/M02 A3039 RMK AO2 T10231023 10001 21025 CYVM 221200Z VRB04KT 15SM OVC120 M03/M09 A2964 RMK AC8 SLP037 CYWE 221200Z AUTO 09004KT 360V110 9SM CLR M08/M09 A2968 RMK SLP078 KDRO 221153Z AUTO 00000KT 10SM CLR 03/02 A3018 RMK AO2 SLP190 T00330022 10072 20028 53005 PWINO EHLW 221155Z AUTO 33025G38KT 9999 FEW040 BKN053 12/06 Q1016 BLU 32020G35KT 9999 FEW022CB BKN040 TEMPO 33025G38KT 5000 SHRA SCT022CB BKN030 EGVN 221150Z 25007KT 9999 FEW030 SCT140 13/06 Q1025 NOSIG EGUW 221150Z 30013KT 9999 FEW025 13/06 Q1023 BLU NOSIG KFAF 221158Z AUTO 31014KT 10SM OVC010 12/12 A2983 RMK AO2 SLP105 60000 T01210121 10133 20121 52008 $ CYVO 221200Z 01003KT 15SM SKC M03/ A3041 RMK SLP319 CYUX 221157Z AUTO 35015KT 9SM OVC008 M10/M11 A2967 RMK ICG PAST HR SLP047 EGVO 221150Z 27010KT 9999 FEW033 BKN140 BKN300 12/04 Q1026 BLU NOSIG KEHY 221155Z AUTO 26011G18KT 10SM OVC033 04/00 A3010 RMK AO2 EGUY 221150Z 28014KT 9999 FEW030 SCT190 13/07 Q1024 BLU EGVP 221150Z 29009KT 9999 FEW032 SCT130 BKN170 13/05 Q1026 BLU NOSIG CYWG 221200Z 17025G38KT 15SM FEW140 SCT190 13/05 A2974 RMK AC2CI2 SLP074 DENSITY ALT 900FT CYUY 221200Z 03002KT 15SM SKC M06/M07 A3042 RMK SLP319 CYVP 221200Z 21011G17KT 15SM SCT110 BKN150 BKN200 M00/M04 A3015 RMK AC3AS4CI1 CI TR VIRGA E SLP214 KCZZ 221152Z AUTO 06006KT 07/M01 A2992 RMK AO1 SLP109 T00671006 10106 20039 58000 CYWH 220400Z 15010G15KT 15SM FEW008 FEW050 OVC080 13/11 A2966 RMK CF1SC2AC6 LAST OBS/NEXT 221300 UTC SLP043 CYVQ 221115Z 06003KT 20SM -SN SCT015 OVC040 M07/M08 A2981 RMK SC4SC4 SLP101 KEIR 221155Z AUTO 06021KT 10SM 23/17 A3001 RMK A01 CYVR 221151Z 13019G30KT 8SM -RA FEW015 FEW040 BKN070 OVC140 12/11 A2957 RMK CF1SC1AC3AC3 PRESFR SLP012 KDTA 221155Z AUTO 12003KT 10SM CLR 02/M03 A3014 RMK AO1 T00191032 10351 20000 CYWJ 212300Z 32009KT 20SM BKN012 M05/M07 A2960 RMK SC6 -4.5/-4.7/0/9.0/MUCH LOOSE LAST OBS/NEXT 221300 UTC SLP042 KDRT 221153Z AUTO 08005KT 10SM OVC060 20/15 A3003 RMK AO2 SLP156 60000 T02000150 10211 20200 51007 CZMT 220100Z 15013KT 15SM FEW008 BKN015CB BKN030 10/07 A2920 RMK CF1CB5SC1 SH SW LAST OBS/NEXT 221400 UTC SLP889 DENSITY ALT 200FT CYVT 221200Z 00000KT 15SM FEW110 02/02 A2969 RMK AC2 SLP071 CYWK 221200Z 25008KT 15SM SCT010 SCT100 M04/M06 A3043 RMK SC3AC1 SLP341 KH21 221155Z AUTO 11005KT 10SM CLR 06/05 A3023 RMK AO2 CZMU 221100Z AUTO 17005KT 02/02 RMK AO1 T00240021 CYXC 221200Z 16006KT 25SM BKN065 08/03 A2994 RMK SC7 SLP145 CYWL 221100Z 12021G32KT 15SM OVC060 11/01 A2946 RMK SC8 SLP981 DENSITY ALT 3800FT KDSM 221154Z 14009KT 10SM FEW055 07/03 A3023 RMK AO2 SLP239 T00670033 10100 20067 51012 KFAM 221155Z AUTO 00000KT 10SM CLR 03/03 A3028 RMK AO1 10070 20030 52014 EGXC 221150Z 28014KT 9999 FEW028 BKN250 13/07 Q1022 BLU NOSIG CYVV 221200Z 05006KT 15SM FEW025 03/02 A3031 RMK SC1 SLP271 CYXD 221200Z AUTO 21004KT 9SM CLR 04/02 A2970 RMK SLP072 EGXD 221150Z 27012KT 9000 -RA SCT025 BKN060 OVC100 11/08 Q1021 BLU TEMPO 7000 RA BKN022 WHT CYXE 221200Z 31006KT 15SM BKN090 OVC150 08/06 A2967 RMK AC5AC3 SLP060 EGXE 221150Z 24007KT 9999 -RA BKN025 OVC080 11/08 Q1020 BLU TEMPO 7000 RA BKN020 WHT EIDW 221200Z 25017KT 9999 FEW017 SCT027 BKN060 11/08 Q1023 NOSIG KFBG 221158Z AUTO 31008KT 10SM CLR 11/04 A2997 RMK AO2 SLP151 T01060043 10136 20096 52015 $ CYXH 221200Z AUTO 24008KT 9SM CLR 06/03 A2980 RMK SLP101 KFAR 221153Z 16021G30KT 10SM FEW041 13/05 A2987 RMK AO2 PK WND 15032/1109 SLP116 T01280050 10133 20128 55001 KDUA 221155Z AUTO 00000KT 3SM BR CLR 14/13 A3013 RMK AO2 KELA 221155Z AUTO 05004KT 7SM CLR 15/14 A3005 RMK AO2 T01450141 10166 20145 CYXJ 221207Z VRB02KT 15SM -SHRA BKN070 OVC150 05/01 A2947 RMK AC6AC2 SLP998 KFAT 221153Z 00000KT 10SM CLR 12/06 A3003 RMK AO2 SLP165 T01220061 10167 20117 53000 KDUB 221155Z AUTO 27012KT 10SM CLR 02/M06 A3010 RMK AO2 CYYB 221200Z 03008KT 15SM SKC M01/M02 A3033 RMK SLP288 KFBL 221154Z AUTO 16008KT 10SM CLR 05/03 A3021 RMK AO2 KDTL 221156Z AUTO 15016G21KT 10SM SCT039 09/05 A2995 RMK AO2 KDUC 221155Z AUTO 00000KT 7SM CLR 14/14 A3011 RMK AO2 KEKM 221150Z 00000KT 7SM SCT100 00/M01 A3034 CZOL 221100Z AUTO 13002KT M04/M04 RMK AO1 T10361044 EGWU 221150Z 30012KT 9999 FEW035 SCT100 BKN160 13/05 Q1025 NOSIG CYYC 221200Z 18005KT 15SM SKC 03/M04 A2976 RMK SLP099 CYXL 221200Z 17012KT 15SM FEW040 SCT210 05/03 A3006 RMK CF2CI2 SLP195 CZPC 221200Z AUTO 26020G30KT 9SM CLR 08/M02 A2985 RMK SLP117 DENSITY ALT 4000FT KELD 221153Z AUTO 00000KT 6SM BR CLR 10/09 A3015 RMK AO2 SLP207 T01000089 10144 20094 53017 KDSV 221154Z AUTO 33008KT 10SM OVC009 07/06 A3015 RMK AO2 SLP222 60002 70010 T00720061 10078 20072 53020 EGYD 221150Z 26016KT 9999 FEW020 SCT250 BKN250 12/07 Q1023 BLU NOSIG CYYD 221200Z AUTO 25002KT 9SM OVC140 04/03 A2938 RMK SLP956 KEKN 221151Z AUTO 34003KT 5SM BR OVC006 07/07 A3007 RMK AO2 RAE40 CIG 006V010 SLP195 P0002 60006 70058 T00670067 10067 20061 51013 TSNO KDTN 221153Z AUTO 00000KT 7SM CLR 13/12 A3012 RMK AO2 SLP199 T01280122 10161 20128 53016 CYXN 212100Z 21011KT 6SM -DZ BR OVC004 01/01 A2950 RMK ST8 1.0/1.0/0.2MM/LAST OB/NEXT 221300Z SLP990 EGYE 220950Z 27016KT 9999 FEW025 ///// Q1022 BLU CYYE 221200Z 31007KT 4SM BR OVC005 00/M00 A2954 RMK SF8 SLP022 KDTO 221153Z 00000KT 5SM BR CLR 13/12 A3010 RMK AO2 SLP189 T01280122 10172 20128 53010 KEKO 221156Z AUTO 00000KT 10SM CLR M02/M08 A3015 RMK AO2 SLP208 T10171083 10017 21022 51007 $ CYYF 221138Z 18023G35KT 15SM -RA BKN051 OVC150 13/05 A2975 RMK SC7AC1 SLP074 DENSITY ALT 1300FT OTHH 221100Z AUTO 01019KT CAVOK 31/17 Q1014 NOSIG KFAY 221153Z AUTO 32010KT 10SM CLR 11/04 A2998 RMK AO2 SLP145 T01110044 10144 20106 53018 KDUG 221156Z AUTO 00000KT 10SM CLR 09/07 A3005 RMK AO2 SLP129 T00890072 10133 20089 53007 CYWY 212200Z 31005KT 25SM FEW012 BKN030 BKN070 BKN100 M00/M01 A2960 RMK SC1SC4AC2AC1 0.4/-2.0/0/2 MUCH LOOSE LAST OBS/NXT221400Z SLP035 CYXP 221200Z 08003KT 2SM -SN OVC008 M05/M05 A2971 RMK SN3ST5 SLP062 EGXP 221150Z 27011KT 9999 BKN030 13/07 Q1022 BLU CYYG 221200Z 06008KT 15SM FEW025 BKN130 BKN250 07/05 A3039 RMK SC1AC5CI1 SLP292 KDUH 221154Z AUTO 35006KT 10SM OVC024 07/03 A3029 RMK AO2 KEKQ 221156Z AUTO 00000KT 6SM BR CLR 02/01 A3024 RMK AO2 51020 7//// T00160011 10105 20016 SLP250 EHPG 221155Z AUTO 31020KT 260V350 9999 FEW018/// SCT032/// 13/06 Q1020 CYXQ 212200Z 05004KT 20SM FEW003 FEW075 SCT210 00/M03 A2934 RMK SC2AC1CI1 CLIMAT 0.5/-12.5/0.0/LAST OBS/NEXT 221600UTC SLP972 EGYH 221150Z 29012KT 9999 SCT025 SCT250 13/09 Q1023 BLU CYYH 221200Z 36005KT 15SM FEW060 FEW070 M21/M24 A2996 RMK SC1AC1 AC TR SLP151 KFCI 221155Z AUTO 30011KT 10SM BKN021 BKN030 OVC038 11/04 A2991 RMK AO1 60002 70002 52010 KFBR 221155Z AUTO 25005KT CLR M01/M04 A3021 RMK AO2 T10101039 10021 21016 PWINO CYXR 221200Z AUTO 31003KT 9SM CLR M03/M04 A3041 RMK SLP313 KDTS 221153Z AUTO 04003KT 10SM CLR 18/12 A3004 RMK AO2 SLP171 T01780117 10194 20172 53013 TSNO KDUJ 221153Z AUTO 36011KT 10SM OVC006 07/05 A3007 RMK AO2 SLP189 70068 T00670050 10083 20067 51016 EGXS 221150Z AUTO 27014KT 9999 // FEW026/// 13/07 Q1021 CYYJ 221129Z 12013KT 6SM -RA BR FEW010 SCT030 BKN044 BKN078 12/11 A2956 RMK SC1SC3SC3AC1 AC TR PRESFR SLP008 DENSITY ALT 100FT CYXS 221200Z AUTO 16017G23KT 9SM -RA OVC048 09/06 A2938 RMK PCPN 0.8MM PAST HR SLP960 DENSITY ALT 2700FT KELK 221155Z AUTO 20004KT 10SM CLR 13/11 A3015 RMK AO2 EGXT 221150Z 27014KT CAVOK 12/07 Q1023 BLU CYXT 221100Z 13004KT 8SM FEW003 BKN009 BKN040 04/03 A2943 RMK SF1SF4SC1 SLP973 EGXU 221150Z 27008KT 9999 -RA FEW025 BKN060 BKN120 12/09 Q1021 BLU TEMPO 6000 RA SCT020 WHT CYXU 221200Z 01007KT 15SM FEW043 FEW250 03/01 A3025 RMK SC1CI1 CI TR SLP253 CYYL 221200Z AUTO 27004KT 240V040 9SM BKN120 OVC140 04/04 A2962 RMK PRESRR SLP043 KELM 221153Z 01009KT 7SM OVC006 08/08 A3008 RMK AO2 SLP188 70003 T00830078 10100 20083 53016 KFCM 221153Z 14009KT 10SM CLR 04/02 A3019 RMK AO2 SLP227 T00440022 10078 20044 51005 KDTW 221153Z 01008KT 10SM OVC020 08/04 A3029 RMK AO2 SLP261 T00780039 10078 20072 51018 KELN 221153Z AUTO 00000KT 10SM OVC070 11/06 A2982 RMK AO2 SLP097 60001 70001 T01110056 10111 20067 56014 EGXV 221150Z AUTO 26012KT 9999 FEW034/// SCT070/// 13/08 Q1021 EGYM 221150Z 29013KT 9999 FEW024 SCT190 13/08 Q1023 BLU TEMPO SCT020 WHT CYZE 221200Z AUTO 10004KT 070V130 9SM CLR 01/M01 A3037 RMK SLP294 CYYN 221200Z AUTO 28015G20KT 9SM -RA BKN004 OVC017 08/08 A2974 RMK SLP074 DENSITY ALT 2700FT KELO 221153Z AUTO 17009KT 10SM CLR 04/02 A3018 RMK AO2 EGXW 221150Z 27011KT 9999 FEW025 SCT150 13/07 Q1022 BLU NOSIG EHQE 221155Z AUTO 33030KT 9999 FEW027/// SCT034/// 12/06 Q//// CYXX 221200Z 18010KT 8SM -RA OVC035 13/11 A2963 RMK SC8 SLP033 DENSITY ALT 200FT CYZF 221100Z 02008KT 15SM OVC007 M01/M02 A2968 RMK SC8 SLP065 KELP 221151Z 36006KT 10SM BKN013 BKN150 16/13 A3008 RMK AO2 SLP134 SCT013 V BKN T01560128 10167 20156 53006 $ CYZG 221200Z 23022G31KT 12SM -DZ OVC011 01/01 A2965 RMK SC8 VIA CZNB SLP057 CYXY 221200Z 00000KT 10SM -SHRA OVC025 02/M01 A2926 RMK SC8 CNVTV CLD ASOCTD SLP938 EGYP 221150Z 28014KT 9999 FEW015 SCT060 08/03 Q0998 BLU NOSIG CYXZ 221200Z 00000KT 15SM SKC M05/M05 A3039 RMK SLP309 EGXZ 221150Z 26009KT 9999 RA BKN050 12/08 Q1021 BLU CYYQ 221200Z 05004KT 1/4SM R33/1800FT/N FG VV004 03/03 A2965 RMK FG8 SLP043 CYZH 221207Z AUTO 11006KT 060V130 2 1/4SM BR BKN220 OVC240 02/01 A2964 RMK VIS VRB 1 1/4-3 SLP053 CYYR 221200Z 27005KT 15SM FEW035 FEW150 FEW250 M02/M06 A3047 RMK SC1AC1CI0 /BLUE/ SLP323 KFCS 221158Z AUTO 26005KT 10SM CLR 10/04 A3007 RMK AO2 SLP156 T01000036 10133 20086 52024 CZPS 221100Z AUTO 22009KT 04/M02 RMK AO1 T00361016 KFDK 221145Z 01008G14KT 10SM SCT027 OVC038 14/10 A2996 KDVK 221155Z AUTO 02003KT 10SM CLR 02/02 A3025 RMK AO2 KEMK 221155Z AUTO 06019G24KT BKN033 27/18 A2998 RMK A01 CYYT 221200Z 33005KT 15SM FEW030 BKN140 07/05 A3043 RMK CU2AC4 SLP308 KDVL 221155Z AUTO 17014G19KT 10SM CLR 13/04 A2971 RMK AO1 10160 20130 52003 CYYU 221200Z VRB02KT 15SM SKC M04/M05 A3041 RMK SLP313 KEND 221155Z 17007KT 6SM BR FEW065 14/14 A3010 RMK AO2A SLP188 53016 KEMM 220530Z AUTO 24004KT 10SM CLR 00/M03 A3013 RMK AO2 KDVN 221152Z AUTO 10004KT 10SM CLR 02/00 A3032 RMK AO2 SLP272 T00170000 10033 20011 53010 TSNO EHRD 221155Z AUTO 31014G27KT 270V350 9999 FEW019CB 12/07 Q1020 NOSIG KDUX 221155Z AUTO 17007KT 10SM SCT100 14/12 A3007 RMK AO2 T01430120 10146 20112 KDVO 221155Z AUTO 00000KT 2 1/2SM BR CLR 09/08 A3005 RMK AO2 KDVP 221154Z AUTO 15015KT 10SM SCT075 09/05 A3005 RMK AO2 T00910050 10101 20085 KELY 221153Z AUTO 16009KT 10SM CLR M02/M12 A3018 RMK AO2 SLP185 T10221117 10011 21033 53006 KEMP 221153Z AUTO 12004KT 10SM FEW065 11/09 A3013 RMK AO2 SLP200 T01060089 10139 20106 52013 CYYY 221200Z 08004KT 30SM SKC M00/M02 A3048 RMK SLP325 CYZP 221200Z AUTO 19009KT 9SM SCT065 BKN220 OVC240 08/05 A2933 RMK SLP933 KDWH 221153Z 05003KT 9SM CLR 18/16 A3007 RMK AO2 SLP179 T01780161 10183 20161 53012 KELZ 221204Z AUTO 35011G16KT 1 3/4SM BR OVC002 06/04 A3011 RMK AO2 T00560044 CYYZ 221200Z 35013KT 15SM FEW055 03/01 A3025 RMK SC1 SLP250 KFDR 221153Z AUTO 09006KT 10SM CLR 13/10 A3007 RMK AO2 SLP172 T01280100 10167 20128 53011 CYZR 221200Z AUTO 03011KT 9SM OVC019 07/03 A3029 RMK SLP262 KFFA 221155Z AUTO 29009G16KT 260V330 10SM BKN013 BKN020 BKN025 13/12 A2982 RMK AO2 T01340115 10348 21080 KEMT 220255Z 21003KT 10SM SCT040 21/15 A2987 RMK LAST CYZS 221200Z 32005KT 15SM SCT009 M03/M04 A2956 RMK SC4 SLP017 EHSA 221155Z AUTO 31026G30KT 9999 ///////// 12/07 Q1021 W16/H30 KDVT 221153Z AUTO 03005KT 10SM CLR 19/09 A2990 RMK AO2 SLP103 T01890094 10222 20189 53009 CYZT 221100Z 02004KT 300V040 15SM FEW060 SCT140 07/07 A2947 RMK SC2AC1 SLP979 KFFC 221153Z AUTO 33007KT 8SM CLR 08/06 A3009 RMK AO2 SLP191 T00780061 10111 20072 53014 KENL 221155Z AUTO 00000KT 4SM BR CLR 04/03 A3029 RMK AO2 T00350025 10075 20032 CYZU 221200Z VRB03KT 15SM SKC 01/00 A2963 RMK SLP051 EHSC 221155Z AUTO 33028G33KT 9999 ///////// 13/06 Q1020 W16/H32 KEMV 221155Z AUTO 28006KT 10SM BKN031 OVC044 10/08 A2992 RMK AO2 CYZV 221200Z 02005KT 30SM FEW050 FEW100 M01/M04 A3053 RMK CU1AC1 CU TR AC TR SLP342 KFDW 221215Z AUTO 33005KT 10SM CLR 06/04 A3004 RMK AO1 KEOE 221155Z AUTO 36005KT 10SM CLR 04/ A3008 RMK AO2 CYZW 220000Z VRB02KT 10SM VCSH OVC035 04/01 A2932 RMK SC8 CLIMAT 4.0/-2.7/0.0MM/LAST OBS/NEXT 221600UTC. SLP957 CYZX 221200Z 08016G21KT 15SM BKN089 BKN140 09/07 A3028 RMK AC5AC2 WNDY HILL 09020G26KT SLP254 KFDY 221153Z AUTO 33007KT 10SM SCT016 OVC026 07/04 A3026 RMK AO2 SLP247 T00720039 10072 20061 51016 KFEP 221155Z AUTO 00000KT 1 1/2SM BR OVC002 M03/M03 A3035 RMK AO2 T10301033 10000 21032 CZRP 221100Z AUTO 31016KT M21/M23 RMK AO1 PK WND 30027/1010 SLP204 T12121232 CYZY 221208Z AUTO 13008KT 6SM RA BR BKN028 OVC036 07/06 A2941 RMK SLP973 DENSITY ALT 2400FT KDYA 221155Z AUTO 02003KT 10SM CLR 10/ A3011 RMK AO2 T0096 10100 20062 CZSJ 221200Z AUTO 15007KT 9SM SCT200 05/03 A2982 RMK SLP110 KDYB 221215Z AUTO 00000KT 10SM CLR 08/08 A3004 RMK AO1 KFET 221155Z AUTO 14013G17KT 10SM CLR 13/07 A3006 RMK AO2 T01270070 10148 20127 KEOK 221155Z AUTO 12005KT 10SM CLR 05/04 A3029 RMK AO2 CZTB 221100Z AUTO 36001KT M04/M05 RMK AO1 SLP265 T10411046 53001 KDWU 221155Z AUTO 35004KT 10SM OVC016 08/04 A3019 RMK AO1 70001 10080 20080 52017 KFFL 221155Z AUTO 12006KT 03/02 A3029 RMK AO2 KFFM 221154Z AUTO 15021G26KT 10SM CLR 11/03 A2994 RMK AO2 KENV 221155Z AUTO 00000KT 10SM CLR 04/M02 A3015 RMK AO1 10100 20040 52007 CZSM 221100Z AUTO 34003KT M01/M01 RMK AO1 SLP045 T10061011 51010 KENW 221205Z 00000KT 6SM BR CLR M01/M02 A3033 RMK AO2 T10061017 KFEW 221156Z AUTO 29009KT 10SM OVC100 09/03 A3001 RMK AO2 SLP113 60001 70003 T00920028 10111 20068 53006 $ KFFO 221158Z AUTO 35007KT 10SM OVC027 06/04 A3026 RMK AO2 SLP254 70001 T00640041 10071 20059 52016 KDWX 221155Z AUTO 00000KT 10SM SCT015 SCT020 OVC026 05/04 A3019 RMK AO2 T00510042 10319 21042 VHHH 221200Z 08009KT 9999 FEW040 SCT045 28/19 Q1015 NOSIG PLCH 221000Z 12007KT 9999 FEW020 26/23 Q1012 CZSP 221200Z AUTO 06007KT 08/04 RMK AO1 SLP298 T00810044 53014 KEPH 221153Z AUTO 01006KT 10SM OVC065 08/07 A2985 RMK AO2 RAB02E13B35E51 SLP109 P0000 60001 70001 T00830067 10089 20061 58014 ZUUU 221200Z 01002MPS 8000 SCT050 19/14 Q1021 NOSIG KDXR 221153Z 05006KT 10SM OVC014 12/ A2997 RMK AO2 SLP148 60001 70004 T0117 10128 20117 53013 $ KH78 221040Z 05016KT 12SM SKC 24/16 A2998 RMK SEAS 1-3 KEQA 221155Z AUTO 14007KT 10SM SCT060 15/13 A3011 RMK AO2 KFFT 221153Z AUTO 31003KT 10SM OVC037 07/03 A3024 RMK AO2 SLP241 T00670028 10078 20061 53014 KDZB 221155Z AUTO 00000KT 10SM CLR 14/12 A3009 RMK AO2 T01430118 10186 20143 KFHB 221155Z AUTO 34006KT 10SM CLR 18/13 A2997 RMK AO1 CZST 220100Z 34003KT 12SM -SHRA FEW009 SCT045 BKN065 OVC120 08/08 A2938 RMK SF1SC2SC3AC2 LAST OBS/NEXT221300Z SLP948 KDYL 221154Z AUTO 02006KT 10SM -RA OVC014 12/11 A2990 RMK AO2 RAB1058E28B32 SLP127 P0001 60001 70016 T01170111 10117 20106 53012 FABL 221200Z 02006KT CAVOK 31/00 Q1021 NOSIG KFGN 221154Z AUTO 16020KT 10SM CLR 08/05 A2992 RMK AO2 EIKN 221200Z 21006KT 180V260 9999 FEW012 BKN019 BKN028 10/09 Q1021 NOSIG KDXX 221154Z AUTO 15014G21KT 10SM CLR 12/06 A2996 RMK AO2 KFFX 221154Z AUTO 00000KT 10SM CLR M01/M01 A3035 RMK AO2 T10081013 KFFZ 220147Z 28006KT 30SM SCT200 27/09 A2982 PKMJ 220854Z 09015KT 15SM SCT014 SCT050 BKN120 OVC300 27/25 A2982 KDYR 221155Z 03003KT 10SM CLR 07/01 A3025 RMK AO1 10120 20070 52020 KDYS 221158Z AUTO 15007KT 10SM SCT075 OVC110 18/10 A3009 RMK AO2 SLP156 T01760103 10188 20170 52009 KDYT 221154Z AUTO 18005KT 10SM CLR 05/02 A3023 RMK AO2 EIME 221200Z 23015G25KT 9999 FEW015 SCT060 BKN090 11/08 Q1023 KFGX 221155Z AUTO 01007KT 10SM OVC014 07/05 A3024 RMK AO2 T00700045 10071 20066 KFIG 221154Z AUTO 01008KT 10SM OVC010 07/06 A3006 RMK AO2 SLP185 70007 T00720056 10100 20072 53015 EIKY 221200Z 24017KT 9999 BKN030 14/09 Q1024 PKMR 221152Z 07005KT 15SM FEW015 SCT050 BKN120 OVC300 28/26 A2984 RMK SLP107 60018 70035 8/878 T02760255 10293 20268 50000 KERI 221204Z 02013G18KT 10SM OVC015 08/04 A3020 RMK AO2 KFHR 221153Z AUTO 13014G23KT 10SM FEW060 OVC080 12/11 A2959 RMK AO2 PK WND 13030/1054 RAE45 SLP019 P0002 60002 70002 T01220106 10139 20122 53007 KFHU 221155Z 00000KT 10SM CLR 13/07 A3007 RMK SLP137 53003 FACT 221200Z 28004KT 220V020 9999 FEW030 22/14 Q1015 NOSIG EHVK 221155Z AUTO 29008KT 9999 FEW032 SCT037 BKN042 11/08 Q1018 BLU 28010KT 9999 FEW020 BKN030 TEMPO 30012G25KT FEW015 SCT020CB BKN030 KESC 221155Z AUTO 00000KT 10SM BKN024 M02/M04 A3036 RMK AO1 11020 21030 52007 CZVL 221200Z AUTO 16006KT 9SM FEW230 01/01 A2969 RMK SLP069 EHVL 221155Z AUTO 33025KT //// // BKN031 BKN035 BKN040 12/06 Q1017 RE// KGAD 221155Z 34007KT 10SM CLR 07/04 A3015 RMK AO1 10090 20060 52017 FACV 220855Z 10002KT CAVOK 29/01 Q1018 KESF 221158Z AUTO 00000KT 2 1/2SM BR FEW003 12/11 A3010 RMK AO2 T01170111 KGAF 221155Z AUTO 16015KT 10SM CLR 12/05 A2978 RMK AO2 VIAR 221130Z 29004KT 4500 HZ NSC 29/16 Q1014 KEQY 221153Z AUTO 33003KT 10SM CLR 09/03 A3003 RMK AO2 SLP177 T00940033 10117 20094 53019 KGAG 221153Z AUTO 17010KT 10SM CLR 13/10 A3008 RMK AO2 SLP168 T01330100 10172 20133 53010 KI16 221155Z AUTO 7SM OVC009 07/07 A3019 RMK AO2 T00730068 10082 20072 KGAI 221155Z 33004KT 5SM FEW012 BKN027 OVC042 11/09 A2995 RMK AO1 P0012 60038 70068 10110 20100 52014 KFKA 221155Z AUTO 15007KT 7SM CLR 02/01 A3027 RMK AO2 T00180008 10040 20018 KFIT 221152Z AUTO 01008G18KT 4SM -RA BR OVC008 11/08 A3005 RMK AO2 SLP176 P0003 60006 70006 T01060083 10106 20100 53009 KETB 221155Z AUTO 00000KT 10SM CLR M01/M02 A3035 RMK AO2 VIBN 221130Z 00000KT 5000 HZ NSC 28/19 Q1013 KETC 221155Z AUTO 30004KT 10SM CLR 10/08 A2993 RMK AO2 T00990082 10351 20038 FAEL 221200Z 06021G33KT 9999 FEW017 23/16 Q1018 KGBD 221155Z AUTO 17008KT 10SM CLR 13/09 A3005 RMK AO1 10170 20130 52007 KERV 221155Z AUTO 00000KT 10SM CLR 14/11 A3010 RMK AO2 T01350113 10176 20135 KESN 221153Z 02008KT 7SM BKN008 OVC013 13/13 A2988 EINN 221200Z 23017KT 9999 BKN025 BKN090 14/06 Q1024 NOSIG FAEO 220954Z 03005KT 9999 FEW015 19/09 Q1027 EHWO 221155Z AUTO 29011KT 9999 FEW036 SCT061 BKN073 11/08 Q1020 BLU 29008KT 9999 SCT035 SCT065 TEMPO 30012G22KT FEW015 SCT022CB BKN035 KERY 221154Z AUTO 00000KT 10SM CLR M02/M03 A3038 RMK AO2 T10251031 KGBG 221155Z AUTO 00000KT 10SM CLR 03/02 A3031 RMK AO2 T00270020 10049 20023 FADY 220638Z 07006KT CAVOK 23/05 Q1020 KETH 221156Z AUTO 14017G23KT 10SM SCT090 09/04 A2994 RMK AO2 KEST 221152Z AUTO 15016KT 10SM OVC043 07/03 A3013 RMK AO2 SLP207 T00670033 10078 20056 50003 KGBK 221155Z AUTO 04015G20KT 360V060 10SM CLR 26/18 A2997 RMK A01 KGCC 221153Z AUTO 27009KT 10SM CLR 03/M01 A3001 RMK AO2 SLP147 T00331011 10122 20022 51017 KFKL 221155Z 01004KT 10SM OVC006 06/04 A3014 RMK AO1 70062 10070 20060 52017 FAGC 221200Z AUTO 32010KT //// // ////// 26/04 Q1024 KFLD 221153Z AUTO 00000KT 10SM CLR M03/M04 A3034 RMK AO2 SLP285 I1000 I6002 T10281044 10011 21033 53008 KGCD 221155Z AUTO 00000KT 10SM SCT050 SCT060 OVC080 08/01 A3001 RMK AO2 70005 T00830011 10093 20042 KFKN 221155Z AUTO 31008KT 5SM BKN010 BKN031 OVC050 11/11 A2988 RMK AO1 KEUF 221158Z AUTO 00000KT 4SM BR CLR 09/08 A3008 RMK AO2 SLP184 60001 7//// T00890078 10133 20089 53023 $ KEUG 221154Z AUTO 18013KT 10SM FEW042 OVC060 15/09 A2985 RMK AO2 SLP106 60000 70002 T01500089 10150 20128 58006 KFLG 221157Z AUTO 00000KT 10SM CLR 02/01 A3019 RMK AO2 SLP160 T00220006 10061 20022 53003 TSNO KI35 221155Z AUTO 02007KT 10SM OVC023 06/02 A3019 RMK AO1 FAGG 221200Z 15006KT 110V170 CAVOK 25/15 Q1013 KFKR 221155Z AUTO 04003KT 10SM CLR 02/02 A3031 RMK AO2 70002 T00200020 10038 20020 KFKS 221154Z AUTO 00000KT 10SM CLR M03/M05 A3038 RMK AO2 T10301046 10000 21035 KEVB 221153Z 00000KT 10SM SKC 18/17 A2998 KGDB 221153Z AUTO 12013G19KT 10SM CLR 09/04 A3004 RMK AO2 LTG DSNT N THRU E T00850040 10093 20085 KGCK 221154Z 17011KT 10SM CLR 14/10 A3000 RMK AO2 SLP138 T01390100 10156 20139 50001 KI39 221155Z AUTO 00000KT 10SM CLR 04/03 A3022 RMK AO2 KFLL 221153Z 34005KT 10SM FEW025 SCT110 BKN200 24/22 A2994 RMK AO2 SLP139 7//// T02390217 10244 20233 53013 KEUL 221155Z AUTO 15005KT 10SM CLR 05/M02 A3009 RMK AO1 70002 10070 20040 54000 KGCM 221155Z AUTO 00000KT 7SM CLR 14/13 A3017 RMK AO2 VIDP 221130Z 04006KT 2000 HZ NSC 31/16 Q1013 NOSIG KFME 221151Z AUTO 33005KT 3SM OVC025 11/10 A2991 RMK AO1 KGCN 221154Z 00000KT 10SM CLR M01/M03 A3018 RMK AO2 SLP172 T10061033 10039 21011 53006 KFLO 221153Z 31005KT 10SM CLR 09/04 A3001 RMK AO2 SLP161 T00890044 10156 20089 53020 KFLP 221155Z AUTO 00000KT 8SM CLR 07/04 A3022 RMK AO1 10090 20070 52014 KFMH 221155Z AUTO 04017G24KT 3SM BR OVC005 14/13 A2992 RMK AO2 KGDJ 221155Z AUTO 00000KT 10SM CLR 14/12 A3011 RMK AO2 T01350120 10164 20130 CZZJ 221100Z AUTO 28001KT M02/M04 RMK AO1 SLP053 T10231036 57010 KEWB 221153Z 36006KT 8SM OVC003 12/12 A2993 RMK AO2 SLP134 60000 T01220117 10133 20117 51004 KFNB 221153Z AUTO 13005KT 10SM FEW080 11/07 A3013 RMK AO2 SLP203 T01060072 10133 20106 52010 URFF 221200Z VRB02MPS CAVOK 20/13 Q1007 01010065 NOSIG KEVM 221151Z AUTO 12003KT 10SM CLR 01/01 A3018 RMK AO2 KGED 221154Z AUTO 36006KT 4SM BR OVC006 13/12 A2983 RMK AO2 CIG 005V009 SLP099 70051 T01330122 10133 20128 51010 KFMM 221155Z AUTO 01007KT 10SM BKN095 BKN120 12/06 A3001 RMK AO2 T01160062 10155 20116 KFMN 221153Z AUTO 06004KT 10SM CLR 07/04 A3012 RMK AO2 SLP169 T00670044 10111 20067 53006 KGEG 221153Z 14010KT 10SM FEW130 BKN150 BKN230 07/03 A2992 RMK AO2 SLP134 T00720033 10072 20056 58015 $ KFLY 221154Z AUTO 34010G14KT 10SM CLR 08/03 A3013 RMK AO2 T00780031 10136 20069 KGDP 221151Z AUTO 24007KT 10SM BKN007 OVC017 13/12 A3017 RMK AO2 SLP169 T01330117 10133 20122 53005 $ KFOA 221155Z AUTO 00000KT 10SM CLR 04/03 A3030 RMK AO2 T00400032 10077 20040 KGFA 221156Z AUTO 21013KT 10SM CLR 04/01 A2995 RMK AO2 SLP163 70038 T00420011 10067 20038 52004 FAHS 220900Z 22006KT 8000 BKN015 OVC020 19/14 Q1025 KEWK 221155Z AUTO 14007KT 3SM CLR 13/10 A3012 RMK AO1 10160 20130 52014 FAJB 221200Z AUTO 31003KT //// // ////// 28/06 Q1023 KFNL 221155Z AUTO 19008KT 10SM CLR 11/05 A3004 RMK AO1 10140 20080 52014 KEVV 221154Z 01004KT 10SM CLR 06/04 A3028 RMK AO2 SLP254 T00610044 10089 20056 53019 KFOD 221155Z AUTO 15008KT 10SM OVC050 07/03 A3020 RMK AO1 10090 20060 52007 KGDV 221155Z AUTO 25012KT 10SM CLR 08/04 A2989 RMK AO1 70005 10120 20080 52024 DRRM 221200Z 12006KT CAVOK 35/07 Q1013 KFOE 221153Z 13006KT 10SM SCT070 12/08 A3013 RMK AO2 SLP201 T01220078 10133 20122 51013 KEVW 221153Z AUTO 05004KT 10SM CLR 00/M04 A3019 RMK AO2 SLP195 T00001044 10033 21011 53010 TSNO KEWN 221154Z 28006KT 10SM CLR 12/07 A2993 RMK AO2 SLP134 T01170072 10161 20111 53017 DRRN 221200Z 05006KT 340V120 7000 NSC 37/M01 Q1011 NOSIG KFMY 221153Z 09003KT 10SM CLR 22/22 A2995 RMK AO2 SLP142 T02220217 10228 20217 51014 EISG 221130Z 23010KT 9999 BKN035 13/09 Q1021 EKAH 221150Z AUTO 09010KT 9999NDV BKN011/// 13/10 Q1008 KEWR 221151Z 36015G19KT 9SM -TSRA SCT006 BKN017CB OVC030 13/12 A2992 RMK AO2 TSB17E35B49 SLP131 OCNL LTGICCC VC SE-VC S TS VC SE-VC S MOV NW P0019 60048 70048 T01280117 10139 20128 51014 KI67 221155Z AUTO 00000KT 10SM OVC031 05/02 A3027 RMK AO1 FAIR 220535Z 02005KT CAVOK 17/10 Q1025 KFOK 221153Z 03015G21KT 10SM OVC010 13/11 A2992 RMK AO2 SLP131 70017 T01330111 10150 20133 53014 KGFK 221153Z 16019G25KT 10SM SCT150 12/06 A2980 RMK AO2 PK WND 16027/1123 SLP093 60000 T01220056 10128 20122 58004 KFNT 221153Z 02010KT 10SM OVC016 07/03 A3032 RMK AO2 SLP273 70001 T00720028 10072 20056 52014 KI69 221155Z AUTO 02006KT 10SM OVC014 07/05 A3025 RMK AO1 KGEU 220247Z 18003KT 20SM SCT200 27/13 A2982 RMK LAST DRRT 221200Z 12006KT CAVOK 37/03 Q1013 KGFL 221153Z AUTO 36006KT 10SM OVC025 09/07 A3010 RMK AO2 SLP196 70007 T00940067 10100 20094 51016 KGEV 221155Z AUTO 33016G22KT 310V020 10SM BKN019 OVC024 04/00 A3005 RMK AO2 T00401003 10054 20040 KEYE 221153Z AUTO 00000KT CLR 03/01 A3029 RMK AO2 SLP262 70001 T00330011 10078 20033 51015 $ KGGE 221155Z AUTO 00000KT 10SM CLR 10/07 A3001 RMK AO2 KEYF 221155Z AUTO 32006KT 10SM CLR 10/06 A2997 RMK AO2 T01010055 10150 20101 KGEY 221153Z AUTO 13003KT 10SM CLR 01/M05 A3004 RMK AO2 SLP166 T00111050 10078 20006 53016 KGGG 221153Z 09004KT 4SM BR CLR 15/14 A3011 RMK AO2 SLP192 T01500139 10167 20139 53013 KI75 221155Z AUTO 13006KT 10SM CLR 07/04 A3023 RMK AO2 T00650042 10094 20064 KGEZ 221153Z AUTO 02005KT 10SM OVC021 07/03 A3028 RMK AO2 SLP257 T00670033 10083 20044 51015 KGGI 221155Z AUTO 11007KT 7SM CLR 03/03 A3026 RMK AO2 T00340025 10054 20033 EKBI 221150Z AUTO 29008KT 9999NDV FEW009/// BKN032/// 12/11 Q1008 FALA 221200Z VRB08KT CAVOK 28/05 Q1023 NOSIG KFPK 221155Z AUTO 32004KT 10SM OVC017 05/03 A3032 RMK AO2 T00480027 10048 20016 KFOT 221150Z AUTO 11011KT 10SM OVC060 14/09 A3002 RMK AO1 KGHB 221200Z AUTO 06019KT 10SM FEW024 SCT029 SCT038 25/17 A3000 RMK A01 KFQD 221155Z AUTO 00000KT 10SM CLR 07/03 A3008 RMK AO2 T00720028 10108 20066 FAKM 221200Z 25008G19KT CAVOK 33/M08 Q1017 FALE 221200Z 07012KT 040V100 9999 SCT025 23/16 Q1022 NOSIG FAKN 221200Z 09006KT 9999 SCT020 BKN080 19/13 Q1024 NOSIG KEZF 221155Z AUTO 33008KT 10SM -RA SCT024 BKN028 OVC033 12/12 A2990 RMK AO2 P0002 60002 70013 T01200120 10121 20115 KEXX 221155Z AUTO 00000KT 10SM CLR 07/04 A3004 RMK AO2 T00670035 10075 20050 KGHG 221150Z AUTO 05015G23KT 10SM OVC008 14/13 A2999 RMK AO2 KGGP 221155Z AUTO 02003KT 10SM CLR 02/00 A3032 RMK AO2 KFOZ 221153Z AUTO 15009G14KT 10SM CLR 06/02 A3008 RMK AO2 WAAA 221200Z VRB02KT 8000 FEW020 28/21 Q1010 NOSIG EKCH 221150Z 06011KT 9999 FEW015 SCT023TCU BKN060 14/11 Q1007 NOSIG KFPR 221153Z 27003KT 7SM CLR 19/19 A2996 RMK AO2 SLP143 70008 T01940189 10206 20189 51013 PKWA 221200Z AUTO 10006KT 10SM CLR 28/24 A2987 RMK AO2 T02820236 KGIC 221155Z AUTO 00000KT 10SM CLR 02/00 A3004 RMK AO1 70007 T00210001 10311 21008 KEZM 221155Z AUTO 00000KT 1/4SM FG VV002 08/08 A3008 RMK AO2 T00780078 10104 20070 FALM 220600Z 10015KT 9999 BKN010 18/// Q1026 KEYW 221153Z 05003KT 10SM OVC120 26/25 A2994 RMK AO2 SLP137 70167 T02560250 10256 20244 53010 KGGW 221153Z AUTO 25010KT 10SM BKN065 OVC090 10/04 A2980 RMK AO2 SLP091 T01000039 10106 20083 53007 KGIF 221153Z AUTO 01007KT 7SM CLR 19/19 A2998 RMK AO2 SLP150 T01940189 10211 20194 51011 KFRG 221153Z AUTO 03015KT 7SM RA OVC011 13/11 A2990 RMK AO2 LTG DSNT S AND SW SLP125 P0004 60005 70035 T01280111 10144 20128 52012 URKA 221200Z 20009G12MPS 9999 FEW040 SCT110 18/13 Q1010 NOSIG RMK QFE752/1003 SC070 WABB 220900Z 29007KT 9999 FEW018 29/26 Q1008 NOSIG KFRI 221158Z AUTO 02003KT 10SM CLR 14/10 A3010 RMK AO2 SLP187 T01430100 10180 20142 53014 KEZS 221155Z AUTO 03003KT 10SM CLR 00/M01 A3037 RMK AO2 T10011011 10032 21005 EKEB 221150Z 30014KT 2000 -SHRA BR OVC006 12/11 Q1009 KFRM 221155Z AUTO 15016G20KT 10SM FEW047 SCT065 07/02 A3015 RMK AO1 10080 20060 52003 KFSD 221156Z 16011G20KT 10SM FEW085 FEW150 12/07 A3000 RMK AO2 SLP159 T01170067 10128 20111 55001 VIJP 221130Z VRB03KT 2500 HZ SCT030 33/08 Q1014 NOSIG KHAE 221135Z AUTO 10003KT 10SM CLR 05/03 A3028 RMK AO2 FAMM 221200Z 32011G21KT 9999 FEW040 32/03 Q1020 NOSIG KGHW 221153Z AUTO 14014G21KT 7SM UP SCT050 SCT060 08/04 A3003 RMK AO2 P0003 LTG DSNT S KFSE 221153Z AUTO 15013G18KT 10SM SCT065 09/03 A2991 RMK AO2 FALW 221200Z AUTO 30005KT //// // ////// 21/13 Q1015 KHAF 221155Z AUTO 00000KT 1SM BR OVC003 09/08 A3004 RMK AO2 PMDY 221156Z AUTO 16008KT 10SM CLR 27/24 A2996 RMK AO2 TSNO 57006 7//// T02660244 10266 20266 SLP451 $ EIWF 221200Z 26012G22KT 210V300 9999 FEW024 BKN095 13/08 Q1025 URKK 221200Z 22006G09MPS CAVOK 21/04 Q1009 NOSIG RMK QFE754 SC070 KHAI 221155Z AUTO 00000KT 7SM CLR 00/M01 A3033 RMK AO2 T00001007 10030 20000 KFRR 221155Z AUTO 32007KT 300V360 10SM OVC031 11/08 A2996 RMK AO1 KFSI 221158Z AUTO 00000KT 10SM CLR 12/11 A3010 RMK AO2 SLP189 T01240114 10162 20124 52011 USCC 221200Z 07004MPS 0200 R09/0225N FG VV001 01/01 Q1001 09290045 TEMPO 0300 +SN FG VV001 RMK QBB040 QFE730 FAOB 221000Z 12006KT 9999 FEW010 23/// Q1015 KFSM 221153Z 07006KT 10SM CLR 12/11 A3015 RMK AO2 SLP208 T01220111 10156 20122 53014 WABP 221200Z 18003KT 5000 HZ FEW012CB SCT013 26/25 Q1013 KHAO 221153Z AUTO 33005KT 10SM CLR 05/03 A3028 RMK AO2 SLP256 T00500028 10089 20044 53018 KFSO 221155Z AUTO 36006KT 10SM OVC065 07/06 A3019 RMK AO2 T00650060 10066 20061 KHBG 221153Z AUTO 00000KT 7SM CLR 10/09 A3010 RMK AO2 SLP192 T01000094 10144 20094 53014 KFTG 220857Z AUTO 31008KT 10SM BKN095 BKN110 12/08 A3000 RMK AO2 VILK 221130Z 00000KT 4000 HZ NSC 29/15 Q1013 NOSIG KHBI 221155Z AUTO 35003KT 10SM CLR 06/04 A3004 RMK AO2 T00620039 10098 20059 KGKJ 221153Z AUTO 01012G17KT 10SM OVC005 07/05 A3015 RMK AO2 SLP215 70013 T00670050 10072 20067 51018 TSNO WADD 221130Z 15010KT 9999 SCT017 27/24 Q1012 NOSIG USCM 221200Z 20007MPS 9999 OVC020CB 08/05 Q0999 NOSIG 19290055 RMK QFE712 KGJT 221153Z 12003KT 10SM SCT090 07/06 A3009 RMK AO2 SLP154 60001 70001 T00670056 10111 20056 53011 KFST 221153Z AUTO 12006KT 10SM OVC046 16/16 A3008 RMK AO2 SLP153 7//// T01610156 10161 20144 53007 KFTK 221158Z AUTO 36005KT 10SM CLR 04/03 A3024 RMK AO2 SLP246 T00390027 10089 20039 52016 EKGC 221150Z AUTO 34021G33KT 9999NDV 11/04 Q1015 KGLD 221153Z AUTO 19008KT 10SM CLR 11/08 A2998 RMK AO2 SLP122 T01110083 10122 20100 53008 KHCD 221152Z AUTO 13013G18KT 10SM BKN050 06/04 A3013 RMK AO2 LTG DSNT W T00630038 KFTN 221250Z AUTO 08004KT 10SM CLR 19/18 A3003 RMK AO1 KFSW 221155Z AUTO 10003KT 10SM CLR 05/04 A3031 RMK AO2 KGLE 221155Z AUTO 00000KT 4SM BR CLR 14/14 A3013 RMK AO2 T01380135 10162 20136 FAPE 221200Z 08025G36KT CAVOK 22/15 Q1015 NOSIG EKGF 221150Z 32031KT 9999 BKN034 11/02 Q1015 KGLH 221153Z AUTO 03005KT 10SM CLR 09/08 A3015 RMK AO2 SLP216 T00940078 10133 20089 53017 KHBR 221153Z AUTO 18009KT 10SM CLR 14/11 A3010 RMK AO2 SLP182 T01440106 10172 20133 53010 URML 221200Z 14003MPS 9999 FEW100 18/11 Q1009 NOSIG RMK QFE756/1009 FAOR 221200Z 29010KT 230V340 CAVOK 26/07 Q1025 NOSIG WADL 221200Z 18006KT 8000 SCT016 27/23 Q1013 NOSIG DRZA 221200Z 04004KT CAVOK 35/07 Q1015 URMM 221200Z 28005MPS 9999 FEW240 19/02 Q1011 R30/CLRD70 NOSIG RMK QFE730/0974 EKHA 221150Z AUTO 33031G41KT //// 11/05 Q1015 KGKT 221155Z AUTO 00000KT 10SM FEW044 02/02 A3017 RMK URMN 221200Z 05004MPS 9999 SKC 18/03 Q1012 NOSIG RMK QFE722 SC07 FBFT 221200Z 09008KT CAVOK 33/09 Q1019 KFUL 221153Z 09003KT 10SM CLR 16/12 A2987 RMK AO2 SLP115 T01560122 10183 20150 52001 KHDC 221155Z AUTO 04003KT 10SM CLR 15/11 A3008 RMK AO2 KHBV 221155Z AUTO 03005KT 10SM SCT070 19/18 A3002 RMK AO2 T01900177 PWINO ZWSH 221200Z VRB01MPS CAVOK 21/M03 Q1020 NOSIG EKHD 221150Z AUTO 31028KT 9999NDV 10/04 Q1014 KFTW 221153Z 00000KT 7SM CLR 17/14 A3010 RMK AO2 SLP185 T01670139 10194 20167 53010 KFVE 221153Z AUTO 01005KT 10SM CLR M01/M02 A3039 RMK AO2 SLP299 T10061022 10028 21011 53021 KHDE 221155Z AUTO 15009KT 10SM CLR 13/11 A2997 RMK AO2 T01280110 10162 20123 KHCO 221153Z AUTO 17020G25KT 10SM CLR 13/05 A2980 RMK AO2 KFTY 221153Z 32006KT 10SM CLR 08/04 A3008 RMK AO2 SLP185 T00780044 10128 20078 53012 KGKY 221153Z 00000KT 7SM CLR 14/12 A3011 RMK AO2 SLP188 T01390122 10161 20139 53011 FAPP 221200Z 04010KT 9999 FEW040 20/10 Q1023 NOSIG URMT 221200Z 35004MPS CAVOK 16/08 Q1011 NOSIG RMK QFE719 SC070 KGLR 221204Z AUTO 00000KT 10SM OVC015 01/M02 A3037 RMK AO2 T00061017 KGLS 221152Z 03009KT 10SM FEW026 22/20 A3004 RMK AO2 SLP171 T02170200 10222 20211 53009 KFWA 221154Z 35005KT 10SM BKN027 04/03 A3031 RMK AO2 SLP269 T00440028 10044 20022 51016 KGNA 221156Z AUTO 19008KT 08/06 A3027 RMK AO1 SLP255 T00780056 10078 20006 53005 KGMJ 221155Z AUTO 00000KT 10SM SCT036 BKN060 13/13 A3016 RMK AO2 KFWB 221155Z AUTO 11006KT 10SM FEW037 10/07 A3020 RMK AO2 KFWC 221155Z AUTO 02004KT 10SM CLR 04/04 A3028 RMK AO1 T00410036 10069 20040 KGNC 221155Z AUTO 00000KT 5SM BR SCT060 16/15 A3011 RMK AO2 60005 70021 T01550150 10165 20154 KHDN 221155Z AUTO 08006KT 10SM BKN050 04/02 A3015 RMK AO1 60016 10060 20040 54000 KGLW 221155Z AUTO 00000KT 10SM CLR 05/05 A3024 RMK AO2 T00520047 10080 20040 KHDO 221151Z AUTO 01003KT 10SM CLR 15/12 A3009 RMK AO2 SLP178 T01500117 10194 20150 53013 EKHN 221150Z AUTO 32020G30KT 9999NDV BKN015/// 12/10 Q1012 KHEF 221155Z 35009KT 10SM OVC022 12/12 A2992 KGNF 221155Z AUTO RMK AO2 TSNO KGLY 221155Z AUTO 00000KT 7SM CLR 09/08 A3021 RMK AO2 ZYCC 221200Z 17003MPS 1400 R24/P2000 FU NSC 03/M13 Q1019 BECMG TL1300 2000 KHEI 221153Z AUTO 28017KT 10SM CLR 10/07 A2987 RMK AO2 SLP109 T01000067 10172 20094 51028 DRZR 221200Z 06010KT CAVOK 35/M01 Q1015 EKHR 221150Z AUTO 33018G34KT 310V030 //// FEW012/// SCT017/// BKN022/// BKN048/// 12/10 Q1010 FASB 220844Z 04003KT CAVOK 27/M06 Q1019 KGMU 221153Z 35008G21KT 10SM CLR 11/01 A3005 RMK AO2 SLP174 T01060011 10122 20083 51014 KHFD 221153Z 02012G18KT 10SM OVC014 12/09 A2998 RMK AO2 SLP150 T01170089 10122 20117 53007 KFWN 221153Z AUTO 05008KT 10SM OVC011 12/09 A2997 RMK AO2 RAE07 SLP149 P0001 60013 70013 T01170094 10133 20117 53015 KFXE 221153Z 00000KT 10SM FEW030 BKN110 23/21 A2995 RMK AO2 SLP144 70016 T02330211 10239 20228 53014 KHFF 221156Z AUTO 34004KT 10SM CLR 08/05 A3001 RMK AO2 SLP165 T00800049 10129 20078 52016 KFVX 221155Z AUTO 00000KT 10SM BKN046 BKN055 OVC070 10/09 A2993 RMK AO2 KHEQ 221155Z AUTO 00000KT 10SM CLR 12/07 A2996 RMK AO2 KGNR 221156Z AUTO 35003KT 06/03 A3023 RMK AO1 SLP249 70019 T00560028 10061 20044 51016 FASI 221200Z AUTO /////KT //// // ////// 26/04 Q1023 KFWS 221151Z 00000KT 10SM CLR 13/13 A3012 KHFJ 221155Z AUTO 12009KT 10SM CLR 10/07 A3018 RMK AO2 DTKA 221200Z 29020G32KT 9999 SCT020 SCT030 22/13 Q1016 NOSIG EKKA 221150Z 36001KT 9999 BKN005 BKN032 12/12 Q1008 TEMPO SCT008 KGOK 221153Z AUTO 18004KT 10SM CLR 15/14 A3011 RMK AO2 SLP191 T01500139 10183 20150 53014 KGNT 221156Z AUTO 29004KT 1 3/4SM BR VV007 02/02 A3021 RMK AO2 FCBB 221200Z 25003KT 8000 BKN020 30/21 Q1013 NOSIG KGNV 221153Z 00000KT 10SM CLR 14/12 A3000 RMK AO2 SLP157 T01390117 10167 20122 53015 KGON 221156Z 01012KT 10SM OVC012 12/11 A2992 RMK AO2 SLP132 T01220106 10139 20117 53001 USHH 221200Z 26001MPS 9999 SCT018 BKN080 M12/M15 Q1014 TEMPO BKN007 RMK QFE757 24////50 FBKE 221200Z VRB08G21KT 9999 FEW030 36/00 Q1016 KGOO 221200Z AUTO 00000KT 10SM CLR 10/05 A3008 RMK AO1 KHEY 221153Z AUTO 36005KT 10SM CLR 11/09 A3007 RMK AO2 SLP169 T01060094 10139 20094 53019 KGOP 221155Z AUTO 00000KT 10SM CLR 14/13 A3012 RMK AO2 KFYG 221155Z AUTO 00000KT 4SM BR CLR 04/04 A3028 RMK AO2 KGPH 221215Z AUTO 11004KT 10SM SCT050 SCT065 BKN085 11/07 A3020 RMK AO2 KHEZ 221155Z AUTO 06003KT 9SM CLR 10/08 A3011 RMK AO1 10130 20100 52014 KFWZ 221155Z AUTO 26017G23KT 10SM CLR 00/M07 A3004 RMK AO2 KGPI 221155Z AUTO 22006KT 10SM CLR 01/M01 A3002 RMK AO2 SLP180 70018 T00061006 10072 20006 53006 KFYJ 221155Z AUTO 30006KT 5SM OVC008 13/11 A2986 RMK AO2 T01270107 10135 20127 KGOV 221155Z AUTO 09003KT 10SM OVC012 02/00 A3038 RMK AO2 T00170001 10018 21047 KFYM 221155Z AUTO 03003KT 10SM CLR 05/03 A3017 RMK KGPM 221150Z 00000KTS 7SM SKC 16/16 A3011 KHHF 221155Z AUTO 00000KT 10SM SCT110 14/11 A3007 RMK AO2 T01350107 10176 20122 KFZG 221155Z AUTO 35003KT 10SM CLR 12/10 A3007 RMK AO2 T01160100 10170 20104 KHHG 221155Z AUTO 36004KT 10SM OVC028 04/03 A3031 RMK AO2 T00350025 10042 20017 KFXY 221155Z AUTO 14010KT 10SM SCT055 04/04 A3021 RMK AO2 UTAA 221200Z 21004MPS 9999 SCT050 SCT100 BKN230 16/12 Q1014 R12/150065 NOSIG KHGR 221153Z 35007KT 10SM OVC027 11/08 A2996 RMK AO2 SLP156 70011 T01110078 10111 20100 53014 KGPT 221153Z 01006KT 9SM CLR 14/11 A3005 RMK AO2 SLP177 T01440111 10150 20133 53012 KGRB 221153Z 00000KT M1/4SM FG VV001 00/00 A3036 RMK AO2 SLP289 I1002 I6002 T00000000 10000 21017 53008 RVRNO KHIB 221153Z AUTO 14006KT 10SM CLR 02/01 A3016 RMK AO2 SLP229 T00220006 10028 20000 51002 DTMB 221200Z 29018KT 270V330 9999 FEW020 28/16 Q1013 NOSIG KFYV 221153Z 00000KT 10SM CLR 07/07 A3017 RMK AO2 SLP214 T00670067 10089 20067 53009 KGRD 221156Z AUTO 00000KT 10SM CLR 04/03 A3008 RMK AO2 SLP184 T00440033 10094 20039 51019 KHIE 221152Z AUTO 08011KT 10SM OVC060 08/06 A3016 RMK AO2 RAE1054 SLP220 P0000 60007 70031 T00830056 10083 20072 53018 KGRF 221203Z AUTO 14005KT 9SM -RA OVC047 13/12 A2967 RMK AO2 KHIF 221158Z AUTO 12014KT 10SM CLR 04/M02 A3015 RMK AO2 SLP191 T00391025 10074 20037 52009 URRR 221200Z 25005G09MPS 9999 SCT018 BKN300 13/10 Q1010 22CLRD70 NOSIG FAUP 221200Z 31010KT CAVOK 36/M06 Q1015 NOSIG KGPZ 221155Z AUTO 15013G17KT 10SM CLR 04/01 A3010 RMK AO1 10040 20030 57003 WAJJ 221000Z 28006KT 8000 FEW014 28/23 Q1009 UTAK 221200Z 16004MPS 9999 BKN014 17/14 Q1013 BECMG BKN006 KGRI 221153Z 17012KT 8SM CLR 14/12 A3000 RMK AO2 SLP152 T01390117 10156 20139 53003 KHHR 221153Z AUTO 00000KT 10SM CLR 18/15 A2988 RMK AO2 SLP118 T01780150 10200 20172 50002 KHII 221155Z AUTO 00000KT 10SM FEW055 21/07 A2985 RMK AO2 ZWWW 221200Z 30001MPS 7000 NSC 14/03 Q1020 NOSIG UTAM 221200Z 28005MPS 6000 TS -SHRA BKN050CB SCT050 OVC100 19/06 Q1014 NOSIG RMK DISTANT TS NW MOW NE KGRK 221155Z 00000KT 7SM BKN200 16/13 A3009 RMK SLP188 53010 KGSB 221158Z AUTO 00000KT 10SM CLR 10/09 A2993 RMK AO2 SLP138 T01020087 10146 20098 52014 $ KIAB 221158Z AUTO 13005KT 10SM CLR 15/15 A3011 RMK AO2 SLP191 T01490149 10178 20146 52014 FAWB 221200Z AUTO 35003KT //// // ////// 29/05 Q1020 FAUT 221200Z 07012KT 9999 FEW030 25/12 Q1021 KIAD 221152Z 35008KT 5SM RA BR FEW009 OVC019 11/10 A2993 RMK AO2 SLP135 P0006 60007 70038 T01110100 10111 20106 53015 KHHV 221155Z AUTO 08022KT 10SM CLR 27/18 A2997 RMK A01 KHHW 221155Z AUTO 00000KT 4SM BR SCT033 SCT042 BKN065 17/16 A3014 RMK AO2 T01650155 10175 20153 FBMN 221200Z 04009KT CAVOK 37/M02 Q1016 KHIO 221153Z AUTO 18018G23KT 10SM FEW027 OVC032 14/11 A2976 RMK AO2 PK WND 16026/1117 SLP076 P0001 60004 70005 T01390106 10139 20122 58012 TSNO KIAG 221153Z 01008KT 10SM FEW015 BKN021 OVC130 07/03 A3020 RMK AO2 SLP236 70003 T00670033 10072 20067 53017 KFZY 221154Z AUTO 36009KT 8SM OVC009 08/06 A3014 RMK AO2 SLP207 60000 70006 T00780056 10078 20078 51018 URSS 221200Z 17003MPS 9999 SCT250 20/07 Q1012 NOSIG RMK R02/12002MPS QFE758 06000070 02000070 ZYHB 221200Z 16004MPS 0700 R23/1300N FU NSC 01/M12 Q1018 BECMG TL1330 0500 KIAH 221153Z 00000KT 10SM FEW250 17/16 A3006 RMK AO2 SLP179 T01720161 10189 20161 53011 KGSH 221153Z AUTO 36004KT 10SM CLR 02/00 A3033 RMK AO2 SLP276 T00170000 10028 20000 51015 KHJH 221155Z AUTO 15010KT 10SM CLR 13/10 A3005 RMK AO2 T01300102 10150 20129 UTAT 221200Z 36003MPS CAVOK 17/02 Q1012 99GLRD70 NOSIG KGRR 221153Z 00000KT 10SM FEW020 01/M02 A3035 RMK AO2 SLP284 I6000 T00061017 10022 21011 51014 KHKA 221153Z AUTO 05004KT 10SM CLR 07/06 A3023 RMK AO2 SLP238 T00720061 10117 20061 53020 UTAV 221200Z 29005MPS 4000 HZ SCT050 SCT100 25/10 Q1008 NOSIG KGTB 221158Z AUTO 04012KT 10SM OVC011 06/04 A3017 RMK AO2 SLP222 70002 T00560036 10059 20056 52018 FAWK 221000Z 36015KT CAVOK 25/// Q1027 EKOD 221150Z 34007KT 9999 FEW007 BKN015 BKN020 11/11 Q1008 FAVV 221200Z AUTO 30007KT //// // ////// 29/03 Q1022 KHJO 221153Z AUTO 33004KT 10SM CLR 11/06 A3003 RMK AO2 SLP169 T01060061 10161 20106 53001 KGTF 221153Z 21011KT 10SM CLR 05/01 A2993 RMK AO2 SLP155 70035 T00500006 10061 20039 53003 KGSO 221154Z 28003KT 10SM FEW250 06/03 A3001 RMK AO2 SLP162 T00610033 10083 20050 53013 KGSP 221153Z 31006KT 10SM CLR 08/03 A3003 RMK AO2 SLP167 T00830028 10117 20061 51013 KGRY 221155Z AUTO VRB03G11KT 10SM CLR 26/17 A2997 RMK A01 WALL 221130Z 19003KT 170V250 8000 FEW018 29/22 Q1009 NOSIG UTDD 221200Z 09003MPS 8000 FEW190 26/04 Q1012 09CLRD70 NOSIG RMK QFE691/0922 KHLC 221153Z AUTO 19005KT 10SM CLR 14/10 A3000 RMK AO2 SLP143 7//// T01440100 10167 20144 53007 KGUC 221155Z AUTO 17004KT 10SM FEW026 SCT044 BKN085 03/01 A3024 RMK AO1 LTG DSNT NW P0001 60003 70003 10050 20010 52010 KIBM 221155Z AUTO 30004KT 10SM CLR 08/07 A3001 RMK AO2 60002 70002 T00820067 10139 20082 KHLG 221153Z 36011KT 10SM OVC012 08/06 A3013 RMK AO2 SLP208 60001 70022 T00830056 10083 20083 53010 URWA 221200Z 26006MPS CAVOK 15/08 Q1010 NOSIG RMK QFE759/1012 SC065 KGTR 221145Z 35004KT 10SM SKC 08/04 A3014 UTDL 221200Z 09007MPS 9999 FEW100 OVC200 22/07 Q1013 NOSIG RMK QFE721/0961 88CLRD70 KHKS 221153Z 03003KT 10SM CLR 11/09 A3012 RMK AO2 SLP191 7//// T01060094 10172 20106 53013 KIDA 221153Z AUTO 20006KT 10SM CLR 01/M02 A3015 RMK AO2 SLP212 70001 T00111017 10061 20000 53006 WAMM 221200Z 05002KT 9000 FEW022 25/23 Q1012 NOSIG KGTU 221150Z 00000KT 10SM CLR 15/13 A3009 KICL 221155Z AUTO 14006KT 10SM BKN037 OVC060 12/06 A3018 RMK AO2 KGUL 221155Z AUTO 10SM CLR 25/18 A2997 RMK A01 KHME 221050Z 22004KT 9999 FEW030CB SCT035 17/09 Q1016 KHLN 221153Z 21006KT 10SM CLR 04/M01 A3003 RMK AO2 SLP195 70023 T00441006 10089 20028 53006 KGVE 221155Z AUTO 10SM OVC027 11/08 A2993 RMK AO1 60001 70005 T01060084 10120 20100 URWI 221200Z 27007MPS 9999 BKN020 14/09 Q1010 NOSIG KGUP 221153Z AUTO 00000KT 10SM CLR 04/03 A3018 RMK AO2 SLP144 T00440028 10089 20044 53006 KHKY 221153Z 32003KT 10SM CLR 08/02 A3005 RMK AO2 SLP164 T00780022 10089 20056 51015 UTFA 221100Z VRB01MPS 9999 NSC 24/07 Q1014 R88/09//70 KICR 221153Z AUTO 21015KT 10SM CLR 17/12 A2986 RMK AO2 SLP099 T01670117 10189 20167 53016 KIDI 221155Z AUTO VRB04G11KT 10SM OVC012 08/06 A3011 RMK A01 KHLR 221156Z 00000KT 10SM CLR 17/14 A3009 RMK AO2 SLP216 T01670139 10194 20167 53010 $ KGUR 221155Z AUTO 27006KT 10SM SCT075 OVC100 15/M01 A3002 RMK AO2 T01461011 10197 20146 PWINO KGUS 221158Z AUTO 05005KT 4SM BR CLR 01/01 A3030 RMK AO2 SLP270 T00080008 10054 20008 52013 KICT 221153Z 15006KT 7SM CLR 14/13 A3010 RMK AO2 SLP183 T01440133 10183 20144 53014 KHNB 221155Z AUTO 05003KT 8SM CLR 04/02 A3028 RMK AO1 10060 20040 52017 KGWB 221155Z AUTO 34003KT 10SM CLR 03/01 A3032 RMK AO2 USNN 221200Z 23004MPS 8000 -SN BKN025 M13/M16 Q1011 NOSIG RMK QFE753 21410262 KGVL 221153Z AUTO 35006KT 10SM CLR 08/02 A3007 RMK AO2 SLP178 T00830022 10117 20083 53012 UTFF 221100Z VRB01MPS 9999 NSC 24/07 Q1014 R18/CLRD70 KHND 221156Z AUTO 17007KT 10SM CLR 17/M04 A2996 RMK AO2 53014 T01661038 10205 20155 SLP127 KHMN 221158Z AUTO 03005KT 10SM CLR 10/09 A3010 RMK AO2 SLP149 T00990092 10127 20099 53004 $ KHLX 221155Z AUTO 32010KT 10SM OVC022 05/02 A3006 RMK AO2 T00510017 10062 20051 KGUY 221153Z AUTO 18009KT 10SM BKN100 16/12 A3003 RMK AO2 SLP132 T01560117 10161 20133 53000 KIDP 221155Z AUTO 00000KT 7SM OVC070 13/12 A3014 RMK AO2 WBGB 221200Z 22001KT 9999 FEW016 SCT150 BKN300 26/25 Q1010 KGXA 221155Z AUTO 17003KT 10SM CLR 09/01 A2998 RMK AO2 SLP137 T00900014 10150 20075 50001 TSNO $ KIFA 221155Z AUTO 14010G14KT 10SM CLR 05/03 A3024 RMK AO2 T00450030 10056 20040 KHOB 221150Z 17003KT 10SM BKN012 OVC018 15/15 A3012 KGVT 221155Z AUTO 00000KT 5SM BR CLR 13/12 A3013 RMK AO2 URWW 221200Z 35005G08MPS 9999 BKN026CB FEW100 11/07 Q1008 NOSIG RMK SC070 EKSB 221151Z 32009KT 9999 FEW010 14/12 Q1007 EKRK 221150Z AUTO 09008KT 060V120 9999NDV FEW018/// BKN030/// BKN041/// 13/11 Q1007 WAOO 221130Z 15005KT 8000 FEW020 29/22 Q1009 NOSIG WBGG 221200Z 24005KT 190V290 9999 FEW020 BKN150 27/25 Q1010 NOSIG KIEN 221152Z AUTO 11003KT 10SM -RA SCT065 BKN080 OVC110 12/11 A2991 RMK AO2 RAB07 SLP108 P0003 60003 7//// T01170106 10172 20117 51006 KHOE 221155Z AUTO 00000KT 10SM CLR 13/11 A3003 RMK AO2 KGXF 220355Z 19001KT 10SM CLR 24/10 A2983 RMK SLP089 KGWO 221153Z AUTO 07007KT 10SM CLR 11/09 A3014 RMK AO2 SLP207 T01110089 10117 20094 53015 TSNO EKRN 221150Z AUTO 07010KT 9999NDV FEW015/// FEW041/// 14/11 Q1006 KGVX 221155Z AUTO 07017KT 10SM CLR 25/18 A3003 RMK A01 KGWR 221155Z AUTO 14010KT 10SM CLR 12/06 A2985 RMK A01 P000 KIER 221155Z AUTO 00000KT 5SM BR CLR 13/13 A3011 RMK AO2 T01340133 10152 20132 KHNR 221155Z AUTO 15009KT 10SM CLR 11/07 A3016 RMK AO2 DTTA 221200Z 28022G33KT 260V320 9999 SCT026 24/11 Q1014 NOSIG KGYB 221155Z AUTO 00000KT 10SM CLR 16/14 A3011 RMK AO2 T01550137 10180 20137 FBSK 221200Z VRB06G17KT CAVOK 32/06 Q1019 NOSIG FDBB 221200Z AUTO 05002KT //// // ////// 21/16 Q1022 DTTB 221200Z 31029G39KT 280V010 8000 SCT020 24/13 Q1014 WAPP 220900Z 16005KT 9999 SCT020 28/24 Q1010 NOSIG DTTD 221200Z 34006KT 290V020 CAVOK 29/06 Q1016 USPP 221200Z 09009G12MPS 4700 -SN BLSN OVC011 M05/M05 Q0994 RESN REBLSN 03390133 TEMPO FZRA OVC005 RMK QFE735/0981 FBL ICE INC 900-2750 MOD TURB KHON 221155Z AUTO 16017G23KT 10SM CLR 13/06 A2985 RMK AO2 SLP106 T01280056 10156 20128 58004 KGWW 221155Z AUTO 31004KT 10SM CLR 09/06 A2995 RMK AO2 T00900063 10137 20088 EKSN 221150Z 11010KT 4000 DZ SCT008 BKN011 10/10 Q1010 EKTE 221150Z AUTO 32031KT 9999NDV FEW034 SCT041 11/02 Q1016 WBGR 221200Z 22001KT 9999 SCT014 FEW015CB BKN150 28/24 Q1010 DTTF 221200Z 27007KT 220V310 CAVOK 29/04 Q1014 NOSIG KIFP 221155Z AUTO 00000KT 10SM CLR 19/03 A2988 RMK AO2 PWINO KHOP 221159Z AUTO 03005KT 3SM BR CLR 04/04 A3023 RMK AO2 WBGS 221200Z 00000KT 9999 FEW018 SCT150 BKN300 25/23 Q1011 DTTG 221200Z 26010KT 220V290 CAVOK 30/10 Q1015 NOSIG FBSP 221200Z 07013KT CAVOK 31/13 Q1019 EKSP 221150Z 32007KT 280V350 9999 SCT015 15/11 Q1008 NOSIG KGYH 221147Z 03003KT 10SM CLR 08/M01 A3005 KHNZ 221155Z AUTO 30007KT 10SM CLR 09/04 A2996 RMK AO2 T00940042 10117 20093 KGYI 221155Z AUTO 07006KT 10SM CLR 18/16 A3013 RMK AO2 T01760158 10191 20160 DTTJ 221200Z 30009KT CAVOK 28/13 Q1013 NOSIG KHOT 221153Z AUTO 00000KT 1/4SM -RA FG VV001 10/09 A3018 RMK AO2 RAB31 SLP215 P0000 60000 T01000094 10128 20089 51011 KHOU 221153Z 00000KT 10SM SCT250 18/17 A3005 RMK AO2 SLP181 8/001 T01830167 10194 20178 53014 KGYL 221154Z AUTO 14008KT 10SM CLR 06/04 A3015 RMK AO2 T00600038 10083 20057 DTTK 221200Z 30008KT 200V360 9999 SCT023 29/13 Q1014 DTTL 221200Z 28015G33KT 190V340 9999 SCT020 25/15 Q1011 KIGM 221151Z AUTO 21003KT 10SM CLR 12/04 A3000 RMK AO2 SLP102 T01220044 10161 20111 53006 WBGY 221200Z 00000KT 9999 SCT020 BKN150 25/24 Q1010 KHPN 221156Z 01007G15KT 10SM -RA SCT013 BKN033 OVC065 12/09 A2993 RMK AO2 RAB20 SLP134 P0000 60007 70007 T01170094 10133 20117 51011 DTTN 221200Z 31012KT 9999 SCT020 SCT030 22/17 Q1017 KGXY 221155Z AUTO 00000KT 10SM CLR 08/02 A3003 RMK AO1 10140 20070 52014 KGZH 221153Z AUTO 00000KT 5SM BR CLR 09/08 A3009 RMK AO2 SLP187 T00890078 10122 20089 53019 KIGQ 221155Z AUTO 00000KT 7SM CLR 01/00 A3033 RMK AO2 T00060004 10052 20001 KGYR 220347Z VRB04KT 10SM SCT250 23/13 A2984 RMK LAST DTTR 221200Z 36004KT CAVOK 29/07 Q1017 KIIB 221155Z AUTO 13006KT 7SM CLR 01/01 A3030 RMK AO2 KGZL 221135Z AUTO 00000KT 9SM FEW060 13/12 A3015 RMK AO2 KHQM 221201Z AUTO 18010KT 6SM BR FEW008 BKN019 OVC050 15/14 A2963 RMK AO2 RAE1158 P0000 T01500139 EKVD 221150Z 31010KT 9999 SCT015 14/12 Q1008 WARQ 221100Z 23006KT 6000 SCT017 30/21 Q1011 NSG KIGX 221156Z AUTO 30008KT 10SM CLR 09/04 A2998 RMK AO2 SLP151 T00940039 10106 20089 53012 WARR 221130Z 12010KT 9000 FEW020 29/21 Q1011 USRR 221200Z 26004G07MPS 7000 SCT017CB SCT034 M12/M14 Q1011 TEMPO 2000 SHSN SCT007 RMK QFE753 25////60 DTTX 221200Z 30012KT 270V330 CAVOK 31/06 Q1013 KGYY 221145Z 00000KT 10SM FEW030 02/01 A3034 WARS 221130Z 28007KT 7000 SCT020 30/22 Q1011 NOSIG EKVG 221150Z AUTO 13015G27KT 100V170 3300NDV RA OVC006/// 09/08 Q0996 DTTZ 221200Z 29004KT 220V340 CAVOK 30/04 Q1015 NOSIG KHRI 221153Z AUTO 00000KT 10SM CLR 08/04 A2986 RMK AO2 SLP109 T00780044 10100 20050 58011 KHSA 221155Z 02006KT 10SM CLR 14/11 A3006 KHRJ 221155Z AUTO 00000KT 10SM CLR 09/05 A2997 RMK AO2 T00910050 10127 20090 EKVJ 221150Z 32014KT 5000 -SHRA BKN005 12/12 Q1009 KHSB 221155Z AUTO 00000KT 5SM BR CLR 04/04 A3029 RMK AO2 T00440044 10085 20039 KHRL 221152Z 00000KT 10SM -RA SCT028 BKN043 OVC055 23/22 A2995 RMK AO2 RAB45 SLP143 P0001 60006 70033 T02280217 10233 20222 53010 KJAC 221155Z AUTO 00000KT 10SM CLR M01/M02 A3016 RMK AO1 70010 10030 21010 52014 KHQU 221155Z AUTO 00000KT 10SM CLR 06/06 A3011 RMK AO1 T00580058 10107 20053 KIJD 221159Z AUTO 02007KT 10SM OVC011 12/09 A2996 RMK AO2 T01170089 KHSE 221202Z AUTO 31011G18KT 10SM SCT014 14/12 A2985 RMK AO2 T01390117 TSNO KHRO 221153Z AUTO 13006KT 10SM CLR 08/08 A3021 RMK AO2 SLP225 T00830078 10128 20083 51012 ELLX 221150Z 29011KT 240V330 9999 FEW029 BKN032 09/03 Q1020 NOSIG USSS 221200Z 09005MPS 9999 -SHSN OVC012CB M05/M06 Q1002 08450336 58450540 NOSIG RMK QFE732 KHQZ 221150Z 00000KT 4SM CLR 14/13 A3012 WBKK 221200Z 13004KT 9999 FEW014 SCT140 BKN270 26/25 Q1011 NOSIG KHSI 221153Z AUTO 16010KT 7SM CLR 13/11 A3000 RMK AO2 SLP152 T01330111 10156 20133 53003 WBKL 221200Z 00000KT 9999 TS FEW010 FEW013CB BKN290 28/25 Q1010 RETS KL18 221155Z AUTO 00000KT 10SM CLR 13/11 A2990 RMK AO2 KHRT 221158Z AUTO 01005KT 10SM CLR 13/10 A3003 RMK AO2 SLP171 T01310096 10153 20128 52011 RVRNO $ UUBP 221200Z 02004MPS 9999 BKN024CB M02/M07 Q1013 NOSIG RMK QFE742 34CLRD70 KJAN 221154Z 03004KT 7SM CLR 09/09 A3012 RMK AO2 SLP196 T00940089 10133 20078 53012 KHRX 221155Z AUTO 4SM RA SCT018 BKN026 OVC034 16/15 A3012 RMK AO2 P0003 60003 70003 T01550150 10165 20155 USTR 221200Z 07006G09MPS 8000 -SHSN BLSN BKN017CB OVC030 M07/M09 Q1009 TEMPO 0600 +SHSN BLSN VV005 RMK QFE748/0998 12450357 03////99 KIIY 221155Z AUTO 36003KT 10SM CLR 07/07 A3007 RMK AO2 KHSP 221155Z AUTO 32013G21KT 10SM OVC006 04/03 A2998 RMK AO2 70007 T00360030 10040 20035 WBKS 221200Z 12004KT 9999 FEW016 FEW017CB BKN280 28/24 Q1010 WATT 221130Z 00000KT 8000 FEW020 27/23 Q1013 NOSIG WBKT 221200Z 08005KT 010V140 9999 FEW014 SCT140 BKN280 29/26 Q1010 KHUA 211955Z 35009G15KT 7SM SKC 23/07 A3002 RMK LAST KJAS 221155Z AUTO 00000KT 2 1/2SM BR CLR 13/13 A3010 RMK AO2 T01280125 UUDD 221200Z 34005MPS 9999 BKN025CB M04/M09 Q1013 32290095 82290095 NOSIG KHST 221158Z AUTO 34004KT 10SM FEW095 23/22 A2995 RMK AO2 SLP145 60000 70012 T02340222 10234 20230 52013 KIKK 221150Z AUTO 05003KT 7SM CLR 01/01 A3034 RMK AO2 T00100008 10050 20001 UUBW 221200Z 30006MPS 9999 BKN022 M04/M10 Q1014 NOSIG RMK SC055 WBKW 221200Z 35004KT 9999 FEW017 SCT140 BKN300 26/24 Q1010 KHTL 221153Z AUTO 05003KT 10SM OVC013 02/00 A3036 RMK AO2 SLP294 I6000 T00220000 10022 21033 53013 KHSV 221153Z 35004KT 10SM CLR 08/05 A3017 RMK AO2 SLP214 T00830050 10139 20078 51020 KILE 221155Z AUTO 00000KT 10SM CLR 14/11 A3008 RMK AO1 10180 20140 52010 KHTO 212155Z 00000KT 10SM FEW020 BKN060 17/14 A2989 KHUF 221153Z 04004KT 10SM CLR 02/01 A3030 RMK AO2 SLP263 T00220011 10061 20017 53015 KJAX 221156Z 00000KT 10SM FEW250 13/12 A2999 RMK AO2 SLP155 T01280117 10150 20128 53015 $ KIJX 221155Z AUTO 09004KT 7SM CLR 03/02 A3031 RMK AO2 T00280021 10057 20022 KILG 221151Z 01012KT 10SM -RA BKN014 OVC027 13/12 A2987 RMK AO2 SLP115 P0001 60017 70017 T01330117 10133 20117 51012 KL35 221155Z AUTO 00000KT 10SM CLR 00/M11 A3016 RMK AO2 KJBR 221153Z AUTO 04005KT 10SM CLR 09/07 A3023 RMK AO2 SLP237 T00940072 10133 20094 53021 UUDL 221200Z 31006MPS CAVOK M07/M12 Q1012 NOSIG RMK QFE751 23850340 KHTS 221151Z 32006KT 10SM OVC013 07/05 A3019 RMK AO2 SLP225 70002 T00720050 10078 20072 53018 KL38 221155Z AUTO 00000KT 10SM CLR 14/14 A3006 RMK AO2 T01420142 10156 20141 KIKT 221155Z AUTO 05011G20KT 10SM CLR 25/17 A2997 RMK A01 UUEE 221200Z 32006MPS 9999 BKN017 M06/M09 Q1014 75410151 25410145 NOSIG KHUL 221153Z AUTO 35005KT 10SM FEW065 05/02 A3033 RMK AO2 SLP275 T00500017 10050 20033 53019 KILM 221153Z 32007KT 10SM CLR 11/06 A2995 RMK AO2 SLP142 T01060061 10156 20100 53018 KJDD 221155Z AUTO 00000KT 3SM BR CLR 13/13 A3013 RMK AO2 KHUM 221150Z 36008KT 7SM SKC 21/15 A3004 RMK ATIS X VA RY36 RC KIKV 221155Z AUTO 14008KT 10SM CLR 06/05 A3023 RMK AO2 KIKW 221151Z AUTO 33005KT 10SM OVC020 05/02 A3034 RMK AO2 T00530020 KILN 221154Z AUTO 34008KT 10SM CLR 05/03 A3024 RMK AO2 SLP255 T00500033 10067 20050 53018 KHVE 221155Z AUTO 00000KT 10SM CLR 05/00 A3008 RMK AO2 FCPP 221200Z 16010KT 120V190 9999 SCT013 OVC026 27/22 Q1013 NOSIG OYAA 221200Z 16012KT 9999 SCT020 32/11 Q1012 NOSIG KHUT 221152Z 12005KT 5SM BR CLR 13/12 A3009 RMK AO2 SLP174 T01280117 10172 20128 51013 KJCT 221151Z AUTO 00000KT 10SM CLR 17/11 A3010 RMK AO2 SLP162 T01670111 10206 20167 53013 UTNN 221130Z 33003MPS CAVOK 16/05 Q1012 R33/CLRD60 NOSIG KIML 221153Z AUTO 34006KT 10SM BKN110 12/07 A2995 RMK AO2 SLP122 T01220072 10161 20111 51012 EKYT 221150Z 09008KT 4000 DZRA BR SCT006 BKN009 12/12 Q1009 KIMM 221215Z AUTO 00000KT 5SM CLR 21/ A2997 RMK A01 P000 KHWD 221154Z AUTO 07005KT 10SM CLR 11/11 A3004 RMK AO2 SLP180 T01060106 10144 20100 58003 KIND 221154Z 01006KT 10SM FEW040 03/01 A3028 RMK AO2 SLP259 70002 T00330011 10072 20033 51016 KHVN 221153Z 02014G22KT 10SM OVC013 13/09 A2993 RMK AO2 SLP136 70018 T01280094 10133 20128 51012 KJDN 221148Z AUTO 26010KT 09/02 A2988 RMK AO1 SLP117 T00890022 10106 20078 53009 KJEF 221153Z 10004KT 10SM CLR 07/05 A3026 RMK AO2 SLP238 T00720050 10094 20061 53015 KINF 221155Z AUTO 00000KT 1 3/4SM BR VV007 14/14 A2999 RMK AO2 VIS 1 1/4V3 ZYTL 221200Z VRB01MPS 6000 NSC 11/02 Q1021 NOSIG KHVR 221153Z AUTO 22017KT 10SM FEW090 08/03 A2986 RMK AO2 PK WND 21027/1124 SLP117 60002 70012 T00830033 10089 20078 51011 UTNU 221130Z 31003MPS 9000 NSC 18/05 Q1011 R13/CLRD70 NOSIG KHVS 221155Z AUTO 00000KT 10SM CLR 09/M02 A3002 RMK AO2 KINJ 221155Z AUTO 00000KT 10SM CLR 17/14 A3011 RMK AO2 7//// T01650140 10192 20164 KINK 221153Z AUTO 13008KT 10SM BKN050 OVC055 18/16 A3006 RMK AO2 SLP145 70020 T01780161 10183 20178 53005 KIMT 221154Z AUTO 00000KT 1/4SM FZFG VV001 M02/M03 A3034 RMK AO2 SLP288 I1000 I6001 T10221028 11022 21056 51008 KIOB 221155Z AUTO 00000KT 10SM OVC015 06/04 A3024 RMK AO2 KINL 221155Z AUTO 16008KT 10SM CLR 06/02 A3005 RMK AO2 SLP186 T00560022 10056 20039 58006 KHXD 221150Z 35010G18KT 10SM SKC 14/07 A3003 KHWO 221153Z 36003KT 10SM SCT100 23/21 A2996 RMK AO2 SLP145 T02280211 10233 20228 53012 OYAR 221200Z 02006KT 9999 FEW030 25/M01 Q//// KJER 221153Z AUTO 07008KT 10SM CLR 02/M01 A3014 RMK AO2 SLP208 70013 T00221011 10056 20011 53006 OYAT 221200Z 11004KT 9999 FEW030 30/02 Q1019= max t 32.4 KJES 221155Z AUTO 03004KT 10SM CLR 14/11 A3003 RMK AO2 KHYA 221156Z 03012KT 7SM OVC005 14/13 A2990 RMK AO2 SLP126 60000 T01440133 10150 20117 56006 KINS 221158Z AUTO 26003KT 10SM CLR 10/M07 A2999 RMK AO2 SLP123 T01011068 10154 20101 52012 KJFK 221201Z 02015KT 10SM -TSRA BKN013 BKN018 OVC028CB 13/11 A2991 RMK AO2 TSB01 OCNL LTGIC SE-SW TS SE-SW MOV W P0002 $ KINT 221154Z 29006KT 10SM CLR 09/02 A3004 RMK AO2 SLP169 T00940017 10100 20050 53014 ZYTX 221200Z 13003MPS 6000 NSC 08/M11 Q1019 NOSIG ENAL 221150Z 23011KT 9999 FEW016 SCT021 BKN032 08/05 Q1010 KHWV 221156Z AUTO 02010G21KT 10SM OVC011 13/11 A2991 RMK AO2 SLP128 70050 T01330111 10144 20133 53012 TSNO KINW 221156Z AUTO 20006KT 10SM CLR 07/06 A3012 RMK AO2 SLP155 70007 T00720056 10139 20067 53010 ENAN 221150Z 15022KT 9999 FEW040 SCT100 05/M05 Q1009 NOSIG KJGG 221155Z AUTO 32011G15KT 10SM CLR 13/11 A2986 RMK AO1 KHWY 221155Z AUTO 32009KT 10SM DZ BKN026 BKN032 OVC040 12/12 A2992 RMK AO2 P0001 60002 70061 T01180118 10120 20113 KHYI 221155Z 35004KT 10SM CLR 16/09 A3008 RMK AO1 10170 20140 52010 FDJR 221200Z AUTO 06002KT //// // ////// 13/M06 Q1025 KIPJ 221155Z AUTO 00000KT 10SM CLR 02/02 A3005 RMK AO2 T00180017 10058 20013 ENAT 221201Z 18014G26KT 150V220 9999 FEW021 SCT029 M02/M10 Q1021 RMK WIND 700FT 18035G53KT KIPL 221153Z AUTO 00000KT 10SM CLR 20/07 A2979 RMK AO2 SLP087 T02000067 10244 20194 50004 FDLB 221200Z AUTO 23003KT //// // ////// 23/12 Q//// ENBL 221150Z VRB01KT 9999 FEW000 SCT020 BKN030 05/04 Q1010 KIOW 221152Z AUTO 00000KT 10SM CLR 02/01 A3032 RMK AO2 SLP272 T00220011 10061 20017 52012 KHZE 221155Z AUTO 25009KT 10SM FEW031 10/07 A2978 RMK AO2 KIPN 221155Z AUTO 05017KT 10SM FEW025 BKN032 25/17 A2997 RMK A01 ENBN 221150Z 14029G47KT 9999 -RA FEW006 BKN020 04/01 Q1009 KJFX 221155Z AUTO 03003KT 10SM CLR 08/08 A3016 RMK A02 P-128 ENBO 221150Z 10023G35KT 9999 VCSH FEW040 SCT060 BKN080 03/M05 Q1011 TEMPO 10035G45KT RMK WIND SKAGODDEN 11026G46KT UTSA 221130Z 31003MPS 6000 NSC 27/07 Q1009 R25/CLRD70 NOSIG KJFZ 221155Z AUTO 33007KT 10SM OVC007 06/05 A3013 RMK AO2 70002 T00600045 10068 20060 UTSB 221130Z 35003MPS 9999 SCT050CB OVC100 25/11 Q1008 R01/CLRD70 NOSIG WBSB 221200Z 24003KT 9999 FEW015 FEW016CB BKN280 29/26 Q1011 RETS NOSIG KHYR 221153Z AUTO 16007KT 10SM CLR 04/01 A3027 RMK AO2 SLP260 T00390006 10056 20033 53008 ENBR 221150Z 36003KT 310V070 9999 FEW015 SCT025 BKN045 08/05 Q1012 NOSIG RMK WIND 1200FT 34005KT KHYS 221155Z AUTO 15005KT 10SM CLR 12/08 A3002 RMK AO1 10170 20110 52007 ENBS 221150Z 18022KT CAVOK M07/M14 Q1025 KIPT 221154Z 33005KT 10SM OVC019 12/07 A3001 RMK AO2 SLP163 T01170072 10122 20111 52017 OYDM 221200Z 31007KT 9999 FEW030 24/M07 Q//// KHZL 221155Z AUTO 7SM RA OVC005 10/08 A2999 RMK AO2 ENBV 221050Z 17012KT CAVOK M06/M11 Q1027 FDLM 220700Z AUTO 00000KT //// // ////// ///// Q//// KHYW 221155Z AUTO 00000KT 7SM CLR 09/06 A3000 RMK AO2 ENCN 221150Z 08008KT 9999 -RA BKN007 12/10 Q1010 KHYX 221155Z AUTO 33008KT 10SM OVC016 06/03 A3033 RMK AO2 UTSK 221130Z 35002MPS 9999 SCT050CB BKN160 31/04 Q1009 R16/CLRD70 KHZR 221155Z AUTO 04005KT 10SM CLR 15/13 A3007 RMK AO2 T01480130 10160 20126 KIRK 221155Z AUTO 11007KT 10SM CLR 04/04 A3027 RMK AO2 SLP257 T00440039 10078 20044 53013 KJHW 221155Z AUTO 01006KT 3SM OVC003 04/03 A3015 RMK AO1 10060 20040 52020 FDND 221200Z AUTO /////KT //// // ////// ///// Q//// KHZX 221146Z AUTO 15009KT 10SM CLR 04/02 A3016 RMK AO2 KHZY 221153Z AUTO 03006KT 10SM OVC010 08/06 A3020 RMK AO2 SLP230 70030 T00780056 10078 20078 53019 UTSS 221130Z 00000MPS 9999 SCT066CB SCT200 25/10 Q1012 R88/CLRD70 NOSIG UTST 221130Z 10002MPS CAVOK 31/07 Q1009 R88/CLRD70 NOSIG ENDR 221150Z AUTO 27015KT 07/06 Q1007 KIRS 221155Z AUTO 00000KT 10SM CLR 00/00 A3032 RMK AO2 KJKA 221155Z AUTO 03003KT 10SM CLR 14/12 A3004 RMK AO2 T01370115 10145 20114 KM19 221156Z AUTO 02004KT 10SM CLR 07/07 A3024 RMK AO2 51020 70002 T00720066 10116 20072 SLP238 FDMS 221200Z 10004KT 9999 BKN030 18/15 Q1024 NOSIG ENFB 221150Z AUTO 21011KT 9999NDV FEW030/// 08/01 Q1010 W///S6 ENEK 221150Z 30022KT 9999 FEW030 10/04 Q1016 W12/S5 KISM 221149Z 00000KT 3SM BR SKC 22/22 A2998 ENDU 221150Z 10016G28KT 9999 FEW035 01/M10 Q1013 TEMPO 12012KT RMK WIND AT 1100FT 10008KT RMK WIND AT 2200FT 14032KT FDMV 221200Z AUTO 29003KT //// // ////// 23/14 Q1029 KISN 221152Z AUTO 26010G19KT 10SM FEW120 11/06 A2979 RMK AO2 PK WND 24026/1111 SLP087 60000 T01060061 10156 20106 53034 KISO 221156Z AUTO 30003KT 10SM CLR 10/07 A2994 RMK AO2 FEFF 221200Z VRB03KT 9999 FEW023 SCT150 31/23 Q1011 NOSIG KM25 221215Z AUTO 04003KT 10SM CLR 05/05 A3025 RMK AO2 KISP 221156Z 03016G27KT 10SM -RA OVC013 13/11 A2989 RMK AO2 PK WND 04027/1153 RAB39 SLP119 P0000 60000 70045 T01330106 10150 20133 53008 LBBG 221200Z 20008MPS 9999 BKN045 22/13 Q1005 NOSIG ENFG 221150Z 15006KT 6000 -RASN FEW/// SCT007 BKN011 01/01 Q1011 KITH 221156Z 36005KT 2SM BR OVC004 08/07 A3011 RMK AO2 53020 T00770072 10094 20077 SLP199 KISQ 221154Z AUTO 00000KT 10SM BKN021 M03/M04 A3037 RMK AO2 T10331037 FDMY 220600Z AUTO 00000KT //// // ////// ///// Q//// UTTT 221130Z 33002MPS 290V010 CAVOK 25/11 Q1011 R08R/CLRD70 NOSIG KJKJ 221154Z AUTO 16017G26KT 10SM CLR 12/07 A2989 RMK AO2 KM30 221155Z AUTO 00000KT 10SM CLR 06/06 A3025 RMK AO2 T00560056 10085 20056 KJKL 221153Z AUTO VRB03KT 10SM OVC011 06/04 A3020 RMK AO2 SLP228 70001 T00560039 10072 20050 51018 OYHD 221200Z 20014KT 9000 FEW025TCU 32/24 Q1010 ENGC 221150Z 22010KT 9999 FEW020 BKN050 08/02 Q1011 W10/S5 ENFL 221150Z 26009KT 9999 FEW020 SCT035 BKN050 08/04 Q1011 ENEV 221150Z 15014KT CAVOK 05/M10 Q1012 RMK WIND 1400FT 15027KT KISW 221154Z AUTO 09003KT 9SM CLR M03/M04 A3036 RMK AO2 SLP291 I1000 I6001 T10281039 11006 21033 53012 FDNY 221200Z AUTO 19002KT //// // ////// 21/13 Q1032 OYHJ 221200Z 27008KT 9999 SCT020 FEW030CB 21/16 Q//// KITR 221153Z AUTO 02005KT 10SM CLR 13/07 A2998 RMK AO2 SLP110 T01280067 10144 20117 53005 OYIB 221200Z 20010KT 9999 BKN025 23/14 Q//// KM40 221155Z AUTO 36003KT 10SM 08/02 A3017 RMK AO2 FDOT 221200Z AUTO /////KT //// // ////// 20/13 Q1024 UUMO 221200Z 33006MPS 9999 BKN020 M04/M10 Q1014 NOSIG RMK QFE745/0994 26910245 ENHD 221150Z 35012KT 9999 SCT018 BKN026 OVC035 09/06 Q1012 ENGM 221150Z 10006KT 060V150 5000 -DZ BR FEW007 BKN011 05/03 Q1014 TEMPO 4000 -DZ BR BKN009 KJLN 221153Z 14003KT 10SM FEW032 12/08 A3017 RMK AO2 SLP212 T01170083 10133 20117 53017 ENHE 221150Z 27024KT 9999 BKN019 07/04 Q1004 W///S5 ENHF 221150Z 18019G37KT 140V220 9999 FEW025 M02/M08 Q1014 RMK WIND 1254FT 18047G62KT IPPC TURB WNG FDPP 221200Z AUTO 07003KT //// // ////// 12/M06 Q1007 UUOB 221200Z 03006MPS 9999 OVC015 04/01 Q1010 29190060 NOSIG KIWA 221147Z 12003KT 20SM SKC 17/12 A2992 RMK FIRST ENHK 221150Z 16020KT CAVOK 02/M02 Q1014 KIWD 221155Z AUTO 17006KT 10SM CLR 03/00 A3026 RMK AO1 10040 20030 52010